Flight Booking
Flight Operations | Kenya Airways Virtual © 2019

Schedule Search

Confused Where to Fly? How About SNTF (Teixeira de Freitas Airport), click this link to view schedules from this airport!

Generate Rosters

Caution : durations are flexible (+/-) 2 hours


-- Flight Category --

JumpSeat Travel

Jumpseat tickets will cost you vMoney.

Current Account Balance : $
Last Jumpseat Flight : No Jumpseat flights!

Crew Information


Pilot Name :
ID # :
Hub :
Last Flight : New Hire, Stationed at Base

Location

AT BASE

Airport Information

No Records Found
METAR

TAF AGGH 230510Z 2306/2406 09012KT 9999 FEW018 BKN100 T 30 28 26 24 Q 1007 1009 1010 1009 AYPY 230405Z 2306/2406 14015KT 9999 SCT020 SCT140 BGSF 230454Z 2306/2412 06008KT 9999 SCT100 BGTL 230900Z 2309/2415 13025G40KT 8000 DRSN BKN040 520005 QNH3008INS WND 070V170 BECMG 2312/2313 13035G45KT 6000 DRSN BKN020 OVC060 620206 520005 QNH2991INS TEMPO 2313/2320 12040G50KT 1600 BLSN 530009 BECMG 2413/2414 14040G50KT 1600 BLSN OVC010 530009 QNH2979INS TEMPO 2414/2415 14045G55KT 0800 BLSN 560005 TX02/2409Z TNM03/2309Z LIMITED METWATCH 2309 TIL 2311 BIAR 230751Z 2309/2409 35008KT 9999 -SHSN SCT008 BKN015 TXM01/2406Z TNM04/2321Z TEMPO 2309/2406 1000 SHSN OVC005 BECMG 2310/2312 35018KT BECMG 2321/2323 36024G34KT BIEG 230751Z 2309/2409 01016KT 9999 -SHSN SCT013 BKN023 TXM00/2406Z TNM05/2318Z TEMPO 2309/2406 1500 SHSN OVC005 BECMG 2321/2323 34020G30KT BECMG 2403/2405 34008KT BIKF 230751Z 2309/2409 03020G30KT 9999 SCT030 TXM01/2315Z TNM03/2318Z BECMG 2402/2403 36030G43KT BIRK 230751Z 2309/2409 04014KT CAVOK TXM01/2315Z TNM03/2318Z TEMPO 2309/2319 03022G32KT BECMG 2320/2322 36020G30KT 9999 SCT050 BECMG 2403/2404 36030G43KT BKPR 230530Z 2306/2406 VRB03KT CAVOK TEMPO 2306/2307 2000 BR CBBC 230038Z 2301/2305 VRB03KT P6SM SCT020 BKN040 TEMPO 2301/2302 BKN020 FM230200 VRB03KT P6SM BKN030 TEMPO 2302/2305 P6SM -SHRA BKN020 RMK FCST BASED ON AUTO OBS. NXT FCST WILL BE ISSUED AT 231245Z CWSA 230738Z 2308/2320 08015G25KT P6SM BKN020 BKN200 TEMPO 2308/2315 SCT025 BKN200 BECMG 2309/2311 11018G28KT FM231500 11020G30KT P6SM BKN020 RMK FCST BASED ON AUTO OBS. NXT FCST BY 231400Z CWWU 230715Z 2307/2406 04010G16KT 6SM BR BKN008 OVC015 FM231200 06011G18KT P6SM SCT010 BKN020 OVC040 FM231900 10008KT P6SM FEW020 SCT040 FM240200 13011G18KT P6SM SCT015 BKN030 RMK NXT FCST BY 231200Z CYAM 230738Z 2308/2320 20008KT P6SM OVC030 TEMPO 2308/2320 5SM -SHRA BR OVC015 BECMG 2313/2315 24010G20KT RMK NXT FCST BY 231400Z CYAT 230841Z 2309/2319 15008KT P6SM BKN040 TEMPO 2309/2319 5SM -RA BR BKN015 OVC040 BECMG 2317/2319 20012KT RMK FCST BASED ON AUTO OBS. NXT FCST BY 231500Z CYAW 231007Z 2310/2322 10015G25KT P6SM BKN020 OVC200 TEMPO 2310/2312 BKN025 OVC200 FM231700 12020G30KT 5SM -RA BR OVC012 FM232100 12025G35KT 2SM RA BR OVC008 RMK NXT FCST BY 231200Z CYAY 230738Z 2308/2320 02008KT 4SM -RA -DZ BR OVC015 TEMPO 2308/2312 P6SM NSW FEW008 OVC025 FM231300 12012KT P6SM BKN025 TEMPO 2313/2319 SCT015 OVC025 FM231900 13012KT 3SM BR OVC015 TEMPO 2319/2320 P6SM NSW FEW015 OVC025 RMK FCST BASED ON AUTO OBS. NXT FCST BY 231400Z CYBC 230738Z 2308/2320 09015G25KT P6SM SCT015 BKN200 TEMPO 2308/2312 P6SM -SHRA BKN015 BKN200 FM231200 09015G25KT 4SM -RA BR BKN008 OVC015 TEMPO 2312/2316 P6SM -RA SCT008 OVC015 PROB30 2312/2316 2SM RA BR OVC004 FM231600 08018G28KT 2SM RA BR OVC004 BECMG 2318/2320 08017KT RMK FCST BASED ON AUTO OBS. NXT FCST BY 231400Z CYBG 230530Z 2306/2406 10012G22KT P6SM SCT050 OVC140 TEMPO 2306/2307 P6SM -RA BKN050 OVC140 FM230700 10012G22KT 3SM -RA BR FEW008 BKN015 OVC025 TEMPO 2307/2315 P6SM -RA SCT015 OVC025 PROB30 2309/2315 1SM SHRA BR BKN008 FM231500 09015KT 4SM -RA -DZ BR BKN020 OVC030 BECMG 2319/2321 09008KT FM240000 09005KT P6SM FEW020 BKN030 BECMG 2400/2402 26005KT RMK NXT FCST BY 231200Z CYBK 230932Z 2309/2318 32010KT P6SM SCT002 TEMPO 2309/2316 2SM BR BKN002 FM231600 32010KT P6SM BKN015 RMK NXT FCST BY 231200Z CYBL 230038Z 2301/2304 33008KT P6SM SCT030 BKN250 BECMG 2302/2304 VRB03KT RMK NXT FCST WILL BE ISSUED AT 231445Z CYBN 231015Z 2310/2322 20005KT P6SM BKN040 TEMPO 2310/2314 SCT040 BECMG 2314/2316 24015G25KT RMK FCST BASED ON AUTO OBS. NXT FCST BY 231200Z CYBR 230538Z 2306/2318 30008KT P6SM SKC BECMG 2315/2317 33015G25KT RMK NXT FCST BY 231200Z CYBX 230738Z 2308/2320 09008KT P6SM FEW006 OVC020 TEMPO 2308/2315 3SM BR OVC008 FM231500 11012KT P6SM FEW015 OVC025 TEMPO 2315/2320 OVC015 BECMG 2318/2320 11012G22KT RMK NXT FCST BY 231400Z CYCA 230738Z 2308/2320 18005KT P6SM FEW008 SCT020 TEMPO 2308/2314 4SM BR BKN008 FM231400 19012KT P6SM FEW025 RMK FCST BASED ON AUTO OBS. NXT FCST BY 231400Z CYCB 230638Z 2307/2319 30010KT P6SM BKN015 TEMPO 2307/2312 5SM -SN OVC008 BECMG 2310/2312 23010KT FM231200 23010KT P6SM -SN OVC012 TEMPO 2312/2319 1SM -SN BR OVC006 RMK NXT FCST BY 231300Z CYCG 230038Z 2301/2304 VRB03KT P6SM SCT060 TEMPO 2301/2303 P6SM -SHRA BKN050 RMK NXT FCST WILL BE ISSUED AT 231445Z CYCO 230638Z 2307/2319 23012KT P6SM BKN025 TEMPO 2307/2313 3SM -SN OVC020 FM231300 27008KT P6SM OVC015 TEMPO 2313/2319 2SM -SN BR SCT005 OVC008 RMK NXT FCST BY 231300Z CYCX 230915Z 2309/2321 07005KT P6SM FEW020 BKN180 FM231100 11012G22KT P6SM BKN030 OVC160 TEMPO 2311/2314 5SM -RA BR BKN020 FM231400 12015G25KT 4SM -RA BR BKN020 TEMPO 2314/2321 2SM RA BR BKN005 RMK NXT FCST BY 231200Z CYCY 230638Z 2307/2319 22012KT P6SM FEW080 RMK FCST BASED ON AUTO OBS. NXT FCST BY 231300Z CYDB 230556Z 2306/2318 14012G22KT P6SM BKN180 BECMG 2310/2312 13020G30KT RMK FCST BASED ON AUTO OBS. NXT FCST BY 231200Z CYDF 230738Z 2308/2320 04008G18KT 6SM BR FEW008 OVC020 TEMPO 2308/2315 4SM -RA BR OVC008 BECMG 2310/2312 11012KT FM231500 11012KT P6SM FEW015 OVC025 TEMPO 2315/2320 BKN015 OVC025 RMK NXT FCST BY 231400Z CYDN 230538Z 2306/2318 32006KT P6SM FEW040 TEMPO 2306/2310 BKN040 FM231000 32010KT P6SM BKN040 RMK FCST BASED ON AUTO OBS. NXT FCST BY 231200Z CYDP 230938Z 2310/2322 23005KT P6SM FEW015 SCT210 FM231800 16012KT P6SM OVC140 RMK NXT FCST BY 231400Z CYDQ 230038Z 2301/2305 30012G22KT P6SM SCT015 BKN060 TEMPO 2301/2302 P6SM -SHRA BKN015 BKN060 FM230200 29006KT P6SM SCT060 RMK FCST BASED ON AUTO OBS. NXT FCST WILL BE ISSUED AT 231245Z CYED 230530Z 2306/2318 30010G25KT P6SM OVC030 TEMPO 2308/2312 5SM -RASN BR OVC020 FM231200 31010G25KT 5SM -RASN BR OVC020 FM231600 32010G25KT P6SM OVC025 BECMG 2316/2318 32010G20KT RMK FCST BASED ON AUTO OBS. PCPN SENSORS INOP. NXT FCST BY 231200Z CYEG 230838Z 2309/2406 30015G25KT P6SM SCT020 OVC040 TEMPO 2309/2316 4SM -SHRASN BR OVC020 FM231600 32015G25KT P6SM BKN040 BECMG 2316/2318 SCT040 FM232200 32012KT P6SM SKC BECMG 2402/2404 18008KT RMK NXT FCST BY 231200Z CYEK 230730Z 2307/2318 36020KT P6SM SCT006 TEMPO 2307/2318 2SM BR BKN006 BECMG 2310/2312 36025G35KT RMK FCST BASED ON AUTO OBS. NXT FCST BY 231200Z CYER 230841Z 2309/2319 36010KT 2SM -RA BR OVC003 TEMPO 2309/2313 P6SM NSW FM231300 35012G22KT 4SM -RA BR OVC006 TEMPO 2313/2319 P6SM NSW PROB30 2313/2319 2SM -RA BR OVC003 RMK FCST BASED ON AUTO OBS. NXT FCST BY 231500Z CYEV 231034Z 2310/2319 09005KT 1/8SM FZFG VV001 TEMPO 2310/2315 3SM -SHSN OVC008 FM231500 09005KT 5SM -SN BKN015 OVC040 TEMPO 2315/2319 P6SM -SN SCT015 OVC050 RMK NXT FCST BY 231300Z CYFB 230538Z 2306/2406 14010KT P6SM OVC012 TEMPO 2306/2315 2SM -SN -FZDZ BR OVC004 BECMG 2307/2309 14015G25KT FM231500 14020G30KT P6SM OVC012 TEMPO 2315/2403 OVC006 FM240300 14020G30KT P6SM -RASN OVC012 TEMPO 2403/2406 2SM -RASN BR OVC006 RMK NXT FCST BY 231200Z CYFC 230538Z 2306/2318 07010KT P6SM SCT020 OVC200 TEMPO 2306/2311 BKN020 OVC200 FM231100 10012G22KT P6SM -SHRA BKN015 BKN060 OVC160 TEMPO 2311/2314 P6SM NSW SCT015 BKN060 OVC160 FM231400 11015G25KT 4SM RA BR SCT006 OVC012 PROB40 2314/2318 1SM +SHRA BR OVC004 RMK FCST BASED ON AUTO OBS. NXT FCST BY 231200Z CYFS 231036Z 2310/2318 VRB03KT P6SM SCT005 OVC015 TEMPO 2310/2316 1SM BR OVC005 PROB30 2310/2316 1/2SM FZFG VV002 FM231600 VRB03KT P6SM FEW008 BKN010 TEMPO 2316/2318 SCT010 RMK NXT FCST BY 231200Z CYGL 230702Z 2307/2406 14012G22KT P6SM SCT008 BKN170 TEMPO 2307/2312 3SM -RA BR BKN008 OVC170 FM231200 16012G22KT 5SM -SHRA BR OVC008 FM231500 16012G22KT P6SM -SHRA OVC015 FM232100 18012G22KT 5SM -SHRA BR OVC008 BECMG 2404/2406 21012G22KT RMK NXT FCST BY 231200Z CYGP 230738Z 2308/2320 VRB03KT P6SM OVC015 FM231000 10010G20KT P6SM -SHRA SCT008 OVC010 TEMPO 2310/2318 5SM -SHRA BR BKN008 OVC010 BECMG 2312/2314 09015G25KT FM231800 09017G32KT P6SM -SHRA BKN008 OVC012 RMK NXT FCST BY 231400Z CYGQ 230738Z 2308/2320 22005KT P6SM OVC006 TEMPO 2308/2315 2SM -RA BR SCT006 OVC025 BECMG 2310/2312 29010G20KT FM231500 29010KT 6SM -SHRA BR BKN015 OVC025 RMK NXT FCST BY 231400Z CYGV 230741Z 2308/2320 08010G20KT P6SM BKN015 OVC030 TEMPO 2308/2312 SCT015 OVC030 FM231200 10012G22KT P6SM -SHRA OVC015 TEMPO 2312/2314 P6SM NSW OVC025 BECMG 2312/2314 10017G27KT FM231400 10017G27KT P6SM -SHRA OVC015 BECMG 2317/2319 10020G30KT RMK FCST BASED ON AUTO OBS. NXT FCST BY 231400Z CYGW 230544Z 2306/2318 14015G25KT P6SM -RA SCT015 OVC030 TEMPO 2306/2318 3SM -RA BR OVC030 RMK FCST BASED ON AUTO OBS. NXT FCST BY 231200Z CYGX 230638Z 2307/2319 35015G25KT P6SM -SN OVC015 TEMPO 2307/2317 2SM -SN BLSN OVC008 FM231700 33015G25KT P6SM BKN030 OVC080 TEMPO 2317/2319 5SM -SN BKN020 OVC030 RMK NXT FCST BY 231300Z CYHD 230738Z 2308/2320 32012G22KT 6SM -SN BR SCT005 OVC010 TEMPO 2308/2320 2SM -RASN BR OVC005 RMK FCST BASED ON AUTO OBS. NXT FCST BY 231400Z CYHK 231007Z 2310/2318 24015KT P6SM OVC025 TEMPO 2310/2318 4SM -SN BR OVC020 BECMG 2316/2318 24010KT RMK FCST BASED ON AUTO OBS. NXT FCST BY 231200Z CYHM 230538Z 2306/2406 24015KT P6SM SCT025 TEMPO 2308/2315 BKN020 FM231500 24018G30KT P6SM BKN030 FM232200 24012G22KT P6SM SCT040 BECMG 2322/2324 23010KT RMK NXT FCST BY 231200Z CYHU 231006Z 2310/2406 19010KT P6SM -RA SCT015 OVC040 TEMPO 2310/2312 6SM -RA BR BKN015 OVC040 FM231200 22010KT P6SM FEW020 FM231500 25015G25KT P6SM BKN025 TEMPO 2315/2317 BKN020 FM231700 25015G28KT P6SM BKN030 BECMG 2322/2324 24012KT RMK FCST BASED ON AUTO OBS. NXT FCST BY 231200Z CYHY 230909Z 2309/2318 VRB03KT P6SM SCT012 BKN030 TEMPO 2309/2316 2SM BR OVC008 FM231600 27006KT P6SM SCT005 OVC015 TEMPO 2316/2318 FEW005 SCT015 RMK NXT FCST BY 231200Z CYHZ 230838Z 2309/2406 12012KT P6SM SCT008 BKN012 OVC220 TEMPO 2309/2314 SCT012 OVC220 BECMG 2310/2312 12015G25KT FM231400 13020G35KT P6SM BKN015 BKN030 OVC180 FM231600 13025G40KT P6SM -SHRA OVC015 FM231900 14025G40KT 4SM RA BR SCT008 OVC015 PROB40 2320/2323 1SM +SHRA BR OVC004 FM232300 16020G30KT 2SM -RA BR SCT003 OVC008 PROB40 2323/2404 OVC003 FM240400 29020G30KT P6SM SCT008 OVC015 RMK NXT FCST BY 231200Z CYIO 230638Z 2307/2319 20010G20KT P6SM OVC050 TEMPO 2307/2319 5SM -SN RMK FCST BASED ON AUTO OBS. NXT FCST BY 231300Z CYIV 230638Z 2307/2319 FCST NOT AVBL DUE NO OBS RMK NXT FCST BY 231300Z CYJT 230916Z 2309/2406 06010KT P6SM BKN150 FM231500 11012G22KT P6SM BKN025 TEMPO 2315/2318 BKN020 FM231800 12015G25KT P6SM BKN030 FM232100 12020G32KT P6SM BKN015 RMK NXT FCST BY 231200Z CYKA 230642Z 2307/2319 VRB03KT P6SM FEW100 RMK NXT FCST BY 231300Z CYKF 230738Z 2308/2320 23012KT P6SM BKN030 TEMPO 2308/2316 BKN020 BECMG 2313/2315 24018G28KT RMK FCST BASED ON AUTO OBS. NXT FCST BY 231400Z CYKJ 230945Z 2310/2322 00000KT 1/2SM FZFG VV003 BECMG 2314/2316 P6SM NSW SCT006 FM231600 VRB03KT P6SM SCT006 TEMPO 2316/2318 BKN006 FM231800 27006KT P6SM FEW020 RMK FCST BASED ON AUTO OBS. NXT FCST BY 231300Z CYKL 230738Z 2308/2320 17008KT P6SM FEW240 FM230900 16012G22KT P6SM OVC140 BECMG 2310/2312 16015G30KT FM231500 17015G30KT P6SM FEW030 OVC120 TEMPO 2318/2320 P6SM -SHRA BKN030 OVC100 RMK FCST BASED ON AUTO OBS. NXT FCST BY 231400Z CYLL 230808Z 2308/2318 21005KT 2SM -RASN BR OVC004 TEMPO 2308/2317 6SM BR OVC008 BECMG 2308/2310 30012G22KT FM231700 30012G22KT P6SM SCT008 OVC020 TEMPO 2317/2318 4SM -RASN BR OVC008 RMK FCST BASED ON AUTO OBS. NXT FCST BY 231200Z CYLT 230615Z 2306/2318 26015KT P6SM FEW230 BECMG 2310/2312 22022KT RMK NXT FCST BY 231200Z CYLW 230642Z 2307/2319 VRB03KT P6SM BKN100 BECMG 2308/2310 SCT080 RMK FCST BASED ON AUTO OBS. NXT FCST BY 231300Z CYMA 230556Z 2306/2318 VRB03KT P6SM FEW005 SCT025 PROB30 2310/2313 3SM BR BKN020 FM231300 03005KT P6SM -SN FEW015 OVC025 TEMPO 2313/2318 5SM -SN OVC015 BECMG 2316/2318 08012KT RMK NXT FCST BY 231200Z CYMH 230838Z 2309/2321 VRB03KT P6SM OVC015 TEMPO 2309/2315 OVC025 FM231500 14012KT P6SM BKN025 TEMPO 2315/2321 BKN015 RMK FCST BASED ON AUTO OBS. NXT FCST BY 231400Z CYMM 231053Z 2310/2319 30005KT 2SM -RASN BR BKN005 OVC012 TEMPO 2310/2316 6SM BR SCT005 OVC012 FM231600 30008KT P6SM SCT012 OVC030 TEMPO 2316/2319 5SM -RA BR OVC012 RMK FCST BASED ON AUTO OBS. NXT FCST BY 231300Z CYMO 230544Z 2306/2318 16012G22KT P6SM SCT015 OVC140 TEMPO 2306/2308 5SM -SHRA BR OVC015 FM230800 16012G22KT P6SM SCT015 OVC030 TEMPO 2308/2318 5SM -SHRA BR OVC015 BECMG 2313/2315 20015G25KT RMK FCST BASED ON AUTO OBS. NXT FCST BY 231200Z CYMX 231006Z 2310/2406 22005KT P6SM SCT012 BKN030 OVC120 TEMPO 2310/2312 BKN012 OVC025 FM231200 24007KT P6SM FEW015 FM231400 24010G20KT P6SM BKN020 TEMPO 2314/2317 BKN025 FM231700 24012G25KT P6SM BKN030 FM232300 24007KT P6SM -SHRA OVC020 FM240300 24007KT P6SM BKN025 RMK NXT FCST BY 231200Z CYNA 230738Z 2308/2320 06008KT P6SM OVC020 TEMPO 2308/2314 SCT020 BECMG 2311/2313 12012G22KT FM231400 12012G22KT P6SM BKN020 BECMG 2314/2316 12017G27KT BECMG 2318/2320 12020G30KT RMK FCST BASED ON AUTO OBS. NXT FCST BY 231400Z CYNE 230638Z 2307/2319 35010G20KT P6SM BKN050 TEMPO 2307/2319 BKN020 RMK FCST BASED ON AUTO OBS. NXT FCST BY 231300Z CYOD 230720Z 2307/2406 11006KT 6SM -SN SCT003 OVC020 TEMPO 2307/2312 2SM -SN BR OVC003 FM231200 VRB03KT 2SM -SN SCT004 OVC012 FM231500 VRB03KT 3SM -RASN BR OVC015 FM231800 31008KT 6SM -RASN BR OVC020 FM232300 31008KT P6SM OVC025 BECMG 2404/2406 SCT025 RMK NXT FCST BY 231200Z CYOJ 230638Z 2307/2319 30005KT P6SM FEW020 OVC040 TEMPO 2307/2311 BKN020 OVC040 FM231100 30005KT P6SM FEW020 PROB30 2311/2314 1SM BR RMK FCST BASED ON AUTO OBS. NXT FCST BY 231300Z CYOO 230738Z 2308/2320 25008KT P6SM SCT025 TEMPO 2308/2315 BKN020 FM231500 25015G25KT P6SM BKN030 RMK FCST BASED ON AUTO OBS. NXT FCST BY 231400Z CYOW 230838Z 2309/2406 20008KT P6SM FEW012 SCT080 FM231400 23010G20KT P6SM BKN025 TEMPO 2314/2317 BKN020 FM231700 24012G22KT P6SM BKN040 BECMG 2322/2324 23010KT FM240500 22008KT P6SM SCT050 RMK NXT FCST BY 231200Z CYOY 230915Z 2309/2321 08008KT 1SM -RA BR OVC008 TEMPO 2309/2312 3SM -RA BR SCT008 OVC012 FM231200 09012KT 3SM -RA BR BKN008 OVC012 TEMPO 2312/2316 P6SM NSW SCT008 BKN012 OVC025 FM231600 10005KT 5SM -DZ BR BKN012 OVC025 RMK FCST BASED ON AUTO OBS 230900-231200Z. NXT FCST BY 231200Z CYPA 230638Z 2307/2319 VRB03KT P6SM BKN200 FM231000 VRB03KT 6SM BR BKN200 TEMPO 2310/2316 2SM BR PROB30 2310/2316 1/2SM FZFG BKN002 FM231600 VRB03KT P6SM SCT020 BKN200 RMK NXT FCST BY 231300Z CYPE 230638Z 2307/2319 30006KT P6SM SCT020 BKN120 BECMG 2307/2309 SKC FM231700 28010KT P6SM SKC RMK NXT FCST BY 231300Z CYPG 230215Z 2300/2312 FCST CNCLD DUE END OF FLYING PROGRAM RMK NXT FCST WILL BE ISSUED AT 231215Z CYPH 230544Z 2306/2318 15012G22KT 4SM -RA BR OVC015 TEMPO 2306/2318 P6SM -RA SCT015 OVC030 RMK FCST BASED ON AUTO OBS. NXT FCST BY 231200Z CYPL 230738Z 2308/2320 31012G22KT 5SM -SHSN OVC020 TEMPO 2308/2320 P6SM NSW OVC030 RMK FCST BASED ON AUTO OBS. NXT FCST BY 231400Z CYPQ 230938Z 2310/2322 VRB03KT P6SM FEW050 TEMPO 2310/2313 2SM BR BECMG 2311/2313 23010KT FM231500 24015G25KT P6SM BKN025 TEMPO 2315/2317 BKN020 RMK FCST BASED ON AUTO OBS. NXT FCST BY 231400Z CYPR 230642Z 2307/2319 13006KT P6SM SCT020 OVC060 TEMPO 2307/2310 4SM -SHRA BR SCT008 OVC020 FM231000 12008KT P6SM SCT012 BKN040 OVC120 TEMPO 2310/2316 4SM -SHRA BR SCT006 OVC012 FM231600 13012G22KT P6SM -RA OVC015 TEMPO 2316/2319 4SM -RA BR OVC006 RMK FCST BASED ON AUTO OBS. NXT FCST BY 231300Z CYPX 230538Z 2306/2318 10020G30KT P6SM OVC040 TEMPO 2306/2312 5SM -RA BR OVC015 FM231200 10020KT P6SM -RA OVC015 TEMPO 2312/2318 2SM -RA BR OVC005 BECMG 2316/2318 15015KT RMK FCST BASED ON AUTO OBS. NXT FCST BY 231200Z CYQB 230538Z 2306/2406 08012G22KT 6SM -RA BR FEW006 OVC040 TEMPO 2306/2308 2SM RA BR BKN006 OVC012 FM230800 07012G22KT 11/2SM RA BR OVC004 TEMPO 2308/2313 3SM -RA BR OVC008 FM231300 07012KT 21/2SM -DZ BR OVC005 FM232200 26010KT P6SM FEW015 BKN030 FM240500 25010KT P6SM BKN020 RMK NXT FCST BY 231200Z CYQD 230638Z 2307/2319 01005KT P6SM OVC060 TEMPO 2307/2312 BKN020 BECMG 2307/2309 34010KT FM231200 34012G22KT P6SM BKN020 TEMPO 2312/2316 SCT020 FM231600 33012G22KT P6SM FEW030 RMK FCST BASED ON AUTO OBS. NXT FCST BY 231300Z CYQF 230540Z 2306/2318 33015G25KT P6SM SCT070 BKN120 TEMPO 2306/2315 P6SM VCSH FEW030 BKN070 FM231500 33020G30KT P6SM FEW060 RMK NXT FCST BY 231200Z CYQG 230538Z 2306/2406 24015G25KT P6SM SCT040 BECMG 2322/2324 22010KT FM240300 21010KT P6SM FEW060 BKN100 RMK FCST BASED ON AUTO OBS. NXT FCST BY 231200Z CYQH 231034Z 2310/2318 VRB03KT P6SM SKC TEMPO 2310/2316 1SM BR OVC001 FM231600 09005KT P6SM FEW005 SCT015 TEMPO 2316/2318 BKN012 RMK NXT FCST BY 231200Z CYQI 230818Z 2308/2318 10018G28KT P6SM OVC008 TEMPO 2308/2309 SCT008 OVC012 FM230900 11020G35KT P6SM SCT007 OVC012 TEMPO 2309/2314 5SM -SHRA BR OVC007 BECMG 2310/2312 12025G40KT FM231400 12025G40KT 4SM RA BR SCT006 OVC012 PROB40 2315/2318 1SM +SHRA BR OVC004 RMK NXT FCST BY 231200Z CYQK 230738Z 2308/2320 32012G22KT 1SM -SN BR OVC003 TEMPO 2308/2320 3SM -RASN OVC008 RMK NXT FCST BY 231400Z CYQL 230540Z 2306/2318 34012KT P6SM FEW020 OVC040 TEMPO 2306/2310 P6SM -SHRA BKN020 OVC040 FM231000 34012KT P6SM FEW040 BKN070 BECMG 2315/2317 34015G25KT RMK FCST BASED ON AUTO OBS. NXT FCST BY 231200Z CYQM 230538Z 2306/2406 11008KT P6SM SCT015 BKN140 TEMPO 2306/2308 BKN015 BKN140 FM230800 10012KT P6SM BKN010 BKN200 TEMPO 2308/2312 BKN008 BKN200 FM231200 10012G22KT P6SM SCT010 BKN190 FM231500 13020G30KT P6SM SCT015 BKN030 OVC180 FM231700 14020G35KT P6SM -SHRA OVC015 FM231900 14020G35KT 4SM RA BR SCT008 OVC015 PROB40 2319/2323 1SM +SHRA BR OVC006 FM232300 16020G30KT 3SM -RA BR SCT006 OVC010 PROB30 2323/2404 OVC006 FM240400 24017G27KT P6SM SCT008 OVC015 RMK NXT FCST BY 231200Z CYQQ 230539Z 2306/2406 30005KT P6SM FEW040 SCT250 FM231200 VRB03KT P6SM SCT015 SCT120 SCT250 TEMPO 2312/2319 BKN015 BKN120 FM231900 VRB03KT P6SM FEW015 BKN120 FM240000 VRB03KT P6SM BKN090 OVC180 FM240300 VRB03KT P6SM OVC070 RMK NXT FCST BY 231200Z CYQR 230538Z 2306/2406 02005KT P6SM BKN200 PROB30 2310/2316 1SM BR FM231600 33008KT P6SM BKN100 FM232000 33010KT P6SM BKN060 FM240200 35008KT P6SM SCT100 RMK NXT FCST BY 231200Z CYQT 230738Z 2308/2320 25005KT P6SM SCT008 OVC025 TEMPO 2308/2320 5SM -SHRA BR OVC008 RMK NXT FCST BY 231400Z CYQU 230638Z 2307/2319 28010KT P6SM SKC BECMG 2307/2309 27006KT BECMG 2314/2316 27010KT RMK NXT FCST BY 231300Z CYQW 230905Z 2309/2318 10008KT 2SM -SN OVC008 TEMPO 2309/2312 6SM -RASN OVC025 FM231200 11010KT 3/4SM -SN OVC006 TEMPO 2312/2318 3SM -SN OVC012 RMK FCST BASED ON AUTO OBS. NXT FCST BY 231200Z CYQX 230916Z 2309/2406 08010KT 4SM BR BKN015 TEMPO 2309/2313 P6SM NSW SCT015 OVC025 FM231300 11012KT P6SM BKN020 TEMPO 2313/2402 BKN025 FM240200 14012KT P6SM BKN008 RMK NXT FCST BY 231200Z CYQY 230538Z 2306/2318 11010KT P6SM OVC012 TEMPO 2306/2312 OVC025 BECMG 2310/2312 13010G20KT FM231200 13012G22KT P6SM BKN025 BKN180 BECMG 2314/2316 13018G28KT RMK NXT FCST BY 231200Z CYQZ 230038Z 2301/2306 31010G20KT P6SM SCT080 BECMG 2301/2303 31005KT RMK FCST BASED ON AUTO OBS. NXT FCST WILL BE ISSUED AT 231145Z CYRB 230809Z 2308/2406 10015KT P6SM OVC015 TEMPO 2308/2406 2SM -SN BR OVC006 RMK NXT FCST BY 231200Z CYRQ 230738Z 2308/2320 08010KT 11/2SM RA BR OVC004 TEMPO 2308/2312 6SM -RA BR OVC008 FM231200 10010KT 11/2SM -DZ BR OVC004 TEMPO 2312/2314 6SM -RA BR OVC010 BECMG 2312/2314 22010KT FM231400 22012KT P6SM BKN020 TEMPO 2314/2317 BKN025 FM231700 23010G20KT P6SM SCT030 RMK FCST BASED ON AUTO OBS. NXT FCST BY 231400Z CYRT 230538Z 2306/2318 36015KT P6SM SCT005 TEMPO 2306/2316 2SM BR BKN005 BECMG 2308/2310 01020G30KT FM231600 36025G35KT P6SM BKN015 RMK NXT FCST BY 231200Z CYSB 230738Z 2308/2320 22012G22KT P6SM BKN030 TEMPO 2308/2320 5SM -SHRA BR BKN020 RMK NXT FCST BY 231400Z CYSC 230048Z 2300/2303 14015G25KT P6SM SCT040 OVC130 TEMPO 2301/2303 5SM -SHRA BR OVC030 BECMG 2301/2303 14010G20KT RMK FCST BASED ON AUTO OBS. NXT FCST WILL BE ISSUED AT 231045Z CYSF 231012Z 2310/2318 00000KT 6SM BR SCT002 TEMPO 2310/2312 1SM BR BKN002 FM231200 00000KT P6SM FEW002 TEMPO 2312/2316 2SM BR PROB30 2312/2315 1SM BR BKN002 FM231600 VRB03KT P6SM SCT006 RMK FCST BASED ON AUTO OBS. NXT FCST BY 231200Z CYSJ 230538Z 2306/2318 11015KT P6SM FEW015 OVC190 TEMPO 2306/2311 BKN015 OVC190 BECMG 2307/2309 11015G25KT FM231100 12018G28KT P6SM -SHRA BKN015 BKN060 OVC180 TEMPO 2311/2315 P6SM NSW SCT015 BKN060 OVC180 FM231500 11020G35KT 4SM RA BR SCT006 OVC012 PROB40 2315/2318 1SM +SHRA BR OVC004 RMK NXT FCST BY 231200Z CYSM 231020Z 2310/2318 30005KT P6SM FEW008 OVC080 TEMPO 2310/2315 2SM -SN BR BKN008 OVC080 PROB30 2310/2314 1SM -SN BR OVC005 FM231500 30006KT P6SM SCT012 BKN025 TEMPO 2315/2318 4SM -SN SCT008 BKN012 RMK NXT FCST BY 231200Z CYTE 230638Z 2307/2319 09020G30KT 1SM -RASN BR OVC003 TEMPO 2307/2319 6SM BR OVC010 RMK FCST BASED ON AUTO OBS. NXT FCST BY 231300Z CYTH 230911Z 2309/2319 35008KT P6SM OVC012 TEMPO 2309/2311 P6SM -SN -FZDZ OVC008 FM231100 01012G22KT P6SM BKN012 TEMPO 2311/2314 BKN008 FM231400 34012G22KT P6SM SCT020 TEMPO 2315/2317 BKN020 RMK NXT FCST BY 231300Z CYTL 230949Z 2309/2320 35012G22KT P6SM SCT008 OVC025 TEMPO 2309/2320 4SM -RASN BR OVC008 BECMG 2311/2313 33015G25KT RMK FCST BASED ON AUTO OBS. NXT FCST BY 231400Z CYTR 230530Z 2306/2406 24005KT P6SM SCT050 TEMPO 2306/2308 BKN050 BECMG 2313/2315 25012G22KT FM231500 25012G22KT P6SM BKN050 FM240200 25010KT P6SM SCT050 RMK NXT FCST BY 231200Z CYTS 230738Z 2308/2320 19010G20KT P6SM FEW020 BKN030 TEMPO 2308/2320 5SM -SHRA BR BKN020 OVC030 PROB30 2308/2314 BKN008 RMK NXT FCST BY 231400Z CYTZ 230738Z 2308/2408 24015KT P6SM SCT030 TEMPO 2308/2315 BKN020 FM231500 25015G28KT P6SM BKN025 FM232300 25012KT P6SM SCT040 FM240600 24010KT P6SM BKN050 RMK FCST BASED ON AUTO OBS. NXT FCST BY 231400Z CYUB 230132Z 2301/2305 23008KT P6SM SCT003 OVC025 TEMPO 2301/2305 2SM BR OVC004 RMK NXT FCST WILL BE ISSUED AT 231445Z CYUL 230838Z 2309/2406 17010KT P6SM -RA SCT010 OVC030 TEMPO 2309/2310 5SM -RA BR BKN009 OVC025 FM231100 22010KT P6SM FEW012 SCT050 FM231500 24015G25KT P6SM BKN025 TEMPO 2315/2317 BKN020 FM231700 24015G28KT P6SM BKN030 BECMG 2322/2324 24012KT RMK NXT FCST BY 231200Z CYUX 230638Z 2307/2319 25010KT P6SM SCT015 TEMPO 2307/2319 BKN015 BECMG 2309/2311 30007KT RMK FCST BASED ON AUTO OBS. NXT FCST BY 231300Z CYUY 230538Z 2306/2318 18012KT P6SM FEW020 TEMPO 2306/2308 BKN020 FM230800 18012KT P6SM OVC025 TEMPO 2308/2318 5SM -RA BR OVC015 BECMG 2313/2315 21010G20KT RMK NXT FCST BY 231200Z CYVC 230638Z 2307/2319 04008KT P6SM OVC080 FM231200 01006KT P6SM SCT080 RMK NXT FCST BY 231300Z CYVM 230638Z 2307/2319 20008KT P6SM FEW080 BKN250 FM231000 20008KT P6SM SCT020 TEMPO 2310/2315 3SM BR BKN020 RMK FCST BASED ON AUTO OBS. NXT FCST BY 231300Z CYVO 230538Z 2306/2318 18010KT P6SM BKN030 TEMPO 2306/2318 5SM -RA BR BKN015 BECMG 2313/2315 20012G22KT RMK FCST BASED ON AUTO OBS. NXT FCST BY 231200Z CYVP 230544Z 2306/2318 VRB03KT P6SM BKN200 FM230900 15010KT P6SM BKN160 FM231500 17012G22KT P6SM BKN030 OVC100 RMK NXT FCST BY 231200Z CYVQ 230718Z 2307/2318 VRB03KT P6SM FEW006 BKN100 TEMPO 2307/2313 1/2SM FZFG VV002 FM231300 12005KT P6SM FEW040 TEMPO 2313/2318 5SM BR RMK NXT FCST BY 231200Z CYVR 230838Z 2309/2412 28010KT P6SM FEW040 FM231100 08006KT P6SM SCT012 TEMPO 2311/2320 SCT008 BKN012 FM232000 29008KT P6SM FEW020 SCT120 BKN200 FM240400 VRB03KT P6SM FEW008 BKN080 OVC200 FM240800 09006KT P6SM FEW006 BKN060 OVC120 RMK NXT FCST BY 231200Z CYVT 230038Z 2301/2304 14006KT P6SM BKN070 RMK FCST BASED ON AUTO OBS. NXT FCST WILL BE ISSUED AT 231345Z CYWA 230530Z 2306/2318 16005KT P6SM SCT030 PROB30 2308/2312 1SM BR FM231200 16005KT P6SM BKN030 BKN080 TEMPO 2314/2318 P6SM -SHRA BKN020 OVC080 BECMG 2316/2318 22008KT RMK FCST BASED ON AUTO OBS. NXT FCST BY 231200Z CYWG 230538Z 2306/2406 34012KT P6SM BKN015 OVC050 TEMPO 2306/2320 P6SM -SN BKN008 OVC015 BECMG 2312/2314 33018G28KT FM232000 33018G28KT P6SM BKN025 BECMG 2400/2402 33012KT RMK NXT FCST BY 231200Z CYWK 230738Z 2308/2320 16010KT P6SM BKN160 BECMG 2308/2310 16012G22KT FM231000 16015G25KT P6SM FEW030 BKN180 BECMG 2312/2314 16015G30KT FM231800 16015G30KT P6SM BKN025 OVC100 TEMPO 2318/2320 3SM -SHRA BR BKN015 OVC025 RMK FCST BASED ON AUTO OBS. NXT FCST BY 231400Z CYWL 230638Z 2307/2319 28008KT P6SM FEW030 BECMG 2307/2309 VRB03KT FM231100 VRB03KT P6SM SCT030 TEMPO 2311/2319 BKN030 PROB30 2311/2316 2SM BR RMK NXT FCST BY 231300Z CYXC 230642Z 2307/2319 26006KT P6SM FEW060 SCT120 RMK NXT FCST BY 231300Z CYXE 230538Z 2306/2406 08006KT P6SM SCT200 FM230900 10005KT P6SM BKN080 FM231200 10005KT P6SM BKN060 TEMPO 2312/2318 3SM -SN FM231800 04006KT P6SM BKN080 FM240400 VRB03KT P6SM SCT080 RMK NXT FCST BY 231200Z CYXH 230540Z 2306/2318 30012G22KT P6SM SCT020 OVC040 TEMPO 2306/2308 5SM -SHRA BR BKN020 OVC040 FM231000 33012G22KT P6SM SCT040 TEMPO 2310/2315 BKN040 FM231500 33015G25KT P6SM BKN040 RMK FCST BASED ON AUTO OBS. NXT FCST BY 231200Z CYXJ 230638Z 2307/2319 24005KT P6SM SKC PROB30 2310/2314 1SM BR RMK NXT FCST BY 231300Z CYXL 230738Z 2308/2320 33012G22KT P6SM OVC040 TEMPO 2308/2320 4SM -SHRASN BR OVC015 RMK NXT FCST BY 231400Z CYXS 230638Z 2307/2319 22005KT P6SM FEW030 TEMPO 2307/2319 BKN030 PROB30 2311/2316 1SM BR RMK FCST BASED ON AUTO OBS. NXT FCST BY 231300Z CYXT 230811Z 2308/2319 VRB03KT P6SM SCT006 OVC030 TEMPO 2308/2314 4SM -SHRA BR BKN006 OVC020 PROB40 2308/2314 1SM BR OVC004 FM231400 14010KT P6SM -RA BKN020 OVC080 TEMPO 2314/2319 4SM -RA BR BKN006 OVC020 RMK NXT FCST BY 231300Z CYXU 230538Z 2306/2406 21010KT P6SM SCT025 BKN060 TEMPO 2306/2315 BKN020 FM231500 24015G28KT P6SM BKN025 FM231900 24015G25KT P6SM SCT040 BECMG 2322/2324 23010KT FM240300 23008KT P6SM BKN080 RMK NXT FCST BY 231200Z CYXX 230540Z 2306/2406 18005KT P6SM FEW060 FM231000 VRB03KT P6SM SCT012 TEMPO 2310/2317 2SM BR BKN012 FM232200 VRB03KT P6SM FEW020 SCT120 BKN200 FM240400 VRB03KT P6SM FEW008 BKN080 OVC200 RMK NXT FCST BY 231200Z CYXY 230556Z 2306/2318 18010KT P6SM SKC FM231000 18012KT P6SM FEW005 SCT140 BKN210 TEMPO 2310/2313 5SM -SHSN SCT015 OVC025 PROB30 2310/2313 1SM -SHSN OVC008 FM231300 17015KT 4SM -SN OVC010 TEMPO 2313/2318 1SM -SHSN BKN005 OVC010 RMK NXT FCST BY 231200Z CYYB 230738Z 2308/2320 22015G25KT P6SM BKN030 TEMPO 2308/2320 5SM -SHRA BR BKN015 RMK FCST BASED ON AUTO OBS. NXT FCST BY 231400Z CYYC 231014Z 2310/2406 34020G30KT P6SM SCT020 BKN040 TEMPO 2310/2312 5SM -SHRASN BR BKN020 OVC040 BECMG 2310/2312 34015G25KT FM231200 34015G25KT P6SM SCT060 SCT120 TEMPO 2312/2315 BKN060 BKN120 FM231500 35015G25KT P6SM FEW060 BECMG 2322/2324 35012KT FM240200 09006KT P6SM SKC BECMG 2404/2406 18008KT RMK NXT FCST BY 231200Z CYYD 230151Z 2301/2306 34010G20KT P6SM SCT030 BKN060 TEMPO 2301/2304 P6SM -SHRA BKN030 OVC050 FM230400 VRB03KT P6SM -RA BKN025 OVC050 TEMPO 2304/2306 5SM -RA BR FEW010 BKN020 OVC040 RMK NXT FCST WILL BE ISSUED AT 231345Z CYYE 230710Z 2307/2319 20005KT P6SM SKC TEMPO 2307/2315 2SM BR PROB30 2310/2314 1/2SM FZFG VV002 FM231500 18005KT P6SM SKC RMK NXT FCST BY 231300Z CYYF 230642Z 2307/2319 VRB03KT P6SM FEW060 BKN120 FM231000 36008KT P6SM SCT030 PROB30 2310/2316 2SM BR RMK NXT FCST BY 231300Z CYYG 230538Z 2306/2318 12010KT P6SM BKN020 BKN200 TEMPO 2306/2315 SCT020 BKN200 BECMG 2310/2312 13015G25KT FM231500 14020G35KT P6SM SCT015 RMK NXT FCST BY 231200Z CYYH 230616Z 2306/2318 24015G25KT P6SM OVC015 TEMPO 2306/2312 2SM -SN BLSN BR OVC006 FM231200 24012KT P6SM OVC015 TEMPO 2312/2318 21/2SM -SN BR OVC008 RMK NXT FCST BY 231200Z CYYJ 230540Z 2306/2406 VRB03KT P6SM SCT020 TEMPO 2306/2311 3SM BR BKN020 FM231100 VRB03KT P6SM SCT012 BKN025 TEMPO 2311/2321 SCT008 OVC012 BECMG 2316/2318 34008KT FM232100 08006KT P6SM FEW012 SCT120 BKN200 FM240500 26005KT P6SM FEW006 BKN080 OVC200 RMK NXT FCST BY 231200Z CYYL 230638Z 2307/2319 36008KT P6SM SCT020 TEMPO 2307/2316 BKN020 FM231600 34010KT P6SM SCT030 RMK FCST BASED ON AUTO OBS. NXT FCST BY 231300Z CYYN 230538Z 2306/2318 06006KT P6SM OVC040 TEMPO 2306/2311 3SM -SN BR SCT008 OVC020 FM231100 VRB03KT P6SM OVC020 TEMPO 2311/2318 2SM -SN BR OVC008 BECMG 2314/2316 30018G28KT RMK FCST BASED ON AUTO OBS. NXT FCST BY 231200Z CYYQ 230538Z 2306/2406 01025G35KT P6SM -SN OVC015 TEMPO 2306/2313 2SM -SHSN BLSN OVC008 PROB30 2306/2313 3/4SM -SN BLSN VV006 FM231300 35025G35KT P6SM -SN OVC015 TEMPO 2313/2320 3SM -SHSN BLSN OVC008 FM232000 34025G35KT P6SM -SN OVC015 FM240200 34020G30KT P6SM SCT015 RMK NXT FCST BY 231200Z CYYR 230947Z 2309/2406 18010KT P6SM BKN012 BKN250 TEMPO 2309/2315 SCT012 SCT250 FM231500 18010KT P6SM SCT025 OVC180 BECMG 2317/2319 16008KT FM232200 16005KT P6SM BKN025 OVC180 RMK NXT FCST BY 231200Z CYYT 230852Z 2308/2406 04010G20KT 2SM -DZ BR OVC003 TEMPO 2308/2311 6SM BR SCT003 OVC010 FM231100 06015KT 3SM BR OVC008 TEMPO 2311/2313 P6SM NSW OVC012 FM231300 09012KT P6SM OVC015 FM232200 12010G20KT 5SM BR OVC007 RMK NXT FCST BY 231200Z CYYU 230738Z 2308/2320 19012G22KT P6SM FEW009 OVC040 TEMPO 2308/2314 5SM -SHRA BR BKN009 OVC040 FM231400 21012G22KT P6SM BKN040 TEMPO 2314/2320 5SM -SHRA BR BKN020 RMK NXT FCST BY 231400Z CYYY 230738Z 2308/2320 16010G20KT P6SM SCT015 BKN080 TEMPO 2308/2311 P6SM -SHRA BKN015 BKN080 BECMG 2308/2310 10010G20KT FM231100 08012G22KT 4SM RA BR BKN008 OVC015 TEMPO 2311/2315 P6SM -RA SCT008 OVC015 PROB30 2311/2315 2SM RA BR OVC004 FM231500 05012G22KT 2SM RA BR OVC004 BECMG 2317/2319 08015KT RMK NXT FCST BY 231400Z CYYZ 230838Z 2309/2412 19012KT P6SM SCT030 TEMPO 2309/2316 BKN020 BECMG 2314/2316 24015G28KT FM232300 23010KT P6SM SCT040 FM240600 23008KT P6SM BKN050 FM241100 23012KT P6SM -SHRA BKN030 OVC050 RMK NXT FCST BY 231200Z CYZE 230938Z 2310/2322 23018G28KT P6SM BKN030 TEMPO 2310/2322 5SM -SHRA BR BKN020 RMK FCST BASED ON AUTO OBS. NXT FCST BY 231400Z CYZF 230909Z 2309/2406 VRB03KT 2SM BR OVC006 TEMPO 2309/2316 1/4SM FZFG VV001 FM231600 VRB03KT P6SM OVC008 TEMPO 2316/2321 2SM BR OVC005 BECMG 2319/2321 18008KT FM232100 18008KT P6SM SCT005 BKN010 FM240100 18012KT P6SM FEW005 SCT010 RMK NXT FCST BY 231200Z CYZH 230638Z 2307/2319 28018G28KT P6SM -RASN SCT008 BKN015 OVC025 TEMPO 2307/2314 2SM -RASN BR BKN008 OVC015 FM231400 28015G25KT P6SM SCT015 OVC025 TEMPO 2314/2319 OVC015 RMK FCST BASED ON AUTO OBS. NXT FCST BY 231300Z CYZP 230642Z 2307/2319 22006KT P6SM SCT015 BKN040 TEMPO 2307/2314 P6SM -SHRA BKN015 OVC040 BECMG 2310/2312 16010KT FM231400 16015G25KT P6SM BKN030 OVC080 TEMPO 2314/2319 4SM -SHRA BR BKN006 OVC030 BECMG 2316/2318 16025G35KT RMK FCST BASED ON AUTO OBS. NXT FCST BY 231300Z CYZR 230738Z 2308/2320 21012KT P6SM SKC BECMG 2312/2314 23012G22KT FM231400 23015G25KT P6SM SCT030 RMK FCST BASED ON AUTO OBS. NXT FCST BY 231400Z CYZS 230638Z 2307/2319 05015KT P6SM SCT015 OVC090 TEMPO 2307/2313 5SM -SN OVC012 BECMG 2310/2312 04020G30KT FM231300 04020G30KT 4SM -SN SCT008 OVC030 TEMPO 2313/2319 1SM -SN OVC008 RMK NXT FCST BY 231300Z CYZT 231043Z 2310/2319 VRB03KT P6SM FEW008 SCT200 TEMPO 2310/2317 BKN008 PROB30 2310/2317 1SM BR BKN004 FM231700 11010KT P6SM FEW008 BKN120 OVC200 RMK NXT FCST BY 231300Z CYZV 230937Z 2309/2406 10015G25KT P6SM -SHRA OVC012 TEMPO 2309/2312 P6SM NSW SCT012 OVC180 FM231200 10020G30KT P6SM OVC012 FM231600 10022G32KT P6SM -SHRA SCT006 OVC012 PROB40 2317/2319 2SM SHRA BR OVC006 FM231900 10020G35KT 2SM RA BR OVC006 PROB40 2319/2402 1SM RA BR OVC004 FM240200 10018G28KT 4SM -RA BR BKN004 OVC006 BECMG 2402/2404 07012KT RMK NXT FCST BY 231200Z CYZX 230530Z 2306/2406 11010KT P6SM SCT020 OVC250 TEMPO 2306/2312 BKN020 OVC250 FM231200 13015G25KT P6SM BKN020 OVC180 FM231500 13020G30KT P6SM OVC020 FM231800 13025G35KT 5SM -RA BR OVC015 FM240000 18015G25KT 3SM -DZ BR OVC012 FM240400 26015G25KT P6SM OVC015 RMK NXT FCST BY 231200Z CYZY 230638Z 2307/2309 VRB03KT P6SM SKC RMK FCST BASED ON AUTO OBS. NXT FCST WILL BE ISSUED AT 231445Z CZBF 230838Z 2309/2321 VRB03KT P6SM OVC020 BECMG 2310/2312 10010KT FM231300 12012G22KT P6SM BKN025 OVC160 TEMPO 2313/2316 P6SM -SHRA BKN020 OVC160 FM231600 12012G22KT 4SM RA BR SCT006 OVC012 FM231800 12012G22KT 4SM RA BR SCT002 OVC008 PROB40 2318/2321 1SM +SHRA BR OVC002 RMK FCST BASED ON AUTO OBS. NXT FCST BY 231400Z CZMD 230938Z 2310/2322 FCST NOT AVBL DUE NO OBS RMK FCST BASED ON AUTO OBS. NXT FCST BY 231600Z CZSJ 230938Z 2310/2322 FCST NOT AVBL DUE NO OBS RMK FCST BASED ON AUTO OBS. NXT FCST BY 231600Z CZUM 230738Z 2308/2320 13007KT P6SM SCT020 SCT240 FM231200 12012G22KT P6SM SCT150 BKN220 FM231800 16012G22KT P6SM SCT030 OVC150 TEMPO 2318/2320 BKN030 OVC150 RMK FCST BASED ON AUTO OBS. NXT FCST BY 231400Z CZVL 230540Z 2306/2318 30015G35KT P6SM FEW020 BKN040 OVC120 TEMPO 2306/2309 P6SM -SHRA BKN020 OVC040 FM230900 30015G35KT P6SM SCT020 OVC040 TEMPO 2309/2315 4SM -SHRASN BR OVC020 FM231500 32015G25KT P6SM BKN040 BECMG 2315/2317 SCT040 RMK FCST BASED ON AUTO OBS. NXT FCST BY 231200Z DAAE 230500Z 2306/2406 30008KT 8000 FEW020 SCT040 TEMPO 2306/2315 FEW023TCU FEW026CB PROB40 TEMPO 2306/2314 5000 -TSRA FEW023CB DAAG 230500Z 2306/2406 27008KT 9999 FEW020 BKN080 TEMPO 2306/2315 FEW026TCU FEW030CB PROB30 TEMPO 2307/23010 5000 -TSRA FEW026CB TEMPO 2313/2317 33018KT PROB40 TEMPO 2400/2406 24015G30KT 5000 -TSRA FEW023CB DAAJ 230500Z 2306/2406 11006KT 9999 FEW046 PROB30 TEMPO 2308/2314 5000 HZ PROB40 TEMPO 2314/2317 26015G30KT 3000 DRSA FEW046CB PROB30 TEMPO 2315/2319 VRB15G30KT 5000 -TSRA FEW046CB DAAS 230500Z 2306/2406 16012KT 9999 FEW030 SCT100 PROB40 2306/2315 FEW030TCU FEW033CB PROB30 TEMPO 2306/2312 5000 -TSRA FEW030CB DAAT 230500Z 2306/2406 04006KT 9999 SCT046 SCT100 BECMG 2309/2312 14012KT TEMPO 2312/2322 FEW040CB SCT046TCU BECMG 2316/2320 08008KT DAAV 231000Z 2306/2406 26008KT 6000 BKN026 TEMPO 2308/2312 4000 -DZ BR SCT006 SCT016 PROB40 TEMPO 2311/2315 5000 -TSRA FEW023CB DABB 230500Z 2306/2406 02010KT 9999 FEW023 PROB40 TEMPO 2306/2315 FEW023TCU FEW026CB BECMG 2310/2312 30012KT PROB40 TEMPO 2312/2324 5000 -TSRA FEW023CB PROB40 TEMPO 2318/2324 3000 SHRA FEW023CB DABC 230500Z 2306/2406 11012KT 9999 FEW030 SCT100 PROB40 2306/2315 FEW026TCU FEW030CB PROB30 TEMPO 2306/2312 5000 -TSRA FEW026CB BECMG 2310/2312 30010KT DABS 230500Z 2306/2406 03008KT 9999 SCT033 SCT100 PROB30 TEMPO 2306/2312 12015G25KT FEW026TCU FEW030CB PROB40 TEMPO 2318/2324 5000 -TSRA FEW030CB DABT 230500Z 2306/2406 14014KT 7000 FEW026 SCT100 PROB40 TEMPO 2306/2315 14015G25KT FEW026TCU FEW030CB PROB30 TEMPO 2312/2318 5000 -TSRA FEW026CB DAOB 230500Z 2306/2406 24008KT 9999 SCT023 TEMPO 2306/2309 FEW026CB PROB30 TEMPO 2306/2308 3000 BR BKN015 BECMG 2310/2314 30010KT BECMG 2317/2320 20005KT BECMG 2400/2403 28012KT PROB40 TEMPO 2401/2406 27015G30KT 5000 -TSRA FEW023CB DAOI 230500Z 2306/2406 VRB02KT 9999 BKN026 SCT100 BECMG 2309/2312 24012KT 9999 SCT026 TEMPO 2323/2406 9000 RA BKN030 SCT100 DAON 230500Z 2306/2406 19014KT 9999 SCT026 TEMPO 2316/2318 VRB02KT 8000 TSRA FEW026CB BKN030 BKN100 BECMG 2319/2321 20014KT 9999 FEW026 SCT233 PROB40 TEMPO 2322/2324 9999 RA SCT026 BKN100 BECMG 2401/2403 9999 FEW026 SCT100 DAOO 230500Z 2306/2406 24012KT 9999 SCT026 SCT100 TEMPO 2309/2315 24018G28KT 9999 SCT026 BECMG BECMG 2316/2318 24015KT TEMPO 2322/2406 24015G31KT 8000 RA SCT026 BKN100 DAUA 230500Z 2306/2406 20006KT CAVOK BECMG 2310/2313 26012KT PROB30 TEMPO 2314/2320 5000 HZ FEW046CB BECMG 2317/2320 32008KT BECMG 2423/2402 02012KT DAUB 230500Z 2306/2406 10024KT 6000 FEW040 PROB30 TEMPO 2306/2312 10025G35KT 3000 DRSA FEW033TCU FEW036CB BECMG 2310/2312 26014KT PROB30 TEMPO 2312/2318 5000 -TSRA FEW033CB DAUG 230500Z 2306/2406 26008KT 8000 NSC PROB30 TEMPO 2308/2314 4000 HZ BECMG 2318/2322 32014KT PROB30 TEMPO 2320/2402 32015G25KT 4000 DRSA DAUH 230500Z 2306/2406 14012KT 6000 FEW040 PROB30 TEMPO 2307/2311 4000 HZ BECMG 2308/2311 23012KT PROB40 TEMPO 2311/2316 24015G30KT 4000 DRSA FEW046CB PROB30 TEMPO 2314/2317 24015G30KT 5000 -TSRA FEW040CB BECMG 2318/2321 30008KT DAUI 230500Z 2306/2406 18006KT 8000 NSC PROB40 TEMPO 2306/2312 4000 HZ FEW046TCU BECMG 2310/2314 24012KT PROB40 TEMPO 2312/2316 22015G30KT 3000 DRSA FEW046CB PROB30 TEMPO 2314/2318 VRB15G30KT 5000 -TSRA FEW040CB BECMG 2323/2403 04012KT DAUZ 230500Z 2306/2406 11012KT CAVOK PROB30 TEMPO 2307/2312 14015G25KT 4000 DRSA DBBB 230500Z 2306/2412 22010KT 9999 SCT012 PROB40 TEMPO 2306/2312 4000 -TSRA BKN010 FEW023CB DFFD 230500Z 2306/2412 VRB08KT 9999 FEW026 PROB30 TEMPO 2310/2314 TS FEW026 FEW033CB PROB40 TEMPO 2315/2322 VRB25G45KT 4000 BLSA SQ TSRA SCT026 SCT036CB DFOO 230500Z 2306/2406 VRB08KT 9999 SCT020 TEMPO 2314/2323 VRB25G35KT 4000 SQ TSRA SCT020 SCT033CB DGAA 230500Z 2306/2412 28008KT 9999 BKN020 PROB30 TEMPO 2308/2311 8000 -TSRA BKN014 SCT020CB BECMG 2312/2314 19013KT SCT025 FM240000 24008KT CAVOK DGSI 230500Z 2306/2406 23010KT 9999 SCT015 PROB 2306/2310 BKN008 PROB40 TEMPO 2313/2317 6000 TSRA BKN007 BKN015CB BECMG 2323/2401 VRB03KT BKN009 DIAP 230500Z 2306/2412 20005KT 8000 SCT012 TEMPO 2320/2402 4000 RA BKN012 DIBK 230500Z 2306/2406 22003KT 8000 SCT013 TEMPO 2306/2408 4000 BR BKN009 PROB30 TEMPO 2316/2422 TS BKN013 FEW025CB DIYO 230500Z 2306/2406 22003KT 8000 SCT013 TEMPO 2306/2408 4000 BR BKN009 PROB30 TEMPO 2316/2422 TS BKN013 FEW025CB DNAA 230500Z 2306/2412 14005KT 9999 FEW008 TEMPO 2311/2315 24010KT BKN012 TEMPO 2316/2320 TS FEW019CB BECMG 2320/2322 05006KT CAVOK DNCA 222300Z 2300/2406 VRB02KT 7000 BKN009 TEMPO 2302/2307 3000 -TSRA BKN010 FEW020CB BECMG 2307/2309 24011KT BKN010 FEW020CB PROB30 TEMPO 2310/2314 3000 -TSRA BKN008 FEW018CB DNEN 222300Z 2300/2406 VRB02KT 8000 TS BKN009 FEW020CB BECMG 2301/2303 NSW BKN008 TEMPO 2303/2307 3000 -RA BR PROB30 2304/2306 1500 BECMG 2308/2310 26010KT BKN011 FEW019CB DNIL 230500Z 2306/2412 16008KT 9999 TS SCT008 FEW017CB BECMG 2309/2311 22010KT NSW BKN010 TEMPO 2316/2321 TS SCT012 FEW020CB BECMG 2321/2323 VRB02KT FEW010 DNIM 222300Z 2300/2306 VRB02KT 5000 -DZ BKN007 BECMG 2301/2303 7000 NSW PROB30 TEMPO 2304/2307 3000 -RABR BECMG 2308/2310 24010KT BKN011 FEW020CB DNJO 230500Z 2306/2412 16004KT 1500 BR BKN005 TEMPO 2306/2308 0800 FG VV/// BECMG 2309/2311 22010KT 9999 NSW BKN009 TEMPO 2315/2319 TS FEW007 FEW016CB BECMG 2319/2321 04005KT CAVOK DNKA 230500Z 2306/2412 16003KT CAVOK TEMPO 2310/2315 25010KT BKN010 TEMPO 2316/2320 TS SCT013 FEW020CB DNMM 230500Z 2306/2412 VRB02KT 8000 FEW008 PROB30 TEMPO 2306/2308 5000 -RA BR BECMG 2308/2310 24010KT BKN012 FEW020CB TEMPO 2310/2315 5000 -TSRA BKN009 FEW019CB DNPO 222300Z 2300/2406 00000KT 8000 BKN007 TEMPO 2303/2307 3000 -RA BR PROB30 2304/2306 1500 BECMG 2307/2309 22010KT BKN010 FEW02OCB PROB30 TEMPO 2309/2313 3000 -TSRA BKN008 FEW018CB DRRN 230500Z 2306/2412 20008KT 8000 FEW026 TEMPO 2317/2320 4000 DU DRZA 230500Z 2306/2406 10015KT 8000 NSC= LICA 230500Z 2306/2406 06010KT CAVOK DRZR 230500Z 2306/2406 08008KT 6000 NSC BECMG 2308/2310 4000 DU TEMPO 2311/2315 2500 DTMB 230500Z 2306/2406 12017KT 9999 BKN020 TEMPO 2317/2320 13020G35KT PROB40 TEMPO 2320/2406 13025G37KT 4000 -TSRA FEW030CB DTNH 230500Z 2306/2406 12010KT 9999 BKN020 BECMG 2311/2313 11020KT BECMG 2316/2318 11010KT BECMG 2322/2324 36008KT TEMPO 2400/2406 VRB17G30KT 4000 TS RA FEW030CB DTTA 230500Z 2306/2406 13015KT 9999 FEW026 PROB40 TEMPO 2314/2318 14025G35KT TEMPO 2319/2322 VRB05KT TEMPO 2322/2406 VRB17G30KT 4000 TS SHRA FEW030CB DTTJ 230500Z 2306/2406 11015KT 8000 FEW026 TEMPO 2320/2402 12025G35KT TS RA FEW030CB BECMG 2402/2404 17010KT TEMPO 2402/2406 VRB20G35KT 4000 TS RA FEW030CB DTTX 230500Z 2306/2406 11016KT 9999 FEW030 PROB30 TEMPO 2320/2406 11020G30KT -TSRA FEW030CB DTTZ 230500Z 2306/2406 10022KT 7000 SCT030 TEMPO 2306/2308 3000 SA BECMG 2309/2311 12012KT BECMG 2400/2402 25012KT DXNG 230500Z 2306/2406 VRB05KT 9999 SCT006 TEMPO 2315/2321 TS BKN007 FEW016CB PROB30 4000 TSRA DXXX 230500Z 2306/2412 26005KT 9999 SCT010 BECMG 2308/2310 20010KT PROB30 TEMPO 2314/2319 4000 TSRA BKN010 FEW020CB BECMG 2322/2324 26005KT EBBR 230510Z 2306/2412 06006KT CAVOK PROB30 TEMPO 2320/2401 4500 BR BECMG 2409/2412 20011KT EBCI 230510Z 2306/2412 06006KT CAVOK BECMG 2409/2412 20011KT EBLG 230510Z 2306/2412 07005KT CAVOK BECMG 2409/2412 18011KT EBOS 230510Z 2306/2412 07008KT 9000 NSC PROB40 TEMPO 2318/2406 2500 BR BECMG 2322/2324 17011KT EDDB 230500Z 2306/2406 10006KT 9999 SCT025 TEMPO 2306/2308 2500 BCFG PROB30 TEMPO 2306/2307 0300 FG BKN001 BECMG 2322/2401 4000 BR BKN012 BECMG 2401/2403 BKN006 TEMPO 2403/2406 1200 BCFG BKN003 EDDC 230500Z 2306/2406 14006KT 9999 SCT025 TEMPO 2306/2309 3500 BR PROB40 TEMPO 2403/2406 2500 BR EDDE 230757Z 2307/2406 05004KT 0300 FG OVC001 BECMG 2308/2312 13005KT 8000 BKN015 BECMG 2316/2319 VRB03KT BECMG 2322/2401 2000 BCFG TEMPO 2401/2406 0100 FG OVC001 EDDF 230500Z 2306/2412 06006KT CAVOK BECMG 2306/2309 BKN008 PROB30 TEMPO 2310/2315 SCT014 TEMPO 2318/2412 3000 BR BECMG 2402/2406 18004KT PROB30 TEMPO 2402/2409 0500 FG BKN001 EDDG 230500Z 2306/2406 08003KT 3500 BR NSC BECMG 2307/2309 CAVOK TEMPO 2311/2314 07008KT BECMG 2319/2322 3500 BR TEMPO 2319/2406 2000 BCFG PROB30 TEMPO 2400/2406 0500 FG PROB30 TEMPO 2404/2406 BKN005 EDDH 230720Z 2307/2412 VRB03KT 9999 SCT020 TEMPO 2307/2309 2000 BR PROB30 TEMPO 2307/2309 0700 FG OVC001 BECMG 2309/2311 12006KT BECMG 2319/2322 3500 BR BKN006 PROB30 TEMPO 2323/2408 0800 FG OVC002 BECMG 2409/2412 8000 BKN012 EDDK 230500Z 2306/2412 12002KT CAVOK BECMG 2308/2311 12008KT TEMPO 2316/2406 12003KT EDDL 230940Z 2309/2412 07005KT CAVOK TEMPO 2309/2311 35005KT BECMG 2318/2321 14007KT BECMG 2409/2412 20010KT EDDM 230500Z 2306/2412 08006KT 2000 -DZ BR OVC002 TEMPO 2306/2307 1000 BR OVC001 BECMG 2308/2310 4000 BR OVC005 PROB30 TEMPO 2311/2316 8000 SCT007 BECMG 2316/2318 OVC004 BECMG 2318/2320 2000 BR PROB30 TEMPO 2320/2407 0400 FG VV001 BECMG 2408/2410 27005KT 4000 BR BKN006 BECMG 2410/2412 6000 SCT010 EDDN 230500Z 2306/2406 11007KT 6000 OVC005 TEMPO 2306/2308 4000 BR OVC004 BECMG 2308/2310 BKN010 TEMPO 2310/2317 SCT012 BECMG 2317/2320 BKN008 EDDP 230819Z 2308/2406 03005KT 1000 BR OVC002 PROB30 TEMPO 2308/2310 0500 FG OVC001 BECMG 2308/2312 12006KT 8000 BKN015 TEMPO 2400/2406 1200 BCFG PROB40 TEMPO 2403/2406 0300 FG OVC001 EDDR 230500Z 2306/2406 07007KT CAVOK BECMG 2306/2309 3000 BR BKN005 TEMPO 2312/2315 7000 BKN010 TEMPO 2318/2321 1200 BCFG BKN002 PROB30 TEMPO 2321/2406 0200 FG BKN001 BECMG 2403/2406 20004KT EDDS 230500Z 2306/2406 VRB03KT 0100 FG VV000 BECMG 2306/2309 09005KT 4000 BR BKN005 BECMG 2309/2312 8000 FEW010 BECMG 2316/2318 VRB03KT TEMPO 2322/2406 2000 BR PROB30 TEMPO 2401/2406 0200 FG VV000 EDDT 230500Z 2306/2406 VRB03KT 9999 SCT025 TEMPO 2306/2308 2500 BCFG PROB30 TEMPO 2306/2307 0300 FG BKN001 BECMG 2308/2310 10006KT BECMG 2322/2401 BKN012 BECMG 2401/2403 4000 BR BKN006 PROB40 TEMPO 2403/2406 1200 BCFG BKN003 EDDV 230500Z 2306/2406 VRB03KT 9999 SCT025 PROB30 TEMPO 2306/2308 2500 BR BECMG 2308/2311 11007KT BECMG 2319/2322 4000 BR PROB30 TEMPO 2400/2406 0500 FG OVC001 EDDW 230730Z 2307/2406 VRB03KT 3000 BR SCT020 BECMG 2307/2310 10006KT 9999 BECMG 2320/2323 3500 BR PROB30 TEMPO 2323/2406 0400 FG OVC001 EDFH 230836Z 2308/2406 12011KT 3000 BR BKN004 TEMPO 2308/2312 0200 FG BKN000 TEMPO 2312/2317 7000 BKN010 BECMG 2320/2323 17004KT PROB40 TEMPO 2323/2406 0200 FG VV000 EDLP 230500Z 2306/2406 12008KT CAVOK EDLV 230500Z 2306/2406 06004KT 4000 BR NSC PROB30 TEMPO 2306/2308 1800 BR BKN001 BECMG 2307/2309 8000 BECMG 2319/2321 13005KT TEMPO 2402/2406 4000 BR EDLW 230500Z 2306/2406 07005KT CAVOK BECMG 2320/2323 15006KT EDNY 230500Z 2306/2406 04005KT 5000 BR OVC005 TEMPO 2306/2308 3500 -DZ OVC004 BECMG 2308/2310 BKN010 TEMPO 2310/2316 SCT012 TEMPO 2320/2406 3000 BR OVC005 BECMG 2402/2404 VRB03KT EDSB 230500Z 2306/2406 04004KT 4000 BR BKN003 PROB40 TEMPO 2306/2312 0200 FG OVC001 TEMPO 2312/2318 7000 SCT010 PROB40 TEMPO 2322/2406 0200 FG OVC001 EEEI 230530Z 2306/2406 25012KT 9999 SCT014 BKN020 PROB40 TEMPO 2311/2314 BKN013 TEMPO 2314/2318 BKN010 OVC023 TEMPO 2318/2322 4000 SHRA BKN012 SCT018TCU EETN 230505Z 2306/2406 25014KT 9999 SCT015 BKN025 PROB40 TEMPO 2306/2312 BKN010 PROB40 TEMPO 2318/2324 4000 SHRA BKN010 SCT020CB EFHK 230831Z 2309/2409 26010KT CAVOK EFJY 230834Z 2309/2409 26009KT CAVOK PROB30 2320/2322 BKN005 BECMG 2322/2324 BKN005 PROB40 TEMPO 2323/2404 0900 FG VV001 BECMG 2404/2406 SCT012 BKN025 PROB30 2406/2409 BKN007 EFKU 230829Z 2309/2409 24009KT CAVOK BECMG 2400/2402 BKN007 TEMPO 2402/2407 4000 -RADZ BKN004 BECMG 2407/2409 BKN013 EFOU 230832Z 2309/2409 27010KT CAVOK BECMG 2315/2317 21006KT TEMPO 2401/2407 2000 DZRA BKN004 BECMG 2407/2409 5000 RA OVC004 EFRO 230955Z 2309/2409 34006KT 9999 BKN007 TEMPO 2312/2314 4000 -DZ BKN004 BECMG 2314/2316 NSC BECMG 2405/2407 4000 -SN TEMPO 2407/2409 1500 SN VV007 EFTP 230834Z 2309/2409 26009KT CAVOK TEMPO 2317/2401 BKN012 PROB30 TEMPO 2321/2401 3500 BR BKN008 PROB30 2403/2409 BKN010 EFTU 230831Z 2309/2409 26008KT CAVOK TEMPO 2314/2317 BKN010 EFVA 230834Z 2309/2409 26012KT CAVOK BECMG 2318/2320 BKN005 TEMPO 2319/2402 2000 BR BKN004 PROB30 2319/2402 0900 FG VV001 BECMG 2402/2404 BKN011 BECMG 2406/2408 BKN015 EGAA 230458Z 2306/2406 19012KT 9999 FEW015 SCT040 BECMG 2306/2309 18015G28KT TEMPO 2315/2320 7000 -RADZ RA PROB30 TEMPO 2315/2319 4000 RADZ BECMG 2317/2321 FEW005 BKN007 BECMG 2321/2324 21010KT SCT012 PROB30 TEMPO 2400/2406 BKN012 EGBB 230502Z 2306/2406 VRB03KT 0300 FG OVC001 TEMPO 2306/2309 0800 SCT001 PROB30 TEMPO 2307/2309 4000 BR BECMG 2309/2312 14010KT 9999 NSW FEW035 BECMG 2315/2318 VRB03KT TEMPO 2316/2401 8000 -RA BKN008 PROB30 TEMPO 2316/2401 RA BKN004 BECMG 2401/2404 8000 PROB30 2401/2406 4000 BR BKN005 EGCC 230748Z 2307/2412 19006KT 0300 FG VV/// BECMG 2308/2311 9999 NSW SCT030 PROB30 TEMPO 2319/2324 9000 BKN009 BECMG 2400/2403 8000 PROB30 2401/2404 4000 BR BKN004 BECMG 2404/2407 BKN014 TEMPO 2407/2412 4000 RA BKN009 EGCN 230858Z 2308/2406 19005KT 0600 FG VV/// BECMG 2309/2312 9999 NSW FEW035 TEMPO 2317/2324 BKN014 PROB30 TEMPO 2321/2324 4000 RADZ BR BKN009 PROB30 2400/2406 4000 BR BKN005 EGFF 231002Z 2310/2406 09004KT 0300 FG BKN001 BECMG 2310/2311 3000 BR BKN004 BECMG 2311/2313 9999 NSW FEW007 PROB30 TEMPO 2313/2317 BKN012 TEMPO 2317/2406 6000 BKN010 PROB40 TEMPO 2320/2406 2000 BR BKN002 EGGD 231002Z 2310/2406 13006KT 0300 FG BKN001 BECMG 2310/2311 2500 BR BKN002 PROB30 TEMPO 2310/2311 SCT001 BECMG 2311/2313 9999 NSW FEW007 PROB30 TEMPO 2312/2318 8000 BKN007 TEMPO 2318/2406 6000 -DZ BKN008 PROB30 TEMPO 2320/2324 4000 DZ BKN004 PROB30 TEMPO 2400/2406 0600 FG BKN001 EGGP 230502Z 2306/2406 17006KT 9999 SCT035 TEMPO 2306/2311 BKN009 PROB30 TEMPO 2306/2311 6000 BKN005 PROB30 TEMPO 2404/2406 6000 RA BKN014 EGGW 230504Z 2306/2406 12005KT 9999 FEW035 TEMPO 2306/2307 1500 BR BCFG PROB40 TEMPO 2306/2307 0300 FG BKN000 PROB30 TEMPO 2307/2310 4000 BR BKN002 PROB30 TEMPO 2310/2318 7000 -RA BKN010 BECMG 2318/2321 1500 -DZ BR BKN002 TEMPO 2321/2406 0300 FG BKN000 PROB30 TEMPO 2321/2406 RADZ EGKK 230735Z 2307/2412 15003KT 4000 BR FEW040 BECMG 2308/2311 9999 NSW PROB30 TEMPO 2308/2317 -RA BKN010 BECMG 2317/2320 7000 BKN005 PROB40 TEMPO 2320/2324 4000 -RADZ BR BKN003 TEMPO 2400/2408 2000 -RADZ BR BKN002 TEMPO 2408/2412 3000 RA BKN002 EGLL 230500Z 2306/2412 08005KT 9999 SCT030 PROB40 TEMPO 2306/2308 7000 PROB30 TEMPO 2310/2315 8000 -RA TEMPO 2315/2320 7000 RA BKN007 BECMG 2320/2323 4000 BR BKN006 TEMPO 2322/2409 BKN003 PROB30 TEMPO 2400/2408 1400 BECMG 2408/2410 9999 NSW SCT015 TEMPO 2409/2412 4000 RA BKN008 EGNM 230501Z 2306/2406 19005KT 9999 SCT030 PROB30 2306/2310 9000 PROB30 TEMPO 2306/2312 BKN009 TEMPO 2318/2324 BKN009 PROB30 TEMPO 2320/2324 4000 RADZ BR BKN004 PROB30 2400/2406 1400 BR BKN002 EGNT 230501Z 2306/2406 21006KT 9999 SCT035 PROB30 TEMPO 2306/2310 BKN012 PROB30 TEMPO 2321/2406 BKN012 EGNX 230951Z 2309/2406 VRB03KT 2000 BR BKN001 BECMG 2310/2312 16010KT 9999 NSW FEW035 BECMG 2316/2319 VRB03KT TEMPO 2317/2402 8000 -RA BKN008 PROB30 TEMPO 2317/2402 RA BKN004 BECMG 2402/2404 8000 PROB30 2402/2406 4000 BR BKN005 EGPD 230502Z 2306/2406 18009KT 9999 FEW015 SCT035 PROB30 TEMPO 2306/2310 BKN012 TEMPO 2312/2403 19018G28KT TEMPO 2320/2403 8000 -RA BKN010 EGPF 230502Z 2306/2406 21009KT 9999 FEW012 SCT020 PROB30 TEMPO 2306/2309 BKN012 PROB40 TEMPO 2309/2324 22018G28KT TEMPO 2318/2324 6000 -RA BKN012 PROB40 TEMPO 2318/2324 4000 RA BKN008 PROB40 TEMPO 2400/2406 BKN012 EGPH 230502Z 2306/2406 22009KT 9999 FEW015 SCT035 PROB40 TEMPO 2309/2318 23015G25KT TEMPO 2318/2324 23018G30KT PROB40 TEMPO 2400/2406 8000 -RA BKN012 EGPK 230502Z 2306/2406 18009KT 9999 FEW015 SCT030 PROB30 TEMPO 2306/2308 BKN012 TEMPO 2308/2324 19015G25KT TEMPO 2319/2324 6000 -RADZ BKN012 PROB40 TEMPO 2319/2324 RA BKN008 PROB30 TEMPO 2400/2406 BKN012 EGQS 230728Z 2309/2403 21014KT 9999 SCT028 PROB30 TEMPO 2312/2324 20015G25KT EGSS 230504Z 2306/2412 15005KT 7000 FEW035 TEMPO 2306/2307 2000 BR BCFG PROB40 2306/2307 0300 FG VV/// BECMG 2307/2310 9999 PROB30 TEMPO 2307/2310 BKN002 PROB40 TEMPO 2310/2318 7000 -RA BKN011 BECMG 2318/2321 1500 -DZ BR BKN002 TEMPO 2321/2409 0300 FG BKN000 PROB30 TEMPO 2321/2408 RADZ TEMPO 2408/2412 RA BECMG 2410/2412 8000 -RA SCT010 PROB30 TEMPO 2410/2412 +RA EGUB 230742Z 2309/2403 10003KT 5000 BR FEW022 BECMG 2309/2311 9999 NSW BECMG 2315/2318 BKN018 PROB40 TEMPO 2315/2318 -RA SCT012 BECMG 2318/2320 BKN009 PROB40 TEMPO 2320/2403 4000 RADZ BKN004 EGUL 230503Z 2305/2411 14006KT 9999 SCT025 QNH2981INS TEMPO 2312/2318 BKN015 BECMG 2317/2318 VRB06KT 8000 -RA BKN015 QNH2963INS BECMG 2402/2403 VRB06KT 3200 -RA BKN010 QNH2962INS BECMG 2405/2406 VRB06KT 0800 FG VV001 QNH2962INS BECMG 2409/2410 VRB06KT 2400 -RA BR BKN003 QNH2964INS TX14/2314Z TN02/2305Z EGUN 231021Z 2305/2410 18006KT 9999 SCT100 BKN130 QNH2999INS BECMG 2316/2317 10010G15KT 9000 -SHRA BKN010 OVC050 QNH2968INS BECMG 2322/2323 10009KT 9999 NSW BKN010 OVC050 QNH2968INS BECMG 2405/2406 27006KT 3200 BR OVC007 QNH2968INS TX14/2314Z TN03/2305Z EGVN 231013Z 2310/2409 11003KT 3000 BR FEW005 BECMG 2310/2312 9999 NSW PROB30 TEMPO 2312/2318 -RA SCT015 BECMG 2318/2321 BKN012 TEMPO 2318/2402 7000 -RA PROB40 TEMPO 2321/2402 4000 RADZ BKN004 BECMG 2402/2404 FEW015 PROB30 2403/2408 0600 FG SCT001 EGVO 230925Z 2309/2321 08005KT 9999 FEW008 PROB40 TEMPO 2309/2317 7000 -RA PROB30 TEMPO 2309/2314 SCT010 BECMG 2314/2317 BKN010 TEMPO 2317/2321 5000 -RADZ BKN006 PROB40 TEMPO 2320/2321 2000 -DZ SCT004 EGWU 230749Z 2309/2403 09006KT 9999 FEW045 PROB40 TEMPO 2313/2318 SCT020 PROB30 TEMPO 2314/2316 SCT014 BECMG 2316/2319 BKN010 BECMG 2319/2321 4000 BR BKN005 PROB40 2321/2403 3000 -DZ BKN002 EGXC 230746Z 2309/2403 16005KT 9999 FEW040 PROB30 TEMPO 2314/2319 SCT015 BECMG 2319/2321 BKN018 TEMPO 2319/2403 5000 RA BKN010 PROB30 TEMPO 2322/2403 SCT004 EGXW 230845Z 2309/2403 17006KT 9999 FEW040 PROB40 2309/2311 5000 BR PROB30 2309/2310 0500 FG SCT001 PROB30 TEMPO 2311/2317 SCT018 BECMG 2317/2320 BKN018 TEMPO 2317/2403 7000 RA PROB40 TEMPO 2319/2403 4000 RADZ BKN010 PROB30 TEMPO 2321/2403 BKN002 EGYP 230752Z 2309/2403 VRB03KT CAVOK BECMG 2315/2318 04015KT BECMG 2323/2402 SCT005 EHAM 230442Z 2306/2412 08004KT 4500 BR NSC BECMG 2306/2308 6000 NSW BECMG 2308/2311 CAVOK PROB30 2323/2409 7000 BECMG 2403/2406 17008KT EHBK 230506Z 2306/2412 06007KT CAVOK BECMG 2308/2311 21011KT EHDL 230902Z 2309/2321 08007KT 3000 BR BKN003 PROB30 TEMPO 2309/2311 1500 BR BKN002 BECMG 2310/2313 CAVOK EHEH 230515Z 2306/2412 VRB03KT 2500 BR SCT003 BKN090 BECMG 2306/2308 07005KT 4000 BR SCT008 BECMG 2308/2310 9999 NSW SCT015 BECMG 2310/2312 SCT020 BECMG 2319/2322 13005KT PROB40 2320/2406 4000 BR PROB30 2400/2406 VRB03KT 0800 BCFG BECMG 2403/2406 16006KT BECMG 2410/2412 18012KT EHGG 230458Z 2306/2412 VRB03KT 0800 FG NSC BECMG 2307/2310 4000 BR BECMG 2310/2312 09010KT 9999 NSW SCT015 BECMG 2319/2322 12008KT 4000 BR PROB40 TEMPO 2322/2407 1200 BCFG BECMG 2407/2409 20010KT CAVOK EHGR 230858Z 2309/2321 08007KT 4000 NSC BECMG 2309/2312 9999 NSW PROB30 TEMPO 2309/2312 SCT007 EHKD 230902Z 2309/2321 13004KT CAVOK PROB30 TEMPO 2309/2314 4500 BR BKN005 BECMG 2309/2312 10007KT EHLW 230903Z 2309/2321 12006KT CAVOK BECMG 2309/2311 10005KT PROB40 TEMPO 2309/2314 4500 BR BKN005 EHRD 230442Z 2306/2412 08004KT 3000 BR NSC PROB30 TEMPO 2306/2308 0600 BCFG BECMG 2308/2311 CAVOK PROB30 2323/2409 7000 BECMG 2403/2406 17008KT EHVK 230900Z 2309/2321 10006KT 4000 BR NSC BECMG 2309/2312 9999 NSW PROB30 TEMPO 2309/2312 SCT007 EHWO 230855Z 2309/2321 08006KT 4000 NSC BECMG 2309/2312 9999 NSW PROB30 TEMPO 2309/2312 SCT007 EICK 230512Z 2306/2406 19014KT 9999 SCT014 BKN030 BECMG 2311/2313 19016G26KT BKN013 BECMG 2313/2315 4000 -RA BKN008 TEMPO 2315/2321 2000 RADZ BKN003 PROB40 TEMPO 2317/2321 0800 FG BKN001 BECMG 2320/2322 24012KT 9999 NSW SCT007 BKN018 EIDW 230500Z 2306/2406 19010KT 9999 FEW020 BKN040 BECMG 2310/2312 19015KT TEMPO 2317/2401 5000 -RA BKN012 BECMG 2320/2322 22012KT BECMG 2403/2406 25010KT EIKN 230847Z 2308/2406 17015G26KT 9999 BKN008 BECMG 2309/2311 4000 -RA BKN005 TEMPO 2310/2318 2000 RA BKN002 PROB40 TEMPO 2315/2318 0800 FG BKN001 BECMG 2316/2318 20010KT BECMG 2318/2320 9999 NSW FEW008 BKN018 EINN 230510Z 2306/2406 16010KT 9999 SCT020 BKN030 BECMG 2306/2308 13015KT TEMPO 2311/2320 -RA BKN012 PROB40 TEMPO 2313/2320 3000 BKN007 BECMG 2318/2320 20008KT BECMG 2320/2322 23010KT EKAH 230504Z 2306/2406 20007KT 9999 BKN025 BECMG 2317/2320 14008KT TEMPO 2321/2406 2500 BR BKN005 EKBI 231052Z 2310/2406 20008KT 9999 BKN025 TEMPO 2310/2320 BKN008 TEMPO 2320/2406 2500 BR BKN004 EKCH 230504Z 2306/2406 26008KT 9999 BKN025 BECMG 2312/2314 19010KT TEMPO 2315/2318 BKN010 BECMG 2318/2321 13010KT TEMPO 2318/2322 BKN006 EKKA 230828Z 2309/2409 20008KT 9999 BKN040 BECMG 2319/2322 14008KT TEMPO 2320/2323 7000 TEMPO 2323/2409 2000 BR BKN004 EKSP 230827Z 2309/2409 18008KT 9999 BKN030 TEMPO 2309/2314 5000 BR BKN005 BECMG 2315/2318 12006KT TEMPO 2318/2322 4000 MIFG TEMPO 2322/2409 2000 BR BKN005 EKYT 230828Z 2309/2409 23010KT 9999 BKN040 BECMG 2316/2319 18008KT TEMPO 2320/2324 7000 BECMG 2320/2323 13008KT TEMPO 2400/2409 3000 BR BKN006 ELLX 230500Z 2306/2412 04009KT 9000 NSC BECMG 2322/2324 19004KT 5000 BR BECMG 2400/2403 0300 FG VV001 BECMG 2407/2409 9999 FEW008 ENAN 230500Z 2306/2406 30015KT 9999 FEW010 BKN025 TEMPO 2306/2318 SHRA SCT008 BKN012CB BECMG 2316/2319 VRB08KT BECMG 2400/2402 09012KT ENBO 230500Z 2306/2406 28020KT 9999 -SHRA FEW015TCU BKN030 BECMG 2307/2309 30010KT BECMG 2314/2316 09008KT BECMG 2321/2324 09020KT TEMPO 2403/2406 RA ENBR 230500Z 2306/2406 17018KT 9999 -RADZ FEW007 SCT010 BKN018 TEMPO 2306/2406 BKN010 ENDU 2308/2406 23008KT 9999 -SHRA FEW010 BKN030 PROB30 2308/2315 1200 PRFG SCT002 TEMPO 2308/2315 23015G25KT TEMPO 2315/2321 2000 SHSNRA VV012 PROB30 TEMPO 2400/2406 1200 PRFG BKN001 ENGC 231006Z 2310/2409 22032KT 9000 -RA BKN015 TEMPO 2310/2323 3000 RADZ BR BKN007 BECMG 2322/2324 19042KT ENGM 230806Z 2308/2406 19008KT 9999 FEW008 BKN120 TEMPO 2308/2310 BKN008 PROB40 2321/2406 3000 BR BKN002 ENNA 230500Z 2306/2406 36010KT 9999 FEW015 BKN025 TEMPO 2306/2318 VRB05KT TEMPO 2310/2403 2000 SN VV012 ENOA 231006Z 2310/2409 20028KT 9000 FEW005 BKN015 TEMPO 2310/2320 1200 RADZ BR OVC006 BECMG 2317/2319 18038KT ENOL 230500Z 2306/2406 10007KT 9999 -RA FEW010 BKN020 BECMG 2306/2308 13017KT BECMG 2310/2312 23012KT TEMPO 2312/2318 24020G30KT SHRA BKN012TCU BECMG 2317/2319 14012KT ENRY 230500Z 2306/2406 20012KT CAVOK TEMPO 2310/2317 20015G25KT BECMG 2402/2405 BKN008 ENSB 230500Z 2306/2406 12008KT 9999 FEW015 SCT030 BECMG 2312/2314 01012KT ENTC 2307/2406 18015KT 9999 FEW010 BKN020 TEMPO 2307/2318 3000 SHRASN VV012 TEMPO 2311/2318 25012KT BECMG 2321/2323 01008KT ENTO 230500Z 2306/2406 21012KT 9999 SCT020 TEMPO 2310/2317 21015G25KT BECMG 2402/2405 BKN008 ENVA 230500Z 2306/2406 13007KT 9999 -RA FEW020 BKN040 ENZV 230500Z 2306/2406 18012KT 9999 FEW012 BKN020 PROB40 TEMPO 2306/2406 BKN012 EPBY 230659Z 2306/2406 VRB02KT 0300 FG OVC001 BECMG 2307/2309 11010KT 4000 BR BKN004 BECMG 2309/2311 9999 SCT025 BECMG 2318/2321 3000 BR BKN003 TEMPO 2323/2406 0600 FG OVC001 PROB40 2400/2406 0200 FG EPGD 230601Z 2306/2406 25005KT 9999 BKN008 BECMG 2308/2311 SCT020 BECMG 2316/2319 16010KT BECMG 2400/2402 2000 BR BKN005 PROB40 2402/2406 0800 FG OVC001 EPKK 230830Z 2309/2409 VRB02KT 0300 FG OVC001 BECMG 2309/2311 06010KT 7000 BKN008 TEMPO 2311/2315 BKN015 BECMG 2316/2319 VRB02KT 2000 BR BECMG 2320/2323 0400 FG BECMG 2400/2402 0100 FG OVC001 BECMG 2407/2409 1200 BR OVC004 EPKT 230659Z 2306/2406 05005KT 1200 BR OVC002 BECMG 2306/2309 11010KT 4000 BR BKN008 BECMG 2311/2313 7000 BKN012 BECMG 2316/2319 2000 BR BKN008 BECMG 2320/2323 0400 FG OVC002 TEMPO 2400/2406 0100 FG OVC001 EPLL 230530Z 2306/2406 VRB02KT 0300 FG NSC TEMPO 2306/2308 0100 FG OVC001 TEMPO 2308/2310 0800 FG OVC002 BECMG 2309/2311 2000 BR BKN005 BECMG 2311/2313 7000 BKN010 BECMG 2316/2318 3000 BR BKN006 PROB40 2321/2406 0600 FG OVC001 EPMO 230530Z 2306/2406 VRB02KT 0400 FG OVC002 TEMPO 2306/2309 0250 FG OVC001 BECMG 2309/2311 2000 BR BKN005 BECMG 2311/2313 7000 SCT006 BKN010 BECMG 2319/2322 3000 BR PROB40 2322/2406 0800 FG OVC001 EPPO 230729Z 2307/2406 VRB02KT 8000 NSC PROB40 TEMPO 2307/2311 3000 BR OVC007 BECMG 2311/2314 10010KT BECMG 2318/2321 3000 BR BKN007 TEMPO 2321/2406 0200 FG BKN001 EPRZ 230530Z 2306/2406 VRB02KT 0100 FG OVC001 BECMG 2306/2308 2000 BR OVC002 BECMG 2308/2311 7000 BKN008 BECMG 2311/2313 SCT015 BECMG 2316/2318 3000 BR BECMG 2319/2322 1200 BR TEMPO 2400/2406 0400 FG OVC002 EPSC 230530Z 2306/2406 12003KT 0800 FG NSC TEMPO 2306/2308 0300 FG OVC001 BECMG 2308/2310 15010KT CAVOK BECMG 2320/2322 3000 BR BKN005 PROB40 2400/2406 0800 FG BKN001 EPWA 230830Z 2309/2409 VRB02KT 9999 SCT007 BKN011 TEMPO 2309/2312 2500 BR BKN005 PROB40 TEMPO 2309/2311 0800 FG BKN002 BECMG 2319/2322 3000 BR PROB40 2322/2407 0800 FG OVC001 EPWR 230830Z 2309/2409 VRB02KT 2000 BR BKN003 BECMG 2309/2312 09010KT 7000 BKN020 BECMG 2318/2321 3000 BR BKN007 BECMG 2321/2323 0500 FG TEMPO 2323/2406 0200 FG BKN001 BECMG 2407/2409 3000 BR ESGG 230530Z 2306/2406 23010KT 9999 SCT013 BKN030 PROB40 2401/2406 BKN006 PROB40 2404/2406 RA ESKN 230530Z 2306/2406 26009KT 9999 BKN025 ESMS 230505Z 2306/2406 26008KT 9999 BKN025 TEMPO 2313/2321 BKN008 BECMG 2313/2315 19010KT BECMG 2317/2319 13010KT TEMPO 2321/2406 2500 BR ESSA 230530Z 2306/2406 23004KT CAVOK BECMG 2309/2311 24014KT ETAD 230832Z 2308/2410 08015KT 5000 BR OVC005 QNH3000INS BECMG 2308/2309 06012G18KT 4000 BR OVC003 QNH2997INS TEMPO 2309/2312 0800 FG OVC002 BECMG 2320/2321 09005KT 8000 BR BKN010 QNH2986INS BECMG 2402/2403 VRB03KT 1600 BR BKN002 QNH2982INS TEMPO 2403/2410 0400 FG VV002 TX16/2314Z TN09/2403Z ETAR 231000Z 2310/2416 08009KT 8000 BR OVC007 QNH2990INS BECMG 2316/2317 VRB06KT 8000 BR OVC006 QNH2979INS BECMG 2402/2403 VRB06KT 6000 BR OVC005 QNH2980INS TEMPO 2404/2407 3200 BR BECMG 2411/2412 23008KT 9999 FEW015 QNH2986INS TX18/2414Z TN08/2403Z ETEB 230914Z 2309/2411 VRB06KT 1600 BR OVC004 QNH2995INS TEMPO 2309/2312 3200 BR BKN005 BECMG 2311/2312 12009KT 9999 NSW SCT030 QNH2987INS BECMG 2322/2323 VRB06KT 8000 BR SCT020 QNH2979INS BECMG 2406/2407 VRB06KT 9999 NSW FEW020 QNH2977INS TX15/2315Z TN08/2405Z ETIC 2304/2404 10006KT 8000 BR OVC008 QNH2999INS TEMPO 2304/2310 BKN010 BECMG 2310/2311 10006KT 9999 NSW FEW040 QNH2990INS BECMG 2321/2322 VRB06KT 8000 BR FEW060 QNH2985INS TX16/2315Z TN07/2306Z ETIK 2306/2412 VRB06KT 6000 BR OVC005 QNH3002INS TEMPO 2306/2308 3200 BR BKN010 BECMG 2309/2310 13009KT 8000 BR BKN015 QNH2977INS BECMG 2311/2312 VRB06KT 9999 NSW SCT020 QNH2979INS BECMG 2400/2401 VRB06KT 6000 BR FEW040 QNH2981INS BECMG 2408/2409 VRB06KT 9999 NSW SCT020 QNH2983INS TX15/2312Z TN09/2406Z ETNG 230800Z 2309/2324 09008KT CAVOK ETNW 230425Z 2305/2405 16005KT 9999 NSW SCT100 BKN130 TEMPO 2305/2308 VRB03KT 3000 BR SCT010 PROB30 2305/2308 VRB02KT 0500 FG BKN001 TEMPO 2311/2319 10008KT 9999 NSW BKN020 SCT100 BECMG 2319/2321 09005KT 3000 BR SCT020 BECMG 2403/2405 VRB03KT 0500 FG BKN001 BY ETGL ETOU 231041Z 2310/2409 09009KT 9999 OVC010 QNH2988INS BECMG 2321/2322 VRB06KT 8000 BR SCT080 QNH2982INS TEMPO 2400/2403 3200 BR BECMG 2408/2409 20006KT 9999 NSW FEW030 QNH2979INS TX15/2315Z TN07/2407Z EVLA 230803Z 2309/2409 25013KT 9999 BKN020 BECMG 2318/2320 24007KT PROB40 TEMPO 2321/2406 BKN010 BECMG 2404/2406 17007KT EVRA 230802Z 2309/2409 23007KT 9999 BKN020 PROB40 TEMPO 2323/2406 BKN010 EYKA 230507Z 2306/2406 26010KT 9000 BKN025 TEMPO 2306/2308 SCT012 TEMPO 2321/2406 3000 BR BKN005 EYPA 230500Z 2306/2406 27014KT 9000 BKN25 TEMPO 2306/2308 SCT012 BECMG 2320/2321 VRB04KT EYVI 230505Z 2306/2406 27014KT 9000 BKN015 TEMPO 2306/2309 3000 BR BKN005 BECMG 2316/2317 VRB03KT 4000 BR OVC005 TEMPO 2400/2406 0600 FG VV002 FABL 230400Z 2306/2406 29015KT CAVOK TX29/2312Z TN08/2404Z BECMG 2318/2320 VRB03KT FACT 230400Z 2306/2412 35015KT 9999 FEW015 BKN035 TX22/2412Z TN10/2404Z PROB30 TEMPO 2307/2312 4500 -RA BKN014 FM231300 35008KT 9999 SCT035 FM232100 03005KT CAVOK BECMG 2410/2412 33017KT FAGG 230400Z 2306/2406 28015KT 9999 FEW035 TX23/2312Z TN12/2404Z BECMG 2310/2312 22013KT FM231500 24008KT 9999 BKN025 FM240300 05005KT CAVOK FALA 230400Z 2306/2406 03011KT 9999 BKN012 TX28/2314Z TN17/2404Z BECMG 2307/2309 BKN020 BECMG 2308/2310 32014KT BECMG 2309/2311 SCT040 PROB30 TEMPO 2312/2316 FEW040TCU BECMG 2316/2318 VRB03KT CAVOK FALE 230400Z 2306/2412 03015KT CAVOK TX31/2311Z TN16/2403Z BECMG 2312/2314 19018G28KT SCT035 FM231900 23010KT 9999 BKN025 BECMG 2404/2406 VRB03KT SCT035 FM240800 04012KT CAVOK FAOR 230400Z 2306/2412 33017KT 9999 BKN009 TX30/2412Z TN16/2404Z PROB30 TEMPO 2306/2311 33018G28KT BECMG 2307/2309 BKN015 BECMG 2309/2311 SCT035 PROB30 TEMPO 2312/2316 FEW040TCU BECMG 2316/2318 VRB03KT CAVOK BECMG 2404/2406 32015KT BECMG 2410/2412 SCT045 FAPE 230400Z 2306/2406 25010KT CAVOK TX21/2312Z TN12/2404Z BECMG 2307/2309 25025G35KT BECMG 2316/2318 24018KT BECMG 2400/2402 29009KT FAUP 230400Z 2306/2406 21010KT CAVOK TX34/2312Z TN12/2404Z FBSK 230300Z 2306/2412 04008KT 9999 OVC014 BECMG 2308/2310 SCT020 FCBB 230500Z 2306/2412 24004KT 9000 SCT012 SCT022 BECMG 2310/2313 SCT013 SCT023 FEW026CB BECMG 2316/2319 4000 TSRA BECMG 2403/2407 9000 NSW SCT010 SCT020 FCPP 230500Z 2306/2406 18006KT 9000 SCT012 BKN023 BECMG 2314/2317 SCT013 BKN023 FEW030CB TEMPO 2320/2401 TS BECMG 2401/2403 SCT010 BKN022 FEFF 230500Z 2306/2412 VRB03KT 9999 FEW010 BECMG 2308/2309 BKN013 BECMG 2310/2312 SCT023 FEW033CB PROB30 TEMPO 2312/2317 4000 TSRA FGBT 230500Z 2306/2406 22006KT 8000 TS BKN008 FEW016CB TEMPO 2306/2309 4000 TSRA BECMG 2310/2312 NSW SCT010 TEMPO 2322/2404 TS BKN010 FEW020CB FGSL 230500Z 2306/2412 24006KT 9999 TS BKN010 FEW018CB TEMPO 2308/2312 4000 TSRA BKN008 FEW016CB BECMG 2312/2314 NSW SCT010 FEW020CB TEMPO 2318/2406 TS BKN008 FEW016CB FIMP 230515Z 2306/2412 05008KT 9999 SCT018 BECMG 2318/2320 33005KT BECMG 2404/2406 06008KT FIMR 230520Z 2306/2400 09012KT 9999 SCT017 FJDG 230900Z 2309/2415 09009KT 9999 FEW025 SCT080 BKN250 QNH2977INS TX34/2408Z TN26/2320Z FKKD 230500Z 2306/2412 VRB06KT 9999 BKN013 FEW016CB TEMPO 2312/2318 BKN016 FEW020CB PROB30 2312/2315 TS TEMPO 2322/2406 4000 TSRA FKKL 230500Z 2306/2318 VRB09KT 9999 SCT040 PROB30 2315/2318 4000 TSRA SCT030 FEW045CB FKKR 230500Z 2306/2318 28008KT 9999 SCT016 PROB40 2314/2318 4000 TSRA BKN016 FEW023CB FKYS 230500Z 2306/2406 24006KT 9999 BKN006 BECMG 2306/2310 BKN020 FEW023CB TEMPO 2314/2322 4000 TSRA BECMG 2322/2324 BKN006 FEW016CB FMCH 230500Z 2306/2412 13012KT 9999 SCTO20 BKN025 PROB30 TEMPO 2310/2315 4500 SHRA FEW020CB BKN025 FMCZ 230500Z 2306/2406 06009KT 9999 FEW017 BKN020 BKN033 TEMPO 2306/2312 TSRA FEW015CB SCT020TCU SCT050 FMEE 230500Z 2306/2412 06010KT 9999 SCT018 SCT060 TEMPO 2307/2315 VRB15G25KT 3000 SHRA SCT015TCU BECMG 2315/2317 16006KT BECMG 2404/2406 09015G25KT FMMI 230500Z 2306/2412 14008KT 9999 FEW020 BECMG 2310/2312 SCT020CB BECMG 2315/2318 FEW007 BKN020 FMMS 230500Z 2306/2406 00000KT 9999 SCT020TCU SCT040 TEMPO 2306/2308 4000 RA BECMG 2310/2313 10010KT TEMPO 2321/2406 4000 RA FMMT 230500Z 2306/2406 00000KT 8000 FEW007 BKN020TCU BKN040 TEMPO 2306/2310 4000 RA BECMG 2310/2312 08010KT TEMPO 2321/2406 4000 RA FMNA 230500Z 2306/2406 10012KT 9999 BKN020 SCT040 TEMPO 2309/2312 4500 RA PROB40 TEMPO 2321/2406 4500 RA FMNM 230500Z 2306/2406 00000KT 9999 FEW040 BECMG 2306/2309 32010KT BECMG 2318/2320 00000KT FMNN 230500Z 2306/2406 VRB06KT 9999 SCT020 PROB30 TEMPO 2312/2316 4000 RA FMSD 230500Z 2306/2406 14012KT 8000 FEW007 SCT020 BKN033 TEMPO 2306/2312 4000 RA BECMG 2312/2315 06014KT FMST 230500Z 2306/2406 16010KT 9999 FEW020 BECMG 2308/2310 22010KT BECMG 2315/2318 00000KT FNLU 230445Z 2306/2412 15008KT 9000 FEW018 BKN020 PROB30 TEMPO 2313/2314 28008KT 9999 SCT022 TEMPO 2320/2322 22008KT 8000 SCT015 BKN023 FOOG 230528Z 2306/2406 20007KT 9999 SCT008 BKN030 PROB30 TEMPO 2310/2314 4000 RA BKN008 FOOL 230500Z 2306/2412 18006KT 4000 TSRA SCT008 FEW018CB BKN030 BECMG 2311/2313 8000 NSW BKN010 FEW020CB FQBR 230400Z 2306/2412 03008KT 9999 SCT020 TX28/2313Z TN22/2403Z BECMG 2312/2314 09010G20KT BECMG 2318/2320 02010KT BECMG 2400/2402 33006KT FQCH 230400Z 2306/2406 34007KT 9999 SCT015 TX26/2313Z TN16/2403Z BECMG 2312/2314 04010KT BECMG 2318/2320 10006KT FQIN 230400Z 2306/2406 02016KT 9999 BKN020 TX29/2313Z TN20/2403Z PROB30 TEMPO 2306/2312 5000 RADZ BKN015 BECMG 2312/2314 08016G26KT BECMG 2319/2321 35012KT FQLC 230400Z 2306/2406 03008KT 9999 SCT015 TX24/2313Z TN13/2403Z BECMG 2312/2314 09010KT BECMG 2318/2320 36005KT FQMA 230400Z 2306/2412 22008KT 9999 BKN020 TX27/2313Z TN19/2403Z PROB30 TEMPO 2306/2312 5000 -RADZ BKN015 BECMG 2312/2314 16012KT SCT015 BECMG 2318/2320 10008KT FQNC 230400Z 2306/2406 02008KT 9999 BKN020 TX32/2313Z TN21/2403Z BECMG 2312/2314 08010KT BECMG 2317/2319 36006KT FQNP 230400Z 2306/2412 02008KT 9999 SCT020 TX31/2313Z TN20/2403Z BECMG 2312/2314 08012KT BECMG 2318/2320 01008KT BECMG 2400/2402 VRB02KT FQPB 230400Z 2306/2406 03008KT 9999 SCT020 TX31/2313Z TN23/2403Z BECMG 2312/2314 09012KT BECMG 2320/2322 36007KT FQQL 230400Z 2306/2406 02008KT 9999 FEW020 TX30/2313Z TN23/2403Z BECMG 2312/2314 12010KT BECMG 2319/2321 06006KT FQTT 230400Z 2306/2406 15007KT 9999 FEW020 TX34/2313Z TN22/2403Z BECMG 2312/2314 09010KT BECMG 2318/2320 VRB02KT FQVL 230400Z 2306/2406 02012KT 9999 BKN020 TX28/2313Z TN21/2403Z PROB30 TEMPO 2307/2312 5000 -RADZ BKN015 BECMG 2312/2314 08010G20KT BECMG 2320/2322 36008KT FSIA 230503Z 2306/2406 12010KT 9999 SCT022 TEMPO 2308/2318 8000 SHRA FEW012 FEW016CB BKN018 FTTJ 230500Z 2306/2412 16006KT CAVOK PROB30 TEMPO 2315/2321 4000 TSRA FWCL 230400Z 2306/2412 05004KT 9999 FEW020 BECMG 2310/2312 03006KT 9999 SCT030 FM240700 07005KT 9999 FEW025 FWKI 230410Z 2306/2412 06018KT CAVOK BECMG 2308/2310 06018KT 9999 FEW030 FM231400 06016KT CAVOK FYKT 230400Z 2306/2406 24005KT CAVOK FYWB 230400Z 2306/2406 36005KT 9999 OVC007 PROB30 TEMPO 2307/2308 06003KT 2000 BR BECMG 2308/2310 33006KT 9999 NSW BKN010 BECMG 2310/2312 23012KT CAVOK FYWH 230400Z 2306/2406 30004KT CAVOK BECMG 2307/2309 14005KT BECMG 2313/2315 29020KT BECMG 2319/2321 24005KT FZAA 230500Z 2306/2412 24004KT 7000 BKN016 BECMG 2310/2312 30010KT 9999 SCT020 FEW030CB PROB30 TEMPO 2315/2319 TS BECMG 2320/2322 00000KT FEW018 BECMG 2403/2405 24006KT BKN016 FZIC 230500Z 2306/2412 24006KT 9000 SCT012 BECMG 2309/2311 BKN022 FEW034CB TEMPO 2313/2317 TS BECMG 2318/2320 00000KT NSC BECMG 2323/2401 2000 BR BKN003 FM240600 18006KT 7000 SCT018 FZNA 230500Z 2306/2412 06006KT 8000 SCT016 BECMG 2308/2310 24010KT SCT018 FEW024CB PROB30 2311/2315 TS BECMG 2318/2320 SCT014 GABS 230500Z 2306/2412 14006KT 9999 FEW020 PROB30 TEMPO 2315/2321 VRB15G35KT 4000 TSRA SCT020 FEW030CB GAGO 230500Z 2306/2406 22006KT 8000 NSC PROB40 TEMPO 2306/2318 4000 DU GBYD 230530Z 2306/2412 32008KT 9999 SCT012 PROB40 TEMPO 2322/2404 4000 TSRA BKN012 FEW025CB GCFV 230800Z 2309/2409 05012KT 9999 SCT035 TX25/2314Z TN19/2405Z GCGM 230800Z 2309/2409 03010KT 9999 SCT040 TX25/2314Z TN19/2405Z PROB40 TEMPO 2313/2318 22010KT GCHI 230800Z 2309/2409 06008KT 9999 SCT040 TX25/2314Z TN20/2405Z PROB30 TEMPO 2403/2408 12010KT GCLA 230800Z 2309/2409 04008KT 9999 SCT045 TX24/2314Z TN18/2405Z GCLP 230800Z 2309/2409 03015KT 9999 SCT035 TX24/2314Z TN18/2405Z= PAED 230816Z 2308/2409 VRB06KT 9999 SCT050 BKN130 WS020/14030KT QNH2950INS BECMG 2318/2320 12010G15KT 9999 VCSH BKN050 BKN100 610509 QNH2908INS TX06/2400Z TN00/2313Z GCRR 230800Z 2309/2409 06013KT 9999 SCT040 TX26/2314Z TN17/2405Z BECMG 2318/2320 36010KT GCTS 230800Z 2309/2409 08015KT 9999 SCT035 TX25/2314Z TN18/2405Z GCXO 230800Z 2309/2409 11009KT 9999 SCT025 TX21/2314Z TN14/2405Z GEML 230800Z 2309/2409 24010KT 9999 FEW030 TX22/2313Z TN14/2406Z PROB40 TEMPO 2311/2317 27015G25KT GFLL 230500Z 2306/2412 03004KT 8000 TSRA BKN010 FEW025CB BECMG 2310/2312 21005KT 9999 BKN011 TEMPO 2313/2317 33010KT SCT012 FEW026CB BECMG 2319/2321 24007KT TS BKN011 FEW025CB GGOV 222300Z 2300/2324 35005KT 9999 FEW014 PROB30 TEMPO 2303/2306 TS BKN014 FEW020CB GMAD 230500Z 2306/2412 22010KT 6000 NSC BECMG 2313/2316 28018KT GMAG 230500Z 2306/2412 33006KT 8000 NSC= GMMH 230500Z 2306/2412 05014KT 8000 NSC GMFF 230500Z 2306/2412 24010KT 9999 BKN030 SCT080 PROB30 TEMPO 2306/2312 30010G24KT 3000 RA BR BKN010 BKN026 GMFK 230500Z 2306/2412 01004KT CAVOK GMFM 230500Z 2306/2412 22010KT 8000 FEW013 SCT016 BECMG 2308/2312 6000 -RA BECMG 2314/2318 8000 SCT020 SCT100 BECMG 2320/2324 VRB02KT 9999 FEW020 GMFO 230500Z 2306/2412 24016KT 9999 FEW020 SCT100 PROB30 TEMPO 2310/2404 24017G27KT GMME 230500Z 2306/2412 18008KT 8000 SCT015 BKN020 TEMPO 2306/2312 24010KT 4000 TSRA SCT026CB GMMI 230500Z 2306/2412 12007KT 8000 NSC= GMMW 230500Z 2306/2412 22010KT 8000 FEW030 SCT070 PROB40 TEMPO 2312/2315 5000 RA FEW030TCU GMML 230500Z 2306/2412 03007KT 8000 NSC GMMN 230500Z 2306/2412 18010KT 9999 SCT016 SCT100 BECMG 2308/2312 25014KT PROB30 2314/2318 RA SCT015 BECMG 2320/2324 18010KT BECMG 2408/2412 25015KT GMMW 230500Z 2306/2412 22010KT 8000 FEW030 SCT070 PROB40 TEMPO 2312/2315 5000 RA FEW030TCU GMMX 230500Z 2306/2412 04006KT CAVOK TEMPO 2317/2321 34016KT GMMZ 230500Z 2306/2412 VRB02KT CAVOK GMTA 230500Z 2306/2412 16006KT 9999 FEW030 BKN080 PROB40 TEMPO 2312/2315 5000 RA FEW030TCU GMTT 230500Z 2306/2412 17008KT 9999 SCT020 TEMPO 2307/2315 4000 RA BKN010 BKN020 GOBD 230530Z 2306/2412 36012KT 8000 NSC PROB30 TEMPO 2402/2408 4000 TSRA BKN010 FEW030CB GOGS 230530Z 2306/2406 32008KT 9999 SCT015 TEMPO 2322/2404 4000 TSRA BKN013 FEW025CB GOOY 230530Z 2306/2412 36010KT CAVOK= GOBD 230530Z 2306/2412 36012KT 8000 NSC PROB30 TEMPO 2402/2408 4000 TSRA BKN010 FEW030CB GOSS 230530Z 2306/2406 36010KT CAVOK GQNO 230500Z 2306/2412 34012KT 8000 NSC BECMG 2309/2311 04010KT BECMG 2313/2315 33014KT GQPP 230500Z 2306/2406 02018KT 7000 NSC GUCY 230500Z 2306/2412 28006KT 9999 SCT015 SCT110 TEMPO 2306/2312 10008KT 8000 -TSRA BKN013 FEW023CB BKN100 TEMPO 2317/2322 19010KT TS BKN013 FEW023CB BKN100 GVAC 230500Z 2306/2412 04018KT 9999 BKN014 PROB40 TEMPO 2312/2318 05020G30KT GVNP 230500Z 2306/2412 03018KT 9999 SCT016 TEMPO 2306/2310 BKN015 PROB40 TEMPO 2312/2318 03020G30KT GVSV 230500Z 2306/2412 06022KT 9999 SCT020 PROB40 TEMPO 2312/2318 06026G36KT HAAB 230330Z 2306/2412 11010KT 9999 FEW030 FEW100 BECMG 2312/2315 09010KT CAVOK HABD 230330Z 2306/2412Z VRB05KT 9999 FEW030 BECMG 2306/2309 11005KT NSC HADR 230330Z 2306/2412 VRB05KT CAVOK BECMG 2317/2300 9999 NSC HAMK 230330Z 2306/2412Z 11009KT CAVOK HBBA 230500Z 2306/2412 36002KT 9999 FEW020 BKN100 BECMG 2307/2309 18010G25KT 9999 FEW025 FEW030CB BKN090 PROB30 TEMPO 2310/2318 08015G30KT 5000 TSRA OR SHRA SCT025CB BKN090 BECMG 2316/2318 18002KT CAVOK BECMG 2402/2404 36002KT FEW023 BKN090 BECMG 2407/2409 18010G20KT 9999 FEW025 FEW026CB BKN100 HDAM 230500Z 2306/2406 08010G15KT 9999 SCT023 BECMG 2315/2318 VRB05KT SKC BECMG 2400/2406 00000KT SCT020 HEAL 230500Z 2306/2412 34012KT 9999 SCT020 HEAR 230500Z 2306/2412 33012KT 9999 SCT025 TEMPO 2306/2315 4000 SHRA BKN030 PROB30 TEMPO 2306/2312 3000 TSSHRA FEW017CB HEAT 230500Z 2306/2412 32008G18KT 9999 SCT030 BKN070 HEAX 230500Z 2306/2412 35010KT 9999 SCT020 TEMPO 2306/2315 6000 SHRA BKN020 TEMPO 2306/2312 4000 TSRA FEW017CB HEBA 230500Z 2306/2412 35010KT 9999 SCT020 TEMPO 2306/2315 6000 SHRA BKN020 TEMPO 2306/2312 4000 TSRA FEW017CB HEBL 230500Z 2306/2412 02012KT CAVOK HECA 230500Z 2306/2412 36006KT 9999 SCT025 SCT070 TEMPO 2306/2312 4000 SHRA SCT025CB BKN070 TEMPO 2322/2408 VRB02KT 4000 BR NSC TEMPO 2402/2408 2000 HEGN 230500Z 2306/2412 31012KT 9999 SCT025 HELX 230500Z 2306/2412 VRB03KT 6000 NSC BECMG 2310/2312 32008KT CAVOK HEMA 230500Z 2306/2412 32015KT CAVOK HEMM 230500Z 2306/2412 34012KT 9999 SCT020 HEOW 230500Z 2306/2412 04008G18KT 6000 NSC HEPS 230530Z 2306/2412 26011KT 6000 TSRA SCT030CB BKN070 TEMPO 2306/2320 TSSHRA 4000 BKN030CB HESC 230500Z 2306/2412 24012KT 9999 SCT020 HESG 230500Z 2306/2412 30008G18KT 9999 SCT030 BKN070 HESH 230500Z 2306/2412 35012KT 9999 SCT025 HESN 230500Z 2306/2412 01010KT CAVOK HETB 230500Z 2306/2412 36015KT 9999 SCT025 PROB30 2306/2315 6000 RA BKN030 HETR 230500Z 2306/2412 30010G20KT 9999 SCT025 PROB30 2306/2315 6000 RA BKN030 HKEL 230500Z 2306/2406 12010KT 9999 FEW023CB BKN024 TEMPO 2312/2318 VRB10KT -TSRA FEW019CB BKN020 BECMG 2320/2323 12005KT SCT020 HKJK 230500Z 2306/2412 16005KT 9999 -RA BKN025 TEMPO 2312/2318 12010KT FEW025CB BKN026 TEMPO 2320/2323 06005KT -RA FEW080 SCT018 BKN080 BECMG 2408/2411 12010KT BKN024 HKKI 230500Z 2306/2406 23010KT 9999 SCT026 TEMPO 2312/2318 VRB10KT -TSRA FEW024CB BKN023 BECMG 2320/2323 12005KT SCT020 HKML 230500Z 2306/2406 18010KT 9999 FEW024CB SCT025 BECMG 2318/2322 18005KT FEW022 TEMPO 2400/2406 00000KT -SHRA SCT018 BKN080 HKMO 230500Z 2306/2412 22005KT 9999 SCT020 BECMG 2309/2315 15010KT FEW025CB SCT026 BECMG 2318/2322 18005KT FEW022 TEMPO 2400/2406 -SHRA SCT018 BKN080 HKNW 230500Z 2306/2406 16005KT 9999 -RA BKN025 TEMPO 2312/2318 12010KT FEW024CB BKN023 TEMPO 2323/2323 06005KT -RA SCT020 BKN080 HRYR 230500Z 2306/2412 18006KT 9999 SCT026 SCT100 TEMPO 2310/2314 09015KT -TSRA FEW020CB BKN023 FM 231800 20006KT SCT026 BECMG 2401/2404 00000KT 7000 FEW015 SCT026 FM 240900 14008KT 9999 BKN025 HSKA 230500Z 2306/2412 VRB03KT 9999 FEW040 SCT140 HSOB 230500Z 2306/2412 22008G18KT 9999 FEW040 SCT140 HSPN 230500Z 2306/2412 27006KT 9999 FEW030 SCT130 HSSJ 230500Z 2306/2412 15004KT 9999 FEW040 BECMG 2309/2312 17006KT 9999 FEW040 SCT030 PROB30 TEMPO 2313/2319 16005G15KT 6000 TSRA FEW030CB SCT030 HSSS 230500Z 2306/2412 VRB03KT CAVOK TEMPO 2309/2315 24008KT9999 FEW040 SCT140 HTAR 230500Z 2306/2406 13005KT 9999 BKN020 BECMG 2312/2315 BKN026 FEW028CB TEMPO 2316/2321 SHRA HTDA 230500Z 2306/2412 24010KT 9999 SCT014 TEMPO 2307/2311 RA BKN012 FEW013CB BECMG 2318/2321 11005KT SCT015 HTDO 230500Z 2306/2406 09010KT 9999 NSC HTGW 220500Z 2306/2406 10010KT 9999 FEW022 HTKJ 230500Z 2306/2406 09010KT 9999 BKN024 TEMPO 2309/2314 RA FEW028CB BKN030 HTMT 230500Z 2306/3406 05010KT 9999 BKN025 BECMG 2309/2312 SCT027 BECMG 2315/1218 00000KT HTZA 230500Z 2306/2406 14010KT 9999 BKN014 FEW016CB TEMPO 2306/2311 5000 TSRA BECMG 2312/2314 SCT018 FEW020CB BECMG 2318/2320 00000KT SCT016 HUEN 230500Z 2306/2412 30007KT 9999 FEW022 FEW024CB BECMG 2308/2311 16008KT 9000 -RA SCT018 FEW020CB BKN100 BECMG 2321/2324 BKN019 FEW021CB TEMPO 2402/2406 VRB12KT 8000 -TSRA BKN017 FEW019CB OVC090 BECMG 2409/2412 17003KT SCT021 FEW023CB HUSO 230440Z 2306/2406 02005KT 9999 SCT020 BECMG 2308/2312 VRB07KT TS BKN021 FEW023CB FM 231500 07010KT 9000 TSRA SCT020 FEW022CB BKN120 BECMG 2401/2406 34003KT 9999 SCT018 BKN090 KABE 230718Z 2307/2406 27005KT P6SM SCT070 TEMPO 2307/2309 5SM BR FM230900 28005KT P6SM SKC FM231500 28012G20KT P6SM FEW045 FM232200 27008KT P6SM SKC FM240000 VRB03KT P6SM SKC KABI 230531Z 2306/2406 16011KT P6SM SKC FM231000 19016G24KT P6SM SKC FM231500 19023G30KT P6SM SKC FM240000 17011KT P6SM SKC KABQ 230532Z 2306/2406 36006KT P6SM FEW250 FM231700 28007KT P6SM SCT250 FM232000 30012KT P6SM SCT150 SCT250 FM240100 36007KT P6SM SCT150 SCT250 KABR 230524Z 2306/2406 00000KT P6SM SKC FM231000 VRB03KT P6SM VCSH OVC060 TEMPO 2311/2314 3SM -SN FM231500 01007KT P6SM OVC050 FM232300 34010G16KT P6SM SCT060 KABY 230520Z 2306/2406 31005KT P6SM SKC FM231400 03006KT P6SM SKC KACK 230837Z 2309/2406 15007KT 1/4SM FG OVC002 FM231200 19011KT 1/2SM FG VCSH OVC003 FM231300 22014G21KT 1/2SM SHRA FG OVC003 FM231600 26016G26KT P6SM BKN008 FM231800 27017G24KT P6SM FEW250 FM240400 30010G17KT P6SM SKC KACT 230901Z 2309/2406 18010KT P6SM SKC FM231600 18017G27KT P6SM SKC FM240000 18013KT P6SM SCT250 FM240300 16012KT P6SM BKN050 KACV 230639Z 2307/2406 16004KT 1/2SM FG VV002 FM230800 06002KT 1/4SM FG OVC003 FM231800 32008G14KT P6SM SKC FM240100 33009G16KT 1/4SM FG SKC KACY 230526Z 2306/2406 28008KT P6SM SCT020 OVC030 TEMPO 2306/2307 BKN015 FM230700 27008KT 6SM BR SCT015 BKN050 FM230900 29008KT P6SM SKC FM231500 29013G23KT P6SM SKC FM232200 28008KT P6SM SKC FM240000 VRB03KT P6SM SKC KADF 231020Z 2310/2406 00000KT 1/4SM FG VV001 TEMPO 2310/2314 2SM BR SCT005 FM231500 20012KT P6SM FEW250 FM240000 VRB03KT P6SM SCT250 KADW 230900Z 2309/2415 30006KT 9999 SKC QNH2986INS BECMG 2314/2315 29010G20KT 9999 FEW050 QNH3004INS BECMG 2321/2322 30006KT 9999 SKC QNH3007INS BECMG 2406/2407 VRB06KT 9999 SKC TX19/2317Z TN07/2409Z KAEG 230532Z 2306/2406 30007KT P6SM FEW250 FM231700 28010KT P6SM SCT250 FM232000 30012KT P6SM SCT150 SCT250 FM240200 33008KT P6SM SCT100 KAEX 230520Z 2306/2406 VRB04KT P6SM SKC FM231800 13006KT P6SM SKC FM240000 VRB04KT P6SM SKC KAFW 230901Z 2309/2406 16011KT P6SM SKC FM231600 18016G26KT P6SM SKC FM240000 18013KT P6SM SCT250 FM240400 16012KT P6SM BKN050 KAGC 230520Z 2306/2406 24005KT P6SM SCT070 FM231400 24015G25KT P6SM SKC FM232200 22005KT P6SM SKC KAGS 230913Z 2309/2406 VRB03KT P6SM FEW200 FM231400 03006KT P6SM SKC FM232300 00000KT P6SM SKC KAHN 230533Z 2306/2406 31006KT P6SM SKC FM231000 31005KT P6SM SKC FM231400 34005KT P6SM SKC FM231900 VRB03KT P6SM SKC KAIA 230526Z 2306/2406 VRB06KT P6SM VCSH SCT050 BKN060 FM230700 30015G23KT P6SM VCSH BKN070 FM231600 32025G35KT P6SM SCT060 SCT250 FM240000 35010KT P6SM SKC KALB 230903Z 2309/2406 VRB05KT 6SM -RA BR SCT025 OVC060 TEMPO 2309/2312 4SM -RA BR BKN025 FM231400 29012G20KT P6SM SCT015 BKN050 FM231800 30014G23KT P6SM SCT050 FM232200 26008KT P6SM FEW050 FM240300 23004KT P6SM SKC KALI 230526Z 2306/2406 10009KT P6SM SKC FM231700 15013KT P6SM FEW040 FM240200 13008KT P6SM SCT025 KALO 230525Z 2306/2406 24006KT P6SM SKC FM231200 06004KT P6SM BKN080 FM232100 01006KT P6SM BKN030 FM240200 32009KT P6SM SCT010 OVC015 KALS 230522Z 2306/2406 VRB06KT P6SM FEW200 FM232000 27008KT P6SM BKN250 FM232300 32010KT P6SM BKN250 FM240200 04011KT P6SM SCT100 BKN200 KALW 230520Z 2306/2406 21011KT P6SM FEW250 FM230700 18005KT P6SM FEW250 FM231800 25005KT P6SM SCT250 FM240300 11005KT P6SM SCT250 KAMA 230529Z 2306/2406 18009KT P6SM SKC FM230800 19009KT P6SM SKC FM231400 27008KT P6SM FEW250 KANB 230520Z 2306/2406 VRB04KT P6SM SKC KAND 230532Z 2306/2406 28006KT P6SM SKC FM231300 31003KT P6SM SKC FM232100 02003KT P6SM SKC KAOO 230952Z 2310/2406 25006KT P6SM SKC FM231500 27014G20KT P6SM SKC KAPA 231029Z 2310/2406 30014KT P6SM SCT200 TEMPO 2311/2313 30014G22KT FM231300 36010KT P6SM SCT090 BKN200 FM232100 03015G25KT P6SM -SHRA BKN040 BKN080 FM240000 03008G18KT 3SM -SHSN BR BKN015 OVC030 TEMPO 2400/2403 3/4SM -SHSN BR OVC006 FM240300 03008KT 2SM -SN BR SCT006 OVC012 TEMPO 2403/2406 1/2SM SN FG OVC006 KAPF 230853Z 2309/2406 VRB03KT P6SM SCT050 FM231600 05008KT P6SM VCSH SCT030 SCT100 FM240200 05006KT P6SM SCT020 BKN070 KAPN 230855Z 2309/2406 21009G17KT P6SM SCT025 OVC035 TEMPO 2309/2313 BKN025 OVC035 FM231500 23012G22KT P6SM BKN025 OVC035 FM240000 24009KT P6SM OVC060 KARA 230520Z 2306/2406 VRB03KT P6SM SKC FM231400 07006KT P6SM SKC FM240000 VRB05KT P6SM SKC KART 230855Z 2309/2406 22008KT P6SM BKN070 FM231400 23012G18KT 6SM BR BKN035 TEMPO 2314/2318 4SM -SHRA OVC025 FM231800 24016G26KT 6SM BR VCSH OVC025 FM232200 24017G24KT P6SM BKN035 FM240300 22012KT P6SM FEW045 KASD 230520Z 2306/2406 00000KT P6SM SKC FM231500 06005KT P6SM FEW250 FM231900 VRB03KT P6SM FEW250 KASE 230521Z 2306/2406 21006KT P6SM OVC060 FM231500 VRB03KT P6SM BKN060 OVC100 FM232000 34008KT P6SM SCT060 BKN100 FM240000 30006KT 3SM -SHSN OVC045 FM240200 VRB04KT 2SM -SHSN SCT019 OVC035 KASN 230520Z 2306/2406 VRB04KT P6SM SKC KAST 230530Z 2306/2406 VRB03KT P6SM SCT025 FM230800 VRB04KT 6SM BR OVC020 FM231200 10004KT 4SM BR OVC010 FM231700 11005KT 6SM BR BKN010 OVC025 FM232100 02006KT P6SM SCT030 KATL 230951Z 2310/2412 33008KT P6SM FEW250 FM231400 34006KT P6SM SKC FM240000 01003KT P6SM SKC FM241000 07005KT P6SM SKC KATW 230759Z 2308/2406 26015G25KT P6SM SCT022 OVC035 TEMPO 2308/2312 BKN022 FM231600 26012G19KT P6SM BKN035 FM232200 28007KT P6SM VCSH BKN035 BKN080 KATY 230524Z 2306/2406 00000KT P6SM SKC FM231100 VRB03KT P6SM VCSH OVC060 TEMPO 2312/2315 3SM -SN FM231600 01007KT P6SM OVC050 FM232300 34010G16KT P6SM SCT060 KAUG 230842Z 2309/2406 VRB06KT 2SM +RA OVC006 WS020/14035KT FM231300 03006KT 1/2SM RA OVC008 WS020/16030KT FM231600 27007KT P6SM BKN008 FM231800 30009KT P6SM BKN020 FM231900 29008KT P6SM SCT060 KAUS 230520Z 2306/2412 17004KT P6SM SKC FM231600 17014KT P6SM FEW050 FM241000 16010KT P6SM BKN020 KAUW 230759Z 2308/2406 27014G22KT P6SM BKN025 OVC035 TEMPO 2308/2312 SCT025 BKN035 FM231600 27010G17KT P6SM BKN025 FM232100 29007KT P6SM BKN025 BKN120 KAVL 230532Z 2306/2406 36007KT P6SM SKC FM231300 35010G18KT P6SM SKC FM231800 34006KT P6SM SKC FM240100 32003KT P6SM SKC FM240300 00000KT P6SM SKC KAVP 230859Z 2309/2406 25005KT P6SM FEW003 BKN025 TEMPO 2309/2310 BKN003 FM231200 28006KT P6SM SCT100 FM231600 27010G18KT P6SM FEW035 FM232300 24005KT P6SM SKC KAXN 230810Z 2308/2406 30009KT P6SM FEW040 FM231300 32007KT P6SM BKN019 FM231600 34012KT P6SM OVC012 FM240100 32011KT P6SM OVC021 KAZO 230530Z 2306/2406 24012KT P6SM OVC040 FM231400 23012G22KT P6SM SCT040 FM232200 23012KT P6SM VCSH OVC050 KBAB 230301Z 2303/2409 VRB06KT 9999 SKC QNH3000INS BECMG 2317/2318 34009KT 9999 SKC QNH2991INS TEMPO 2320/2324 34012G18KT TX31/2322Z TN11/2314Z KBAD 231000Z 2310/2416 14005KT 9999 SKC QNH3011INS BECMG 2315/2316 16012G18KT 9999 SKC QNH3003INS TX23/2321Z TN06/2312Z KBAF 230837Z 2309/2406 35006KT 3SM -SHRA BR SCT013 OVC020 FM231000 32004KT 6SM BR OVC020 FM231300 31007KT P6SM BKN035 FM231500 31011G21KT P6SM SCT080 FM231900 29009KT P6SM FEW250 FM240300 26003KT P6SM SKC KBAM 230520Z 2306/2406 VRB03KT P6SM FEW200 FM231800 34010G16KT P6SM SKC FM240200 36008KT P6SM SKC KBBD 230531Z 2306/2406 16007KT P6SM SKC FM231500 18017G25KT P6SM SKC FM240000 16010KT P6SM SKC KBBG 230520Z 2306/2406 20006KT P6SM SKC FM231800 21015G23KT P6SM FEW250 FM240000 21008KT P6SM SCT150 FM240300 21004KT P6SM BKN200 KBCB 230538Z 2306/2406 29005KT P6SM FEW070 FM231400 29008G16KT P6SM SKC FM232200 VRB03KT P6SM SKC KBCE 230531Z 2306/2406 27007KT P6SM SKC FM231900 32012G22KT P6SM FEW120 FM240300 27007KT P6SM FEW120 KBDL 230837Z 2309/2412 33008KT 3SM -SHRA BR SCT006 SCT013 OVC020 FM231100 31005KT 6SM BR BKN025 FM231200 31007KT P6SM BKN035 FM231500 30010G20KT P6SM SCT100 FM231900 29009KT P6SM FEW250 FM240300 26004KT P6SM SKC KBDN 230520Z 2306/2406 VRB04KT P6SM SCT200 FM230800 VRB03KT P6SM SCT250 FM232100 36008G15KT P6SM SCT250 FM240300 VRB03KT P6SM SCT250 KBDR 230834Z 2309/2406 32008KT P6SM SCT005 BKN015 FM231000 30010KT 5SM BR BKN025 OVC035 FM231300 29012G17KT P6SM SCT025 SCT250 FM231600 28015G23KT P6SM FEW250 FM232100 29008KT P6SM SKC FM240400 29005KT P6SM FEW250 KBED 230837Z 2309/2406 36004KT 3SM -SHRA BR OVC003 FM231200 29003KT 4SM -SHRA BR OVC008 FM231300 29005KT 4SM BR VCSH OVC015 FM231400 29008KT P6SM BKN035 FM231700 29010G20KT P6SM SCT250 FM240300 26004KT P6SM SKC KBFD 230952Z 2310/2406 VRB03KT P6SM SKC FM231300 25010G17KT P6SM BKN040 FM231600 26012G20KT P6SM SCT250 KBFF 230526Z 2306/2406 30015G22KT P6SM VCSH SCT060 BKN080 FM231100 31015KT P6SM SCT250 FM231600 31025G35KT P6SM SCT100 BKN200 KBFI 230902Z 2309/2406 00000KT P6SM SKC FM231100 VRB03KT P6SM OVC020 FM231200 VRB03KT P6SM SCT008 OVC015 FM231800 34005KT P6SM OVC250 FM240000 VRB03KT P6SM SCT250 KBFL 230520Z 2306/2406 VRB04KT P6SM SKC KBFM 230520Z 2306/2406 33005KT P6SM SKC FM231400 03008KT P6SM SKC FM231900 07007KT P6SM SKC FM240000 03004KT P6SM SKC KBGM 230907Z 2309/2406 26007KT P6SM BKN050 TEMPO 2309/2311 1/2SM FG SCT001 FM231500 26010G20KT P6SM BKN050 FM232300 24008KT P6SM SKC KBGR 231022Z 2310/2406 10006KT 4SM -RA OVC010 WS020/14050KT FM231200 14012G22KT 1SM RA BR OVC006 WS020/14045KT FM231800 16010G18KT 3SM -RA BR OVC006 FM232000 28010G18KT P6SM VCSH OVC015 FM232200 27008KT P6SM SCT100 KBHB 230830Z 2308/2406 10011G22KT 3SM -RA BR OVC004 WS020/14050KT FM231200 14020G30KT 1SM RA BR OVC005 WS020/14050KT FM231800 18012G22KT 3SM -RA BR OVC005 FM232000 29010G18KT P6SM VCSH OVC015 FM232200 27011G19KT P6SM SCT100 KBHM 230520Z 2306/2406 VRB04KT P6SM SKC KBIF 230600Z 2306/2412 VRB06KT 9999 SKC QNH2995INS TX26/2323Z TN06/2313Z KBIH 230535Z 2306/2406 33007KT P6SM FEW250 FM232000 35014G23KT P6SM SKC FM240300 35012KT P6SM SKC KBIL 230533Z 2306/2406 31016G24KT P6SM VCSH BKN080 FM230800 33016KT P6SM BKN100 FM231200 33016KT P6SM VCSH SCT050 OVC080 FM231600 33018G26KT P6SM BKN100 FM240000 31012KT P6SM SCT100 KBIS 230526Z 2306/2406 06004KT P6SM VCSH OVC070 FM231100 VRB04KT P6SM BKN090 FM231500 33012KT P6SM SCT150 FM240300 00000KT P6SM FEW250 KBIX 231000Z 2310/2416 VRB06KT 9999 SKC QNH3015INS BECMG 2316/2317 05010G15KT 9999 SKC QNH3016INS BECMG 2402/2403 06006KT 9999 SKC QNH3018INS TX20/2321Z TN10/2312Z KBJC 230756Z 2308/2406 32015G25KT P6SM SCT200 FM231500 33012KT P6SM SCT100 SCT200 FM232100 04015G25KT P6SM -SHRA BKN040 BKN080 FM240000 03012KT 3SM -SHSN BR BKN015 OVC030 TEMPO 2400/2403 3/4SM -SHSN BR OVC006 FM240300 03008KT 2SM -SN BR SCT006 OVC012 TEMPO 2403/2406 3/4SM -SN BR OVC006 KBJI 230520Z 2306/2406 30014KT P6SM OVC012 FM231700 32012KT P6SM OVC025 KBKE 230520Z 2306/2406 VRB04KT P6SM SCT150 FM232100 33013KT P6SM SKC FM240200 VRB04KT P6SM SKC KBKF 230900Z 2309/2415 VRB06KT 9999 FEW200 QNH2995INS BECMG 2321/2322 02020G25KT 9999 BKN050 OVC100 520009 QNH3005INS BECMG 2400/2401 03015G20KT 8000 -RASN BKN020 OVC030 650206 520007 QNH3006INS BECMG 2401/2402 03012KT 1600 -SN BKN005 650056 QNH3010INS TEMPO 2404/2407 0600 SN OVC003 650039 TX14/2320Z TN04/2312Z KBKW 230855Z 2309/2406 VRB03KT P6SM FEW150 FM231200 VRB03KT P6SM SKC FM231400 28010G18KT P6SM SKC FM240100 18003KT P6SM SKC KBLF 230538Z 2306/2406 28006KT P6SM SCT050 FM231400 28008G16KT P6SM SKC FM232300 21003KT P6SM SKC KBLH 230520Z 2306/2406 33005KT P6SM SKC FM231700 36008KT P6SM SKC KBLI 230520Z 2306/2406 VRB03KT P6SM FEW030 FM231200 VRB03KT P6SM SCT015 OVC035 FM231700 34005KT P6SM SCT250 KBLV 230800Z 2308/2414 VRB06KT 9999 SKC QNH3000INS BECMG 2310/2311 VRB06KT 9999 SCT080 WS020/23025KT QNH3001INS BECMG 2313/2314 20012KT 9999 FEW100 QNH2997INS BECMG 2318/2319 20015G20KT 9999 FEW100 QNH2994INS BECMG 2321/2322 20012KT 9999 FEW140 QNH2994INS BECMG 2407/2408 25009KT 9999 BKN050 QNH3016INS TX19/2320Z TN04/2308Z KBMG 230520Z 2306/2406 27005KT P6SM SKC FM231100 22005KT P6SM SKC FM231700 21011G20KT P6SM FEW080 FEW250 FM240000 20011KT P6SM FEW080 FEW250 FM240300 21011KT P6SM FEW090 SCT250 WS020/22045KT LTD TO CLD VIS AND WIND TIL 231300 KBMI 230525Z 2306/2406 24009KT P6SM SKC FM231500 21012KT P6SM BKN120 FM231700 20014G24KT P6SM BKN120 FM240000 21012KT P6SM BKN120 KBNA 230522Z 2306/2406 20004KT P6SM SKC FM231600 20007G14KT P6SM SKC KBNO 230520Z 2306/2406 VRB04KT P6SM SCT200 FM231900 31008KT P6SM SKC FM240300 VRB04KT P6SM SKC KBOI 230520Z 2306/2406 VRB05KT P6SM SCT200 FM231200 VRB05KT P6SM VCFG SKC FM231500 31007KT P6SM SKC FM231900 31012G20KT P6SM SKC FM240000 32006KT P6SM SKC KBOS 230837Z 2309/2412 09004KT 1 1/2SM -SHRA BR OVC004 FM231200 22008KT 2SM BR VCSH OVC008 FM231400 26010G18KT 6SM BR BKN008 FM231500 27012G22KT P6SM BKN025 FM231600 28012G21KT P6SM SCT070 FM240900 25006KT P6SM SKC KBPI 230526Z 2306/2406 31015G25KT P6SM SCT080 FM231800 31015G25KT P6SM BKN100 FM240100 35010KT P6SM BKN100 KBPK 230535Z 2306/2406 VRB06KT P6SM SKC FM231500 19008G18KT P6SM SCT250 FM240000 18007KT P6SM SCT120 BKN250 KBPT 230520Z 2306/2406 VRB04KT P6SM SKC FM231300 08006KT P6SM SKC FM232200 12008KT P6SM SKC KBRD 230520Z 2306/2406 30012G21KT P6SM OVC015 FM231000 30009KT P6SM OVC012 FM232000 31008G15KT P6SM OVC017 FM240300 32008KT P6SM OVC016 KBRL 230544Z 2306/2406 22006KT P6SM SKC FM231800 23012G20KT P6SM BKN100 FM240000 27012G19KT P6SM BKN250 FM240200 32008KT P6SM SKC KBRO 230520Z 2306/2406 VRB04KT P6SM FEW080 FEW250 FM231600 12012KT P6SM SCT035 BKN150 FM240100 11007KT P6SM BKN050 BKN250 KBTL 230530Z 2306/2406 24012KT P6SM OVC040 FM231400 23012G22KT P6SM SCT040 FM232300 23012KT P6SM VCSH OVC050 KBTM 230527Z 2306/2406 31008KT P6SM OVC060 TEMPO 2306/2307 31008G15KT P6SM -RA OVC040 FM231300 31006KT P6SM SCT250 KBTR 230520Z 2306/2406 00000KT P6SM SKC FM231700 09005KT P6SM SKC FM232200 VRB03KT P6SM SKC KBTV 230843Z 2309/2406 VRB03KT P6SM VCSH SCT035 OVC050 FM231100 VRB04KT P6SM OVC060 FM232100 25010KT P6SM SCT100 FM240300 22009KT P6SM BKN060 KBUF 230855Z 2309/2406 25012G20KT 6SM BR OVC045 TEMPO 2309/2312 4SM -SHRA OVC025 FM231200 24011G17KT 4SM SHRA OVC025 FM231700 24022G35KT P6SM BKN035 FM232200 23017G25KT P6SM BKN050 FM240100 23012KT P6SM FEW250 KBUR 230522Z 2306/2406 VRB03KT P6SM SKC FM232100 17008KT P6SM SKC FM240300 VRB03KT P6SM SKC KBVI 230520Z 2306/2406 25005KT P6SM SCT070 FM231500 24015G25KT P6SM SKC FM232200 22005KT P6SM SKC KBVO 230520Z 2306/2406 20003KT P6SM SCT250 FM231500 20011G20KT P6SM SCT250 FM232300 34005KT P6SM SCT100 BKN200 KBWG 230528Z 2306/2406 23005KT P6SM SKC FM231700 20009G17KT P6SM FEW120 FM240000 18006KT P6SM FEW100 KBWI 230858Z 2309/2412 26006KT P6SM FEW250 FM231400 28012G19KT P6SM SKC FM232100 29007KT P6SM SKC FM240000 VRB03KT P6SM SKC KBYI 230520Z 2306/2406 22008KT P6SM SCT180 FM231600 27015KT P6SM SCT015 FM232000 30015G25KT P6SM SCT030 FM240300 25006KT P6SM BKN050 KBZN 230546Z 2306/2412 26015KT P6SM SCT060 OVC100 FM231200 29007KT P6SM VCSH SCT030 BKN080 TEMPO 2316/2320 4SM -SN BKN025 FM232300 VRB05KT P6SM SCT050 BKN100 FM240600 VRB03KT P6SM FEW015 SCT030 BKN060 KCAE 230913Z 2309/2406 VRB03KT P6SM FEW200 FM231400 35007KT P6SM SKC FM232300 VRB03KT P6SM SKC KCAK 230520Z 2306/2406 24008KT P6SM FEW050 FM231400 24015G22KT P6SM SKC FM232200 20011KT P6SM FEW090 KCAR 231019Z 2310/2406 11009G17KT 6SM -RA OVC050 FM231130 12012G22KT 3SM -RA BR OVC015 FM231400 10012G22KT 1SM RA BR OVC008 FM232000 28010G18KT 3SM -RA BR OVC006 FM232200 25005KT P6SM VCSH OVC009 FM240000 27007KT P6SM BKN028 KCBM 231025Z 2310/2415 VRB05KT 1600 BR SKC QNH3011INS BECMG 2312/2313 16005KT 9999 NSW SKC QNH3012INS TX19/2321Z TN04/2312Z KCDC 230531Z 2306/2406 VRB03KT P6SM SKC FM231900 01009KT P6SM SCT150 FM240300 02007KT P6SM SCT150 KCDR 230526Z 2306/2406 29011KT P6SM VCSH SCT050 OVC080 FM231200 31020G28KT P6SM SCT060 SCT250 FM231800 34020G30KT P6SM VCSH SCT030 BKN050 KCDS 230542Z 2306/2406 15009KT P6SM SKC WS005/23040KT FM231400 23011KT P6SM SKC FM231900 36011KT P6SM SKC KCEC 230904Z 2309/2406 01005KT 5SM BR FEW002 FM231300 36006KT 4SM BR SCT008 FM232100 34016G23KT 4SM BR SCT008 KCEF 231000Z 2310/2416 36004KT 9000 BR FEW005 BKN017 OVC030 QNH2978INS BECMG 2310/2311 32007KT 9999 NSW FEW020 BKN035 620705 QNH2980INS BECMG 2314/2315 26010G15KT 9999 SCT050 QNH2983INS TEMPO 2318/2321 28015G25KT -SHRA BKN050 BKN080 610504 520004 BECMG 2321/2322 22009KT 9999 FEW040 510103 QNH2996INS BECMG 2413/2414 20015G25KT 9999 SCT045 BKN180 520006 QNH3021INS TX17/2318Z TN04/2410Z KCGI 230520Z 2306/2406 VRB04KT P6SM SKC FM231800 21015G23KT P6SM FEW100 FM240200 20009KT P6SM FEW100 FM240500 21007KT P6SM FEW090 KCHA 230459Z 2305/2324 33003KT P6SM SKC KCHO 230902Z 2309/2406 23004KT P6SM FEW250 FM231200 25006KT P6SM FEW250 FM231400 28010G17KT P6SM SKC FM232300 VRB03KT P6SM SKC KCHS 230520Z 2306/2406 31004KT P6SM FEW250 FM231500 36008KT P6SM SKC FM240100 VRB03KT P6SM FEW250 KCID 230544Z 2306/2406 23008KT P6SM SKC FM231100 18007KT P6SM OVC090 FM231800 23012KT P6SM BKN050 FM232300 30012KT P6SM BKN100 KCKB 230855Z 2309/2406 25004KT P6SM SCT050 FM231100 24005KT P6SM FEW150 FM231400 26009G19KT P6SM SKC FM231700 26010G22KT P6SM SKC FM232200 24006KT P6SM SKC KCKV 230522Z 2306/2406 24004KT P6SM SKC FM231600 20008G15KT P6SM SKC KCLE 230824Z 2308/2412 22010KT P6SM FEW050 FM231400 24016G24KT P6SM FEW090 FM232200 20013KT P6SM SCT090 WS020/22060KT KCLL 230520Z 2306/2406 12006KT P6SM SKC FM231600 15009KT P6SM SKC FM232000 17013KT P6SM SKC FM232300 15009KT P6SM SKC KCLM 230520Z 2306/2406 VRB03KT P6SM SCT250 FM231100 23005KT P6SM SCT004 SCT250 FM231800 09005KT P6SM SCT250 FM240000 VRB03KT P6SM BKN250 KCLT 230957Z 2310/2412 31003KT P6SM FEW250 FM231400 34006KT P6SM SKC FM232300 03003KT P6SM SKC KCMA 230522Z 2306/2406 05006KT P6SM SKC FM232000 24009KT P6SM SKC FM240300 VRB03KT P6SM SKC KCMH 230523Z 2306/2406 25008KT P6SM BKN050 FM230900 23008KT P6SM SKC FM231500 25013G21KT P6SM FEW120 FM240200 19010KT P6SM SCT090 WS020/23040KT KCMI 230525Z 2306/2406 23008KT P6SM SKC FM231700 20016G26KT P6SM SCT120 BKN250 FM240000 20012KT P6SM BKN120 KCMX 230533Z 2306/2406 26019G32KT 4SM -SHRA BR OVC010 TEMPO 2306/2309 P6SM -SHRA FM231300 28016G29KT 6SM -SHRASN BR OVC014 FM231800 28016G28KT P6SM VCSH OVC020 FM240000 29015G23KT P6SM OVC023 KCNM 230854Z 2309/2406 25005KT P6SM SKC KCNU 230520Z 2306/2406 19006KT P6SM SCT200 FM230900 21011KT P6SM BKN200 WS020/22040KT FM231500 21017G26KT P6SM SCT200 FM232100 26013KT P6SM SCT250 FM240100 01007KT P6SM SCT200 KCNY 230521Z 2306/2406 VRB04KT P6SM SKC FM231800 28007KT P6SM FEW120 FEW250 FM232300 30012KT P6SM FEW150 FEW250 FM240300 32013KT P6SM FEW100 FEW250 FM240500 35010KT P6SM FEW080 FEW200 KCOD 230817Z 2308/2406 28007KT P6SM VCSH SCT025 BKN070 FM231300 31010KT P6SM VCSH OVC050 FM231800 36014G20KT P6SM VCSH OVC100 FM240000 35010KT P6SM BKN100 LTD TO CLD VIS AND WIND KCOE 230529Z 2306/2406 VRB03KT P6SM FEW250 KCOF 231000Z 2310/2416 02010G20KT 9999 SCT020 QNH2999INS BECMG 2318/2319 04010G20KT 9999 BKN030 QNH3003INS BECMG 2323/2324 07010KT 9999 BKN020 QNH3005INS BECMG 2410/2411 08010G20KT 9999 VCSH BKN020 QNH3009INS TX28/2318Z TN25/2310Z KCON 230842Z 2309/2406 VRB03KT 1SM RA BR OVC006 FM231300 VRB04G15KT 4SM BR BKN015 FM231500 28005KT P6SM BKN035 FM231600 28007KT P6SM SCT080 FM232100 28008KT P6SM SKC KCOS 230648Z 2307/2406 34008KT P6SM FEW150 TEMPO 2307/2310 31015G25KT FM231700 14010KT P6SM FEW120 BKN250 FM232200 04018G30KT P6SM SCT070 BKN100 FM240100 02020G32KT P6SM VCSH SCT030 OVC050 TEMPO 2401/2402 5SM -RA OVC030 FM240200 02015G25KT 5SM -SN BR OVC025 FM240300 02015G25KT 1SM -SN BR OVC012 KCOT 230526Z 2306/2406 11007KT P6SM SKC FM231600 16012G18KT P6SM FEW040 FM240400 14010KT P6SM SCT030 KCOU 230945Z 2310/2406 18008KT P6SM SCT120 WS012/22040KT FM231500 21020G30KT P6SM SCT120 FM240300 27007KT P6SM BKN120 KCPR 230703Z 2307/2406 36009KT P6SM VCSH SCT024 BKN050 TEMPO 2307/2310 -SHRA BKN025 FM231000 30010KT P6SM VCSH SCT030 BKN050 FM231700 32015G25KT P6SM VCSH BKN070 FM240000 36008KT P6SM BKN100 KCPS 230520Z 2306/2406 22005KT P6SM SKC FM231500 20014G24KT P6SM SCT120 FM240000 20007KT P6SM BKN120 KCRE 230559Z 2306/2406 32004KT P6SM SCT030 FM231400 36011KT P6SM SKC FM232000 04005KT P6SM SKC FM240100 00000KT P6SM SKC KCRG 230520Z 2306/2406 32008KT P6SM BKN035 BKN250 FM230900 33005KT P6SM SCT035 BKN250 FM231300 02012KT P6SM BKN250 FM232300 05005KT P6SM FEW030 BKN250 KCRP 230526Z 2306/2406 10010KT P6SM SKC FM231500 13013KT P6SM FEW030 FM231700 14016G24KT P6SM SCT035 FM240200 13010KT P6SM SCT030 KCRQ 230520Z 2306/2406 VRB05KT P6SM SKC KCRW 230855Z 2309/2406 VRB03KT P6SM SKC FM231500 26009G18KT P6SM SKC FM232100 24004KT P6SM SKC KCSG 230533Z 2306/2406 33006KT P6SM SKC FM231000 35005KT P6SM SKC FM231600 03006KT P6SM SKC FM232300 VRB03KT P6SM SKC KCSM 230520Z 2306/2406 17010KT P6SM SKC FM231400 19018G26KT P6SM SCT250 FM232100 21012KT P6SM BKN250 FM240000 35007KT P6SM SKC FM240300 01013KT P6SM BKN250 KCSV 230522Z 2306/2406 24004KT P6SM SKC KCTB 231004Z 2310/2406 30010KT 5SM -SN BR OVC020 FM231700 33018G25KT P6SM SCT035 BKN050 FM240200 VRB06KT P6SM SCT120 KCUB 230913Z 2309/2406 VRB03KT P6SM FEW200 FM231400 35006KT P6SM SKC FM232300 00000KT P6SM SKC KCVG 230858Z 2309/2412 24008KT P6SM SKC FM231500 22010G18KT P6SM SKC FM232300 19010KT P6SM SCT090 FM240200 19010KT P6SM SCT090 WS020/23040KT KCVS 231000Z 2310/2416 25010KT 9999 SKC QNH2994INS BECMG 2314/2315 33010G15KT 9999 SKC QNH2995INS BECMG 2317/2318 04010G20KT 9999 SKC QNH2986INS BECMG 2402/2403 04015G25KT 9999 FEW150 QNH2992INS BECMG 2408/2409 04020G30KT 9999 FEW020 SCT150 QNH3007INS BECMG 2412/2413 03025G35KT 9999 FEW008 SCT010 BKN020 QNH3015INS TX21/2321Z TN09/2312Z KCWA 230759Z 2308/2406 27014G22KT P6SM BKN015 OVC025 TEMPO 2308/2312 SCT025 BKN035 FM231600 27010G17KT P6SM BKN025 FM232100 29007KT P6SM BKN025 BKN120 LTD TO CLD VIS AND WIND TIL 231100 KCXO 230520Z 2306/2406 00000KT P6SM SKC FM231500 13009KT P6SM SKC FM240300 12007KT P6SM SKC KCXP 230520Z 2306/2406 VRB04KT P6SM FEW200 FM232000 08011KT P6SM FEW200 FM240200 VRB03KT P6SM SKC KCYS 230944Z 2310/2406 36015G25KT 1SM -SN OVC008 FM231200 31025G35KT P6SM SCT080 SCT200 FM240100 36010KT P6SM OVC035 KDAA 230950Z 2309/2415 VRB06KT 1600 BR SCT035 QNH2992INS BECMG 2311/2313 VRB06KT 9999 NSW SCT035 QNH2994INS BECMG 2316/2317 28012G18KT 9999 SCT040 QNH3006INS BECMG 2322/2323 VRB06KT 9999 SKC QNH3011INS TX17/2320Z TN07/2409Z KDAB 230945Z 2310/2406 33006KT P6SM BKN035 TEMPO 2310/2312 BKN025 FM231400 02012KT P6SM SCT035 FM240100 03004KT P6SM BKN040 KDAG 230535Z 2306/2406 26007KT P6SM SKC FM232000 04007KT P6SM SKC FM240400 25006KT P6SM SKC KDAL 230901Z 2309/2406 16010KT P6SM SKC FM231600 18017G27KT P6SM SKC FM240000 18013KT P6SM SCT250 FM240400 16012KT P6SM BKN050 KDAN 230538Z 2306/2406 27003KT P6SM SKC TEMPO 2306/2310 3SM BR FM231400 30007KT P6SM SKC FM232200 VRB03KT P6SM SKC KDAY 230523Z 2306/2406 24012KT P6SM BKN050 FM230700 23010KT P6SM SKC FM231500 22014G22KT P6SM SCT120 FM240100 19010KT P6SM SCT090 WS020/23045KT KDBQ 230544Z 2306/2406 24011KT P6SM SKC FM231100 18006KT P6SM OVC090 FM231700 20008KT P6SM OVC050 PROB30 2317/2321 6SM -SHRA OVC030 FM232300 32010KT P6SM BKN100 KDCA 230858Z 2309/2412 24004KT P6SM FEW250 FM231200 29007KT P6SM FEW250 FM231500 29014G21KT P6SM SKC FM232100 29008KT P6SM SKC FM240100 VRB03KT P6SM SKC KDDC 230520Z 2306/2406 22008KT P6SM SKC FM231600 01015G25KT P6SM FEW250 KDEC 230525Z 2306/2406 24009KT P6SM SKC FM231700 21015G25KT P6SM SCT120 BKN250 FM240100 21010KT P6SM BKN120 KDEN 230901Z 2309/2412 32012KT P6SM FEW150 SCT200 FM231200 36015G22KT P6SM FEW080 SCT200 FM231400 36012KT P6SM FEW080 BKN200 FM232100 03015G25KT P6SM -SHRA BKN040 BKN080 FM240000 03008G18KT 3SM -SHSN BR BKN015 OVC030 TEMPO 2400/2403 1SM -SHSN BR OVC006 FM240300 03008KT 2SM -SN BR SCT006 OVC012 TEMPO 2403/2407 3/4SM -SN BR OVC006 FM240700 03006KT 4SM -SN BR SCT006 OVC012 KDET 230959Z 2310/2406 22012KT P6SM SKC FM231400 23015G25KT P6SM SCT045 FM232200 21010KT P6SM SCT045 KDFW 230901Z 2309/2412 16010KT P6SM SKC FM231600 18018G28KT P6SM SKC FM240000 18013KT P6SM SCT250 FM240400 16012KT P6SM BKN050 KDHN 230520Z 2306/2406 33006KT P6SM SKC FM231400 03008KT P6SM SKC KDHT 230529Z 2306/2406 22007KT P6SM SKC FM230900 28006KT P6SM SKC FM240200 06013KT P6SM BKN250 KDIJ 230520Z 2306/2406 25010KT P6SM SCT015 FM230900 18006KT P6SM SCT015 FM231200 VRB03KT P6SM SCT035 FM231700 33010KT P6SM SCT040 FM232000 33015G25KT P6SM SCT040 LTD TO CLD VIS AND WIND KDIK 231024Z 2310/2406 07012KT 4SM -SN BR SCT006 OVC020 TEMPO 2310/2312 2SM -SN BR BKN007 OVC020 FM231200 03009KT P6SM VCSH OVC035 FM231500 35011KT P6SM SCT035 BKN200 KDLF 230400Z 2304/2408 13009KT 9999 SKC QNH3008INS BECMG 2311/2312 14008KT 9999 SCT020 QNH3003INS TEMPO 2312/2314 SCT010 BKN018 BECMG 2314/2315 14010G15KT 9999 BKN035 QNH3001INS BECMG 2316/2317 16014G22KT 9999 SCT040 QNH2993INS BECMG 2322/2323 14010KT 9999 BKN030 QNH2987INS TX28/2322Z TN14/2313Z LAST NO AMDS AFT 2304 NEXT 2311 KDLH 230646Z 2307/2406 29013G23KT 6SM -DZ OVC011 FM230900 29010G20KT P6SM OVC015 FM232100 30009G16KT P6SM OVC020 KDLS 230520Z 2306/2406 30011KT P6SM FEW200 FM230900 VRB05KT P6SM FEW250 FM232100 36006KT P6SM SCT250 FM240300 VRB02KT P6SM SCT250 KDMA 230601Z 2306/2412 15009KT 9999 SKC QNH3000INS BECMG 2316/2317 VRB06KT 9999 SKC QNH2998INS BECMG 2319/2320 32009KT 9999 SKC QNH2988INS BECMG 2401/2402 VRB06KT 9999 SKC QNH2990INS TX31/2321Z TN11/2313Z KDMN 230523Z 2306/2406 28005KT P6SM SKC KDNL 230913Z 2309/2406 29006KT P6SM FEW200 FM231400 02007KT P6SM SKC FM232300 VRB03KT P6SM SKC KDOV 230800Z 2308/2414 29012KT 9999 SKC QNH2987INS BECMG 2313/2314 30015G20KT 9999 SKC QNH3002INS BECMG 2320/2321 29010KT 9999 SKC QNH3008INS TX19/2318Z TN07/2408Z KDPA 230849Z 2309/2406 24011KT P6SM SKC FM231400 22012G17KT P6SM BKN100 FM231800 19010KT P6SM VCSH BKN080 TEMPO 2319/2322 20015G25KT P6SM -SHRA BKN050 OVC080 FM240000 22010KT P6SM BKN050 WS015/22040KT FM240400 33013G19KT P6SM SCT015 BKN025 KDRO 230521Z 2306/2406 27005KT P6SM FEW250 FM230800 36005KT P6SM SKC FM231100 03005KT P6SM SKC FM232000 27016G27KT P6SM SKC FM240300 31008KT P6SM FEW120 FEW250 KDRT 230520Z 2306/2406 12009KT P6SM SKC FM231500 14016KT P6SM SCT050 KDSM 230911Z 2309/2406 13004KT P6SM BKN090 FM231200 13005KT P6SM VCSH SCT035 BKN050 FM231800 05008KT P6SM SCT025 BKN040 FM232100 35009G16KT P6SM SCT020 BKN050 FM240200 33011KT P6SM SCT006 OVC015 KDTW 230846Z 2309/2412 21010KT P6SM SKC FM231400 23015G25KT P6SM SCT045 FM232200 21010KT P6SM SCT045 KDUG 230520Z 2306/2406 VRB03KT P6SM SKC FM232000 28006KT P6SM FEW250 FM240300 36006KT P6SM SKC KDUJ 230520Z 2306/2406 26005KT P6SM SCT070 FM231400 25015G25KT P6SM SKC FM232300 22008KT P6SM SKC KDVL 230520Z 2306/2406 32008KT P6SM FEW250 FM231100 35010KT P6SM OVC040 FM231700 33013G20KT P6SM BKN050 FM240100 33011KT P6SM SCT150 KDVT 230520Z 2306/2406 03003KT P6SM SKC FM231900 21004KT P6SM SKC FM240300 03003KT P6SM SKC KDYS 231055Z 2310/2412 17020G30KT 9999 SKC QNH3003INS TEMPO 2316/2318 20025G35KT BECMG 2317/2318 21015G20KT 9999 SKC 510072 QNH2985INS BECMG 2323/2324 19009KT 9999 SKC 510063 QNH2986INS BECMG 2411/2412 18009KT 9999 BKN020 QNH3002INS TX28/2321Z TN13/2312Z KEAR 230539Z 2306/2406 26009KT P6SM SCT050 BKN100 WS010/32045KT FM231400 29012G17KT P6SM FEW100 SCT250 FM231900 32018G26KT P6SM SCT250 FM240100 35013KT P6SM SCT050 BKN100 KEAT 230529Z 2306/2406 30008KT P6SM FEW250 FM231600 VRB04KT P6SM FEW250 KEAU 230717Z 2307/2406 28012KT P6SM BKN025 FM231100 25006KT P6SM SCT030 FM231500 26006KT P6SM BKN035 FM232000 29006KT P6SM OVC030 KECG 230525Z 2306/2406 29009KT P6SM SCT015 FM230900 30007KT P6SM SCT250 FM231500 34009KT P6SM SKC FM240000 00000KT P6SM SKC KECP 230520Z 2306/2406 33004KT P6SM SKC FM231400 03010KT P6SM SKC KEDW 230450Z 2305/2411 VRB06KT 9999 SKC QNH3006INS BECMG 2319/2320 04012KT 9999 SKC QNH3000INS BECMG 2403/2404 VRB06KT 9999 SKC QNH2996INS TX30/2322Z TN09/2314Z LAST NO AMDS AFT 2305 NEXT 2313 KEED 230535Z 2306/2406 30007KT P6SM SKC FM231700 01014KT P6SM FEW250 FM240300 35010KT P6SM SKC KEET 230520Z 2306/2406 VRB04KT P6SM SKC KEFD 230400Z 2304/2410 08009KT 9999 SKC QNH3008INS BECMG 2314/2315 13012G18KT 9999 SKC QNH3000INS BECMG 2323/2324 11009KT 9999 FEW035 QNH2997INS TX26/2320Z TN14/2312Z KEGE 230521Z 2306/2406 VRB04KT P6SM OVC070 FM232000 27011KT P6SM VCSH SCT060 BKN100 FM240000 31007KT P6SM -SHSN SCT040 BKN050 FM240400 VRB04KT 6SM BR SCT026 BKN030 KEGI 230900Z 2309/2415 32006KT 9999 FEW250 WS010/36045KT QNH3011INS BECMG 2312/2313 03010G15KT 9999 FEW280 QNH3016INS TEMPO 2313/2316 03012G18KT BECMG 2317/2318 04010KT 9999 SKC QNH3014INS WND 03006KT AFT 2401 BECMG 2412/2413 07012KT 9999 SCT200 QNH3012INS TX23/2319Z TN08/2310Z LAST NO AMDS AFT 2309 NEXT 2313 KEKN 230855Z 2309/2406 27006KT P6SM SCT050 FM231300 27006KT P6SM FEW150 FM231400 27008G21KT P6SM FEW200 FM232200 27005KT P6SM SKC KEKO 230520Z 2306/2406 VRB03KT P6SM FEW060 SCT200 FM231900 29010G18KT P6SM SKC FM240200 36006KT P6SM SKC KEKS 230546Z 2306/2406 04009KT P6SM SCT060 BKN090 FM231500 33012G18KT 5SM -SHSN SCT025 BKN050 TEMPO 2316/2320 4SM -SN BKN025 FM232300 35011KT P6SM SCT030 BKN060 KELD 230538Z 2306/2406 VRB03KT P6SM SKC FM231600 18008KT P6SM SKC FM240100 15003KT P6SM SKC KELM 230926Z 2309/2406 27004KT P6SM FEW002 SCT050 TEMPO 2309/2312 1/4SM FG BKN001 FM231400 25012G20KT P6SM SCT045 FM232300 22006KT P6SM SKC KELP 230523Z 2306/2406 VRB05KT P6SM SKC KELY 230805Z 2308/2406 18008KT P6SM FEW150 FEW200 FM232000 33010G18KT P6SM SKC FM240200 35010KT P6SM SKC KEND 231000Z 2310/2416 18012KT 9999 SKC QNH2992INS BECMG 2314/2315 20012G18KT 9999 SCT250 QNH2992INS BECMG 2318/2319 29009KT 9999 SCT250 QNH2992INS BECMG 2321/2322 01009KT 9999 SCT250 QNH2997INS BECMG 2401/2402 03010G15KT 8000 -SHRA SCT050 BKN080 OVC090 QNH3008INS BECMG 2411/2412 02012G18KT 9999 NSW SCT040 BKN050 OVC080 QNH3020INS BECMG 2414/2415 01012G18KT 9999 SCT020 OVC030 QNH3030INS TX22/2321Z TN06/2312Z KENV 230531Z 2306/2406 32011KT P6SM SCT080 FM231900 32011G20KT P6SM SKC KENW 230520Z 2306/2406 25013G23KT P6SM FEW150 FM231800 24011G19KT P6SM SCT100 FM231900 23009KT P6SM BKN080 FM240000 36005KT P6SM OVC050 FM240200 33005KT P6SM BKN025 KERI 230520Z 2306/2406 22012KT P6SM SCT030 FM231400 24017G27KT P6SM SCT030 FM232200 21014KT P6SM BKN090 WS013/23030KT KEUG 230947Z 2310/2406 36004KT 6SM BR BKN009 FM231300 36002KT 1/2SM FG OVC004 FM231700 01004KT 5SM BR FEW004 SCT020 FM232300 VRB03KT P6SM SCT250 KEUL 230520Z 2306/2406 33005KT P6SM SCT200 FM231300 30005KT P6SM VCFG SKC FM231600 30008KT P6SM SKC FM231900 30010G18KT P6SM SKC FM240000 31005KT P6SM SKC KEVV 230520Z 2306/2406 25005KT P6SM SKC FM231700 22011G19KT P6SM SKC FM240000 19009KT P6SM FEW090 FM240300 20008KT P6SM FEW090 KEVW 230531Z 2306/2406 25013KT P6SM FEW060 SCT120 FM231700 30014G24KT P6SM SCT060 BKN120 FM240300 01007KT P6SM SCT060 BKN120 KEWN 231028Z 2310/2406 34007KT P6SM SCT250 TEMPO 2310/2312 2SM BR KEWR 230834Z 2309/2412 29008KT P6SM SCT025 BKN045 FM231200 29012G17KT P6SM SCT025 SCT250 FM231500 28015G23KT P6SM FEW250 FM232200 27011KT P6SM FEW250 FM240400 28006KT P6SM FEW250 KEYW 230908Z 2309/2406 04008KT P6SM SCT020 FM231500 10011KT P6SM SCT025 SCT050 KFAF 231056Z 2310/2416 33006KT 9999 SCT008 QNH2990INS TEMPO 2310/2312 BKN008 BECMG 2312/2313 33006KT 9999 FEW080 QNH2994INS BECMG 2315/2316 34006KT 9999 SKC QNH3001INS TX21/2319Z TN15/2310Z KFAR 230520Z 2306/2406 32011KT P6SM BKN050 FM231700 33013G20KT P6SM BKN040 FM240100 33012KT P6SM BKN050 KFAT 230520Z 2306/2406 VRB03KT P6SM SKC KFAY 230520Z 2306/2406 30006KT P6SM SCT050 SCT250 FM231400 33009G18KT P6SM FEW250 FM232200 34004KT P6SM SKC KFBG 230900Z 2309/2415 33006KT 9999 SKC QNH2995INS BECMG 2314/2315 35012KT 9999 SKC QNH3011INS BECMG 2323/2324 03006KT 9999 SKC QNH3017INS TX22/2317Z TN08/2311Z KFCS 230500Z 2305/2411 VRB06KT 9999 SKC QNH3004INS BECMG 2317/2318 17015KT 9999 FEW180 510005 QNH3008INS BECMG 2400/2401 03015G30KT 8000 -RASN BKN020 OVC030 650206 530007 QNH3014INS BECMG 2402/2403 05009KT 1600 -SN BKN007 OVC010 650076 QNH3020INS TEMPO 2403/2407 0600 SN OVC004 650046 BECMG 2409/2410 VRB06KT 1600 -SN BKN009 650096 QNH3033INS TX16/2320Z TN05/2311Z KFDY 230520Z 2306/2406 22011KT P6SM FEW050 FM231400 23015G22KT P6SM SCT090 FM232200 20011KT P6SM SCT090 WS020/22050KT KFFO 230300Z 2303/2409 22006KT 9999 FEW050 SCT090 QNH2990INS BECMG 2315/2316 24012G18KT 9999 FEW090 QNH3005INS TEMPO 2317/2321 23015G25KT BECMG 2323/2324 21012KT 9999 FEW090 QNH3007INS TX16/2320Z TN04/2312Z KFHU 231000Z 2310/2416 VRB06KT 9999 SKC QNH3000INS BECMG 2318/2319 28012KT 9999 SKC QNH2998INS BECMG 2403/2404 VRB06KT 9999 SKC QNH3003INS TX27/2321Z TN04/2313Z KFKL 230520Z 2306/2406 23005KT P6SM SCT070 FM231400 24015G25KT P6SM SKC FM232200 22010KT P6SM SKC KFLG 230527Z 2306/2406 VRB02KT P6SM SKC FM231800 33009KT P6SM SCT200 FM240100 VRB03KT P6SM SKC KFLL 230852Z 2309/2412 VRB03KT P6SM FEW035 SCT050 FM231600 10010KT P6SM VCSH SCT030 BKN060 FM240200 08006KT P6SM FEW020 SCT050 KFLO 230550Z 2306/2406 30006KT P6SM SCT030 FM231400 35010KT P6SM SKC FM232100 36005KT P6SM SKC FM240100 00000KT P6SM SKC KFMH 230837Z 2309/2406 14005KT 1/4SM FG VV002 FM231100 18007KT 1/2SM -SHRA FG OVC003 FM231400 24009KT 3SM -SHRA BR OVC003 FM231500 26010G18KT P6SM BKN008 FM231600 27010G20KT P6SM BKN040 FM240200 29005KT P6SM SKC KFMN 230532Z 2306/2406 31007KT P6SM SCT250 FM231700 28012KT P6SM SCT250 FM232000 29018G28KT P6SM SCT250 FM240200 29008KT P6SM SCT250 KFMY 230520Z 2306/2406 VRB04KT P6SM FEW020 SCT250 FM231300 04009KT P6SM SCT035 SCT250 FM231800 06009KT P6SM VCSH BKN035 KFNT 230958Z 2310/2406 22010KT P6SM SKC FM231500 25015G25KT P6SM SCT045 FM232200 20013KT P6SM BKN045 KFOD 230913Z 2309/2406 VRB03KT P6SM BKN100 FM231200 08004KT P6SM VCSH BKN060 FM231500 04006KT P6SM -SHRA SCT015 BKN025 FM232100 34008KT P6SM SCT010 OVC015 KFOE 230520Z 2306/2406 21005KT P6SM SCT100 FM230800 21009KT P6SM BKN100 WS012/25055KT FM231500 23014KT P6SM SCT150 KFPR 230549Z 2306/2406 30003KT P6SM FEW250 FM231400 03009KT P6SM SCT035 FM231700 04010KT P6SM VCSH BKN035 FM240100 03008KT P6SM VCSH BKN035 KFRI 230500Z 2305/2411 VRB06KT 9999 BKN070 QNH2990INS BECMG 2307/2308 VRB06KT 9999 BKN050 WS020/24045KT QNH2983INS BECMG 2315/2316 28010G20KT 9999 SCT100 SCT200 QNH2978INS BECMG 2321/2322 32009KT 9999 FEW050 SCT250 QNH2990INS BECMG 2400/2401 VRB06KT 9999 FEW070 QNH3000INS BECMG 2406/2407 36010G15KT 9999 BKN025 QNH3021INS TX17/2320Z TN06/2306Z KFSD 230520Z 2306/2406 VRB02KT P6SM BKN200 FM230900 VRB04KT P6SM VCSH OVC050 FM231300 03007KT 3SM SHRA OVC025 FM231500 01011KT 4SM -SNRA SCT007 OVC010 TEMPO 2315/2317 1SM -SN OVC007 FM232100 35011G17KT 6SM -SHRA OVC030 KFSM 230520Z 2306/2406 07003KT P6SM FEW250 FM231600 20011G17KT P6SM SCT250 FM232300 18006KT P6SM BKN080 FM240400 08004KT P6SM -SHRA OVC080 KFST 230520Z 2306/2406 18010KT P6SM SKC FM231400 15011KT P6SM SKC KFTK 230900Z 2309/2415 VRB06KT 9999 SKC QNH3004INS BECMG 2317/2318 21010G15KT 9999 FEW160 QNH3011INS BECMG 2322/2323 19006KT 9999 FEW150 QNH3011INS TX16/2320Z TN01/2312Z KFTW 230901Z 2309/2406 16010KT P6SM SKC FM231600 18017G27KT P6SM SKC FM240000 18013KT P6SM SCT250 FM240400 16012KT P6SM BKN050 KFTY 230533Z 2306/2406 29005KT P6SM SKC FM230900 32005KT P6SM SKC FM231500 35005KT P6SM SKC FM232300 VRB03KT P6SM SKC KFVE 230535Z 2306/2406 10005KT P6SM OVC080 FM230700 12010G18KT P6SM OVC020 FM231000 11012G22KT 3SM -RA BR OVC015 FM231400 10012G22KT 1SM RA BR OVC006 FM232000 28010G18KT 3SM -RA BR OVC004 FM232200 26005KT P6SM VCSH OVC005 FM240000 27006KT P6SM BKN012 KFWA 230542Z 2306/2406 25013KT P6SM SCT080 FM231500 22013G25KT P6SM SCT250 FM240200 20015KT P6SM SCT150 WS020/21045KT KFXE 230852Z 2309/2406 VRB03KT P6SM FEW035 FM231600 10008KT P6SM VCSH SCT030 BKN060 FM240200 08006KT P6SM FEW020 SCT050 KFYV 230520Z 2306/2406 17003KT P6SM SCT250 FM231500 20015G25KT P6SM SCT250 FM232300 18004KT P6SM BKN100 FM240300 VRB03KT P6SM VCSH SCT050 OVC080 KGBD 230520Z 2306/2406 19008KT P6SM BKN120 FM230800 22011KT P6SM BKN120 WS020/24040KT FM231200 23013KT P6SM BKN120 FM231600 34015G23KT P6SM SCT120 FM240000 36007KT P6SM SCT200 KGCC 230521Z 2306/2406 30015G25KT P6SM -SHRA BKN015 OVC030 FM230900 32015G25KT P6SM BKN040 FM231300 34020G30KT 2SM -SHSN BKN008 OVC015 FM240000 30015KT P6SM BKN030 KGCK 230520Z 2306/2406 22008KT P6SM SKC FM231600 01020G30KT P6SM FEW250 KGCN 230527Z 2306/2406 VRB03KT P6SM SKC FM231800 35008KT P6SM SCT200 FM240100 VRB03KT P6SM SKC KGDV 230532Z 2306/2406 21006KT P6SM -SHRA BKN015 FM230900 32012G22KT P6SM OVC008 TEMPO 2309/2313 4SM -RASN OVC010 FM231300 01009KT P6SM OVC040 TEMPO 2313/2315 -SNRA OVC020 FM240000 30010KT P6SM BKN020 KGEG 230529Z 2306/2406 27007KT P6SM FEW250 FM231700 32007KT P6SM FEW200 FM240200 VRB03KT P6SM FEW200 KGFA 230300Z 2303/2409 27009KT 9999 BKN050 QNH2993INS BECMG 2304/2305 30009KT 9000 -SHRA BKN030 QNH2997INS TEMPO 2308/2310 8000 -RA BKN015 BECMG 2309/2310 32009KT 9000 -SHRA BKN020 QNH3014INS TEMPO 2310/2315 8000 -RASN BKN015 630159 BECMG 2317/2318 29012G18KT 9999 NSW SCT020 BKN050 QNH3031INS BECMG 2322/2323 24009KT 9999 SCT050 QNH3035INS TX08/2303Z TN03/2312Z KGFK 231008Z 2310/2406 32007KT P6SM BKN018 FM231700 33014G22KT P6SM BKN030 FM240100 33012KT P6SM BKN045 KGFL 230946Z 2310/2406 22004KT P6SM SCT004 OVC060 WS020/16035KT TEMPO 2310/2312 BKN004 FM231200 31004KT 5SM BR VCSH OVC025 FM231400 27006KT P6SM SCT025 BKN060 FM231800 26011G18KT P6SM SCT050 FM240000 27004KT P6SM SKC KGGG 230538Z 2306/2406 VRB02KT P6SM SKC FM231600 17008KT P6SM SKC FM240100 15005KT P6SM SKC KGGW 230532Z 2306/2406 08010KT P6SM -SHRA BKN015 FM230900 33012G20KT P6SM OVC015 TEMPO 2309/2312 6SM -RASN FM231200 32009KT P6SM OVC035 TEMPO 2312/2315 6SM -SNRA OVC020 FM231600 VRB06KT P6SM OVC025 KGJT 230521Z 2306/2406 09004KT P6SM FEW250 FM231500 13004KT P6SM FEW250 FM232000 30010G18KT P6SM FEW100 FEW250 FM240200 01008KT P6SM FEW070 SCT200 KGKY 230901Z 2309/2406 16006KT P6SM SKC FM231600 18017G27KT P6SM SKC FM240000 18013KT P6SM SCT250 FM240400 16012KT P6SM BKN050 KGLD 230520Z 2306/2406 26011KT P6SM SCT090 FM231300 32010G16KT P6SM BKN090 WS020/32040KT FM231700 35025G35KT P6SM BKN070 FM240000 02010G18KT P6SM BKN070 KGLH 230520Z 2306/2406 18005KT P6SM SKC KGLS 230520Z 2306/2406 06009KT P6SM SKC FM231300 11012KT P6SM SKC FM240400 13012KT P6SM FEW070 FEW250 KGMU 230532Z 2306/2406 33004KT P6SM SKC FM231400 36005KT P6SM SKC FM232300 03003KT P6SM SKC KGNV 230520Z 2306/2406 32005KT P6SM BKN035 BKN250 FM230800 33003KT P6SM SCT035 BKN250 FM231300 02010KT P6SM BKN250 FM232300 05004KT P6SM BKN250 KGON 230834Z 2309/2406 09008KT 4SM -RA BR OVC003 FM231100 33008KT 5SM BR BKN025 OVC035 FM231400 29012G17KT P6SM SCT025 SCT250 FM231600 28015G23KT P6SM FEW250 FM232100 29010KT P6SM SKC FM240400 30005KT P6SM SKC KGPI 230527Z 2306/2406 36003KT P6SM FEW110 FM232200 29006KT P6SM SKC FM240300 VRB02KT P6SM SKC KGPT 230520Z 2306/2406 VRB04KT P6SM FEW250 FM231100 04006KT P6SM FEW250 FM231600 06008KT P6SM SKC FM231900 08006KT P6SM SKC FM232300 VRB04KT P6SM SKC FM240500 08006KT P6SM FEW150 SCT250 KGRB 230759Z 2308/2406 26014G24KT P6SM SCT025 OVC035 TEMPO 2308/2312 BKN025 FM231600 26012G19KT P6SM BKN035 FM232200 28007KT P6SM BKN040 BKN100 KGRF 230809Z 2308/2411 VRB06KT 9999 BKN020 QNH3041INS TEMPO 2310/2316 4800 BR BKN015 BECMG 2318/2319 03012KT 9999 FEW120 QNH3045INS BECMG 2402/2403 VRB06KT 8000 BR BKN050 QNH3043INS TX14/2322Z TN05/2313Z KGRI 230539Z 2306/2406 24009KT P6SM SCT050 BKN100 WS010/32045KT FM231400 29014G19KT P6SM FEW100 SCT250 FM231900 32020G28KT P6SM SCT250 FM240100 35013KT P6SM FEW050 SCT100 KGRK 230800Z 2308/2414 16006KT 9999 SKC QNH3007INS BECMG 2316/2317 18010G15KT 9999 SKC QNH2994INS TEMPO 2316/2321 18015G25KT 510009 BECMG 2323/2324 19012KT 9999 SCT050 QNH2992INS BECMG 2409/2410 16012KT 9999 BKN030 QNH2996INS TX26/2321Z TN10/2313Z KGRR 230530Z 2306/2406 23013KT P6SM OVC040 FM230900 24015G24KT P6SM BKN040 FM231400 24017G24KT P6SM SCT250 FM232200 24012KT P6SM VCSH OVC050 KGSB 231035Z 2310/2410 33006KT 9999 SKC QNH2998INS WND 02002KT AFT 2402 TX21/2320Z TN09/2404Z KGSO 230520Z 2306/2406 30005KT P6SM FEW250 FM240000 00000KT P6SM SKC KGSP 230532Z 2306/2406 31005KT P6SM SKC FM231500 35005KT P6SM SKC FM232300 05003KT P6SM SKC KGTB 230900Z 2309/2415 21006KT 9999 SCT015 QNH2978INS BECMG 2314/2315 24020G25KT 9999 SCT015 BKN030 620503 QNH2985INS BECMG 2321/2322 21009KT 9999 SCT025 QNH3007INS BECMG 2414/2415 20009KT 9000 -DZ BKN019 QNH3009INS TX11/2318Z TN07/2409Z KGTF 231004Z 2310/2406 31010G20KT 5SM -SN SCT009 BKN015 OVC040 FM231500 32010G18KT P6SM VCSH SCT030 BKN060 FM240300 33009KT P6SM SCT100 KGTR 230520Z 2306/2406 20003KT P6SM SKC KGUC 230521Z 2306/2406 VRB04KT P6SM FEW060 FEW200 FM231900 27009KT P6SM FEW090 FEW200 FM232000 27012G20KT P6SM FEW100 FEW250 FM232300 28010KT P6SM VCSH FEW090 SCT100 FM240200 30005KT P6SM SCT070 BKN100 KGUP 230532Z 2306/2406 VRB06KT P6SM FEW250 FM231800 29007KT P6SM SCT250 FM232100 31013KT P6SM SCT150 SCT250 FM240100 33006KT P6SM SCT150 SCT250 KGUS 230300Z 2303/2409 24009KT 9999 BKN050 QNH2984INS BECMG 2314/2315 21010G15KT 9999 SCT070 QNH2995INS TEMPO 2318/2322 22015G25KT BECMG 2321/2322 22012KT 9999 FEW070 SCT100 QNH2994INS TX16/2321Z TN05/2312Z KGUY 230529Z 2306/2406 21007KT P6SM FEW250 FM231000 25006KT P6SM FEW250 FM240200 04012KT P6SM BKN200 KGWO 230520Z 2306/2406 19004KT P6SM SKC KGYY 230538Z 2306/2406 24010KT P6SM SKC FM231400 22012G17KT P6SM BKN100 FM231800 20010KT P6SM VCSH BKN080 TEMPO 2319/2322 21015G25KT P6SM -SHRA BKN050 OVC080 FM240000 23010KT P6SM BKN050 WS015/22045KT KHBG 230520Z 2306/2406 15004KT P6SM SKC KHCR 230531Z 2306/2406 VRB05KT P6SM SCT070 FM232000 29011KT P6SM SCT070 SCT120 FM240100 VRB04KT P6SM SCT070 SCT120 KHDC 230520Z 2306/2406 00000KT P6SM SKC FM231600 08005KT P6SM SKC FM232100 VRB03KT P6SM SKC KHDN 230521Z 2306/2406 27006KT P6SM BKN060 FM231200 27006KT P6SM VCSH SCT060 BKN070 FM231600 28008KT P6SM VCSH FEW028 SCT070 FM240000 33008KT P6SM SCT045 BKN070 KHIB 230520Z 2306/2406 30011G20KT P6SM VCSH OVC015 FM230900 30010G18KT P6SM OVC011 FM232000 31009KT P6SM OVC015 KHIE 230900Z 2309/2406 13007G15KT 4SM RA OVC015 WS020/16035KT FM231100 VRB04KT 3/4SM RA OVC003 FM231400 VRB04KT 2SM -RA OVC008 FM231600 27006KT P6SM OVC015 FM231700 28007KT P6SM BKN035 FM232100 28009KT P6SM SCT045 KHIF 230501Z 2305/2411 25009KT 9999 SCT080 QNH3022INS BECMG 2307/2308 15009KT 9999 SKC QNH3024INS BECMG 2315/2316 30012KT 9999 SKC QNH3024INS BECMG 2402/2403 06009KT 9999 SKC QNH3027INS TX14/2321Z TN07/2314Z KHIO 230712Z 2307/2406 VRB02KT 1SM BR SCT010 FM230900 00000KT 1/2SM FG OVC004 FM231800 VRB02KT P6SM SCT005 BKN040 FM232200 VRB03KT P6SM SCT250 KHKS 230520Z 2306/2406 18005KT P6SM SKC KHKY 230532Z 2306/2406 29006KT P6SM SKC FM231200 31004KT P6SM SKC FM232200 33003KT P6SM SKC FM240100 00000KT P6SM SKC KHLG 230520Z 2306/2406 24005KT P6SM SCT070 FM231400 24012G22KT P6SM SKC FM232200 24005KT P6SM SKC KHLN 230558Z 2306/2406 30011KT P6SM VCSH SCT040 BKN080 TEMPO 2306/2310 4SM -RA SCT015 BKN030 FM231500 32009KT 4SM -SHSN SCT015 BKN030 FM240100 VRB04KT P6SM FEW025 SCT080 KHMN 230900Z 2309/2415 VRB06KT 9999 SKC QNH3011INS BECMG 2317/2318 32012KT 9999 SKC QNH3007INS BECMG 2400/2401 VRB06KT 9999 SKC QNH2999INS TX23/2322Z TN03/2313Z KHNB 230528Z 2306/2406 22005KT P6SM SKC FM231600 19014G23KT P6SM SCT120 FM240000 18010KT P6SM SCT090 KHND 230535Z 2306/2406 18007KT P6SM SKC FM231900 03009KT P6SM FEW250 FM240300 07005KT P6SM SKC KHOB 230520Z 2306/2406 21005KT P6SM BKN250 KHON 230520Z 2306/2406 VRB03KT P6SM BKN060 FM230900 VRB04KT P6SM -SHRA OVC040 FM231300 03009KT 3SM -SNRA BKN009 OVC015 FM231900 35013KT P6SM VCSH OVC030 FM232300 33006KT P6SM FEW050 KHOP 230800Z 2308/2414 VRB06KT 9999 SKC QNH3008INS TX18/2320Z TN04/2312Z KHOT 230535Z 2306/2406 VRB04KT P6SM SKC FM231500 20008G16KT P6SM FEW250 FM240000 VRB03KT P6SM SCT250 KHOU 230909Z 2309/2406 09006KT P6SM SKC FM231800 13012KT P6SM SKC FM240200 12006KT P6SM SKC KHPN 230834Z 2309/2406 32010KT P6SM BKN030 FM231200 29012G17KT P6SM SCT030 SCT250 FM231500 28015G23KT P6SM FEW250 FM232200 28009KT P6SM FEW250 FM240400 28005KT P6SM FEW250 NOT SKED KHQM 230846Z 2309/2406 00000KT P6SM BKN016 BKN023 FM231300 VRB03KT 4SM BR SCT008 OVC015 FM231900 04007KT P6SM SCT250 FM240000 35006KT P6SM BKN250 KHRL 230520Z 2306/2406 VRB04KT P6SM SKC FM231600 13013KT P6SM SCT040 BKN200 FM240100 12009KT P6SM FEW030 SCT150 KHRO 230535Z 2306/2406 VRB06KT P6SM SKC FM231500 19012G20KT P6SM SCT250 FM240000 18007KT P6SM SCT120 BKN250 KHRT 231000Z 2310/2416 35010G15KT 9999 SCT250 WS010/36045KT QNH3010INS BECMG 2311/2312 36012G22KT 9999 SCT250 QNH3013INS WND 04013KT AFT2315 BECMG 2400/2401 03004KT 9999 SKC QNH3013INS TX22/2320Z TN12/2311Z KHST 230800Z 2308/2414 VRB06KT 9999 SCT010 QNH2995INS BECMG 2318/2319 09012KT 9999 SCT020 BKN040 QNH2994INS BECMG 2406/2407 08009KT 9999 SCT015 BKN025 QNH2999INS TX29/2318Z TN24/2309Z KHSV 230535Z 2306/2406 VRB04KT P6SM SKC KHTS 230855Z 2309/2406 27005KT P6SM FEW080 FM231100 VRB03KT P6SM SKC FM231500 25008KT P6SM SKC FM232300 00000KT P6SM SKC KHUF 230520Z 2306/2406 25005KT P6SM SKC FM230900 21006KT P6SM SKC FM231600 21010G19KT P6SM FEW070 FEW250 FM240000 19013KT P6SM FEW090 FEW250 WS020/21045KT FM240400 21012KT P6SM BKN180 WS020/22050KT KHUL 230535Z 2306/2406 08005KT P6SM OVC080 FM230700 12010G18KT P6SM OVC020 FM231000 10012G22KT 3SM -RA BR OVC015 FM231400 12012G22KT 1SM RA BR OVC008 FM232000 28010G18KT 3SM -RA BR OVC006 FM232200 20008KT P6SM VCSH BKN015 FM240000 28008KT P6SM SCT040 KHUM 230520Z 2306/2406 VRB03KT P6SM SKC FM231100 05005KT P6SM SKC FM231700 07009KT P6SM SKC FM232300 09006KT P6SM SKC FM240200 VRB04KT P6SM SKC KHUT 230520Z 2306/2406 20006KT P6SM BKN150 FM230800 22009KT P6SM BKN150 WS020/23045KT FM231200 22011KT P6SM SCT200 FM231600 27012KT P6SM FEW250 FM231900 35012KT P6SM BKN250 FM240000 02007KT P6SM SCT200 KHVR 231004Z 2310/2406 30009KT P6SM -SHRASN OVC020 FM231500 29018G26KT P6SM SCT025 OVC040 FM240400 25007KT P6SM SCT120 KHYA 230837Z 2309/2406 15004KT 1/2SM FG VCSH VV002 FM231000 17009KT 1/4SM FG OVC003 FM231300 20010G18KT 3/4SM SHRA BR OVC003 FM231500 23013G20KT 4SM BR VCSH OVC003 FM231600 25013G21KT P6SM BKN020 FM231700 27013G22KT P6SM SCT030 FM240100 29009KT P6SM SKC KHYR 230520Z 2306/2406 27008G15KT P6SM VCSH OVC015 FM231100 27008KT P6SM OVC015 FM232100 28006KT P6SM OVC020 KHYS 230520Z 2306/2406 22008KT P6SM SKC FM231600 01015G25KT P6SM FEW250 KIAB 231000Z 2310/2416 20009KT 9999 FEW150 WS020/18050KT QNH2991INS BECMG 2316/2317 26012G18KT 9999 FEW250 510042 QNH2992INS BECMG 2323/2324 VRB06KT 9999 FEW210 QNH2996INS BECMG 2409/2410 02012KT 9999 BKN020 QNH3019INS BECMG 2411/2412 02020G25KT 9000 -SHRA OVC020 QNH3027INS BECMG 2415/2416 02020G30KT 9000 -SHRA OVC020 QNH3038INS TX18/2321Z TN08/2410Z KIAD 230858Z 2309/2412 VRB03KT P6SM FEW250 FM231100 28006KT P6SM FEW250 FM231400 29013G20KT P6SM SKC FM232200 29007KT P6SM SKC FM240000 VRB03KT P6SM SKC KIAG 230855Z 2309/2406 24012G20KT P6SM BKN045 TEMPO 2309/2312 4SM -SHRA OVC025 FM231200 24011G17KT 4SM SHRA OVC025 FM231700 24022G35KT P6SM BKN035 FM232300 24013G20KT P6SM FEW250 FM240400 21010KT P6SM FEW090 KIAH 230909Z 2309/2412 10005KT P6SM SKC FM231600 13011KT P6SM SKC FM240600 11006KT P6SM FEW050 FEW250 KICT 230520Z 2306/2406 20007KT P6SM BKN200 FM230800 21011KT P6SM BKN200 WS020/23045KT FM231300 22008KT P6SM SCT200 FM231600 25009KT P6SM SCT200 FM232000 35010KT P6SM SCT250 FM240000 02007KT P6SM SCT200 KIDA 230520Z 2306/2406 22010KT P6SM BKN050 FM230800 VRB05KT P6SM BKN050 FM231200 VRB03KT P6SM SCT050 SCT180 FM231700 35015KT P6SM FEW050 FEW090 FM240300 01006KT P6SM SKC KIFP 230535Z 2306/2406 VRB04KT P6SM SKC FM231000 01014KT P6SM FEW250 FM231500 35016G26KT P6SM FEW250 FM240300 36012KT P6SM SKC KILG 230526Z 2306/2406 29008KT P6SM BKN070 FM230700 29008KT P6SM SCT070 FM230900 30006KT P6SM SKC FM231500 29012G20KT P6SM FEW050 FM232200 28006KT P6SM SKC FM240200 VRB03KT P6SM SKC KILM 230601Z 2306/2406 31007KT P6SM SCT030 FM231400 34012KT P6SM SKC FM232300 01004KT P6SM SKC KILN 230523Z 2306/2406 25011KT P6SM SCT050 FM230900 23009KT P6SM SKC FM231500 23013G21KT P6SM FEW120 FM240200 19010KT P6SM SCT090 WS020/23040KT KIND 230821Z 2308/2412 22008KT P6SM SKC FM231800 21013G21KT P6SM FEW080 FEW250 FM240000 20012KT P6SM FEW080 FEW250 WS020/21040KT FM240600 21011KT P6SM BKN120 WS020/23045KT FM241000 23007KT P6SM BKN100 KINK 230520Z 2306/2406 16006KT P6SM SKC KINL 230826Z 2308/2406 30010G17KT 4SM -SHRASN OVC012 FM231100 30009G17KT P6SM VCSH OVC010 FM231300 30010G16KT P6SM OVC013 KINS 230500Z 2305/2411 VRB06KT 9999 SKC QNH3000INS BECMG 2321/2322 36010G20KT 9999 SKC QNH2999INS BECMG 2403/2404 VRB06KT 9999 SKC QNH3004INS TX28/2322Z TN06/2312Z KINT 230520Z 2306/2406 30005KT P6SM FEW250 FM240000 00000KT P6SM SKC KINW 230527Z 2306/2406 VRB05KT P6SM FEW200 KIPL 230520Z 2306/2406 27005KT P6SM SKC FM231200 VRB04KT P6SM SKC FM240100 27005KT P6SM SKC KIPT 230952Z 2310/2406 24006KT 6SM BR BKN005 OVC010 FM231200 26006KT P6SM SCT005 FM231500 26012G18KT P6SM SKC KISM 230736Z 2308/2406 32004KT P6SM BKN010 FM230830 36006KT P6SM SCT015 FM231600 03008KT P6SM SCT040 FM240100 04004KT P6SM FEW040 NOT SKED TIL 231100 KISO 230628Z 2306/2406 34007KT P6SM SCT250 TEMPO 2306/2308 5SM BR LTD TO CLD VIS AND WIND KISP 230834Z 2309/2406 29008KT P6SM SCT005 BKN010 FM231100 30010KT P6SM BKN025 OVC035 FM231300 29012G17KT P6SM SCT025 SCT250 FM231600 28015G23KT P6SM FEW250 FM232100 29008KT P6SM SKC FM240400 28005KT P6SM FEW250 KITH 230859Z 2309/2406 27004KT P6SM SCT035 TEMPO 2309/2311 1SM BR FM231600 26012G19KT P6SM SCT045 FM232200 24008KT P6SM SKC FM240200 19006KT P6SM SKC KIWA 230520Z 2306/2406 12005KT P6SM SKC FM231900 27005KT P6SM SKC FM240400 10004KT P6SM SKC LTD TO CLD VIS AND WIND TIL 231200 KIWD 230533Z 2306/2406 27014G23KT 5SM -SHRASN BR OVC009 FM231200 27011G21KT P6SM -SHRASN VCSH OVC010 FM231600 27011G20KT P6SM VCSH OVC012 FM232000 27010G17KT P6SM -SHRASN VCSH OVC016 KIXD 230520Z 2306/2406 20008KT P6SM FEW250 FM230800 19005KT P6SM SCT120 WS020/23045KT FM231300 22012G18KT P6SM SCT200 FM232200 27011G17KT P6SM SCT080 BKN200 FM240000 31006KT P6SM SCT150 KJAC 231003Z 2310/2406 30016G26KT P6SM VCSH SCT030 BKN050 FM231200 30015KT P6SM VCSH SCT030 BKN060 FM240200 32010KT P6SM SCT080 BKN120 LTD TO CLD VIS AND WIND KJAN 230520Z 2306/2406 18005KT P6SM SKC KJAX 230520Z 2306/2406 32007KT P6SM SCT035 BKN250 FM231300 02010KT P6SM BKN250 FM232300 05005KT P6SM BKN250 KJBR 230520Z 2306/2406 28005KT P6SM SKC FM231500 21013G20KT P6SM SKC FM240000 18006KT P6SM SKC KJCT 230531Z 2306/2406 19004KT P6SM SKC FM231500 19015G23KT P6SM SKC FM240000 16009KT P6SM SKC KJER 231007Z 2310/2406 26012KT P6SM SKC FM231600 25015G25KT P6SM SKC FM232000 25020G30KT P6SM SKC FM240300 25008KT P6SM SKC KJFK 230834Z 2309/2412 30010KT P6SM SCT025 BKN045 FM231200 29012G17KT P6SM SCT025 SCT250 FM231500 28015G23KT P6SM FEW250 FM232200 28012KT P6SM FEW250 FM240400 28007KT P6SM FEW250 KJHW 230855Z 2309/2406 24008KT P6SM FEW200 FM231400 23012G19KT P6SM FEW250 FM231600 24015G26KT P6SM FEW250 FM232200 24010G17KT P6SM FEW250 FM232300 22008KT P6SM SKC KJKL 230521Z 2306/2406 24004KT P6SM FEW060 FM230800 25004KT P6SM SKC FM231600 25006G15KT P6SM SKC FM232300 VRB05KT P6SM SKC KJLN 230520Z 2306/2406 20009KT P6SM SKC FM231700 21022G31KT P6SM FEW200 FM240000 21011KT P6SM SCT150 FM240300 19005KT P6SM BKN150 KJMS 230526Z 2306/2406 32007KT P6SM FEW250 FM231100 35005KT P6SM OVC015 FM232100 33011KT P6SM BKN035 FM240100 32005KT P6SM SCT180 KJST 230952Z 2310/2406 27009KT P6SM SKC FM231300 26012G19KT P6SM SKC KJXN 230530Z 2306/2406 24012KT P6SM OVC040 FM231400 23012G22KT P6SM SCT040 FM232300 23012KT P6SM VCSH OVC050 KLAF 230520Z 2306/2406 25010KT P6SM SCT070 FM231600 22010G18KT P6SM FEW070 FEW250 FM240000 20012KT P6SM FEW080 SCT250 WS020/21045KT FM240300 22013G21KT P6SM SCT080 BKN100 WS020/22050KT FM240500 23011KT P6SM BKN080 WS007/22020KT LTD TO CLD VIS AND WIND TIL 231300 KLAL 230520Z 2306/2406 34005KT P6SM FEW020 SCT250 FM231300 04010KT P6SM FEW035 SCT250 NOT SKED TIL 231100 KLAN 230530Z 2306/2406 24012KT P6SM OVC040 FM231400 23012G22KT P6SM SCT040 FM232300 23012KT P6SM VCSH OVC050 KLAR 231011Z 2310/2406 36015G25KT 5SM -SHSN OVC020 TEMPO 2310/2312 2SM -SN BKN007 FM231200 32018G25KT P6SM VCSH SCT050 SCT100 FM240000 34012KT P6SM OVC040 KLAS 230831Z 2309/2412 22006KT P6SM SKC FM231500 VRB04KT P6SM FEW250 FM231900 02010KT P6SM FEW250 FM240300 24005KT P6SM SKC KLAW 230520Z 2306/2406 15006KT P6SM SKC FM231500 18015G24KT P6SM SCT250 FM240300 10011KT P6SM OVC100 KLAX 230916Z 2309/2412 VRB03KT P6SM SKC FM232000 25010KT P6SM SKC FM240400 VRB03KT P6SM SKC KLBB 230542Z 2306/2406 22011KT P6SM SKC FM232000 36011KT P6SM SKC KLBE 230520Z 2306/2406 26005KT P6SM SCT070 FM231400 26015G25KT P6SM SKC FM232300 23005KT P6SM SKC KLBF 230520Z 2306/2406 24010KT P6SM BKN090 BKN110 FM230900 29010KT P6SM SCT120 WS020/30040KT FM231100 30008KT P6SM SCT200 FM231500 30015G23KT P6SM SCT250 FM232300 34017KT P6SM SCT080 FM240300 36006KT P6SM SCT200 KLBL 230520Z 2306/2406 21008KT P6SM SKC FM231600 01015G25KT P6SM FEW250 KLBT 230553Z 2306/2406 31004KT P6SM SCT030 FM231400 35010KT P6SM SKC FM232300 00000KT P6SM SKC NOT SKED KLBX 230520Z 2306/2406 06004KT P6SM SKC FM231400 10007KT P6SM SKC FM231800 13013KT P6SM SKC FM240500 12006KT P6SM FEW070 FEW250 KLCH 230520Z 2306/2406 VRB04KT P6SM SKC FM231400 09006KT P6SM SKC FM240000 VRB05KT P6SM SKC KLCK 230523Z 2306/2406 25006KT P6SM SCT050 FM230900 23008KT P6SM SKC FM231500 25013G21KT P6SM FEW120 FM240200 19010KT P6SM SCT090 WS020/23040KT KLEB 230842Z 2309/2406 VRB04KT 4SM RA OVC010 FM231100 00000KT 2SM BR OVC003 FM231300 VRB03KT P6SM BKN015 FM231600 29006KT P6SM BKN035 KLEE 230549Z 2306/2406 34006KT P6SM SCT010 BKN025 TEMPO 2307/2309 BKN035 FM230900 36006KT P6SM SCT035 FM231400 02009KT P6SM FEW040 FM240100 02005KT P6SM FEW040 KLEX 230528Z 2306/2406 23007KT P6SM SKC FM231700 21010G18KT P6SM SCT250 FM240000 18008KT P6SM FEW120 KLFI 230900Z 2309/2415 30007KT 9999 FEW080 QNH2990INS BECMG 2315/2316 33009KT 9999 SKC QNH3000INS TX21/2320Z TN14/2311Z KLFK 230538Z 2306/2406 VRB02KT P6SM SKC FM231600 15007KT P6SM SKC FM240100 14004KT P6SM SKC KLFT 230520Z 2306/2406 VRB03KT P6SM SKC FM231500 08006KT P6SM SKC FM232300 VRB05KT P6SM SKC KLGA 230834Z 2309/2412 30010KT P6SM SCT030 OVC040 FM231200 29012G17KT P6SM SCT030 SCT250 FM231500 28015G23KT P6SM FEW250 FM232200 27011KT P6SM FEW250 FM240400 28007KT P6SM FEW250 KLGB 230522Z 2306/2406 VRB03KT P6SM SKC FM231900 19007KT P6SM SKC FM232300 29010KT P6SM SKC FM240400 VRB03KT P6SM SKC KLGU 230531Z 2306/2406 32010KT P6SM FEW060 SCT120 FM231900 33012G22KT P6SM SCT150 FM240200 33006KT P6SM SCT150 KLIT 230535Z 2306/2406 VRB04KT P6SM SKC FM231500 21008G16KT P6SM FEW250 FM240000 17005KT P6SM SCT250 KLLQ 230535Z 2306/2406 VRB03KT P6SM SKC FM231500 19008KT P6SM SKC FM240000 16005KT P6SM SKC KLMT 230538Z 2306/2406 34003KT P6SM SKC FM232200 35009KT P6SM SKC FM240300 02003KT P6SM SKC KLND 230526Z 2306/2406 VRB05KT P6SM SCT060 BKN100 FM231500 27006KT P6SM VCSH SCT025 BKN040 FM231900 35015G22KT P6SM VCSH SCT020 BKN035 KLNK 230626Z 2306/2406 22005KT P6SM BKN050 TEMPO 2306/2309 5SM -SHRA FM231600 30012KT P6SM OVC250 FM240100 34008KT P6SM SCT080 KLNS 230952Z 2310/2406 28008KT 5SM BR OVC003 FM231200 29005KT P6SM VCFG SKC FM231500 28012G18KT P6SM SKC KLOZ 230521Z 2306/2406 25005KT P6SM FEW060 FM230800 25003KT P6SM SKC FM231600 23008G15KT P6SM SKC FM232300 VRB05KT P6SM SKC KLRD 230526Z 2306/2406 12010KT P6SM SKC FM231500 15013KT P6SM FEW040 KLRF 230700Z 2307/2413 20006KT 9999 SKC QNH3010INS BECMG 2316/2317 20015G20KT 9999 SKC 510023 QNH3004INS BECMG 2322/2323 18006KT 9999 SCT090 510013 QNH3005INS TX22/2321Z TN06/2312Z KLRU 230523Z 2306/2406 VRB04KT P6SM SKC KLSE 230520Z 2306/2406 26011KT P6SM SCT050 FM231700 VRB04KT P6SM BKN070 FM232000 29005KT P6SM -SHRA SCT030 BKN045 FM232200 31005KT P6SM -SHRA BKN026 FM240200 31006KT P6SM BKN030 KLSF 230900Z 2309/2415 VRB06KT 9999 SKC QNH3011INS TX20/2320Z TN04/2312Z KLSV 230801Z 2308/2413 VRB06KT 9999 SKC QNH3000INS BECMG 2317/2318 03012G18KT 9999 FEW200 QNH2997INS TEMPO 2320/2323 04015G25KT 520009 BECMG 2404/2405 35015G25KT 9999 SKC 520009 QNH3000INS TX29/2321Z TN12/2313Z KLTS 230900Z 2309/2415 16010KT 9999 SKC WS019/22046KT QNH2993INS BECMG 2315/2316 21012G23KT 9999 FEW200 510122 QNH2985INS BECMG 2319/2320 22010G15KT 9999 FEW150 QNH2983INS BECMG 2322/2323 VRB06KT 9999 FEW060 QNH2985INS BECMG 2402/2403 02012G22KT 9999 FEW050 SCT080 510192 QNH2992INS BECMG 2412/2413 02017G27KT 9000 -RA SCT020 BKN028 510122 QNH3002INS BECMG 2413/2414 03020G35KT 8000 RA SCT010 OVC013 510031 520132 QNH3008INS TX26/2320Z TN06/2311Z KLUF 230400Z 2304/2410 VRB06KT 9999 SKC QNH2979INS TX32/2323Z TN12/2314Z KLUK 230523Z 2306/2406 24006KT P6SM FEW060 FM231500 22010G18KT P6SM SKC FM232300 19010KT P6SM SCT120 FM240200 19010KT P6SM SCT090 WS020/23040KT KLVK 230527Z 2306/2406 VRB03KT P6SM SKC FM231700 03007KT P6SM SKC FM232100 02012KT P6SM SKC KLVM 230533Z 2306/2406 25022G34KT P6SM VCSH SCT080 BKN100 FM231000 26016G24KT P6SM VCSH OVC060 FM232000 26016G24KT P6SM BKN080 FM240000 25012KT P6SM SCT100 KLVS 230532Z 2306/2406 25007KT P6SM FEW250 FM230800 33007KT P6SM SCT250 FM231300 14007KT P6SM SCT250 FM232000 14015KT P6SM FEW080 SCT250 FM240300 04010KT P6SM SCT050 KLWB 230538Z 2306/2406 27003KT P6SM FEW070 TEMPO 2309/2312 5SM BR SCT002 FM231400 27008KT P6SM SKC FM232300 VRB03KT P6SM SKC KLWS 230529Z 2306/2406 VRB04KT P6SM FEW250 FM231900 30007KT P6SM FEW250 KLWT 231004Z 2310/2406 30014G24KT 6SM -SN OVC007 FM231800 31015G30KT P6SM SCT025 OVC050 FM240100 27009KT P6SM SCT015 BKN030 KLYH 230538Z 2306/2406 27003KT P6SM SKC TEMPO 2306/2310 1 1/2SM BR SCT002 FM231400 27007KT P6SM SKC FM232300 VRB03KT P6SM SKC KMAF 230520Z 2306/2406 19011KT P6SM SKC FM231400 16011KT P6SM SKC KMBG 230943Z 2310/2406 08008KT P6SM VCSH OVC080 FM231100 01008KT 2SM -SN OVC020 FM231400 36010KT P6SM SCT030 KMBL 230534Z 2306/2406 25012G23KT P6SM VCSH SCT024 OVC040 TEMPO 2306/2310 -SHRA BKN024 OVC040 FM231000 25012G23KT P6SM BKN022 OVC040 FM231300 26016G27KT P6SM OVC022 FM231800 25013G24KT P6SM BKN050 FM232200 23010G20KT P6SM OVC060 FM240100 22008KT P6SM -SHRA OVC030 FM240400 25006KT P6SM -SHRA OVC025 KMBS 230958Z 2310/2406 23007KT P6SM BKN060 FM231400 24015G25KT P6SM SCT045 FM232200 20013KT P6SM BKN045 PROB30 2402/2406 4SM -RA OVC025 KMCB 230520Z 2306/2406 00000KT P6SM SKC FM231600 09005KT P6SM SKC FM232000 VRB03KT P6SM SKC KMCC 230520Z 2306/2406 35003KT P6SM SKC FM231800 34013KT P6SM SKC FM232200 35014G21KT P6SM SKC FM240200 35009KT P6SM SKC KMCE 230520Z 2306/2406 VRB04KT P6SM SKC KMCF 230900Z 2309/2415 36010G18KT 9999 FEW065 QNH3000INS BECMG 2315/2316 03015KT 9999 FEW040 QNH3002INS BECMG 2320/2321 06015KT 9999 FEW030 QNH2999INS BECMG 2403/2404 06009KT 9999 SCT019 QNH3004INS TX31/2321Z TN22/2312Z KMCI 230520Z 2306/2406 21008KT P6SM FEW250 FM230800 20005KT P6SM SCT120 WS020/23045KT FM231300 22013G20KT P6SM SCT200 FM232200 28011G18KT P6SM SCT080 BKN200 FM240000 33008KT P6SM SCT150 KMCK 230520Z 2306/2406 VRB05KT P6SM SCT090 FM231000 29012KT P6SM BKN090 WS020/31040KT FM231500 32025G35KT P6SM BKN060 FM240000 01010G16KT P6SM BKN060 KMCN 230533Z 2306/2406 28006KT P6SM SKC FM231000 33005KT P6SM SKC FM231400 36006KT P6SM SKC FM232000 02005KT P6SM SKC FM240200 00000KT P6SM SKC KMCO 230902Z 2309/2412 35010KT P6SM SCT008 SCT025 TEMPO 2309/2312 BKN025 FM231300 01011KT P6SM SCT030 FM240100 03007KT P6SM FEW040 KMCW 230525Z 2306/2406 25009KT P6SM SCT150 FM231400 35006KT P6SM BKN060 FM231800 33011KT P6SM VCSH OVC011 FM240100 32011KT P6SM SCT006 OVC011 KMDT 230952Z 2310/2406 VRB04KT 6SM BR SCT006 FM231500 29010G18KT P6SM SKC KMDW 230849Z 2309/2412 24011KT P6SM SKC FM231400 22012G17KT P6SM BKN100 FM231800 19010KT P6SM VCSH BKN080 TEMPO 2319/2322 20015G25KT P6SM -SHRA BKN050 OVC080 FM240000 22010KT P6SM BKN050 WS015/22040KT FM240500 33013G19KT P6SM SCT015 BKN025 KMEI 230520Z 2306/2406 18003KT P6SM SKC KMEM 230900Z 2309/2412 22004KT P6SM SKC FM240000 17005KT P6SM SKC KMER 230520Z 2306/2406 VRB04KT P6SM SKC NOT SKED KMFD 230520Z 2306/2406 22011KT P6SM FEW050 FM231400 23015G22KT P6SM FEW090 FM232200 20012KT P6SM FEW090 KMFE 230520Z 2306/2406 VRB04KT P6SM SKC FM231600 13012KT P6SM FEW050 FEW250 FM240000 12010KT P6SM SCT045 BKN100 KMFR 230916Z 2309/2406 VRB03KT P6SM BKN035 FM231700 VRB03KT P6SM SCT035 KMGE 230500Z 2305/2411 28006KT 9999 SCT250 QNH3000INS BECMG 2308/2309 33006KT 9999 SKC QNH3003INS TX18/2321Z TN04/2311Z KMGM 230520Z 2306/2406 VRB03KT P6SM SKC FM231500 03007KT P6SM SKC FM240000 00000KT P6SM SKC KMGW 230520Z 2306/2406 25005KT P6SM SCT070 FM231400 23008G18KT P6SM SKC FM232200 22005KT P6SM SKC KMHK 230520Z 2306/2406 22004KT P6SM BKN100 FM230800 23006KT P6SM BKN120 WS012/23045KT FM231400 26013KT P6SM SCT150 KMHR 230520Z 2306/2406 33003KT P6SM SKC FM232200 33011G17KT P6SM SKC FM240200 34007KT P6SM SKC KMHT 230842Z 2309/2406 VRB04KT 2SM RA BR SCT004 OVC010 TEMPO 2309/2311 BKN003 FM231300 VRB04KT 4SM BR BKN010 FM231500 30006KT P6SM BKN035 FM231600 29007KT P6SM SCT080 FM232100 28008KT P6SM SKC KMIA 230853Z 2309/2412 VRB03KT P6SM FEW025 FM231600 10008KT P6SM VCSH SCT035 BKN070 FM240200 08006KT P6SM SCT030 BKN050 KMIB 230900Z 2309/2415 34009KT 9999 FEW150 QNH2985INS BECMG 2311/2312 32012G18KT 9999 BKN050 QNH2992INS BECMG 2319/2320 32009KT 9999 BKN040 QNH3009INS BECMG 2402/2403 28009KT 9999 SCT040 QNH3022INS BECMG 2411/2412 20006KT 9999 BKN050 QNH3028INS TX08/2322Z TNM04/2312Z KMIV 230526Z 2306/2406 28005KT P6SM SCT015 OVC050 FM230700 27005KT P6SM BKN070 FM230900 30005KT P6SM SKC FM231500 29012G20KT P6SM FEW050 FM232200 28005KT P6SM SKC FM240000 VRB03KT P6SM SKC KMKC 230520Z 2306/2406 22007KT P6SM FEW250 FM230800 20004KT P6SM SCT120 WS020/23045KT FM231300 22012G18KT P6SM SCT200 FM232200 28011G16KT P6SM SCT080 BKN200 FM240000 32006KT P6SM SCT150 KMKE 230832Z 2309/2412 24009G18KT P6SM FEW050 FM232100 24006KT P6SM VCSH OVC070 FM240000 32005KT P6SM OVC050 FM240200 31006KT P6SM BKN030 KMKG 230530Z 2306/2406 24016G28KT P6SM OVC040 FM231400 24016G24KT P6SM SCT250 FM231900 24014G22KT P6SM BKN100 FM232100 24009KT P6SM VCSH OVC040 KMKL 230520Z 2306/2406 21003KT P6SM SKC FM232000 22009KT P6SM SKC KMKT 230812Z 2308/2406 26008KT P6SM FEW100 FM231200 VRB04KT P6SM BKN120 FM231800 34008KT P6SM VCSH OVC050 FM232200 33010KT P6SM OVC023 KMLB 230946Z 2310/2406 35008KT P6SM SCT015 TEMPO 2310/2311 BKN012 FM231400 02013G18KT P6SM SCT040 FM240100 03008KT P6SM VCSH BKN035 KMLC 230520Z 2306/2406 18003KT P6SM SKC FM231400 19012G20KT P6SM SCT250 FM232300 16006KT P6SM BKN080 FM240200 VRB05KT P6SM -SHRA BKN050 OVC080 KMLI 230544Z 2306/2406 23008KT P6SM SKC FM231100 18007KT P6SM OVC100 FM231800 23012KT P6SM BKN050 FM232300 30012KT P6SM BKN100 KMLS 230533Z 2306/2406 27016G24KT P6SM VCSH SCT060 OVC120 FM231200 33014G20KT 5SM -RASN OVC020 FM231600 33012KT P6SM -RASN OVC020 FM240200 33010KT P6SM VCSH OVC050 KMLU 230906Z 2309/2406 00000KT 3SM BR SKC TEMPO 2309/2312 1/4SM FG FM231500 17006KT P6SM SKC FM240100 13003KT P6SM SKC KMMH 230520Z 2306/2406 VRB04KT P6SM SKC FM232000 35009KT P6SM SKC FM240400 VRB04KT P6SM SKC KMMT 230700Z 2307/2413 30006KT 9999 SCT250 QNH3002INS BECMG 2312/2313 36006KT 9999 SCT250 QNH3005INS BECMG 2400/2401 03006KT 9999 SCT250 QNH3009INS TX25/2320Z TN05/2311Z KMOB 230520Z 2306/2406 34004KT P6SM SKC FM231400 05008KT P6SM SKC KMOD 230520Z 2306/2406 VRB05KT P6SM SKC FM232100 32011KT P6SM SKC FM240300 VRB05KT P6SM SKC KMOT 230526Z 2306/2406 33005KT P6SM SCT100 BKN250 FM231100 34005KT P6SM BKN200 FM231600 31010KT P6SM BKN060 FM231800 31012KT P6SM SCT200 KMPV 230842Z 2309/2406 00000KT P6SM -RA OVC050 FM231300 VRB04KT P6SM OVC040 FM231500 31008KT P6SM BKN050 KMQY 230522Z 2306/2406 21004KT P6SM SKC FM231600 20007G14KT P6SM SKC KMRB 230704Z 2307/2406 25004KT P6SM FEW250 FM230900 29006KT P6SM FEW250 FM231300 28012G19KT P6SM FEW250 FM232300 VRB03KT P6SM SKC KMRY 230527Z 2306/2406 12004KT P6SM SKC FM231800 29006KT P6SM SKC FM232100 31007KT P6SM SKC FM240300 13004KT P6SM SKC KMSL 230535Z 2306/2406 VRB03KT P6SM SKC KMSN 230623Z 2306/2406 23012KT P6SM OVC060 FM231200 25010G18KT P6SM BKN100 FM232200 30005KT P6SM VCSH OVC035 FM240000 34004KT P6SM OVC025 KMSO 230527Z 2306/2406 32006KT P6SM SCT150 KMSP 230809Z 2308/2412 26007KT P6SM FEW050 FM231200 27004KT P6SM FEW200 FM231500 30005KT P6SM SCT030 BKN120 FM232000 31009KT P6SM OVC025 KMSS 230531Z 2306/2406 VRB03KT P6SM -RA OVC080 FM230800 VRB04KT P6SM BKN080 FM231000 VRB03KT P6SM SCT080 FM231600 23012KT P6SM SCT080 FM231700 24013G21KT P6SM SCT060 FM232100 23011KT P6SM BKN050 KMSY 230520Z 2306/2412 VRB04KT P6SM FEW250 FM231300 05006KT P6SM SKC FM231600 08007KT P6SM FEW250 FM232300 VRB04KT P6SM SKC FM240700 VRB04KT P6SM SCT140 BKN250 FM241100 07005KT P6SM FEW120 SCT200 KMTC 230900Z 2309/2415 23012KT 9999 FEW030 QNH2978INS BECMG 2312/2313 24015G25KT 9999 SKC 510002 QNH2984INS TEMPO 2315/2319 25025G35KT FEW030 510003 BECMG 2321/2322 19012KT 9999 FEW050 QNH2994INS BECMG 2401/2402 22009KT 9999 BKN030 620608 QNH2998INS BECMG 2408/2409 27010G15KT 9999 BKN015 QNH2999INS TEMPO 2410/2415 29015G25KT 9000 -SHRA OVC015 TX12/2320Z TN06/2312Z LAST NO AMDS AFT 2309 NEXT 2311 KMTH 230908Z 2309/2406 04008KT P6SM SCT020 FM231500 10009KT P6SM SCT025 SCT050 KMTJ 230521Z 2306/2406 14007KT P6SM FEW250 FM231600 VRB03KT P6SM FEW090 FEW250 FM232000 31008KT P6SM FEW100 FEW250 FM240200 30007KT P6SM FEW090 SCT100 FM240500 28005KT P6SM FEW070 SCT100 KMTN 230903Z 2309/2406 25005KT P6SM FEW250 FM231200 27007KT P6SM FEW250 FM231500 28013G20KT P6SM SKC FM232300 VRB03KT P6SM SKC NOT SKED KMTW 230759Z 2308/2406 26015G25KT P6SM SCT028 OVC040 TEMPO 2308/2312 BKN028 FM231600 26012G20KT P6SM BKN035 FM232200 28007KT P6SM VCSH BKN035 OVC060 TEMPO 2323/2403 -SHRA KMUO 231006Z 2310/2416 31012G18KT 9999 FEW090 SCT160 QNH3023INS BECMG 2316/2317 31015G25KT 9999 SCT120 510009 QNH3027INS TEMPO 2320/2324 32020G35KT BECMG 2403/2404 31012KT 9999 FEW150 QNH3037INS BECMG 2408/2409 VRB06KT 9999 SCT120 QNH3041INS TX14/2322Z TN05/2313Z KMVN 230520Z 2306/2406 VRB04KT P6SM SKC FM231600 21011G19KT P6SM SKC FM232300 20014KT P6SM FEW090 SCT250 FM240500 21009KT P6SM SCT090 BKN150 KMWH 230529Z 2306/2406 31007KT P6SM FEW250 FM240100 VRB04KT P6SM FEW250 KMYL 231007Z 2310/2406 VRB03KT P6SM FEW001 FM231800 31007KT P6SM SCT150 KMYR 230558Z 2306/2406 31007KT P6SM SCT030 FM231400 36010G15KT P6SM SKC FM232200 03008KT P6SM SKC FM240200 04004KT P6SM SKC KNBC 2309/2409 32005KT 9999 SKC QNH3002INS BECMG 2318/2320 35008KT 9999 FEW250 QNH3005INS T23/2318Z T16/2409Z KNBG 2307/2407 VRB05KT 9999 FEW250 QNH3009INS BECMG 2316/2318 05010KT 9999 SKC QNH3006INS BECMG 2323/2401 VRB06KT 9999 SKC QNH3006INS AUTOMATED SENSOR METWATCH 2307 TIL 2310 T12/2311Z T24/2320Z FN00220 KNCA 2309/2409 30008KT 9999 SKC 520404 QNH2994INS BECMG 2312/2314 35008G18KT 9999 FEW025 520404 QNH2999INS FM232100 35006KT 9999 SKC 500000 QNH3012INS T24/2319Z T11/2409Z KNEW 230520Z 2306/2406 03010KT P6SM FEW250 FM231400 06009KT P6SM FEW250 FM231700 08008KT P6SM SKC FM240500 08007KT P6SM SCT140 BKN250 KNFG 2309/2409 VRB05KT 9999 SKC QNH2988INS BECMG 2318/2320 20008KT 9999 SKC QNH2980INS BECMG 2323/2401 VRB05KT 9999 SKC QNH2980INS AUTOMATED SENSOR METWATCH 2309 TIL 2314 T08/2313Z T29/2321Z KNFL 2307/2407 VRB06KT 9999 SKC QNH3025INS FM231500 04009KT 9999 FEW100 FEW200 QNH3023INS FM240300 VRB06KT 9999 SKC QNH3027INS AUTOMATED SENSOR METWATCH 2307 TIL 2314 T02/2313Z T21/2323Z FS30153 KNFW 2307/2407 VRB06KT 9999 SKC QNH3003INS BECMG 2315/2317 14018G25KT 9999 FEW070 510007 QNH2990INS BECMG 2400/2402 16012KT 9999 SCT050 50000 QNH2990INS AUTOMATED SENSOR METWATCH 2307 TIL 2311 T10/2312Z T27/2322Z FN00211 KNGP 2309/2407 13010KT 9999 FEW040 QNH3003INS FM231500 14014G20KT 9999 FEW040 QNH2996INS TEMPO 2318/2320 13018G24KT FM232000 13018G26KT 9999 SCT040 510005 QNH2993INS FM232300 13015G21KT 9999 FEW040 510055 QNH2993INS FM240400 15012G18KT 9999 SCT035 510055 QNH2994INS AUTOMATED SENSOR METWATCH 2309 TIL 2311 T22/2313Z T30/2319Z 0905 FN20044 KNGU 2307/2407 30009KT 9999 FEW080 QNH2984INS FM232200 VRB05KT 9999 SKC QNH3013INS T15/2310Z T20/2319Z FN00194 KNHK 2307/2407 30008KT 9999 FEW200 QNH2982INS TEMPO 2307/2312 6000 BR FM231200 31012KT 9999 SKC QNH3000INS BECMG 2321/2323 VRB05KT 9999 SKC QNH3009INS AUTOMATED SENSOR METWATCH 2307 TIL 2308 T12/2312Z T19/2320Z FN00194 KNID 2223/2323 VRB05KT 9999 SKC QNH3002INS BECMG 2302/2304 21009KT 9999 SKC QNH3006INS WND VRB05KT AFT 2308 T08/2314Z T31/2322Z LAST NO AMDS AFT 2305 NEXT 2315 KNIP 2309/2407 36010KT 9999 SCT030 BKN250 510009 QNH2998INS TEMPO 2309/2315 33014G22KT FM231500 03009KT 9999 FEW030 BKN250 500000 QNH3000INS FM232300 03006KT 9999 SCT250 QNH3007INS T17/2311Z T24/2319Z 0905 FN20061 KNJK 2307/2407 27009KT 9999 SKC QNH2990INS FM231800 36007KT 9999 SKC QNH2983INS FM240000 27009KT 9999 SKC QNH2982INS AUTOMATED SENSOR METWATCH 2307 TIL 2313 T14/2313Z T36/2323Z FS30146 KNKT 2309/2409 31008KT 9999 FEW025 520404 QNH2995INS BECMG 2312/2314 34008G18KT 9999 FEW025 520404 QNH3001INS FM232100 35005KT 9999 SKC 500000 QNH3010INS T24/2319Z T11/2409Z 0932 KNKX 2309/2409 VRB06KT 9999 SKC QNH2990INS BECMG 2317/2319 25007KT 9999 SKC QNH2981INS BECMG 2401/2403 VRB05KT 9999 SKC QNH2984INS T15/2313Z T28/2321Z KNLC 2307/2407 VRB06KT 9999 SKC QNH3000INS FM231800 35006KT 9999 SKC QNH2981INS AUTOMATED SENSOR METWATCH 2308 TIL 2315 T09/2313Z T30/2323Z FS30012 KNMM 2307/2407 VRB05KT 9999 SKC 522609 523509 QNH3012INS BECMG 2318/2320 00000KT 9999 SKC 50000 QNH3013INS AUTOMATED SENSOR METWATCH 2307 TIL 2311 T07/2312Z T21/2320Z FN00194 KNPA 2307/2407 33006KT 9999 SKC QNH3007INS FM231200 02008KT 9999 FEW250 QNH3009INS FM231700 04010KT 9999 SCT250 QNH3006INS AUTOMATED SENSOR METWATCH 2307 TIL 2311 T10/2312Z T22/2320Z FN00220 KNQI 2307/2407 VRB06KT 9999 FEW250 QNH3001INS BECMG 2312/2314 10008KT 9999 FEW025 FEW250 QNH3003INS BECMG 2316/2318 12012G18KT 9999 FEW035 SCT250 QNH2991NS FM240200 13012KT 9999 SCT050 SCT250 QNH2994INS AUTOMATIC SENSOR METWATCH 2307 TIL 2312 T16/2311Z T32/2320Z FN00211 KNQX 2307/2407 06009KT 9999 FEW025 FEW250 QNH2995INS BECMG 2310/2312 08015KT 9999 SCT025 SCT250 QNH2995INS T27/2310Z T32/2319Z FN00220 KNRB 2307/2407 32006KT 9999 FEW110 SCT250 QNH2997INS FM230900 34009KT 9999 SKC QNH2998INS FM232000 02010KT FEW030 FEW250 QNH3006INS FM240100 05010KT FEW030 FEW250 QNH3008INS AUTOMATED SENSOR METWATCH 2307 TIL 2309 T17/2310Z T24/2319Z FN00220 KNSE 2307/2407 33007KT 9999 FEW250 QNH3008INS FM231700 03008G15KT 9999 SCT250 QNH3007INS AUTOMATED SENSOR METWATCH 2307 TIL 2311 T08/2312Z T19/2320Z FN00220 KNSI 2307/2407 29010KT 9999 SKC QNH2990INS FM231700 33009KT 9999 SKC QNH2987INS AUTOMATED SENSOR METWATCH 2307 TIL 2314 T19/2313Z T29/2322Z FS30020 KNTD 2307/2407 VRB06KT 9999 SKC QNH2985INS FM232000 24009KT 9999 SKC QNH2982INS FM240300 06009KT 9999 SKC WSCONDS QNH2980INS AUTOMATED SENSOR METWATCH 2306 TIL 2313 T16/2312Z T29/2321Z FS30146 KNTU 2307/2407 33009KT 9999 FEW080 QNH2984INS FM232200 VRB05KT 9999 SKC QNH3013INS T13/2310Z T20/2319Z FN00194 KNUW 2307/2407 VRB06KT 9999 FEW020 BKN035 BKN200 QNH3045INS FM231100 VRB06KT 9999 FEW010 SCT020 BKN035 BKN200 QNH3044INS TEMPO 2311/2317 6000 BR BKN010 OVC020 FM231800 33008KT 9999 FEW025 SCT150 BKN200 QNH3043INS FM240200 VRB06KT 9999 SCT120 BKN200 QNH3042INS T07/2313Z T14/2322Z FS30153 KNXP 2309/2409 30006KT 9999 SKC QNH2997INS AUTOMATED SENSOR METWATCH 2309 TIL 2314 T15/2312Z T32/2322Z KNYG 2309/2409 VRB06KT 9999 BKN008 OVC070 QNH2984INS BECMG 2316/2318 28010G15KT 9999 FEW040 QNH3006INS FM240000 VRB06KT 9999 SKC QNH3015INS T18/2318Z T082409Z KNYL 2309/2409 VRB05KT 9999 SKC QNH2984INS BECMG 2316/2318 36008KT 9999 SKC QNH2974INS AUTOMATED SENSOR METWATCH 2309 TIL 2314 T19/2312Z T34/2321Z KNZY 2307/2407 VRB06KT 9999 SKC QNH2989INS FM231900 26009KT 9999 SKC QNH2984INS FM240200 VRB06KT 9999 SKC QNH2985INS T17/2313Z T32/2321Z FS30146 KOAJ 230848Z 2309/2406 27004KT 2SM BR BKN002 FM230915 33007KT P6SM SCT250 LTD TO CLD VIS AND WIND KOAK 230527Z 2306/2412 VRB04KT P6SM SKC FM231800 29006KT P6SM SKC FM232100 30010KT P6SM SKC FM240300 32006KT P6SM SKC FM240500 02006KT P6SM SKC FM240800 03007G18KT P6SM SKC KOFF 231000Z 2310/2416 VRB06KT 9999 SCT060 OVC080 QNH2982INS TEMPO 2310/2314 -SHRA BECMG 2315/2316 30012G18KT 9999 BKN070 BKN150 QNH2982INS BECMG 2317/2318 30015G20KT 9999 SCT040 QNH2985INS TEMPO 2321/2324 33018G28KT BECMG 2400/2401 36010G15KT 9999 BKN025 OVC040 QNH3010INS TX16/2320Z TN02/2410Z KOFK 230520Z 2306/2406 23005KT P6SM BKN150 FM231500 30012KT P6SM SCT250 FM231700 31014G22KT P6SM SCT250 FM232300 32012KT P6SM SCT050 KOGB 230913Z 2309/2406 VRB03KT P6SM FEW200 FM231400 02007KT P6SM SKC FM232300 VRB03KT P6SM SKC KOGD 230531Z 2306/2406 18007KT P6SM SCT060 SCT120 FM231600 31009KT P6SM FEW070 SCT120 FM231900 31014G22KT P6SM FEW100 SCT120 FM240100 32007KT P6SM SCT100 SCT120 KOKC 230520Z 2306/2406 17009KT P6SM SKC FM231500 19018G27KT P6SM SCT250 FM240300 12011KT P6SM OVC050 KOLF 230532Z 2306/2406 08015KT P6SM -SHRA BKN015 FM230900 04009KT 6SM -SNRA OVC015 FM231100 VRB06KT P6SM OVC035 TEMPO 2311/2315 -SN OVC025 FM232300 30010KT P6SM BKN025 KOLM 230847Z 2309/2406 00000KT P6SM SCT024 OVC040 FM231100 00000KT 1/4SM FG OVC004 FM231800 02004KT 4SM BR SCT005 SCT250 FM231900 02005KT P6SM SCT250 FM240000 VRB02KT P6SM BKN250 KOLS 230520Z 2306/2406 VRB03KT P6SM SKC FM232100 27006KT P6SM FEW250 FM240300 VRB04KT P6SM SKC KOMA 230928Z 2309/2406 18005KT P6SM VCSH OVC050 FM231200 16007KT P6SM BKN070 FM232200 32012KT P6SM SCT090 FM240100 35008KT P6SM SCT050 KONP 230944Z 2310/2406 06004KT 1/2SM FG OVC002 FM231700 06005KT 5SM BR SCT006 BKN020 FM232200 01008KT P6SM SKC KONT 230520Z 2306/2412 VRB05KT P6SM SKC KOPF 230852Z 2309/2406 VRB03KT P6SM BKN030 FM231600 10008KT P6SM VCSH SCT035 BKN070 FM240200 08006KT P6SM SCT030 BKN050 KORD 230849Z 2309/2412 24011KT P6SM SKC FM231400 22012G17KT P6SM BKN100 FM231800 19010KT P6SM VCSH BKN080 TEMPO 2319/2322 20015G25KT P6SM -SHRA BKN050 OVC080 FM240000 22010KT P6SM BKN050 WS015/22040KT FM240400 33013G19KT P6SM SCT015 BKN025 KORF 230713Z 2307/2406 VRB03KT P6SM SCT009 BKN070 FM231500 34008KT P6SM SKC FM240000 00000KT P6SM SKC KORH 230837Z 2309/2406 03004KT 1/2SM -SHRA FG VV003 FM231000 28003KT 1/2SM -SHRA FG OVC003 FM231100 29006KT 3SM BR OVC008 FM231300 30008KT 4SM BR BKN020 FM231400 29012G23KT P6SM BKN040 FM232100 28009KT P6SM SKC KOTH 230727Z 2307/2406 01004KT 1/4SM FG OVC002 FM231500 06004KT 1SM BR OVC002 FM231600 04004KT 4SM BR BKN006 FM231700 02005KT P6SM SKC FM232100 35014G22KT P6SM SKC FM240300 01008KT P6SM SKC KOTM 230525Z 2306/2406 18005KT P6SM SCT150 FM232100 25010G18KT P6SM SCT050 SCT150 FM240000 34010KT P6SM SCT015 BKN025 KOUN 230520Z 2306/2406 17009KT P6SM SKC FM231500 18017G26KT P6SM SCT250 FM240300 12011KT P6SM OVC050 KOWB 230520Z 2306/2406 25006KT P6SM SKC FM231900 21014G23KT P6SM FEW100 FM240200 19008KT P6SM FEW090 FM240500 19007KT P6SM FEW100 KOXR 230522Z 2306/2406 05006KT P6SM SKC FM232000 27009KT P6SM SKC FM240300 VRB03KT P6SM SKC KOZR 230800Z 2308/2414 34009KT 9999 FEW250 QNH3011INS BECMG 2317/2318 03010G15KT 9999 SKC QNH3015INS BECMG 2402/2403 VRB06KT 9999 SKC QNH3017INS TX19/2320Z TN10/2312Z KPAE 230903Z 2309/2406 01003KT P6SM SKC FM231300 01003KT 1/2SM FG OVC002 FM231800 36004KT P6SM SCT250 KPAH 230520Z 2306/2406 25005KT P6SM SKC FM230900 22005KT P6SM SKC FM231700 21010G18KT P6SM SKC FM232200 20012KT P6SM SKC KPAM 231000Z 2310/2416 36012KT 9999 FEW250 QNH3009INS BECMG 2314/2315 04009KT 9999 SKC QNH3006INS TX23/2320Z TN13/2409Z KPBF 230535Z 2306/2406 VRB03KT P6SM SKC FM231500 19008KT P6SM SKC FM240000 16005KT P6SM SKC KPBG 230842Z 2309/2406 VRB04KT P6SM VCSH OVC070 FM231100 VRB03KT P6SM BKN060 FM231800 23011KT P6SM SCT060 KPBI 230852Z 2309/2406 VRB03KT P6SM VCSH FEW030 SCT050 FM231600 10008KT P6SM VCSH SCT030 BKN070 FM240200 08006KT P6SM VCSH SCT030 BKN045 KPDK 230533Z 2306/2406 30006KT P6SM SKC FM230900 32006KT P6SM SKC FM231500 34005KT P6SM SKC FM232300 VRB03KT P6SM SKC KPDT 230520Z 2306/2406 24010KT P6SM SCT250 FM230900 14005KT P6SM SCT250 FM231800 29005KT P6SM SCT250 FM240300 07004KT P6SM SCT250 KPDX 230857Z 2309/2406 31004KT P6SM SCT250 FM231100 VRB03KT 5SM BR OVC015 FM231700 VRB03KT P6SM SCT015 FM231800 VRB03KT P6SM SCT025 KPEQ 230520Z 2306/2406 29004KT P6SM SKC KPGA 230527Z 2306/2406 VRB05KT P6SM SKC KPGD 230859Z 2309/2406 02006KT 6SM BR SCT015 FM231300 05009KT P6SM SCT035 SCT250 FM240100 07008KT P6SM SCT040 SCT250 KPGV 230526Z 2306/2406 35006KT P6SM SCT250 TEMPO 2306/2308 3SM BR LTD TO CLD VIS AND WIND KPHF 230849Z 2309/2406 30005KT P6SM BKN005 FM231100 32008KT P6SM SKC FM240000 00000KT P6SM SKC KPHL 230909Z 2309/2412 27008KT P6SM FEW070 FM231200 29010KT P6SM SCT250 FM231500 29013G23KT P6SM FEW050 FM232200 28008KT P6SM SKC FM240400 VRB03KT P6SM SKC KPHX 230845Z 2309/2412 10005KT P6SM SKC FM232100 27005KT P6SM SKC FM240700 09005KT P6SM SKC KPIA 230525Z 2306/2406 23007KT P6SM SKC FM231400 19009KT P6SM BKN120 FM231700 19012G22KT P6SM BKN120 FM240000 23010KT P6SM BKN120 KPIB 230520Z 2306/2406 15004KT P6SM SKC KPIE 230520Z 2306/2406 36008KT P6SM FEW020 SCT250 FM231300 04008KT P6SM FEW035 SCT250 FM240200 06009KT P6SM SCT040 SCT250 KPIH 230520Z 2306/2406 23015KT P6SM FEW040 SCT200 FM230900 20006KT P6SM SCT030 SCT180 FM231500 VRB05KT P6SM SCT008 BKN040 FM231800 35015KT P6SM SCT040 FM240400 04008KT P6SM SCT070 KPIR 230524Z 2306/2406 VRB03KT P6SM VCSH OVC080 FM231300 10008KT 3SM -RASN OVC012 FM231600 36010KT P6SM SCT030 KPIT 230854Z 2309/2412 23005KT P6SM SKC FM231400 25015G25KT P6SM SKC FM232200 22005KT P6SM SKC FM240600 20005KT P6SM SKC WS015/23040KT KPKB 230855Z 2309/2406 26004KT P6SM FEW080 FM231200 23004KT P6SM SKC FM231600 26008G18KT P6SM SKC FM232200 22004KT P6SM SKC KPLN 230859Z 2309/2406 22009G17KT P6SM -SHRA SCT015 BKN025 OVC050 TEMPO 2309/2313 BKN015 OVC025 FM231300 24013G21KT P6SM -SHRA OVC020 FM240000 25009KT P6SM -SHRA OVC030 FM240400 28007KT P6SM OVC028 KPMD 230522Z 2306/2406 27008KT P6SM SKC FM231000 VRB04KT P6SM SKC FM231800 05010KT P6SM SKC FM240300 VRB03KT P6SM SKC KPNA 230526Z 2306/2406 31011KT P6SM SCT050 BKN080 FM231900 31016G26KT P6SM SCT035 BKN060 FM240200 30008KT P6SM BKN100 LTD TO CLD VIS AND WIND KPNC 230520Z 2306/2406 18007KT P6SM SKC FM231400 19013KT P6SM SCT250 FM232300 36007KT P6SM BKN250 FM240300 03012KT P6SM OVC050 KPNE 230526Z 2306/2406 29008KT P6SM SCT020 BKN070 FM230800 29010KT P6SM BKN250 FM231500 29012G22KT P6SM FEW050 FM232200 28008KT P6SM SKC FM240200 VRB03KT P6SM SKC KPNS 230520Z 2306/2406 35007KT P6SM SKC FM231400 04008KT P6SM SKC KPOB 230900Z 2309/2415 33006KT 9999 SKC QNH2995INS BECMG 2314/2315 35012KT 9999 SKC QNH3011INS BECMG 2323/2324 03006KT 9999 SKC QNH3017INS TX22/2317Z TN08/2311Z KPOE 230800Z 2308/2414 VRB06KT 9999 SKC QNH3012INS BECMG 2317/2318 15010G15KT 9999 SKC QNH3007INS BECMG 2322/2323 VRB06KT 9999 SKC QNH3002INS TX24/2321Z TN07/2313Z KPOU 231027Z 2310/2406 VRB03KT P6SM SCT001 OVC009 TEMPO 2311/2313 1/2SM FG BKN001 FM231300 32005KT P6SM OVC015 FM231500 28011G18KT P6SM SCT015 BKN040 FM231800 29012G20KT P6SM SCT250 FM240000 VRB03KT P6SM SKC KPQI 231020Z 2310/2406 11008G15KT 6SM -RA OVC050 FM231130 12012G22KT 3SM -RA BR OVC015 FM231400 10012G22KT 1SM RA BR OVC008 FM232000 28010G18KT 3SM -RA BR OVC006 FM232200 24005KT P6SM VCSH BKN010 FM240000 28007KT P6SM BKN035 KPRB 230522Z 2306/2406 VRB03KT P6SM SKC FM232300 06008KT P6SM SKC KPRC 230527Z 2306/2406 20006KT P6SM SKC FM231900 34009KT P6SM SCT200 FM240100 27009KT P6SM SKC KPSC 230520Z 2306/2406 33012KT P6SM FEW200 FM231000 VRB04KT P6SM SCT250 KPSF 230727Z 2307/2406 VRB03KT 6SM -RA BR OVC020 WS020/15040KT TEMPO 2307/2309 2SM -RA BR BKN008 FM231100 29006KT 4SM BR VCSH OVC012 FM231400 28012G20KT P6SM SCT012 BKN035 FM231800 28013G22KT P6SM SCT045 FM232200 27008KT P6SM FEW050 KPSM 230842Z 2309/2406 03006KT 1SM RA OVC003 FM231100 VRB04KT 1/2SM RA FG OVC003 FM231300 29006KT P6SM OVC015 FM231600 29008KT P6SM SCT045 FM232100 28010KT P6SM SKC KPSP 230520Z 2306/2406 VRB04KT P6SM SKC KPTK 230959Z 2310/2406 23010KT P6SM SKC FM231400 25015G25KT P6SM SCT045 FM232200 21013KT P6SM SCT045 KPUB 230522Z 2306/2406 VRB06KT P6SM SKC FM231700 10006KT P6SM SCT250 FM232000 10012KT P6SM BKN250 FM232200 10012G22KT P6SM SCT100 BKN250 FM232300 06020G30KT P6SM VCSH SCT030 OVC050 TEMPO 2323/2401 5SM -SHRA BKN030 FM240100 06020G30KT 5SM -RA OVC025 FM240300 05015G28KT 1SM -SN OVC010 KPUW 230529Z 2306/2406 29006KT P6SM FEW250 FM240100 VRB03KT P6SM FEW250 KPVD 230837Z 2309/2406 00000KT 1/2SM -SHRA FG OVC003 FM231000 19005KT 1SM SHRA BR OVC003 FM231100 22005KT 1 1/2SM SHRA BR OVC008 FM231200 25006KT 2SM BR VCSH OVC008 FM231300 29009KT P6SM BKN025 FM231500 30011G21KT P6SM SCT070 KPVU 230531Z 2306/2406 VRB05KT P6SM BKN090 FM231800 32012G22KT P6SM SCT070 SCT120 FM240400 32010KT P6SM SCT070 SCT120 KPVW 230542Z 2306/2406 22011KT P6SM SKC FM231900 36011KT P6SM SKC KPWM 230842Z 2309/2406 03008KT 3SM RA BR SCT003 BKN015 TEMPO 2309/2311 BKN003 FM231200 VRB04KT 1SM -RA BR OVC003 FM231500 27006KT P6SM OVC010 FM231700 28008KT P6SM BKN035 FM231900 28008KT P6SM SCT250 KPWT 230902Z 2309/2406 00000KT 2SM BR SKC FM231100 00000KT 1/2SM FG OVC004 FM231900 03004KT P6SM SCT004 SCT250 FM232100 03005KT P6SM SCT250 KQD3 230415Z 2304/2410 VRB06KT 9999 SKC QNH2986INS BECMG 2308/2309 06012G18KT 9999 SKC QNH2975INS BECMG 2313/2314 VRB06KT 9999 SKC QNH2983INS BECMG 2408/2409 06012G18KT 9999 SKC QNH2986INS TX33/2311Z TN24/2404Z KQN3 230856Z 2309/2415 VRB06KT 9999 FEW200 QNH2975INS BECMG 2312/2313 10012KT 9999 FEW080 QNH2970INS BECMG 2317/2318 VRB06KT 9999 SKC QNH2972INS TEMPO 2317/2320 8000 HZ TEMPO 2406/2409 8000 HZ BECMG 2411/2412 09010G15KT 9999 HZ SKC QNH2975INS TX40/2315Z TN26/2405Z KQRH 230300Z 2303/2409 VRB06KT 9999 FEW020 QNH2983INS BECMG 2306/2307 08009KT 9999 SKC QNH2976INS BECMG 2309/2310 09010G15KT 9999 SKC QNH2974INS BECMG 2315/2316 VRB06KT 9999 SKC QNH2984INS TX35/2310Z TN21/2303Z KRAP 230521Z 2306/2406 34015KT P6SM BKN050 BKN100 FM230800 32020G30KT P6SM BKN040 FM231400 34032G45KT P6SM -SHRASN BKN025 BKN040 FM232100 34015G25KT P6SM BKN060 KRBG 230728Z 2307/2406 00000KT P6SM BKN008 OVC025 FM230900 00000KT 4SM BR OVC006 FM231200 00000KT 1SM BR OVC003 FM231800 35003KT P6SM SKC KRBL 230520Z 2306/2406 34012KT P6SM SKC FM231600 35017G23KT P6SM SKC FM231800 35023G31KT P6SM SKC FM240300 35018G24KT P6SM SKC KRCA 231014Z 2310/2409 32012KT 9999 SCT050 QNH2981INS BECMG 2311/2312 31025G35KT 8000 -RA BKN020 620409 520004 QNH2990INS BECMG 2319/2320 31015G25KT 9000 -SHRA BKN040 610407 510003 QNH3002INS BECMG 2404/2405 34009KT 9999 NSW BKN040 620407 QNH3017INS TX05/2321Z TN02/2403Z KRDD 230520Z 2306/2406 35010KT P6SM SKC FM231500 36017G23KT P6SM SKC FM231800 01024G32KT P6SM SKC FM240300 36016G23KT P6SM SKC KRDG 230717Z 2307/2406 28003KT 6SM BR SCT002 TEMPO 2307/2309 3SM BR BKN002 FM230900 30005KT P6SM SKC FM231400 29012G20KT P6SM FEW045 FM232200 27008KT P6SM SKC FM240000 VRB03KT P6SM SKC KRDM 230520Z 2306/2406 VRB04KT P6SM SCT200 FM230800 VRB03KT P6SM SCT250 FM232100 34008KT P6SM SCT250 FM240200 VRB03KT P6SM SCT250 KRDR 231045Z 2310/2416 33009KT 9999 OVC019 620204 QNH2979INS TEMPO 2311/2315 OVC020 BECMG 2316/2317 33015G22KT 9999 BKN025 620254 510002 QNH2991INS BECMG 2401/2402 31009KT 9999 BKN030 620303 QNH3003INS BECMG 2408/2409 29007KT 9999 SCT030 QNH3026INS TX03/2321Z TN00/2410Z KRDU 230520Z 2306/2406 32004KT P6SM FEW070 SCT250 FM231400 31008G16KT P6SM FEW250 FM232200 31003KT P6SM FEW250 KRFD 230527Z 2306/2406 24011KT P6SM SKC FM231400 21008KT P6SM BKN100 FM231800 17009KT P6SM VCSH OVC070 TEMPO 2318/2322 19012G19KT P6SM -SHRA BKN050 OVC070 FM232300 VRB06KT P6SM BKN050 FM240200 33012KT P6SM SCT015 BKN025 KRHI 230520Z 2306/2406 27011G19KT P6SM OVC015 TEMPO 2306/2308 6SM -SHRA BKN009 FM231700 27010G16KT P6SM OVC022 FM232200 28006KT P6SM BKN025 KRIC 230829Z 2308/2406 32005KT 3SM BR OVC003 FM231000 30005KT P6SM SCT006 FM231500 30007KT P6SM SKC KRIL 230521Z 2306/2406 VRB03KT P6SM BKN070 FM230800 VRB03KT P6SM SCT070 FM231800 28005KT P6SM FEW070 SCT250 FM232000 30008KT P6SM FEW070 SCT100 FM240000 33008KT P6SM VCSH SCT045 BKN080 KRIV 230400Z 2304/2410 VRB04KT 9999 SKC QNH3000INS BECMG 2316/2317 05009KT 9999 SKC QNH2989INS BECMG 2320/2321 32009KT 9999 SKC QNH2985INS BECMG 2403/2404 VRB05KT 9999 SKC QNH2991INS TX33/2322Z TN08/2313Z KRIW 230813Z 2308/2406 VRB06KT P6SM SCT060 BKN100 FM231200 33010G18KT P6SM VCSH SCT030 BKN050 FM232000 01014G22KT P6SM VCSH SCT020 BKN035 FM240300 03008KT P6SM BKN070 KRKD 230842Z 2309/2406 12022G34KT 1SM RA OVC003 WS020/14045KT FM231300 15015G28KT 1/2SM RA OVC003 FM231700 23009KT P6SM BKN020 FM231900 25008KT P6SM SCT045 KRKS 230526Z 2306/2406 26022G30KT P6SM SCT040 BKN150 FM231400 29015G25KT P6SM SCT040 BKN060 FM240200 05011G18KT P6SM SCT020 BKN035 KRME 230859Z 2309/2406 26004KT P6SM FEW002 BKN050 TEMPO 2309/2311 1SM BR BKN002 FM231600 26010G17KT P6SM BKN040 FM232300 24005KT P6SM SKC KRND 230900Z 2309/2415 VRB06KT 9999 SKC QNH3008INS BECMG 2314/2315 19010G15KT 9999 FEW050 QNH2994INS TEMPO 2315/2321 19015G25KT 510009 BECMG 2323/2324 18012KT 9999 SCT050 QNH2992INS BECMG 2414/2415 16012KT 9999 BKN030 QNH2996INS TX28/2321Z TN11/2313Z KRNH 230857Z 2309/2406 28010KT P6SM BKN025 FM231200 27008KT P6SM BKN045 FM231900 31006KT P6SM OVC030 KRNO 230520Z 2306/2406 VRB04KT P6SM FEW200 FM232000 07011KT P6SM FEW200 FM240300 VRB04KT P6SM SKC KROA 230538Z 2306/2406 29006KT P6SM SKC FM231300 29010G17KT P6SM SKC FM232200 29004KT P6SM SKC KROC 230855Z 2309/2406 23006KT P6SM BKN070 FM231500 23012G19KT P6SM BKN025 FM231700 24018G27KT P6SM BKN035 FM232300 23012KT P6SM SCT250 FM240500 20008KT P6SM FEW250 WS020/25040KT KROG 230520Z 2306/2406 17004KT P6SM SCT250 FM231500 20015G25KT P6SM SCT250 FM232300 20008KT P6SM BKN100 FM240200 VRB03KT P6SM VCSH SCT050 OVC080 KROW 230532Z 2306/2406 22007KT P6SM SKC FM231200 26007KT P6SM SKC FM231800 01007KT P6SM SKC FM232200 08007KT P6SM SKC FM240400 01012KT P6SM SCT050 KRSL 230520Z 2306/2406 19007KT P6SM BKN120 FM230800 22011KT P6SM BKN120 WS020/24040KT FM231200 23013KT P6SM BKN120 FM231500 34015G23KT P6SM SCT120 FM240000 36007KT P6SM SCT200 KRST 230520Z 2306/2406 28013KT P6SM SCT250 FM231300 VRB04KT P6SM BKN080 FM231900 32007KT P6SM -SHRA BKN040 FM232100 33010KT P6SM -SHRA BKN024 FM240100 32008KT P6SM BKN020 KRSW 230520Z 2306/2406 VRB04KT P6SM FEW020 SCT250 FM231300 05009KT P6SM SCT035 SCT250 FM231800 06009KT P6SM VCSH BKN035 KRUT 230841Z 2309/2406 00000KT P6SM -RA SCT005 OVC013 FM231100 VRB04KT P6SM OVC027 FM231300 27005KT P6SM BKN040 FM240300 24005KT P6SM FEW200 KRVS 230520Z 2306/2406 00000KT P6SM FEW250 FM231500 20012G20KT P6SM SCT250 FM232200 19009KT P6SM SCT250 FM240000 36004KT P6SM BKN100 BKN200 KRWF 230811Z 2308/2406 27007KT P6SM FEW100 FM231100 30004KT P6SM BKN080 FM231900 35008KT P6SM OVC045 FM232000 33009KT P6SM OVC026 KRWI 230658Z 2307/2406 29006KT P6SM SCT050 SCT250 FM231400 33009G18KT P6SM FEW250 FM232200 34004KT P6SM SKC KRWL 230526Z 2306/2406 25022G30KT P6SM SCT050 SCT150 FM231300 27015G22KT P6SM BKN080 FM232200 32013KT P6SM OVC090 KRYY 230533Z 2306/2406 26003KT P6SM SKC FM231300 VRB03KT P6SM SKC FM231600 33005KT P6SM SKC FM232300 VRB03KT P6SM SKC KSAC 230520Z 2306/2406 33003KT P6SM SKC FM231800 33010KT P6SM SKC FM232200 34014G20KT P6SM SKC FM240200 34006KT P6SM SKC KSAF 230532Z 2306/2406 34007KT P6SM FEW250 FM231100 36012KT P6SM SCT250 FM231700 30010KT P6SM SCT250 FM232100 28012KT P6SM SCT250 FM240500 14013KT P6SM SCT050 KSAN 230857Z 2309/2412 VRB03KT P6SM SKC FM231900 28009KT P6SM SKC FM240200 VRB03KT P6SM SCT015 KSAT 230520Z 2306/2412 18004KT P6SM SKC FM231600 16014KT P6SM FEW050 FM240900 16010KT P6SM BKN020 KSAV 230520Z 2306/2406 31004KT P6SM FEW250 FM231500 36008KT P6SM SKC FM240100 VRB03KT P6SM FEW250 KSAW 230533Z 2306/2406 24010G17KT P6SM VCSH OVC015 FM230800 25011KT P6SM OVC015 FM231400 26010G20KT P6SM OVC018 FM232200 26009KT P6SM BKN026 KSBA 230522Z 2306/2406 VRB03KT P6SM SKC FM231600 16007KT P6SM SKC FM232000 23007KT P6SM SKC FM240200 VRB03KT P6SM SKC KSBD 230520Z 2306/2406 VRB05KT P6SM SKC KSBN 230542Z 2306/2406 24013KT P6SM SCT060 FM231900 23014G24KT P6SM BKN100 FM240100 21014KT P6SM BKN100 WS020/21045KT KSBP 230522Z 2306/2406 VRB03KT P6SM SKC FM232000 32012KT P6SM SKC FM240300 VRB03KT P6SM SKC KSBY 230830Z 2309/2406 VRB03KT P6SM SKC FM231500 32009KT P6SM SKC KSCK 230520Z 2306/2406 VRB05KT P6SM SKC FM232100 33014KT P6SM SKC FM240300 28007KT P6SM SKC KSDF 230528Z 2306/2412 23007KT P6SM SKC FM231600 20012G20KT P6SM SCT250 FM240000 18009KT P6SM SCT100 KSDL 230520Z 2306/2406 VRB03KT P6SM SKC FM232000 21004KT P6SM SKC FM240300 VRB03KT P6SM SKC KSDY 230532Z 2306/2406 16006KT P6SM -RA BKN025 FM230900 05007KT 6SM -SNRA OVC015 TEMPO 2312/2314 4SM -SN OVC010 FM231400 36007KT P6SM BKN050 TEMPO 2314/2315 -SN OVC100 KSEA 230901Z 2309/2412 05005KT P6SM FEW027 FM231100 05003KT P6SM SCT005 OVC012 FM231900 04005KT P6SM OVC250 FM240300 VRB03KT P6SM SCT250 KSEZ 230527Z 2306/2406 05011G16KT P6SM SKC TEMPO 2310/2314 5SM FU FM231430 VRB05KT P6SM FEW200 FM240200 07010KT P6SM SKC KSFB 230736Z 2308/2406 36010KT P6SM FEW008 BKN015 FM230830 35008KT P6SM BKN025 FM231300 01010KT P6SM SCT040 FM240100 02005KT P6SM FEW040 KSFF 230529Z 2306/2406 VRB04KT P6SM FEW250 KSFO 230911Z 2309/2412 29004KT P6SM SKC FM231600 03005KT P6SM SKC FM232200 30013KT P6SM SKC FM240300 30008KT P6SM SKC FM240800 03010KT P6SM SKC KSGF 230520Z 2306/2406 19008KT P6SM SKC FM231700 20019G30KT P6SM SKC FM240000 21012KT P6SM FEW250 FM240300 19006KT P6SM BKN150 KSGJ 230915Z 2309/2406 34010KT P6SM BKN040 BKN250 FM231400 02013G18KT P6SM BKN250 FM232300 04008KT P6SM SCT035 BKN250 KSGR 230520Z 2306/2406 10003KT P6SM SKC FM231600 12008KT P6SM SKC FM231900 14012KT P6SM SKC FM240100 12008KT P6SM SKC KSGU 230531Z 2306/2406 VRB05KT P6SM SKC FM232000 33007KT P6SM SKC FM240400 VRB04KT P6SM SKC KSHR 230533Z 2306/2406 32016G28KT P6SM VCSH SCT025 OVC060 FM230800 31016G26KT P6SM OVC060 FM231400 31018G28KT 5SM -RASN OVC015 FM232000 31018G28KT P6SM VCSH OVC040 FM240000 32012KT P6SM SCT060 BKN120 KSHV 230538Z 2306/2406 VRB02KT P6SM SKC FM231600 17008KT P6SM SKC FM240100 15004KT P6SM SKC KSJC 230527Z 2306/2406 VRB04KT P6SM SKC FM232000 31008KT P6SM SKC FM240300 VRB04KT P6SM SKC KSJS 230521Z 2306/2406 26005KT P6SM FEW060 FM230800 24003KT P6SM SKC FM231600 25006G15KT P6SM SKC FM232300 VRB05KT P6SM SKC KSJT 230531Z 2306/2406 18011KT P6SM SKC FM231500 19020G28KT P6SM SKC FM240000 17010KT P6SM SKC KSKA 230300Z 2303/2409 28012KT 9999 FEW075 SCT180 QNH3017INS BECMG 2400/2401 33009KT 9999 FEW200 QNH3041INS TX10/2321Z TN04/2312Z KSKF 231000Z 2310/2416 VRB06KT 9999 SKC QNH3000INS BECMG 2314/2315 16012G18KT 9999 FEW050 QNH2992INS TEMPO 2315/2321 16015G25KT BECMG 2400/2401 15010KT 9999 FEW025 QNH2990INS BECMG 2408/2409 15007KT 9999 BKN020 QNH2996INS TX29/2321Z TN12/2312Z KSLC 230914Z 2309/2412 18004KT P6SM SCT080 SCT120 FM231600 32006KT P6SM SCT100 SCT120 FM232000 32012G22KT P6SM SCT100 SCT120 FM240100 33005KT P6SM SCT120 FM241000 15004KT P6SM SKC KSLE 230530Z 2306/2406 33005KT P6SM SCT045 FM230800 VRB03KT 6SM BR VCFG SCT005 OVC025 FM231200 VRB02KT 3SM BR BKN015 FM231700 36003KT 5SM BR BKN025 FM232000 VRB03KT P6SM SCT025 KSLI 230500Z 2305/2411 VRB06KT 9999 SKC QNH2980INS TX36/2323Z TN13/2313Z KSLK 230953Z 2310/2406 VRB03KT P6SM FEW100 TEMPO 2310/2312 1/2SM FG VV001 FM231200 00000KT P6SM SCT080 FM231800 24013G21KT P6SM SCT050 FM240000 24008KT P6SM BKN050 FM240300 24006KT P6SM BKN070 WS020/26035KT KSLN 230520Z 2306/2406 19006KT P6SM BKN120 FM230800 22008KT P6SM BKN120 WS020/23045KT FM231200 22013KT P6SM SCT120 FM231500 26013KT P6SM SCT200 FM231700 34015G24KT P6SM SCT250 FM240000 36007KT P6SM SCT200 KSME 230521Z 2306/2406 24005KT P6SM FEW060 FM230800 25003KT P6SM SKC FM231600 23008G15KT P6SM SKC FM232300 VRB05KT P6SM SKC KSMF 230520Z 2306/2406 32003KT P6SM SKC FM231800 34013KT P6SM SKC FM232200 35017G24KT P6SM SKC FM240200 35011KT P6SM SKC KSMN 230527Z 2306/2406 01012KT P6SM VCSH OVC090 FM230800 VRB05KT P6SM BKN100 FM231700 34008KT P6SM SCT250 FM240300 VRB03KT P6SM SCT250 KSMO 230522Z 2306/2406 VRB03KT P6SM SKC FM232000 23008KT P6SM SKC FM240300 VRB03KT P6SM SKC KSMX 230522Z 2306/2406 VRB03KT P6SM SKC FM232100 30012KT P6SM SKC FM240300 VRB03KT P6SM SKC KSNA 230520Z 2306/2406 VRB05KT P6SM SKC KSNS 230527Z 2306/2406 VRB04KT P6SM SKC FM230800 12005KT P6SM SKC FM231900 28006KT P6SM SKC FM232100 30012KT P6SM SKC FM240200 33004KT P6SM SKC KSNY 230526Z 2306/2406 29015KT P6SM SCT080 FM230900 31015G25KT P6SM VCSH BKN060 FM231500 33028G40KT P6SM FEW250 FM240000 36010G18KT P6SM SKC KSOA 230531Z 2306/2406 20007KT P6SM SKC FM231500 19016G24KT P6SM SKC FM240000 18009KT P6SM SKC KSPI 230525Z 2306/2406 23007KT P6SM SKC FM231700 21013G23KT P6SM SCT120 BKN250 FM240100 21010KT P6SM BKN120 KSPS 230520Z 2306/2406 16009KT P6SM SKC FM231500 18015G24KT P6SM SCT250 FM240300 15011KT P6SM BKN250 KSRQ 230900Z 2309/2406 02007KT P6SM FEW020 FM231300 05010KT P6SM SCT035 SCT250 FM240200 08008KT P6SM SCT040 SCT250 KSSC 230700Z 2307/2413 29009KT 9999 SKC QNH3002INS BECMG 2310/2311 34009KT 9999 SKC QNH3009INS BECMG 2322/2323 VRB06KT 9999 SKC QNH3017INS TX23/2320Z TN11/2311Z KSSF 230520Z 2306/2406 VRB03KT P6SM SKC FM231600 16012KT P6SM FEW050 KSSI 230520Z 2306/2406 32008KT P6SM SCT250 FM231300 02012G18KT P6SM BKN250 FM240000 05006KT P6SM BKN250 KSTC 230812Z 2308/2406 28008KT P6SM FEW025 FM231400 31005KT P6SM BKN025 FM232000 31011KT P6SM OVC022 KSTJ 230520Z 2306/2406 20007KT P6SM FEW250 FM230800 20004KT P6SM SCT120 WS020/23045KT FM231300 22012G18KT P6SM SCT200 FM232100 28011G17KT P6SM SCT080 BKN200 FM240000 34008KT P6SM SCT150 KSTL 230905Z 2309/2412 21008KT P6SM SCT200 FM231500 22015G25KT P6SM SCT120 FM240000 23009KT P6SM BKN120 FM240600 31007KT P6SM BKN120 KSTS 230527Z 2306/2406 34004KT P6SM SKC FM230900 VRB03KT P6SM SKC FM231900 01007KT P6SM SKC FM232100 02007G15KT P6SM SKC FM240200 02010KT P6SM SKC WS020/04035KT KSUA 230549Z 2306/2406 31004KT P6SM FEW250 FM231400 03009KT P6SM SCT035 FM231700 04010KT P6SM VCSH BKN035 FM240100 03008KT P6SM VCSH BKN035 KSUN 230520Z 2306/2412 VRB05KT P6SM SKC FM231600 31010KT P6SM SKC FM231800 32015KT P6SM SKC FM240800 32010KT P6SM SKC LTD TO CLD VIS AND WIND TIL 231300 KSUS 230520Z 2306/2406 22005KT P6SM SKC FM231500 21014G24KT P6SM SCT120 FM240000 21007KT P6SM BKN120 KSUU 230300Z 2303/2409 24009KT 9999 SKC QNH3000INS BECMG 2313/2314 33009KT 9999 SKC QNH2995INS BECMG 2318/2319 36015G25KT 9999 SKC QNH2988INS TX32/2323Z TN12/2313Z KSUX 230520Z 2306/2406 VRB03KT P6SM BKN200 FM231200 31011KT P6SM -SHRA BKN050 FM231700 32013G21KT P6SM VCSH BKN025 FM240100 33006KT P6SM SCT024 KSVN 231006Z 2310/2410 29009KT 9999 SKC QNH2998INS TX21/2320Z TN13/2311Z KSWF 230834Z 2309/2412 30010KT P6SM OVC030 FM231200 29012G17KT P6SM SCT025 SCT250 FM231500 29015G23KT P6SM FEW250 FM232200 27009KT P6SM SKC FM240300 28004KT P6SM SKC NOT SKED KSYM 230521Z 2306/2406 25005KT P6SM FEW060 FM230800 25006KT P6SM SKC FM231600 24010G16KT P6SM SKC FM232300 VRB05KT P6SM SKC KSYR 230859Z 2309/2406 26008KT P6SM BKN060 FM231500 25012G19KT P6SM BKN040 FM232200 24009KT P6SM SCT050 FM240200 22006KT P6SM SKC KSZL 230300Z 2303/2409 20009KT 9999 SKC QNH2995INS BECMG 2308/2309 21009KT 9999 SCT080 WS020/23035KT QNH2992INS BECMG 2314/2315 23012G20KT 9999 SCT100 QNH2995INS TEMPO 2317/2320 25015G30KT BECMG 2400/2401 26006KT 9999 FEW100 QNH2998INS BECMG 2403/2404 32009KT 9999 SCT040 SCT100 QNH3001INS TX19/2321Z TN04/2303Z KTCC 230532Z 2306/2406 22011KT P6SM SCT250 FM230800 26010KT P6SM SCT250 FM231200 29010KT P6SM SCT250 FM231800 08010KT P6SM FEW070 SCT250 FM240300 04012KT P6SM SCT050 KTCL 230520Z 2306/2406 VRB04KT P6SM SKC KTCM 230545Z 2305/2411 VRB06KT 9999 OVC025 QNH3039INS TEMPO 2305/2311 SCT009 BKN014 BECMG 2310/2311 VRB06KT 4800 BR SCT005 OVC010 QNH3042INS BECMG 2317/2318 01006KT 9999 NSW SCT010 BKN250 QNH3045INS BECMG 2320/2321 01009KT 9999 SCT250 QNH3042INS BECMG 2405/2406 VRB06KT 6000 BR SCT080 QNH3040INS TX14/2322Z TN04/2314Z KTCS 230523Z 2306/2406 32005KT P6SM SKC FM231800 VRB04KT P6SM SKC KTEB 230834Z 2309/2412 30010KT P6SM SCT025 BKN045 FM231200 29012G17KT P6SM SCT025 SCT250 FM231500 28015G23KT P6SM FEW250 FM232200 27010KT P6SM FEW250 FM240400 28005KT P6SM FEW250 KTEX 230521Z 2306/2406 13005KT P6SM SCT060 FM231600 25005KT P6SM FEW100 FEW200 FM231900 29011G20KT P6SM FEW100 FEW200 FM240500 29006KT P6SM FEW060 SCT180 KTIK 230900Z 2309/2415 18010G15KT 9999 SKC QNH2997INS BECMG 2317/2318 20015G20KT 9999 SKC QNH2992INS TEMPO 2318/2321 20020G25KT BECMG 2323/2324 23009KT 9999 FEW060 QNH2995INS BECMG 2402/2403 03009KT 8000 -SHRA VCTS SCT050 BKN060CB QNH3001INS BECMG 2405/2406 04009KT 8000 -SHRA SCT025 BKN035 OVC050 QNH3004INS BECMG 2408/2409 04010G15KT 8000 -SHRA BKN020 OVC030 QNH3005INS BECMG 2410/2411 01010G15KT 9999 NSW OVC020 QNH3010INS TX24/2321Z TN07/2312Z KTIX 230549Z 2306/2406 30006KT P6SM FEW100 SCT250 FM231000 36007KT P6SM BKN035 FM231400 02014G20KT P6SM SCT040 FM240100 03007KT P6SM BKN035 NOT SKED TIL 231100 KTLH 230520Z 2306/2406 00000KT P6SM SKC FM231400 03006KT P6SM SKC KTMB 230853Z 2309/2406 VRB03KT P6SM FEW025 FM231600 10008KT P6SM VCSH SCT035 BKN070 FM240200 VRB03KT P6SM SCT030 BKN050 KTOI 230520Z 2306/2406 VRB03KT P6SM SKC TEMPO 2306/2308 OVC250 FM231500 02008KT P6SM SKC FM240000 00000KT P6SM SKC KTOL 230520Z 2306/2406 22011KT P6SM FEW050 FM231400 23015G22KT P6SM SCT090 FM232200 21011KT P6SM BKN090 WS020/21045KT KTOP 230520Z 2306/2406 20004KT P6SM SCT100 FM230800 22008KT P6SM BKN100 WS012/25055KT FM231500 24012KT P6SM SCT150 KTPA 230858Z 2309/2412 01009KT P6SM FEW250 FM231300 04009KT P6SM FEW035 SCT250 FM240200 05006KT P6SM SCT040 SCT250 KTPH 230520Z 2306/2406 34008KT P6SM SKC FM231900 34012G20KT P6SM SKC FM240200 35012KT P6SM SKC KTRI 230459Z 2305/2324 25003KT P6SM SKC FM231400 26006KT P6SM SKC KTRK 230520Z 2306/2406 00000KT P6SM FEW200 FM231900 05009KT P6SM FEW200 FM240200 VRB03KT P6SM SKC KTRM 230520Z 2306/2406 VRB04KT P6SM SKC KTTD 230530Z 2306/2406 25005KT P6SM SCT070 FM231000 VRB02KT 6SM BR BKN025 FM231600 09004KT P6SM SCT025 BKN040 FM231900 11004KT P6SM SCT035 KTTN 230526Z 2306/2406 30006KT P6SM SCT015 BKN045 TEMPO 2306/2307 BKN015 FM230700 29006KT P6SM SCT070 FM230900 30006KT P6SM SKC FM231500 30012G20KT P6SM FEW050 FM232200 28006KT P6SM SKC FM240000 VRB03KT P6SM SKC KTUL 230520Z 2306/2406 17007KT P6SM FEW250 FM231500 19015G25KT P6SM SCT250 FM232200 20011KT P6SM SCT250 FM240000 36005KT P6SM BKN100 BKN200 KTUP 230520Z 2306/2406 00000KT P6SM SKC FM231400 20005KT P6SM SKC KTUS 230520Z 2306/2406 25004KT P6SM SKC FM230700 14007KT P6SM SKC FM231600 VRB03KT P6SM SKC FM232200 32006KT P6SM FEW250 FM240500 16006KT P6SM SKC KTVC 230900Z 2309/2406 24010G18KT P6SM SCT022 OVC040 TEMPO 2309/2313 -SHRA BKN022 OVC040 FM231300 25013G23KT P6SM VCSH OVC022 FM231900 25011G22KT P6SM VCSH OVC050 FM232200 24009KT P6SM VCSH OVC040 FM240200 24006KT P6SM OVC030 KTVF 230520Z 2306/2406 32015KT P6SM OVC020 FM231700 33013G19KT P6SM OVC025 FM240100 32011KT P6SM BKN030 KTVL 230520Z 2306/2406 VRB04KT P6SM FEW180 FM231900 05008KT P6SM FEW180 FM240100 VRB03KT P6SM SKC KTWF 231005Z 2310/2406 25015KT P6SM SKC FM231800 27020G30KT P6SM SKC FM240300 22012KT P6SM SKC KTXK 230538Z 2306/2406 VRB02KT P6SM SKC FM231600 18008KT P6SM SKC FM240100 16005KT P6SM SKC KTYR 230538Z 2306/2406 13005KT P6SM SKC FM231600 17010KT P6SM SKC FM240100 15006KT P6SM SKC KTYS 230459Z 2305/2324 25007KT P6SM SKC FM231100 VRB03KT P6SM SKC KUAO 230530Z 2306/2406 VRB04KT P6SM SCT040 FM230800 VRB03KT P6SM SCT007 OVC030 FM231200 VRB02KT 4SM BR BKN020 FM231900 VRB03KT P6SM SCT025 KUES 230623Z 2306/2406 24012KT P6SM BKN060 FM231200 24010G18KT P6SM BKN100 FM232100 25006KT P6SM VCSH OVC070 FM240000 34004KT P6SM OVC050 FM240200 31005KT P6SM BKN025 KUIN 230520Z 2306/2406 22007KT P6SM SKC FM231500 21015G25KT P6SM BKN120 FM240300 30008KT P6SM BKN120 KUKI 230536Z 2306/2406 00000KT P6SM SKC FM231800 34005KT P6SM SKC KUNV 230952Z 2310/2406 25005KT P6SM VCFG SCT250 FM231500 26013G20KT P6SM SKC KUTS 230520Z 2306/2406 12004KT P6SM SKC FM231700 15009KT P6SM SKC KVAD 230800Z 2308/2414 33006KT 9999 FEW250 QNH3007INS BECMG 2313/2314 01012KT 9999 SKC QNH3009INS BECMG 2322/2323 04006KT 9999 SKC QNH3012INS BECMG 2411/2412 04006KT 9999 BKN030 QNH3020INS TX22/2320Z TN09/2310Z KVCT 230526Z 2306/2406 09006KT P6SM SKC FM231600 14014G20KT P6SM FEW030 FM240100 12008KT P6SM SCT030 KVEL 230521Z 2306/2406 28005KT P6SM FEW100 FEW250 FM231700 11005KT P6SM FEW070 SCT250 FM232000 08006KT P6SM FEW070 SCT180 FM232200 05008KT P6SM FEW090 SCT120 FM232300 03010KT P6SM SCT090 FM240000 01012KT P6SM SCT060 BKN100 KVGT 230535Z 2306/2406 31006KT P6SM SKC FM231900 02009KT P6SM FEW250 FM240300 35007KT P6SM SKC KVIS 230520Z 2306/2406 VRB03KT P6SM SKC KVLD 230520Z 2306/2406 VRB03KT P6SM SKC FM231400 04006KT P6SM SKC KVNY 230522Z 2306/2406 36006KT P6SM SKC FM232200 13006KT P6SM SKC FM240500 36006KT P6SM SKC KVOK 230900Z 2309/2415 26009KT 9999 BKN020 510063 QNH2971INS BECMG 2314/2315 27012G17KT 9999 SCT025 QNH2985INS BECMG 2323/2324 VRB06KT 9999 BKN025 620309 QNH2993INS BECMG 2405/2406 VRB06KT 9999 BKN015 620254 QNH3007INS TX08/2319Z TN03/2313Z KVPS 230900Z 2309/2415 36013G18KT 9999 SCT330 WS010/36045KT QNH3010INS BECMG 2314/2315 04015G20KT 9999 FEW330 QNH3010INS WND 06013KT AFT 2318 BECMG 2323/2324 05006KT 9999 FEW280 QNH3012INS BECMG 2414/2415 07012KT 9999 FEW310 QNH3014INS TX21/2320Z TN12/2311Z KVQQ 230520Z 2306/2406 32007KT P6SM BKN035 BKN250 FM230800 33004KT P6SM SCT035 BKN250 FM231300 02010KT P6SM BKN250 FM232300 05004KT P6SM BKN250 KVRB 230549Z 2306/2406 28006KT P6SM FEW250 FM231400 03013G18KT P6SM SCT035 TEMPO 2316/2318 BKN035 FM240100 03008KT P6SM VCSH BKN035 KVTN 230520Z 2306/2406 23004KT P6SM VCSH FEW090 FM231100 29011KT P6SM SCT150 WS020/31040KT FM231400 30014G25KT P6SM SCT120 FM231800 32018G32KT P6SM VCSH BKN060 FM232200 34014G24KT P6SM VCSH BKN026 FM232300 34013G22KT P6SM BKN050 KWJF 230522Z 2306/2406 27008KT P6SM SKC FM231000 VRB04KT P6SM SKC FM231800 05010KT P6SM SKC FM240300 VRB03KT P6SM SKC KWMC 230520Z 2306/2406 VRB04KT P6SM FEW250 FM231700 01008G16KT P6SM SKC FM240200 36008KT P6SM SKC KWRB 230500Z 2305/2411 30006KT 9999 SKC QNH3008INS BECMG 2315/2316 01010G15KT 9999 SKC QNH3012INS BECMG 2322/2323 VRB06KT 9999 SKC QNH3012INS TX20/2320Z TN10/2411Z KWRI 231000Z 2310/2416 30012KT 9999 FEW050 FEW250 QNH2980INS BECMG 2315/2316 30012G22KT 9999 FEW250 QNH2996INS BECMG 2320/2321 29008KT 9999 SKC QNH3004INS WND VRB06KT AFT 2410 TX19/2319Z TN03/2410Z KWRL 230815Z 2308/2406 VRB06KT P6SM VCSH SCT030 BKN070 FM231300 33015G25KT P6SM VCSH SCT030 BKN045 FM240100 34010KT P6SM BKN080 KWWR 230520Z 2306/2406 19012KT P6SM SKC FM231800 36010KT P6SM SKC KWYS 230546Z 2306/2406 28010G20KT P6SM SCT050 OVC070 FM231800 35009KT 5SM -SHSN SCT025 BKN050 FM240100 VRB05KT P6SM SCT030 BKN060 KXNA 230520Z 2306/2406 19003KT P6SM SCT250 FM231500 20015G25KT P6SM SCT250 FM232300 19006KT P6SM BKN100 FM240200 VRB03KT P6SM VCSH SCT050 OVC080 KXWA 230526Z 2306/2406 08008KT P6SM VCSH OVC050 TEMPO 2306/2310 -RA FM231000 04009KT P6SM BKN150 FM231300 36009KT P6SM OVC180 FM231900 33011KT P6SM SCT250 FM240300 33005KT P6SM BKN035 KYIP 230959Z 2310/2406 22010KT P6SM SKC FM231400 23015G25KT P6SM SCT045 FM232200 21010KT P6SM SCT045 KYKM 230520Z 2306/2406 28007KT P6SM FEW200 FM231600 VRB03KT P6SM FEW200 FM240200 27005KT P6SM SCT250 KYNG 230520Z 2306/2406 23008KT P6SM FEW050 FM231400 24014G21KT P6SM SKC FM232200 20010KT P6SM FEW090 WS020/22035KT KZZV 230520Z 2306/2406 24005KT P6SM SCT070 FM231500 24010G20KT P6SM SKC FM232200 22005KT P6SM SKC L 230440Z 2306/2406 03008KT CAVOK LATI 230500Z 2306/2406 VRB05KT CAVOK LBBG 230610Z 2306/2406 23008KT 0300 FG VV002 TEMPO 2307/2308 0800 BCFG SCT003 BKN005 BECMG 2308/2309 3000 BR SCT005 BKN015 BECMG 2310/2311 11010KT 7000 SCT020 BECMG 2318/2320 VRB04KT BKN015 TEMPO 2400/2406 3000 BR BKN010 LBGO 230500Z 2306/2406 VRB04KT 3000 BR SCT010 TEMPO 2306/2307 0600 BCFG SCT005 BECMG 2307/2309 CAVOK BECMG 2322/2324 5000 BR SCT015 TEMPO 2400/2406 1500 BR SCT010 LBPD 230500Z 2306/2406 VRB04KT CAVOK TEMPO 2402/2405 5000 BR LBPG 230501Z 2306/2318 VRB05KT 6000 SKC TEMPO 2306/2308 0800 FG BKN004 BY LBSA LBSF 230500Z 2306/2406 VRB04KT 4000 BR SCT007 BECMG 2306/2308 CAVOK BECMG 2312/2314 12008KT BECMG 2322/2324 VRB04KT TEMPO 2400/2406 3000 BR LBWN 230500Z 2306/2406 VRB04KT 5000 BR BKN010 TEMPO 2306/2307 3000 BR BKN005 BECMG 2308/2310 11012KT 9999 SCT020 BECMG 2318/2320 VRB04KT BKN015 TEMPO 2400/2406 2000 BR BKN008 LCEN 230440Z 2306/2406 03015KT 9999 SCT025 PROB30 TEMPO 2306/2310 5000 SHRA FEW020CB BKN025 PROB40 TEMPO 2311/2315 29015G25KT 3000 TSRA SCT020CB BKN080 LCLK 230530Z 2306/2406 34007KT 9999 FEW025 BECMG 2306/2310 06017KT PROB40 TEMPO 2311/2324 VRB25G35KT 2000 TSRA BKN020CB BECMG 2315/2319 33007KT LCPH 230530Z 2306/2406 04007KT 9999 FEW020 BECMG 2308/2311 13012KT PROB30 TEMPO 2312/2324 VRB25G35KT 3000 TSRA SCT020CB BECMG 2316/2320 04008KT LCRA 230719Z 2309/2403 06018KT 9999 FEW040 PROB30 TEMPO 2309/2316 VRB20G30KT TSRA SCT040CB BECMG 2316/2319 03006KT LDDU 230525Z 2306/2406 VRB02KT CAVOK TX24/2311Z TN14/2402Z LDOS 230525Z 2306/2406 11005KT 2000 BR NSC TX25/2313Z TN08/2405Z PROB40 TEMPO 2306/2308 0300 FG BECMG 2307/2309 CAVOK PROB30 TEMPO 2403/2406 3000 BR LDPL 230850Z 2308/2406 VRB02KT CAVOK TX22/2312Z TN12/2402Z PROB40 TEMPO 2309/2312 BKN004 BECMG 2314/2316 11006KT PROB40 TEMPO 2318/2406 4000 BR BKN005 LDRI 230525Z 2306/2406 VRB02KT CAVOK TX25/2312Z TN14/2306Z PROB30 TEMPO 2322/2406 4000 BR BKN010 LDSP 230525Z 2306/2406 VRB02KT CAVOK TX25/2312Z TN14/2403Z PROB30 TEMPO 2312/2315 23007KT LDZA 230822Z 2308/2406 VRB02KT 0200 FG VV002 TX25/2313Z TN09/2404Z BECMG 2308/2310 3000 BR BKN005 BECMG 2310/2311 CAVOK BECMG 2322/2400 2000 MIFG BR PROB40 2400/2406 0200 FG VV001 LDZD 231002Z 2310/2406 VRB02KT 9999 BKN007 TX25/2312Z TN10/2403Z BECMG 2310/2312 CAVOK PROB30 TEMPO 2310/2315 24007KT TEMPO 2319/2406 2000 BCFG PROB40 TEMPO 2320/2402 0600 LEAL 230500Z 2306/2406 25008KT 9999 FEW015 TX21/2312Z TN09/2306Z TEMPO 2314/2316 23015KT LEAM 230800Z 2309/2409 25015KT 9999 FEW040 TX19/2312Z TN11/2405Z TEMPO 2311/2318 25020G30KT BECMG 2321/2323 34006KT LEAS 230800Z 2309/2409 34009KT 9999 -RA SCT020 BKN030 TX15/2313Z TN11/2400Z TEMPO 2309/2321 3000 RA SHRA BKN014 SCT030TCU PROB40 TEMPO 2309/2315 1500 +RA BKN010 BECMG 2321/2324 20010KT TEMPO 2406/2409 24015G25KT TEMPO 2403/2409 RA LEBB 230500Z 2306/2406 VRB05KT 9999 SCT010 BKN020 TX16/2314Z TN10/2406Z PROB40 TEMPO 2312/2324 24015G25KT TEMPO 2306/2312 3000 -RA BR BKN010 TEMPO 2312/2403 3000 RA BKN014 PROB40 TEMPO 2312/2324 1500 +RA TEMPO 2312/2324 3000 SHRA BKN014 SCT030TCU PROB40 TEMPO 2315/2324 1500 SHRA TS SCT020CB LEBL 230500Z 2306/2406 20015KT 9999 FEW020 TX21/2312Z TN16/2306Z TEMPO 2306/2308 36003KT PROB40 TEMPO 2322/2401 20015G25KT TS SHRA FEW045CB BECMG 2323/2401 34008KT LEBZ 230500Z 2306/2406 28007KT 9999 SCT035 TX18/2315Z TN08/2406Z PROB30 TEMPO 2311/2314 4000 RA LECH 230744Z 2307/2406 VRB03KT 9999 FEW030 TX19/2313Z TN08/2308Z TEMPO 2308/2309 0200 FG VV001 TEMPO 2309/2311 4000 BR SCT015 BECMG 2314/2316 22010KT LECO 230800Z 2309/2409 35009KT 9999 SCT030 TX16/2314Z TN11/2400Z BECMG 2318/2322 22010KT TEMPO 2403/2409 22015G25KT TEMPO 2400/2409 RA TEMPO 2406/2409 3000 RA BKN012 LEDA 230800Z 2309/2409 09007KT 9999 SCT025 TX18/2314Z TN07/2406Z TEMPO 2309/2314 4000 SHRA FEW020TCU PROB40 TEMPO 2317/2322 4000 BR BKN010 PROB30 TEMPO 2407/2409 0800 BCFG VV001 LEGE 230916Z 2309/2406 20010KT 9999 BKN010 TX22/2313Z TEMPO 2309/2312 VRB04KT 4000 DZ BR BKN002 LEGR 230800Z 2309/2409 VRB02KT 9999 FEW015 BKN030 TX16/2315Z TN06/2406Z BECMG 2312/2314 27010KT PROB40 TEMPO 2311/2320 4000 RA SCT030TCU BECMG 2400/2402 VRB02KT LEHC 230800Z 2309/2409 13010KT 9999 SCT030 TX16/2314Z TN08/2406Z TEMPO 2309/2322 2000 RA BR BKN010 BECMG 2316/2318 VRB04KT 3000 BR BKN010 LEIB 230800Z 2309/2409 23010KT 9999 FEW025 TX19/2312Z TN14/2406Z PROB30 TEMPO 2312/2319 VRB20G30KT 3000 TSRA FEW025CB SCT030 BECMG 2317/2320 27015KT BECMG 2403/2405 32005KT LEJR 230500Z 2306/2406 19005KT 9999 FEW040 TX20/2315Z TN10/2306Z BECMG 2309/2311 27013KT PROB40 TEMPO 2313/2317 27015G25KT BECMG 2400/2402 33005KT LELC 230500Z 2306/2406 25007KT 9999 FEW040 TX21/2314Z TN11/2306Z PROB30 TEMPO 2306/2308 4000 BR LELL 230800Z 2309/2409 VRB04KT 9999 BKN025 TX20/2313Z TN10/2406Z BECMG 2309/2311 22008KT TEMPO 2323/2409 4000 RA LEMD 230500Z 2306/2412 VRB04KT 9999 SCT012 BKN035 TX12/2316Z TN07/2307Z PROB40 TEMPO 2306/2403 2000 RADZ BR BKN010 PROB40 TEMPO 2307/2318 23006G16KT PROB30 TEMPO 2404/2408 0800 FG OVC008 LEMG 230500Z 2306/2406 30008KT 9999 FEW040 TX22/2313Z TN10/2306Z PROB40 TEMPO 2311/2313 VRB02KT LEMH 231037Z 2310/2409 22010KT 9999 FEW020 TX21/2312Z TN13/2406Z TEMPO 2310/2312 4500 TS SHRA FEW025CB TEMPO 2314/2321 22015KT BECMG 2405/2407 VRB04KT LEMI 230500Z 2306/2406 26007KT 9999 FEW040 TX19/2315Z TN10/2306Z PROB30 TEMPO 2318/2323 4000 SHRA SCT035TCU LEPA 230500Z 2306/2406 20015KT 9999 SCT020 BKN030 TX20/2312Z TN13/2306Z PROB40 TEMPO 2314/2324 20015G25KT 4500 TS SHRA SCT030CB BECMG 2314/2317 05005KT LEPP 230800Z 2309/2409 VRB05KT 9999 BKN040 TX16/2314Z TN09/2406Z PROB40 TEMPO 2309/2403 SHRA RA BKN012 SCT030TCU PROB40 TEMPO 2309/2315 3000 SHRA TS SCT020TCU SCT025CB LERS 230800Z 2309/2409 VRB04KT 9999 SCT025 TX20/2312Z TN10/2406Z BECMG 2309/2310 17010KT BECMG 2318/2320 VRB04KT LESA 230500Z 2306/2406 30007KT 9999 BKN008 OVC018 TX09/2314Z TN06/2306Z TEMPO 2306/2324 3000 RA PROB30 TEMPO 2322/2406 0200 FG OVC003 LESO 230500Z 2306/2406 VRB05KT 9999 SCT010 BKN020 TX17/2314Z TN11/2306Z TEMPO 2310/2315 30010KT BECMG 2314/2316 22010KT PROB40 TEMPO 2315/2324 22015G25KT TEMPO 2315/2403 3000 RA SHRA BKN014 SCT020TCU PROB40 TEMPO 2318/2403 1500 TS SHRA SCT025CB LEST 230500Z 2306/2406 01006KT CAVOK TX14/2314Z TN08/2405Z PROB40 TEMPO 2306/2309 3000 BR BCFG BKN010 BECMG 2322/2324 22010KT LETO 230500Z 2306/2406 VRB04KT 9999 SCT012 BKN030 TX12/2316Z TN07/2307Z PROB40 TEMPO 2306/2403 2000 RADZ BR BKN010 PROB30 TEMPO 2404/2406 0800 FG OVC008 LEVC 230500Z 2306/2406 26005KT 9999 FEW020 TX20/2312Z TN10/2306Z BECMG 2308/2311 25010KT BECMG 2315/2317 24005KT LEVD 231012Z 2310/2406 34010KT 8000 BKN030 TX11/2314Z TN05/2406Z TEMPO 2310/2404 3000 RA BR BKN014 PROB40 2312/2316 34015G25KT BECMG 2402/2404 24008KT TEMPO 2403/2406 3000 BR BKN008 PROB40 TEMPO 2404/2406 0100 FG BKN001 LEVT 230500Z 2306/2406 01008KT 9999 BKN020 TX14/2313Z TN07/2404Z PROB40 2312/2318 33015G25KT BECMG 2316/2318 22010KT PROB40 TEMPO 2306/2308 0800 FG VV001 TEMPO 2306/2312 3000 -RA BKN014 TEMPO 2312/2324 3000 SHRA BKN010 SCT025TCU PROB40 TEMPO 2315/2324 3000 TS SHRA SCT025CB LEVX 230500Z 2306/2406 36007KT CAVOK TX15/2314Z TN10/2406Z BECMG 2400/2402 18010KT LEXJ 230800Z 2309/2409 30009KT 6000 -RA SCT010 BKN025 TX16/2311Z TN12/2403Z TEMPO 2309/2403 3000 RA BKN010 BKN014 TEMPO 2309/2324 1500 +RA BKN005 PROB40 TEMPO 2312/2321 3000 SHRA TS SCT025TCU SCT030CB TEMPO 2312/2324 29018G30KT PROB40 TEMPO 2315/2321 29025G40KT BECMG 2400/2404 19010KT PROB40 TEMPO 2406/2409 RA LEZG 230730Z 2307/2406 23004KT 9999 SCT020 TX17/2312Z TN11/2307Z TEMPO 2307/2309 2000 DZ BR BKN005 BECMG 2317/2319 23010KT LEZL 230800Z 2309/2409 26009KT 9999 FEW040 TX19/2314Z TN09/2406Z LFBC 230800Z 2309/2409 18008KT 9999 BKN005 BECMG 2310/2312 BKN025 TEMPO 2315/2320 4000 RA BKN010 BKN020 BECMG 2400/2402 18015G25KT TEMPO 2402/2409 4000 RA BKN010 BECMG 2405/2406 28015G35KT LFBD 230920Z 2309/2412 05006KT 8000 BKN015 TX15/2315Z TN12/2406Z TEMPO 2309/2312 BKN005 TEMPO 2314/2321 4000 -SHRA BKN015TCU PROB30 TEMPO 2318/2321 -TSRA BKN010 BKN015CB TEMPO 2321/2406 BKN008 BECMG 2406/2408 24010KT PROB40 TEMPO 2406/2412 4000 -RA BKN008 LFBE 230500Z 2306/2406 08005KT 9999 BKN020 TEMPO 2306/2310 12015KT 3000 RA BKN007 TEMPO 2316/2322 4000 -SHRA BKN015TCU PROB30 TEMPO 2318/2322 -TSRA BKN010 BKN015CB BECMG 2322/2324 16010KT PROB30 TEMPO 2400/2406 BKN008 LFBG 230800Z 2309/2409 05010KT 9999 SCT015 BECMG 2313/2315 BKN025 TEMPO 2319/2323 3000 SHRA BKN025TCU BECMG 2400/2402 BKN010 LFBH 230500Z 2306/2406 05015KT 8000 BKN020 TEMPO 2306/2311 3000 -RA BKN006 BECMG 2314/2316 11008KT TEMPO 2316/2320 -RA BKN014 TEMPO 2320/2406 3000 -SHRA BKN015TCU PROB30 TEMPO 2320/2404 VRB15G25KT -TSRA BKN010 BKN015CB LFBI 230716Z 2307/2406 05010KT 9999 BKN015 TEMPO 2307/2311 3000 -RA OVC003 PROB30 TEMPO 2311/2314 12015G25KT BECMG 2320/2322 15010KT TEMPO 2400/2406 BKN008 PROB30 TEMPO 2402/2406 -SHRA BKN008 BKN015TCU LFBL 230500Z 2306/2406 08012KT CAVOK PROB40 TEMPO 2306/2312 12015G25KT 4000 RA BKN003 SCT026CB BECMG 2319/2321 16010KT BECMG 2321/2323 BKN030 BECMG 2401/2403 BKN013 LFBM 230800Z 2309/2409 VRB02KT 9999 SCT005 BKN020 PROB30 TEMPO 2314/2317 3000 SHRA SCT010 BKN040 SCT070CB BECMG 2319/2321 BKN010 TEMPO 2321/2403 4000 BR BKN004 BECMG 2403/2405 BKN030 TEMPO 2406/2409 -RA LFBO 230500Z 2306/2412 10012KT 9999 SCT006 BKN020 PROB40 TEMPO 2306/2310 2000 RA BKN002 SCT026CB TEMPO 2307/2314 10018G30KT BECMG 2320/2322 VRB03KT BKN012 PROB40 TEMPO 2402/2406 2000 BR BKN002 BECMG 2407/2409 SCT013 BKN040 LFBP 231020Z 2310/2406 27010KT 9999 BKN008 TEMPO 2310/2313 0400 FG VV/// BECMG 2313/2315 BKN015 PROB30 TEMPO 2314/2318 4000 SHRA BKN014TCU BECMG 2320/2322 CAVOK PROB30 TEMPO 2400/2403 0800 FG VV/// BECMG 2403/2404 BKN040 PROB30 TEMPO 2404/2406 -RA BKN015 LFBT 230951Z 2309/2406 24005KT CAVOK TEMPO 2309/2312 BKN008 BECMG 2312/2314 BKN015 PROB30 TEMPO 2314/2318 4000 SHRA BKN014TCU BECMG 2320/2322 CAVOK BECMG 2404/2405 27010KT BKN040 LFBU 230500Z 2306/2406 06010KT 9999 BKN020 TEMPO 2306/2310 3000 -RA BKN008 PROB30 TEMPO 2308/2310 16015G25KT BECMG 2318/2320 14010KT TEMPO 2320/2406 -SHRA PROB30 TEMPO 2400/2404 4000 -SHRA BKN015TCU LFBZ 230825Z 2308/2406 24005KT 9999 SCT020 TEMPO 2308/2314 BKN014 PROB30 TEMPO 2314/2317 4000 -SHRA BKN010 BKN020TCU BECMG 2318/2320 CAVOK BECMG 2322/2324 24010KT -RA BKN030 TEMPO 2400/2406 24018G30KT 4000 RA OVC015 LFCR 230500Z 2306/2406 10012KT CAVOK TEMPO 2306/2311 3000 RA BKN013 PROB40 TEMPO 2306/2311 10020G30KT TSRA BKN002 SCT026CB TEMPO 2313/2319 12018G30KT TEMPO 2321/2404 BKN015 LFJL 230700Z 2307/2406 05006KT CAVOK TEMPO 2307/2312 4000 BR OVC006 BECMG 2320/2322 3000 BR SCT002 PROB40 2322/2401 0400 FG VV/// BECMG 2401/2403 17008KT 6000 NSW NSC LFKB 230800Z 2309/2409 14012KT 9999 NSC TX24/2312Z TN16/2403Z TEMPO 2309/2320 BKN010 BECMG 2320/2323 24008KT SCT030 BKN040 PROB40 TEMPO 2400/2409 6000 TSRA SCT020CB BKN033 LFKC 230800Z 2309/2409 34005KT 9999 NSC TX27/2312Z TN16/2403Z TEMPO 2309/2314 SHRA SCT026TCU BECMG 2317/2320 20004KT BECMG 2321/2324 4000 TSRA SCT020CB BKN033 LFKF 230800Z 2309/2409 06017G35KT 9999 NSC TEMPO 2309/2318 BKN020 BECMG 2318/2321 24010KT PROB30 TEMPO 2318/2402 SHRA SCT020TCU BKN040 LFKJ 230800Z 2309/2409 11015KT CAVOK TEMPO 2309/2314 11017G35KT BECMG 2319/2322 04006KT SCT030 BKN050 PROB40 TEMPO 2321/2402 6000 TSRA SCT020CB BKN033 LFKS 230800Z 2309/2409 18005KT 9999 FEW015 BKN025 TEMPO 2322/2404 RA SCT010 BKN014 LFLB 230500Z 2306/2406 36008KT CAVOK PROB40 TEMPO 2306/2309 0400 FG BECMG 2309/2312 BKN025 LFLC 230800Z 2309/2409 VRB02KT 8000 -RA SCT012 OVC080 TEMPO 2309/2318 4000 RA BKN006 OVC060 PROB30 TEMPO 2309/2318 VRB15KT 2000 TSRA BKN006 OVC060CB BECMG 2320/2323 18012KT CAVOK LFLL 230500Z 2306/2412 36005KT 6000 OVC012 TEMPO 2306/2309 OVC007 PROB30 TEMPO 2306/2308 4000 BR BKN004 BECMG 2310/2313 9999 SCT013 TEMPO 2315/2324 VRB05KT 4000 RA SCT030 BKN050 PROB30 TEMPO 2315/2319 VRB15KT 2000 SHRA SCT015 BKN040 SCT070CB FM240000 18010KT CAVOK PROB40 TEMPO 2404/2408 20015G25KT LFLP 230800Z 2309/2409 02006KT CAVOK PROB40 TEMPO 2309/2312 BKN010 BECMG 2321/2324 22006KT BKN020 BKN100 LFLS 230800Z 2309/2409 VRB02KT CAVOK TEMPO 2316/2324 4000 RA BKN006 OVC060 PROB30 TEMPO 2316/2324 VRB15KT 2000 TSRA BKN006 OVC060CB FM240000 22012KT CAVOK TEMPO 2400/2409 BKN012 LFLX 230500Z 2306/2412 06010KT 9999 BKN017 TEMPO 2306/2309 4000 -RADZ BKN002 BECMG 2308/2310 09012G25KT CAVOK TEMPO 2309/2316 -RA BKN012 TEMPO 2314/2317 12018G33KT TEMPO 2409/2412 20018G35KT BKN012 LFLY 230743Z 2307/2406 36005KT 9999 BKN009 OVC013 BECMG 2310/2312 SCT018 TEMPO 2315/2324 VRB05KT 4000 RA SCT030 OVC050 PROB30 TEMPO 2315/2319 VRB15KT 2000 SHRA SCT020 BKN040 SCT070CB FM240000 18010KT CAVOK LFMD 230800Z 2309/2409 06010KT 9999 SCT030 BKN060 TEMPO 2309/2324 08020G35KT PROB40 TEMPO 2315/2321 04030G50KT TEMPO 2309/2403 SHRA BKN014 BKN020TCU PROB40 TEMPO 2309/2409 3000 TSRA BKN014 BKN020CB OVC033 TEMPO 2317/2401 1000 +TSRA BKN010 BKN015CB BECMG 2402/2404 24010KT SCT014 SCT040 LFMH 230800Z 2309/2409 VRB02KT 8000 OVC010 BKN100 BECMG 2309/2311 -RA SCT012 OVC080 TEMPO 2311/2319 4000 RA BKN006 OVC060 PROB30 TEMPO 2311/2319 VRB15KT 2000 TSRA BKN006 OVC060CB BECMG 2320/2323 16012KT CAVOK TEMPO 2323/2406 BKN040 LFMI 230800Z 2309/2409 10020KT CAVOK TEMPO 2309/2311 11025G38KT -SHRA BKN055TCU BECMG 2310/2311 11020G35KT 4000 RA BKN036TCU TEMPO 2311/2318 10025G40KT 2000 TSRA SCT010 BKN023CB BECMG 2318/2319 12015G25KT 4000 RA BKN035TCU BECMG 2320/2322 12010KT BKN023 BECMG 2323/2401 SCT040 LFMK 230800Z 2309/2409 09025G45KT 5000 RA BKN008 OVC014 TEMPO 2309/2312 2000 TSRA BKN005 BKN015CB BECMG 2312/2314 08015G25KT NSW BKN013 BKN050 BECMG 2322/2324 VRB05KT 7000 BKN020 LFML 230800Z 2309/2415 10023G35KT CAVOK TX24/2309Z TN15/2407Z TEMPO 2309/2310 -SHRA BKN020TCU BECMG 2310/2311 12025G40KT -RA SCT050TCU PROB40 2311/2314 12028G45KT 1000 +TSRA BKN010 BKN020CB PROB30 TEMPO 2312/2314 VRB30G50KT TSRAGR TEMPO 2314/2318 10025G35KT 2000 TSRA SCT010 BKN016CB BECMG 2318/2319 VRB15KT 4000 RA SCT015 BKN033TCU BECMG 2321/2323 14010KT 9999 NSW SCT020 TEMPO 2323/2405 SHRA BKN016TCU BECMG 2405/2407 09006KT CAVOK BECMG 2408/2410 VRB03KT BECMG 2410/2412 SCT035 LFMN 230800Z 2309/2415 08025KT 9999 SCT025 BKN110 TEMPO 2309/2401 08030G40KT TEMPO 2309/2310 TSRA BKN020 SCT025CB BKN100 PROB40 TEMPO 2316/2321 04030G50KT TEMPO 2316/2404 TSRA SCT014 BKN020CB PROB40 TEMPO 2321/2324 1000 +TSRA BKN014 BKN020CB BECMG 2403/2405 24010KT SCT020 BKN060 BECMG 2410/2412 CAVOK LFMO 230800Z 2309/2409 30005KT 9999 OVC070 TEMPO 2309/2311 3000 TSRA BKN060CB BECMG 2311/2313 4000 RA TEMPO 2312/2324 15015G25KT 2000 TSRA SCT010 OVC020CB PROB30 TEMPO 2313/2320 0800 +TSRA BKN005 OVC020CB BECMG 2402/2404 VRB02KT 8000 NSW PROB40 TEMPO 2404/2408 3000 BR LFMP 230800Z 2309/2409 10020G40KT 7000 OVC008 TEMPO 2309/2311 VRB05G30KT 1500 TSRA BKN013CB BECMG 2311/2312 14015G25KT 9000 SHRA BKN012 OVC110 BECMG 2320/2322 9999 NSW NSC LFMT 230800Z 2309/2409 09015G25KT 9999 BKN010 OVC060 TEMPO 2309/2315 VRB15G40KT 0600 TSRAGR FG BKN030CB PROB30 TEMPO 2313/2320 12015G25KT 4000 SHRA BKN008 SCT030TCU OVC033 BECMG 2320/2322 16015KT 9999 BKN025 LFMU 230800Z 2309/2409 07015G25KT 6000 BKN005 SCT050CB TEMPO 2309/2312 VRB10G35KT 1500 TSRA BKN005 BKN010CB PROB30 TEMPO 2309/2312 TSRAGR BECMG 2312/2314 15015KT SCT005 BKN030 BECMG 2318/2321 VRB05KT 9999 NSW NSC LFMV 230800Z 2309/2409 VRB10G20KT 9999 BKN070 TEMPO 2309/2310 12015G25KT SHRA BKN060TCU BECMG 2310/2311 13020G30KT 4000 RA BKN055TCU TEMPO 2311/2320 1000 +TSRA SCT010 BKN023CB PROB40 TEMPO 2311/2318 13025G40KT BECMG 2318/2320 VRB10KT 9999 NSW BKN035 BECMG 2320/2322 14010KT 4000 RA BR BKN025 BECMG 2322/2324 9999 NSW SCT023 BECMG 2401/2403 SCT035 BECMG 2407/2409 CAVOK LFMY 230800Z 2309/2409 10025G37KT CAVOK TEMPO 2309/2322 5000 SHRA BKN060TCU PROB40 TEMPO 2311/2318 2500 TSRA SCT012 BKN050CB TEMPO 2318/2405 BKN014 LFOA 230820Z 2309/2409 09007KT 8000 OVC007 BECMG 2309/2312 NSC TEMPO 2310/2323 12015G30KT 4000 SHRA BKN070TCU BECMG 2402/2404 16010KT LFOB 230500Z 2306/2406 08006KT 8000 NSC PROB30 TEMPO 2307/2310 BKN008 BECMG 2320/2323 14005KT 3000 BR PROB30 TEMPO 2323/2404 0500 FG VV/// BECMG 2404/2406 BKN012 LFOC 230859Z 2309/2409 05011KT 3000 BR OVC003 TEMPO 2309/2311 0500 FG OVC001 BECMG 2311/2313 11014KT 9999 BKN015 BECMG 2323/2402 18015KT LFOE 230854Z 2309/2409 07008KT 9999 BKN010 BECMG 2310/2312 SCT015 PROB40 TEMPO 2322/2402 4000 BR BECMG 2402/2404 BKN010 LFOH 230500Z 2306/2406 10007KT 8000 NSC PROB30 TEMPO 2306/2309 3000 BR BKN002 BECMG 2320/2323 14005KT 3000 BR BECMG 2401/2404 BKN012 BECMG 2404/2406 OVC008 LFOJ 230800Z 2309/2409 07010KT 3500 BR OVC003 BECMG 2309/2311 7000 NSW BKN008 BECMG 2311/2313 SCT015 LFOK 230500Z 2306/2406 03008KT 9999 OVC007 TEMPO 2306/2308 4000 BR OVC004 BECMG 2310/2312 NSC BECMG 2321/2324 15005KT 4000 BR LFOP 230500Z 2306/2406 07007KT 8000 NSC PROB30 TEMPO 2308/2312 BKN007 BECMG 2321/2324 14005KT 3000 BR BECMG 2400/2403 BKN005 BKN030 PROB30 TEMPO 2402/2406 0500 FG OVC001 LFOT 230652Z 2306/2406 06010KT 9999 BKN020 TEMPO 2306/2311 3000 BR BKN002 BECMG 2311/2314 CAVOK TEMPO 2320/2402 4000 BR BECMG 2402/2404 20008KT BKN016 TEMPO 2404/2406 -RA BKN009 LFPB 230500Z 2306/2406 04010KT CAVOK PROB30 TEMPO 2309/2311 BKN012 BECMG 2310/2312 11012KT PROB30 TEMPO 2322/2324 4500 BR BECMG 2404/2406 17010KT LFPG 230500Z 2306/2412 04010KT CAVOK TX18/2315Z TN11/2306Z PROB30 TEMPO 2309/2311 BKN008 BECMG 2310/2312 11012KT PROB30 TEMPO 2322/2324 4500 BR BECMG 2404/2406 17010KT LFPO 230500Z 2306/2412 04010KT 9999 SCT016 BKN100 TEMPO 2306/2311 BKN008 BKN015 BECMG 2312/2314 12006KT CAVOK TEMPO 2400/2406 4000 BR BECMG 2409/2412 20010KT BKN030 LFPV 230800Z 2309/2409 08010KT 9999 BKN008 OVC100 BECMG 2312/2314 14005KT CAVOK BECMG 2405/2407 20010KT TEMPO 2408/2409 20010G25KT LFQQ 230500Z 2306/2412 05010KT 8000 NSC PROB30 TEMPO 2308/2310 BKN008 BECMG 2315/2317 12005KT BECMG 2322/2402 3000 BR BECMG 2405/2408 18010KT 9999 NSW BECMG 2409/2411 20015G25KT LFRB 230500Z 2306/2412 04005KT 9000 NSC TEMPO 2310/2320 4000 DZ OVC005 BECMG 2320/2321 NSW BKN018 LFRD 230500Z 2306/2406 05008KT 9999 SCT015 BKN040 TEMPO 2306/2406 3000 RADZ BKN005 PROB40 TEMPO 2322/2406 1500 RADZ BR BKN002 LFRH 230510Z 2306/2406 03010KT 9999 BKN040 BKN045 OVC060 TEMPO 2309/2312 4500 RADZ BKN010 BECMG 2312/2314 BKN011 BKN015 TEMPO 2312/2324 4500 RADZ BECMG 2319/2321 33005KT BKN007 OVC010 BECMG 2400/2402 SHRA BKN020TCU LFRI 230500Z 2306/2406 05009KT 8000 -RA SCT008 OVC030 TEMPO 2306/2406 3000 DZRA BKN008 BECMG 2400/2402 16010KT LFRL 230500Z 2306/2406 01007KT CAVOK TEMPO 2311/2316 -RA OVC018 BECMG 2403/2405 22007KT OVC020 LFRM 230500Z 2306/2406 04008KT 9999 SCT014 BKN025 TEMPO 2306/2406 3000 DZRA BKN008 BECMG 2400/2402 18009KT LFRN 230500Z 2306/2406 03008KT 9999 BKN015 BKN040 TEMPO 2306/2406 3000 RADZ BKN005 PROB40 TEMPO 2400/2406 1500 RADZ BR BKN002 LFRQ 230500Z 2306/2406 02008KT CAVOK TEMPO 2310/2320 4000 DZ OVC005 BECMG 2320/2321 NSW BKN018 LFRS 230500Z 2306/2412 04009KT 8000 -RA SCT008 BKN030 TEMPO 2306/2412 3000 DZRA BKN008 BECMG 2403/2405 17009KT TEMPO 2406/2409 1500 +RA BKN008TCU BECMG 2408/2410 28008KT LFRZ 230500Z 2306/2406 03010KT 8000 -RA SCT008 OVC030 TEMPO 2306/2406 3000 DZRA BKN008 BECMG 2404/2406 31005KT LFSB 230653Z 2306/2406 02004KT 3000 BR FEW003 BKN015 TEMPO 2307/2309 0800 FG BKN001 PROB40 TEMPO 2307/2308 0400 FG VV/// BECMG 2309/2311 7000 NSW BECMG 2317/2319 3000 BR OVC003 BECMG 2319/2321 0500 FG VV/// LFSI 230800Z 2309/2409 08010KT 6000 BKN007 BECMG 2309/2311 SCT020 LFSO 230810Z 2309/2409 08005KT 0800 FG OVC002 TEMPO 2309/2310 0400 FG VV/// BECMG 2309/2311 4000 BR BKN005 BECMG 2311/2313 8000 NSW SCT007 FM231500 09005KT CAVOK BECMG 2318/2320 4000 BR BECMG 2400/2402 18010KT BECMG 2403/2405 7000 NSW LFST 230845Z 2308/2406 35004KT 6000 OVC003 TEMPO 2308/2310 1200 BR VV/// BECMG 2309/2311 OVC006 BECMG 2311/2313 BKN013 BECMG 2314/2316 22005KT CAVOK BECMG 2319/2321 2000 BR BKN002 BECMG 2321/2323 0400 FG VV/// PROB40 TEMPO 2404/2406 1200 OVC002 LFSX 230800Z 2309/2409 10005KT CAVOK LFTH 230800Z 2309/2409 08025G40KT CAVOK PROB40 TEMPO 2309/2312 5000 TSRA SCT030CB TEMPO 2310/2316 08030G50KT BECMG 2313/2317 2000 +TSRA BKN030CB OVC060 BECMG 2323/2402 36005KT 9999 NSW BKN010 LFTW 230800Z 2309/2409 03010KT 9999 FEW030 SCT060 OVC100 TEMPO 2309/2318 VRB15G35KT 0600 +TSRA FG BKN015 OVC030 BKN033CB PROB40 TEMPO 2309/2318 GR BECMG 2315/2316 10010KT TEMPO 2315/2401 4000 SHRA BKN008 SCT030TCU OVC033 LFVP 230800Z 2309/2318 06015KT 9999 BKN010 BECMG 2314/2316 11020KT LGAV 230500Z 2306/2406 02012G22KT 9999 FEW020 BECMG 2306/2308 02022G32KT LGEL 230500Z 2306/2406 35012KT 9999 FEW020 TEMPO 2308/2316 34015G25KT LGIR 230500Z 2306/2406 31014KT 9999 FEW018 SCT020 PROB30 TEMPO 2306/2316 5000 RA FEW016 BKN020 LGKO 230500Z 2306/2406 36012KT 9999 FEW020 LGKR 230500Z 2306/2406 VRB05KT 9999 FEW020 TEMPO 2308/2316 29010KT LGKV 230500Z 2306/2406 08010KT 9999 FEW030 LGPZ 230500Z 2306/2406 08010KT 9999 FEW020 LGRP 230500Z 2306/2406 VRB05KT 9999 FEW020 BECMG 2310/2312 26010KT LGSA 230500Z 2306/2406 01014KT 9999 FEW018 SCT025 PROB30 TEMPO 2306/2316 5000 RA FEW016 BKN025 LGSR 230500Z 2306/2406 35018G28KT 9999 FEW020 LGTS 230500Z 2306/2406 VRB03KT 9999 FEW030 PROB40 2306/2308 5000 BR SCT005 LHBP 230515Z 2306/2406 VRB03KT 6000 MIFG NSC BECMG 2306/2308 CAVOK BECMG 2309/2311 11006KT BECMG 2400/2402 VRB03KT 6000 TEMPO 2402/2406 3000 BCFG MIFG LHPA 230613Z 2306/2406 VRB03KT 1500 BR SCT002 TEMPO 2306/2308 0600 FG BKN001 BECMG 2307/2309 5000 BR NSC BECMG 2309/2312 18007KT CAVOK TEMPO 2400/2406 6000 NSC LIBC 230500Z 2306/2406 VRB06KT 7000 NSC= LIBP 230500Z 2306/2406 VRB05KT 2000 BR NSC TEMPO 2306/2307 0400 FG BKN005 BECMG 2308/2310 8000 LIBD 230500Z 2306/2406 VRB05KT 7000 NSC= LIBP 230500Z 2306/2406 VRB05KT 2000 BR NSC TEMPO 2306/2307 0400 FG BKN005 BECMG 2308/2310 8000 LIBP 230658Z 2307/2406 VRB05KT 1500 BR NSC TEMPO 2307/2309 0400 FG BKN005 BECMG 2309/2311 8000 LIBR 230500Z 2306/2406 33008KT 8000 NSC BECMG 2320/2322 3000 BR TEMPO 2400/2406 0400 FG LICA 230500Z 2306/2406 06010KT CAVOK LICC 230500Z 2306/2406 VRB05KT CAVOK BECMG 2308/2310 09012KT BECMG 2317/2319 VRB05KT LICD 230500Z 2306/2406 14016KT 9999 SCT020 BECMG 2315/2318 14015G25KT LICJ 230500Z 2306/2406 18008KT 9999 FEW030 BECMG 2308/2310 06010KT BECMG 2316/2318 19012KT LICR 230500Z 2306/2406 VRB05KT 9999 FEW040 BECMG 2308/2310 19012KT LIEA 230500Z 2306/2406 05015KT 9999 BKN050 BECMG 2307/2309 19015G25KT BECMG 2315/2318 21012KT TEMPO 2318/2324 TSRA LIEE 230500Z 2306/2406 14018G28KT 9999 BKN020 BECMG 2315/2318 14015KT TEMPO 2318/2403 TSRA BECMG 2323/2401 32010KT LIEO 230500Z 2306/2406 10015KT 9999 SCT018 BECMG 2307/2309 12015G25KT BECMG 2315/2318 12015KT TEMPO 2321/2403 TSRA BECMG 2400/2403 23010KT LIMC 230500Z 2306/2412 VRB05KT 4000 BR SCT015 2306/2308 1500 BCFG BECMG 2308/2310 7000 BECMG 2322/2324 4000 RA BKN012 BKN040 LIME 230500Z 2306/2406 VRB05KT 8000 NSC TEMPO 2306/2308 2500 BCFG BECMG 2323/2401 4000 RA BKN012 BKN040 LIMF 230500Z 2306/2406 VRB05KT 6000 SCT030 SCT080 TEMPO 2306/2308 1500 BCFG BECMG 2317/2319 4000 RA BKN012 BKN040 LIMJ 230500Z 2306/2406 03008KT 9999 SCT040 TEMPO 2318/2406 13010KT 4000 RA BKN012 BKN040 LIMP 230500Z 2306/2406 VRB05KT 3000 BR SCT020 SCT080 TEMPO 2306/2308 1200 BCFG BECMG 2309/2311 6000 LIMZ 230500Z 2306/2406 VRB05KT 6000 SCT030 SCT080 TEMPO 2306/2308 1500 BCFG TEMPO 2318/2403 4000 RA BKN012 BKN040 TEMPO 2403/2406 1200 BCFG BKN005 LIPB 230500Z 2306/2406 VRB05KT CAVOK LIPE 231021Z 2310/2406 VRB05KT 4000 BR FEW030 BECMG 2310/2313 7000 LIPH 230500Z 2306/2406 VRB05KT 3000 BR NSC TEMPO 2306/2309 0400 FG OVC001 BECMG 2309/2312 6000 SCT025 BECMG 2318/2320 4000 BR LIPO 230500Z 2306/2406 VRB05KT 6000 NSC TEMPO 2306/2308 1500 BCFG TEMPO 2402/2406 4000 RA BKN012 BKN040 LIPQ 230500Z 2306/2406 VRB05KT 3000 BR NSC TEMPO 2306/2308 0400 FG BKN003 BECMG 2308/2310 6000 BECMG 2318/2320 4000 BR LIPY 230500Z 2306/2406 VRB05KT 2000 BR BKN006 TEMPO 2306/2307 0600 FG BKN003 BECMG 2308/2310 6000 SCT020 LIPZ 230545Z 2306/2412 VRB05KT 8000 FEW030 TEMPO 2306/2309 0400 FG OVC001 BECMG 2316/2319 3000 BR LIRA 230500Z 2306/2406 VRB05KT CAVOK BECMG 2308/2310 18010KT LIRF 230500Z 2306/2412 VRB05KT CAVOK BECMG 2308/2310 16014KT BECMG 2409/2412 4000 SHRA BKN014 BKN050 LIRN 230500Z 2306/2406 VRB05KT CAVOK BECMG 2309/2311 19010KT LIRP 230500Z 2306/2406 10010KT CAVOK BECMG 2316/2318 08005KT 9999 FEW025 SCT060 TEMPO 2323/2406 4000 RA BR BKN020 LIRQ 230500Z 2306/2406 VRB05KT 9999 FEW040 BECMG 2403/2406 RA LIRZ 230500Z 2306/2406 VRB06KT 9999 FEW045 LJLJ 230800Z 2309/2409 30003KT 9999 BCFG SCT001 BECMG 2309/2311 12005KT NSW FEW040 BECMG 2316/2317 VRB02KT CAVOK TEMPO 2403/2409 0400 FG VV001 LJMB 230800Z 2309/2409 VRB02KT 9999 FEW005 BECMG 2309/2310 20005KT CAVOK TEMPO 2312/2317 20010KT BECMG 2317/2318 VRB02KT TEMPO 2402/2409 0350 FG VV002 LKCV 230500Z 2306/2406 VRB02KT 2000 BR SCT003 BKN030 TEMPO 2306/2308 0600 FG VV002 BECMG 2308/2310 4000 BR SCT010 BKN025 BECMG 2310/2312 11006KT 6000 NSW SCT030 BECMG 2318/2320 4000 BR TEMPO 2319/2406 1500 BR BKN004 PROB40 TEMPO 2320/2406 0600 FG VV002 LKKB 230500Z 2306/2406 VRB02KT 0300 FG VV001 BECMG 2309/2311 08004KT 3000 BR BKN030 TEMPO 2312/2320 5000 BR BKN040 BECMG 2318/2320 VRB02KT 2000 BR TEMPO 2322/2406 0300 FG VV001 LKKV 230500Z 2308/2412 08004KT 7000 BKN016 TEMPO 2308/2310 4000 BR BKN004 BECMG 2310/2312 13004KT CAVOK BECMG 2316/2318 1200 MIFG NSC TEMPO 2318/2408 0600 FG SCT001 PROB30 TEMPO 2320/2407 0300 FG VV001 BECMG 2408/2410 CAVOK LKMT 230500Z 2310/2412 VRB02KT 0900 FG OVC002 TEMPO 2310/2314 0300 FG VV001 BECMG 2314/2316 CAVOK BECMG 2315/2317 22010KT TEMPO 2406/2412 22012G24KT LKNA 230500Z 2306/2406 08004KT 3000 BR BKN005 PROB40 TEMPO 2306/2309 0500 FG VV002 BECMG 2309/2311 13008KT 8000 SCT012 BECMG 2313/2315 CAVOK PROB30 TEMPO 2323/2406 4000 BR SCT007 LKPD 230500Z 2306/2406 12004KT 4000 BR OVC003 TEMPO 2306/2309 VRB02KT 0600 FG VV001 TEMPO 2311/2316 8000 SCT020 LKPR 231021Z 2310/2412 VRB02KT 5000 BR BKN015 TEMPO 2310/2312 3000 BR BKN004 BECMG 2312/2313 09006KT 6000 BKN020 TEMPO 2313/2316 SCT030 BECMG 2316/2318 1200 BR SCT002 TEMPO 2318/2408 0600 FG OVC002 PROB40 TEMPO 2320/2407 0300 FG VV001 BECMG 2408/2410 7000 NSC LKTB 230500Z 2308/2412 07004KT 4000 BR NSC BECMG 2308/2310 13008KT CAVOK TEMPO 2400/2407 4000 BR NSC PROB30 TEMPO 2400/2407 2000 BR LLBG 230504Z 2306/2406 10006KT 9999 FEW045 SCT100 TEMPO 2306/2309 22010KT 7000 TSRA FEW060CB BKN080 FM230900 29008KT 9999 FEW040 SCT080 PROB40 2309/2315 5000 +TSRA FEW035CB BKN070 BECMG 2315/2317 VRB04KT FEW025 SCT060 PROB30 2317/2406 18008KT 5000 TSRA SCT020 FEW040CB BKN060 TX28/2310Z TN19/2404Z LLER 230503Z 2306/2406 36010KT CAVOK PROB40 2309/2316 VRB15KT 8000 TSRA FEW060CB BKN100 TX31/2312Z TN20/2404Z LLHA 230506Z 2306/2406 15010KT 9999 FEW045 SCT100 TEMPO 2306/2309 VRB03KT 7000 TSRA FEW060CB BKN080 FM230900 34012KT 9999 FEW040 SCT080 PROB40 2309/2315 5000 +TSRA FEW040CB BKN100 BECMG 2315/2317 VRB04KT SCT025 BKN060 PROB40 2317/2406 15006KT 5000 TSRA SCT020 FEW040CB BKN060 TX28/2310Z TN20/2404Z LLHZ 230505Z 2306/2406 20005KT 9999 FEW045 SCT100 TEMPO 2306/2309 20010KT 7000 TSRA FEW060CB BKN080 FM230900 29008KT 9999 FEW040 SCT080 PROB40 2309/2315 5000 +TSRA FEW035CB BKN070 BECMG 2315/2317 VRB03KT FEW025 SCT060 PROB40 2317/2406 18008KT 5000 TSRA SCT020 FEW040CB BKN060 TX28/2310Z TN19/2404Z LLIB 230507Z 2306/2406 07008KT 9999 SCT040 BKN100 PROB40 2309/2315 VRB12KT 5000 +TSRA FEW030CB BKN070 BECMG 2315/2317 05005KT FEW040 SCT100 TX28/2310Z TN18/2404Z LMML 230500Z 2306/2406 13012KT 9999 FEW022 LOWG 230515Z 2306/2406 VRB02KT CAVOK TX22/2314Z TN05/2405Z TEMPO 2306/2309 0300 FG VV002 TEMPO 2312/2316 14008KT BECMG 2320/2322 0700 BCFG NSC TEMPO 2322/2406 0300 FG VV001 LOWI 230515Z 2306/2406 27007KT 9999 FEW100 SCT300 TX23/2314Z TN08/2405Z BECMG 2309/2311 10006KT TEMPO 2310/2319 12015G30KT BECMG 2318/2320 27007KT PROB40 TEMPO 2320/2406 12012G25KT LOWK 230807Z 2308/2406 VRB02KT 0500 FG FEW002 TX20/2314Z TN06/2405Z TEMPO 2308/2309 0300 BKN002 BECMG 2308/2310 5000 BR FEW010 BECMG 2310/2311 CAVOK TEMPO 2322/2324 1500 BCFG SCT005 LOWL 230824Z 2308/2406 09005KT 9999 SCT015 TX14/2314Z TN08/2404Z BECMG 2319/2321 2500 BR BKN005 TEMPO 2402/2406 0100 FG VV000 LOWS 230515Z 2306/2406 15005KT 9999 FEW020 BKN300 TX21/2314Z TN10/2404Z PROB40 TEMPO 2306/2308 VRB01KT 0400 FG VV002 TEMPO 2306/2310 1200 BCFG BKN004 TEMPO 2310/2316 02005KT PROB40 TEMPO 2315/2406 16010G20KT BECMG 2320/2322 6000 BR NSC PROB40 TEMPO 2402/2406 VRB01KT 0800 BCFG BKN006 LOWW 230927Z 2309/2415 12010KT 4000 BR BKN002 TX23/2413Z TN12/2405Z BECMG 2309/2312 8000 NSW FEW008 TEMPO 2312/2324 15015KT CAVOK PROB40 2400/2404 3000 BR FEW003 TEMPO 2404/2407 9999 BKN003 BECMG 2408/2410 15017KT CAVOK LPAZ 230500Z 2306/2412 15010KT 9999 SCT025 TEMPO 2306/2403 FEW020 BKN040 BECMG 2307/2310 18013KT BECMG 2321/2324 17018KT BECMG 2403/2406 17025KT 6000 -RADZ SCT006 BKN012 TEMPO 2406/2412 17028G40KT 2000 RA SCT003 BKN008 FEW018CB LPBJ 230504Z 2306/2406 28008KT 9999 FEW012 PROB40 2306/2308 0200 FG BKN002 BECMG 2308/2310 30015KT FEW025 SCT035 TEMPO 2309/2318 31018G30KT BECMG 2319/2322 30005KT LPFR 230500Z 2306/2406 30008KT 9999 FEW020 BECMG 2308/2311 27015KT PROB30 TEMPO 2311/2317 28018G28KT BECMG 2317/2320 31008KT CAVOK BECMG 2401/2404 34005KT LPLA 230851Z 2309/2406 18010KT 9999 SCT015 SCT030 TEMPO 2309/2406 6000 -RADZ SCT008 BKN014 PROB40 TEMPO 2312/2406 2500 RADZ BR SCT003 BKN008 TEMPO 2316/2406 19015G28KT PROB30 TEMPO 2317/2406 20018G32KT 0800 TSRA BKN005 BKN012 SCT020CB LPMA 230500Z 2306/2406 35008KT 9999 SCT015 TEMPO 2306/2310 VRB05KT BKN015 BECMG 2310/2312 03010KT TEMPO 2310/2406 FEW015 BKN033 BECMG 2318/2321 35005KT TEMPO 2322/2405 VRB05KT LPMR 230503Z 2306/2406 35008KT 9999 FEW020 SCT030 PROB40 2306/2309 SCT010 BKN012 BECMG 2307/2309 35015KT TEMPO 2308/2318 35018G30KT BECMG 2318/2320 34008KT SCT020 BKN030 BECMG 2400/2402 VRB02KT LPMT 230503Z 2306/2406 33008KT 9999 FEW022 BECMG 2308/2310 33015KT FEW020 SCT030 TEMPO 2309/2317 34015G28KT BECMG 2317/2319 33008KT BECMG 2322/2324 VRB02KT LPOV 230604Z 2306/2406 35005KT 9999 FEW018 SCT030 BECMG 2306/2308 35015KT TEMPO 2309/2319 35018G28KT BECMG 2319/2321 35008KT BECMG 2323/2401 VRB02KT LPPD 230500Z 2306/2406 15008KT 9999 SCT025 TEMPO 2306/2321 FEW020 BKN040 BECMG 2309/2312 18013KT BECMG 2318/2321 17018KT TEMPO 2321/2403 6000 -RA SCT008 BKN018 BECMG 2403/2406 17025KT 5000 -RADZ BR SCT004 BKN008 LPPR 230500Z 2306/2406 33008KT 9999 FEW012 BECMG 2308/2311 33015KT FEW030 TEMPO 2311/2317 33017G27KT BECMG 2317/2320 34005KT CAVOK BECMG 2322/2401 VRB03KT BECMG 2403/2406 9999 BKN035 LPPS 230500Z 2306/2412 03010KT 9999 SCT015 TEMPO 2306/2412 FEW015 BKN030 BECMG 2312/2315 06010KT BECMG 2318/2321 VRB05KT BECMG 2403/2406 14008KT BECMG 2409/2411 15013KT LPPT 230500Z 2306/2412 31010KT 9999 FEW012 BECMG 2306/2309 32017KT SCT020 TEMPO 2309/2317 32017G27KT PROB30 TEMPO 2311/2317 32022G35KT BECMG 2317/2320 32010KT CAVOK BECMG 2323/2402 28008KT 9999 SCT012 BECMG 2409/2411 VRB03KT FEW030 LQBK 230500Z 2306/2406 16005KT CAVOK TX27/2313Z TN09/2405Z LQMO 230500Z 2306/2406 VRB02KT CAVOK TX28/2313Z TN08/2405Z LQSA 230500Z 2306/2406 15005KT CAVOK TX27/2314Z TN03/2306Z PROB40 TEMPO 2306/2308 1300 BCFG BKN004 TEMPO 2404/2406 1200 BCFG BKN003 LQTZ 230500Z 2306/2406 10005KT CAVOK TX27/2313Z TN04/2405Z TEMPO 2306/2307 2500 BR PROB40 TEMPO 2404/2406 3000 BR PROB30 TEMPO 2404/2406 0500 FG BKN001 LRBO 230500Z 2306/2406 12005KT 0300 FG VV002 TEMPO 2309/2311 5000 BR SCT007 BKN100 BECMG 2312/2314 SKC LRBS 230500Z 2306/2406 VRB04KT 0600 FG BKN002 TEMPO 2306/2308 0150 FG VV001 BECMG 2308/2310 3000 BR SCT010 BECMG 2310/2311 CAVOK BECMG 2317/2319 5000 BR BECMG 2321/2323 1500 BR BECMG 2323/2401 0600 FG BKN002 TEMPO 2401/2406 0150 FG VV001 LRCK 230500Z 2306/2406 VRB04KT 3000 BR OVC005 BECMG 2307/2309 5000 BKN010 TEMPO 2310/2316 7000 NSW NSC BECMG 2321/2323 3000 BR OVC005 TEMPO 2400/2406 1500 BR OVC002 LRCT 230500Z 2306/2406 12004KT 2000 BR SKC BECMG 2306/2308 5000 BR BECMG 2308/2310 9999 LRFT 230500Z 2306/2406 14006KT 2000 BR OVC003 BECMG 2307/2309 VRB04KT 5000 BR BKN005 BECMG 2309/2311 9999 SCT200 TEMPO 2402/2406 VRB03KT 0150 FG VV001 LROP 230500Z 2306/2406 VRB04KT 0600 FG BKN002 TEMPO 2306/2308 0150 FG VV001 BECMG 2308/2310 3000 BR SCT010 BECMG 2310/2311 CAVOK BECMG 2317/2319 5000 BR BECMG 2321/2323 1500 BR BECMG 2323/2401 0600 FG BKN002 TEMPO 2401/2406 0150 FG VV001 LRSB 230500Z 2306/2406 VRB04KT CAVOK TEMPO 2306/2308 3000 BR LRTR 230500Z 2306/2406 09006KT CAVOK TEMPO 2400/2406 3000 BR LRTZ 230500Z 2306/2406 03008KT 9999 BKN020 PROB30 TEMPO 2306/2308 VRB03KT 5000 BR OVC015 BECMG 2320/2322 15006KT 5000 BR PROB30 TEMPO 2404/2406 0800 FG VV003 LSGG 230825Z 2309/2415 VRB03KT 9999 FEW010 BKN014 TX17/2315Z TN11/2406Z TX18/2415Z BECMG 2312/2315 SCT015 BKN100 PROB30 TEMPO 2401/2407 4500 RA LSMA 230925Z 2310/2416 04005KT 6000 BKN006 BECMG 2310/2313 SCT010 PROB40 2321/2407 3000 BR BKN008 PROB30 2401/2406 1500 PRFG BKN004 BECMG 2407/2410 BKN100 LSMD 230925Z 2310/2416 06005KT 6000 BKN010 TEMPO 2310/2321 BKN016 BECMG 2321/2324 3000 BR BECMG 2400/2402 BKN008 PROB30 2401/2406 1500 PRFG BKN004 BECMG 2407/2410 6000 SCT012 BKN100 LSME 230925Z 2310/2416 04005KT 6000 BKN010 TEMPO 2310/2321 BKN016 BECMG 2321/2324 3000 BR BECMG 2400/2402 BKN008 PROB30 2401/2406 1500 PRFG BKN004 BECMG 2406/2409 6000 SCT012 BKN100 LSMM 230925Z 2310/2416 27010KT CAVOK TEMPO 2310/2416 10015G25KT TEMPO 2310/2406 10025G45KT BKN100 PROB30 TEMPO 2400/2406 4500 BR BECMG 2407/2410 BKN100 LSMP 230925Z 2310/2416 05010KT 9000 OVC012 BECMG 2319/2322 VRB03KT 4500 BR PROB30 TEMPO 2402/2406 0700 FG VV003 BECMG 2406/2409 8000 SCT015 BKN025 LSZH 230825Z 2309/2415 04004KT 4500 BR SCT006 BKN008 TX15/2314Z TN09/2405Z TX17/2414Z BECMG 2309/2311 04007KT 6000 BKN012 TEMPO 2311/2321 BKN016 BECMG 2316/2319 VRB03KT BECMG 2321/2324 3000 BR BKN010 BECMG 2400/2402 BKN008 PROB30 2401/2406 1500 PRFG BKN004 PROB30 2401/2408 12008KT BECMG 2407/2410 6000 SCT012 BKN100 LTAC 230440Z 2306/2406 VRB02KT 9999 SCT040 TEMPO 2309/2313 04012KT BECMG 2315/2318 CAVOK LTAG 230440Z 2306/2406 VRB02KT CAVOK TEMPO 2312/2316 16012KT SCT035 BECMG 2317/2320 SCT070 BKN180 LTAI 230440Z 2306/2406 34008KT CAVOK BECMG 2306/2309 SCT030 BECMG 2309/2312 18010KT BECMG 2315/2318 34007KT CAVOK LTAJ 230440Z 2306/2406 VRB02KT CAVOK TEMPO 2307/2310 09012KT BECMG 2308/2311 SCT040 BECMG 2314/2316 CAVOK BECMG 2400/2402 SCT040 BKN100 LTAP 230440Z 2306/2406 VRB02KT 9999 FEW040 BECMG 2309/2312 03012KT BECMG 2318/2321 VRB02KT CAVOK LTAT 230522Z 2306/2406 VRB02KT 0300 FG VV001 BECMG 2307/2308 7000 NSC BECMG 2308/2310 FEW040 BKN100 BECMG 2316/2318 CAVOK= LTAU 230440Z 2306/2406 06008KT 9999 SCT040 BECMG 2317/2320 CAVOK LTAZ 230440Z 2306/2406 03006KT 9999 SCT040 BECMG 2307/2310 03016KT BECMG 2315/2318 CAVOK BECMG 2318/2321 VRB02KT LTBA 230440Z 2306/2412 02013KT 9999 FEW035 BECMG 2315/2319 VRB02KT BKN027 BECMG 2405/2408 02013KT LTBJ 230440Z 2306/2406 36016G26KT CAVOK BECMG 2318/2321 35013KT LTBR 230440Z 2306/2406 VRB02KT4500 BR SCT030 BECMG 2306/2308 9999 NSW BECMG 2309/2312 35012KT CAVOK BECMG 2315/2318 VRB02KT BECMG 2323/2403 4500 BR PROB30 2404/2406 1200 BCFG FEW005 LTBS 230440Z 2306/2406 VRB02KT CAVOK BECMG 2307/2309 21012KT FEW030 BECMG 2315/2317 VRB02KT CAVOK LTBU 230440Z 2306/2406 03012KT 9999 FEW017 BECMG 2312/2315 FEW010 BKN025 LTCC 230440Z 2306/2406 VRB02KT CAVOK BECMG 2310/2312 FEW040 BKN100 BECMG 2315/2317 CAVOK LTCE 230440Z 2306/2406 VRB02KT 9999 SCT040 BECMG 2306/2309 06012KT BECMG 2312/2315 CAVOK LTCG 230440Z 2306/2406 VRB02KT 9999 -SHRA SCT015 BKN033 TEMPO 2306/2309 SCT012 BKN028 PROB40 TEMPO 2309/2313 BKN011 BKN028 LTCJ 230440Z 2306/2406 VRB02KT CAVOK BECMG 2306/2308 FEW040 BKN100 PROB30 TEMPO 2312/2315 VRB15G25KT -TSRA FEW025CB BKN035 BECMG 2315/2317 SCT100 BKN200 LTCS 230440Z 2306/2406 34007KT CAVOK BECMG 2309/2311 05010KT SCT040 BECMG 2317/2319 CAVOK LTFC 230440Z 2306/2406 36005KT CAVOK BECMG 2307/2310 05015KT FEW035 BECMG 2315/2318 33007KT CAVOK LTFE 230440Z 2306/2406 VRB02KT CAVOK BECMG 2309/2311 26012KT BECMG 2314/2317 VRB02KT LTFJ 230440Z 2306/2406 03009KT 9999 FEW015 BECMG 2306/2308 CAVOK TEMPO 2308/2311 SCT035 TEMPO 2402/2406 SCT015 LTFM 230440Z 2306/2412 03014KT 9999 SCT020 BECMG 2308/2311 FEW010 BKN022 LUKK 230520Z 2306/2406 19004KT 1500 BR OVC002 TEMPO 2306/2308 0500 FG VV/// BECMG 2308/2310 9999 NSW OVC006 TEMPO 2311/2315 BKN010 BECMG 2318/2320 3800 BR OVC002 TEMPO 2400/2406 0500 FG VV/// LWOH 230830Z 2309/2409 VRB02KT CAVOK LWSK 230830Z 2309/2409 VRB02KT CAVOK LYBE 230500Z 2306/2406 11007KT CAVOK TX27/2313Z TN10/2405Z LYKV 230500Z 2306/2406 VRB02KT CAVOK TX26/2313Z TN04/2405Z LYNI 230500Z 2306/2406 08005KT CAVOK TX28/2313Z TN08/2405Z LYPG 230500Z 2306/2406 17005KT CAVOK TX28/2313Z TN12/2405Z LYTV 230500Z 2306/2406 23005KT CAVOK TX25/2313Z TN09/2404Z PROB40 TEMPO 2306/2307 2000 BR LYUZ 230500Z 2306/2406 VRB02KT CAVOK TX24/2313Z TN07/2405Z LYVR 230610Z 2307/2406 10005KT CAVOK TX28/2313Z TN09/2405Z TEMPO 2312/2315 13015KT BECMG 2318/2320 14015G25KT LZIB 230500Z 2306/2406 04006KT 4000 BR FEW013 TEMPO 2306/2307 1200 BR FEW001 BECMG 2307/2309 15007KT CAVOK BECMG 2322/2400 09005KT LZKZ 230500Z 2306/2406 35004KT 1200 BCFG SCT001 TEMPO 2306/2307 VRB02KT 0500 FG BKN002 BECMG 2307/2309 20005KT CAVOK BECMG 2320/2322 VRB02KT 2000 BCFG FEW002 BECMG 2322/2400 0800 FG BKN001 TEMPO 2400/2406 0300 FG LZTT 230500Z 2306/2406 VRB02KT 2000 BCFG FEW002 PROB30 TEMPO 2306/2307 0500 FG BKN002 BECMG 2307/2309 16004KT CAVOK BECMG 2318/2320 27005KT MBPV 230430Z 2306/2406 04009KT 9999 SCT015 PROB30 TEMPO 2311/2317 04010G20KT 9000 SHRA FEW015CB BKN030 MDBH 230400Z 2306/2406 13008KT 9999 FEW016CB FEW018 SCT300 PROB30 2306/2312 7000 -TSRA FEW014CB BKN016 BKN070 BECMG 2312/2314 00000KT MDCY 230400Z 2306/2406 00000KT 9999 FEW016 SCT300 PROB40 2306/2312 7000 -TSRA FEW014CB SCT016 BKN070 BECMG 2315/2317 13010KT MDJB 230400Z 2306/2406 00000KT 9999 FEW016 BECMG 2316/2318 18010KT MDLR 230400Z 2306/2406 00000KT 9999 FEW014CB SCT016 SCT070 PROB40 2306/2312 6000 TSRA FEW012CB SCT014 BKN070 BECMG 2313/2315 09008KT MDPC 230400Z 2306/2406 00000KT 9999 FEW016CB FEW018 PROB30 2306/2312 8000 TSRA FEW016CB SCT018 BKN070 BECMG 2313/2315 07010KT MDPP 230400Z 2306/2406 00000KT 9999 FEW018 MDSD 230400Z 2306/2406 04004KT 9999 FEW016 PROB30 2306/2310 8000 SH FEW016CB SCT016 BECMG 2314/2316 14008KT MDST 230400Z 2306/2406 11008KT 9999 SCT022 PROB30 2306/2312 5000 TSRA FEW012CB BKN014 MGGT 230500Z 2306/2406 36006KT 9999 SCT014 BKN090 TX26/2320Z TN16/2712Z TEMPO 2306/13110 8000 -RADZ BKN014 TEMPO 1310/1313 5000 BR SCT004 BECMG 2315/2317 18008KT SCT018 TEMPO 2321/2402 8000 TSRA SCT020TCU SCT025CB BECMG 2402/2404 SCT016 MGMM 230500Z 2306/2406 00000KT CAVOK TX32/2320Z TN23/2712Z BECMG 2308/2310 SCT018 OVC090 TEMPO 2308/2312 8000 TSRA FEW025CB BECMG 2316/2318 06008KT FEW018 TEMPO 2321/2402 8000 TSRA SCT020 FEW025CB BECMG 2402/2404 00000KT MGPB 230500Z 2306/2406 00000KT 9999 BKN016 BKN080 TX30/2320Z TN23/2712Z TEMPO 2306/2314 7000 TSRA SCT025CB BECMG 2315/2317 04008KT SCT018 TEMPO 2320/2406 8000 TSRA SCT020TCU SCT025CB BECMG 2401/2403 00000K SCT016 BKN080 MGSJ 230500Z 2306/2406 00000KT 9999 SCT016 BKN080 TX32/2320Z TN23/2712Z TEMPO 2306/2312 7000 TSRA SCT025CB BECMG 2315/2317 16008KT SCT018 TEMPO 2320/2402 8000 TSRA FEW025CB BECMG 2402/2404 00000KT MHRO 230425Z 2306/2406 09016KT 8000 VCSH SCT022 BKN080 TX30/2319Z TN27/2312Z BECMG 2312/2314 6000 TSRA FEW022CB BKN080 BECMG 2316/2318 9999 NSW FEW020 FEW022CB SCT080 MHSC 230435Z 2304/2403 VRB06KT 9999 SCT030 QNH2999INS BECMG 2309/2310 VRB06KT 4800 BR SCT001 SCT030 QNH3001INS BECMG 2313/2314 18009KT 9999 NSW FEW050 SCT100 QNH2995INS BECMG 2318/2319 18010G15KT 9999 SCT050 SCT120 QNH2989INS TEMPO 2320/2402 18015G20KT VCTS SCT060CB BKN100 TX30/2320Z TN20/2312Z LAST NO AMDS AFT 2304 NEXT 2313 MKJP 230515Z 2306/2406 30005KT 9999 FEW022 BECMG 2310/2312 FEW020 SCT022CB BECMG 2315/2317 14016KT TEMPO 2317/2401 5000 TSRA SCT016 BKN018CB BECMG 2323/2401 36005KT FEW020 FEW022CB MKJS 230515Z 2306/2406 11005KT 9999 FEW022 BECMG 2312/2314 07018KT PROB40 TEMPO 2318/2324 SHRA SCT018 SCT020CB BECMG 2401/2403 11006KT MMAA 230421Z 2306/2412 00000KT 6SM HZ SCT020 SCT100 BKN300 TX30/2320Z TN26/2312Z FM231800 24008KT P6SM SCT020 BKN090 OVC250 PROB40 2322/2402 5SM -TSRA SCT020CB FM240700 26005KT P6SM SCT090 BKN250 MMAN 230539Z 2306/2406 12012KT 5SM HZ OVC020 FM231500 13008KT 6SM HZ SCT020 FM231800 13010KT P6SM BKN025 BECMG 2403/2405 08005KT SCT025 MMAS 230500Z 2306/2406 06006KT P6SM SCT100 FM231900 14010KT P6SM SCT030 BECMG 2320/2321 BKN030 BKN200 TEMPO 2322/2402 5SM RA VC TS BKN030CB BKN100 BKN200 MMBT 230447Z 2306/2406 00000KT P6SM BKN050 FM231500 24006KT P6SM SCT030 FM231900 24010KT P6SM BKN025 BKN200 TEMPO 2321/2401 5SM TSRA BKN020CB MMCB 230447Z 2306/2406 00000KT 5SM HZ BKN015 BKN100 TEMPO 2310/2314 3SM BR OVC008 FM231600 34006KT P6SM SCT020 BKN100 FM231900 20010KT P6SM BKN015 BKN080 TEMPO 2321/2401 5SM TSRA BKN015CB OVC080 MMCE 230523Z 2306/2406 12006KT P6SM SCT015 BKN300 TEMPO 2310/2314 5SM RA BKN015 BKN070 FM231900 12010KT P6SM BKN015 BKN300 TEMPO 2320/2324 5SM TSRA BKN015CB BKN070 MMCL 230458Z 2306/2406 00000KT P6SM SKC FM231800 25008KT P6SM SCT220 BECMG 2403/2405 02005KT SKC MMCM 230523Z 2306/2406 00000KT P6SM SCT020 BKN100 FM231600 12010KT P6SM BKN020CB BKN100 TEMPO 2318/2322 5SM TSRA FM240100 07005KT P6SM SCT020 BKN100 MMCN 230507Z 2306/2406 00000KT P6SM SKC BECMG 2318/2319 25010KT FM240200 00000KT P6SM SKC MMCP 230523Z 2306/2406 00000KT P6SM SCT070 BECMG 2308/2309 5SM HZ BKN015 TEMPO 2310/2314 2SM BR OVC006 FM231800 09010KT P6SM BKN015 BKN070 TEMPO 2321/2401 4SM TSRA BKN015CB OVC070 MMCS 230539Z 2306/2406 00000KT P6SM SKC FM231800 15008KT P6SM SKC BECMG 2403/2405 22005KT MMCU 230539Z 2306/2406 18007KT P6SM SKC FM231800 20008KT P6SM SKC BECMG 2403/2405 33004KT MMCV 230535Z 2306/2406 29006KT P6SM OVC025 TEMPO 2306/2310 5SM RA FM231000 34005KT 5SM HZ OVC015 FM231600 34010KT P6SM SCT020 BKN070 TEMPO 2322/2402 5SM RA BKN015 OVC070 MMCZ 230528Z 2306/2412 02004KT 6SM HZ SCT015 BKN080 BKN250 BECMG 2307/2309 5SM -RA TEMPO 2313/2317 4SM TSRA BKN015CB FM232200 08008KT P6SM SCT015 SCT090 BKN250 FM240700 09005KT P6SM SCT090 SCT250 MMDO 230507Z 2306/2406 02005KT P6SM BKN020 FM230900 00000KT P6SM SKC FM231900 12010KT P6SM SCT030 BECMG 2320/2321 BKN030 PROB40 2322/2042 5SM RA MMEP 230500Z 2306/2406 00000KT P6SM SCT020 OVC090 BECMG 2309/2310 3SM BR BKN010 TEMPO 2311/2315 1/2SM FG VV005 FM231600 30006KT 5SM HZ BKN015 FM231700 32010KT P6SM SCT020 BECMG 2320/2321 BKN020CB BKN090 TEMPO 2322/2402 3SM TSRA BKN015CB MMGL 230448Z 2306/2412 09006KT 6SM -RA SCT025 OVC080 TX26/2321Z TN17/2312Z FM231000 00000KT P6SM SCT020 BKN080 FM231800 12010KT P6SM BKN025 OVC090 PROB40 2323/2403 5SM -TSRA BKN025CB FM240700 22005KT P6SM SCT030 BKN090 BKN250 MMGM 230507Z 2306/2406 25005KT P6SM SKC BECMG 2318/2319 25010KT FM240200 32005KT P6SM SKC MMHO 230458Z 2306/2406 23004KT P6SM SKC FM231800 24008KT P6SM SKC BECMG 2403/2405 28005KT MMIA 230500Z 2306/2406 00000KT 6SM HZ SCT020 BKN100 TEMPO 2310/2314 3SM BR BKN010 FM231800 24010KT P6SM SCT020 BECMG 2320/2321 BKN020CB BKN100 TEMPO 2322/2402 5SM TSRA MMIO 230539Z 2306/2406 00000KT P6SM SKC FM231800 15010KT P6SM SCT020 SCT220 BECMG 2403/2405 08005KT MMLM 230507Z 2306/2406 30005KT P6SM SKC BECMG 2318/2319 28010KT FM240200 32005KT P6SM SKC MMLO 230500Z 2306/2406 00000KT P6SM SCT080 BKN220 FM231800 12010KT P6SM SCT030 SCT220 PROB40 2321/2401 5SM RA VC TS SCT020CB BKN090 BKN220 MMLP 230458Z 2306/2406 15005KT P6SM SKC FM231800 36008KT P6SM SCT030 BECMG 2403/2405 26004KT SKC MMLT 230507Z 2306/2406 04005KT P6SM SKC BECMG 2318/2319 34010KT FM240200 34005KT P6SM SKC MMMA 230535Z 2306/2406 05005KT P6SM SCT020 FM231700 12015KT P6SM BKN020 BKN080 TEMPO 2323/2403 5SM RA MMMD 230528Z 2306/2412 06007KT P6SM SCT030 SCT080 BKN300 TX33/2320Z TN24/2312Z BECMG 2308/2310 5SM -RA BKN030 OVC080 TEMPO 2319/2323 4SM TSRA BKN025CB FM240700 08006KT P6SM SCT025 SCT090 BKN240 MMML 230458Z 2306/2406 28004KT P6SM SKC FM231800 03008KT P6SM SKC BECMG 2403/2405 03005KT MMMM 230448Z 2306/2412 00000KT 6SM HZ SCT090 SCT200 FM231800 04010KT P6SM SCT025 BKN090 BKN220 BECMG 2321/2323 5SM -RA BKN025 OVC090 TEMPO 2323/2403 4SM TSRA BKN025CB FM240700 26008KT 6SM -RA BKN030 OVC100 MMMT 230523Z 2306/2406 36006KT P6SM SCT020 BKN120 TEMPO 2310/2314 4SM RA BKN015 OVC120 FM231800 34010KT P6SM BKN020 BKN120 TEMPO 2320/2324 4SM TSRA BKN015CB OVC100 FM240000 34006KT 5SM RA BKN015 OVC100 MMMX 230421Z 2306/2412 36006KT P6SM BKN020 BKN080 TX22/2322Z TN15/2312Z TEMPO 2313/2317 3SM BR FU FM231900 04012KT P6SM SCT020 BKN080 BECMG 2321/2323 6SM -RA BKN020 OVC080 PROB40 2323/2403 5SM -TSRA BKN020CB MMMY 230539Z 2306/2412 11013KT P6SM OVC025 TX28/2321Z TN19/2312Z TEMPO 2311/2315 5SM HZ FM231800 15010KT P6SM SCT030 SCT080 BECMG 2405/2407 09005KT MMMZ 230458Z 2306/2412 00000KT P6SM SCT240 TX32/2320Z TN24/2312Z TEMPO 2311/2315 3SM BR SCT005 FM231800 20010KT P6SM SCT020 SCT250 BECMG 2405/2407 33004KT MMNL 230535Z 2306/2406 12006KT P6SM SKC TEMPO 2310/2314 BKN020 FM231900 14015KT P6SM SCT030 FM240100 14006KT P6SM BKN020 MMOX 230447Z 2306/2406 36006KT P6SM BKN120 TEMPO 2310/2314 5SM HZ BKN020 FM231900 34010KT P6SM BKN030 BKN120 TEMPO 2321/2401 5SM TSRA BKN025CB OVC120 MMPA 230535Z 2306/2406 35006KT P6SM BKN020 OVC160 TEMPO 2310/2314 3SM DZ BR OVC010 FM231400 32008KT 5SM HZ BKN020 BKN070 TEMPO 2320/2324 4SM RA MMPB 230447Z 2306/2406 36006KT P6SM SCT020 SCT220 TEMPO 2310/2314 3SM BR BKN010 FM231900 03010KT P6SM SCT020 BKN200 BECMG 2321/2322 BKN020CB BKN090 BKN220 TEMPO 2322/2402 5SM TSRA MMPN 230500Z 2306/2406 00000KT P6SM SCT070 BKN280 FM231800 20010KT P6SM SCT030 TEMPO 2321/2401 5SM TSRA BKN030CB BKN070 MMPQ 230523Z 2306/2406 36006KT 5SM HZ BKN030 BKN080 TEMPO 2310/2314 3SM BR BKN010 FM231600 09006KT P6SM SCT030 FM232000 07010KT P6SM BKN030CB BKN100 TEMPO 2321/2401 5SM TSRA MMPR 231019Z 2306/2412 00000KT P6SM BKN020 OVC070 TX29/2320Z TN23/2312Z TEMPO 2307/2310 5SM -RA FM231800 28010KT P6SM SCT020 BKN080 TEMPO 2323/2403 4SM -TSRA BKN020CB FM240700 30008KT 6SM -RA BKN030 OVC080 MMPS 230447Z 2306/2406 00000KT P6SM SCT015 BKN300 FM231800 23010KT P6SM SCT015 BKN070 BKN300 TEMPO 2321/2401 5SM TSRA BKN015CB OVC070 MMQT 230500Z 2306/2406 09008KT P6SM SCT020 BKN100 TEMPO 2310/2314 3SM BR BKN010 FM231900 07010KT P6SM BKN020 BKN200 PROB40 2321/2401 5SM RA MMRX 230535Z 2306/2406 03006KT P6SM SKC FM231600 12015KT P6SM BKN020 TEMPO 2323/2403 5SM RA MMSD 230507Z 2306/2406 00000KT P6SM SKC BECMG 2318/2319 24010KT FM240200 00000KT P6SM SKC MMSL 230507Z 2306/2406 27005KT P6SM SKC BECMG 2318/2319 25010KT FM240200 22005KT P6SM SKC MMSP 230448Z 2306/2412 13007KT P6SM SCT030 SCT080 TX21/2321Z TN13/2312Z TEMPO 2311/2315 3SM BR BKN020 FM231800 15010KT P6SM SCT025 BKN080 PROB40 2322/2402 5SM -TSRA SCT025CB FM240700 12008KT 06SM SCT030 SCT080 BKN220 MMTC 230539Z 2306/2406 06008KT P6SM SKC FM231800 15012KT P6SM SKC BECMG 2403/2405 08005KT MMTG 230528Z 2306/2406 31004KT P6SM SCT090 BKN300 FM231000 00000KT 5SM HZ SCT025 SCT080 BKN250 FM231800 13010KT P6SM BKN030 OVC080 TEMPO 2322/2402 5SM -TSRA BKN030CB FM240500 01005KT P6SM SCT030 SCT090 BKN240 MMTJ 230458Z 2306/2412 00000KT P6SM SKC TX35/2320Z TN16/2312Z FM231800 28012KT P6SM SKC BECMG 2405/2407 30004KT MMTM 230421Z 2306/2406 19008KT 6SM HZ SCT020 BKN070 OVC200 TEMPO 2307/2311 4SM TSRA BKN020CB OVC070 BR FM231800 09010KT 5SM -RA BKN025 OVC080 PROB40 2322/2402 3SM TSRA BKN015CB MMTO 230421Z 2306/2412 05005KT P6SM SCT015 SCT070 TX19/2321Z TN09/2312Z FM231000 00000KT 5SM HZ SCT010 SCT070 TEMPO 2312/2315 1/2SM FG VV002 FM231500 12005KT 3SM BR BKN010 FM231800 04010KT 6SM HZ SCT015 BKN070 BECMG 2321/2323 5SM -RA BKN015 OVC070 PROB40 2323/2403 4SM TSRA BKN015CB MMTP 230528Z 2306/2412 00000KT P6SM SCT100 BKN200 FM231800 22010KT P6SM SCT020 BKN090 BKN220 BECMG 2319/2321 5SM -RA TEMPO 2323/2403 4SM TSRA BKN020CB FM240800 08008KT 6SM -RA BKN025 OVC100 MMUN 230528Z 2306/2412 29004KT P6SM SCT015 SCT080 TX29/2319Z TN24/2312Z BECMG 2307/2309 5SM -RA BKN015 OVC080 TEMPO 2315/2319 4SM TSRA BKN015CB FM232200 08012KT P6SM SCT015 BKN090 BKN240 FM240700 09005KT P6SM SCT090 BKN250 MMVA 230523Z 2306/2406 00000KT 5SM RA OVC015CB FM230800 00000KT 3SM BR BKN010 TEMPO 2310/2314 2SM BR OVC008 FM231600 03006KT 5SM HZ BKN015 FM231900 03010KT P6SM BKN015 BKN070 TEMPO 2321/2401 5SM TSRA BKN015CB OVC070 MMVR 230421Z 2306/2406 36015KT P6SM SCT012 TX30/2319Z TN25/2312Z BECMG 2308/2310 5SM -RA BKN012 BKN080 TEMPO 2322/2402 4SM TSRA BKN015CB OVC080 FM240300 36015KT 6SM -RA BKN020 OVC090 MMZC 230448Z 2306/2412 15010KT P6SM SCT100 TX19/2322Z TN13/2312Z FM231800 14012KT P6SM SCT025 BKN090 PROB40 2323/2403 5SM -TSRA BKN025CB FM240700 12008KT P6SM SCT030 SCT090 BKN230 MMZH 230447Z 2306/2406 00000KT P6SM SCT015 BKN250 FM231600 24006KT P6SM SCT250 FM231900 24010KT P6SM SCT020 BKN250 TEMPO 2321/2401 5SM RA VC TS SCT020CB BKN100 BKN250 MMZO 230448Z 2306/2406 00000KT P6SM BKN020 BKN200 FM231800 28010KT P6SM SCT020 SCT080 BKN220 PROB40 2322/2402 5SM -TSRA BKN020CB OVC080 FM240500 30005KT P6SM SCT025 SCT090 BKN230 MPDA 230300Z 2300/2312 CNL MPMG 230300Z 2300/2312 CNL MPPA 230300Z 2300/2406 CNL= MPSM 230300Z 2300/2406 CNL MPTO 230500Z 2306/2412 25006KT 9999 SCT020 SCT090 BECMG 2317/2321 30005KT 6000 TSRA SCT015CB BKN080 BECMG 2322/2402 9999 NSW SCT018 SCT090 MRLB 230500Z 2306/2406 16004KT 9999 SCT020 BKN120 TX31/2319Z TN21/2312Z TEMPO 2308/2314 VRB02KT 0600 FG BKN002 TEMPO 2321/2401 28006KT 5000 TSRA SCT015CB BKN030 MRLM 230500Z 2306/2406 25005KT 9999 SCT20 SCT120 TX31/2319Z TN22/2312Z BECMG 2314/2316 05007KT BECMG 2400/2402 24004KT MROC 230500Z 2306/2406 26005KT 9999 SCT020 BKN120 TX26/2318Z TN18/2312Z TEMPO 2306/2310 3000 BR BKN015 TEMPO 2310/2314 08004KT TEMPO 2319/2323 -TSRA FEW015CB TEMPO 2323/2402 5000 RA BR SCT015 BKN030 MRPV 230500Z 2306/2406 28004KT 9999 SCT020 BKN120 TX25/2318Z TN17/2312Z TEMPO 2306/2310 VRB02KT BCFG TEMPO 2309/2314 10005KT TEMPO 2319/2322 5000 TSRA FEW015CB BKN030 TEMPO 2322/2401 RA SCT015 BKN030 MUCC 230500Z 2306/2406 VRB03KT 9000 SCT020 BECMG 2315/2317 09010KT BECMG 2403/2405 VRB03KT MUCM 230500Z 2306/2406 VRB03KT 9000 SCT020 BECMG 2315/2317 03010KT BECMG 2403/2405 VRB03KT MUCU 230500Z 2306/2406 36005KT 9000 SCT020 BECMG 2315/2317 18008KT TEMPO 2318/2324 5000 SHRA SCT018CB BKN020 BECMG 2401/2403 36005KT MUGM 2307/2407 35008KT 9999 FEW030 FEW250 QNH2984INS BECMG 2312/2314 08012KT 9999 VCTS FEW030CB SCT250 QNH2986INS BECMG 2322/2400 VRB06KT 9999 NSW FEW050 SCT300 QNH2989INS T25/2210Z T29/2320Z FN00194 MUHA 230500Z 2306/2406 06004KT 9000 FEW030 BECMG 2314/2316 09008KT PROB30 TEMPO 2320/2400 VRB10KT 5000 SHRA FEW020CB BKN030 BECMG 2403/2405 VRB03KT MUHG 230500Z 2306/2406 VRB03KT 9000 SCT020 BECMG 2315/2317 04010KT BECMG 2401/2403 VRB03KT MUSC 230500Z 2306/2406 VRB03KT 9000 SCT020 BECMG 2315/2317 09010KT BECMG 2401/2403 VRB03KT MUVR 230500Z 2306/2406 VRB03KT 9000 SCT020 BECMG 2315/2317 06010KT BECMG 2401/2403 VRB03KT MWCR 230300Z 2300/2323 CNL MYGF 230430Z 2306/2406 08003G15KT 9000 TSRA SCT015CB BKN018 FM231300 07004KT 9999 VCSH FEW018CB SCT030 PROB30 TEMPO 2320/2401 06010G20KT 9000 SHRA FEW016CB BKN018 MYNN 230430Z 2306/2406 08003KT CAVOK FM232100 09010G20KT 8000 SHRA SCT016CB BKN040 NCRG 230526Z 2306/2406 26007KT 9999 SCT018 BKN023 NFFN 230507Z 2306/2406 10007KT 9999 -SHRA SCT020 BKN044 OVC100 PROB40 TEMPO 2306/2312 5000 TSRA FEW018CB BECMG 2321/2323 29010KT PROB40 TEMPO 2400/2406 5000 TSRA FEW018CB BECMG 2404/2406 10007KT NFNA 230509Z 2306/2406 10008KT 9999 -SHRA SCT018 SCT045 BKN100 PROB40 TEMPO 2306/2312 5000 TSRA BKN015 FEW017CB PROB30 TEMPO 2312/2320 5000 SHRA BKN015 PROB30 TEMPO 2400/2406 5000 SHRA BKN015 NFTF 230514Z 2306/2406 12008KT 9999 FEW012 SCT040 BKN100 PROB30 TEMPO 2318/2406 5000 SHRA BKN015 NFTV 231029Z 2310/2406 11007KT 9999 -SHRA FEW009 SCT017 BKN040 TEMPO 2311/2324 4000 TSRA BKN015 FEW017CB PROB30 TEMPO 2400/2406 5000 TSRA BKN015 FEW018CB NGFU 230520Z 2306/2406 11007KT 9999 SCT018 PROB30 TEMPO 2312/2406 5000 TSRA BKN015 FEW018CB NGTA 230512Z 2306/2406 10009KT 9999 SCT018 PROB30 TEMPO 2314/2406 5000 TSRA FEW018CB NIUE 231007Z 2310/2406 CNL NLWF 230500Z 2306/2406 05005KT 9999 FEW020 PROB40 TEMPO 2310/2316 4000 SHRA BKN014 FEW018TCU NLWW 230500Z 2306/2406 07010KT 9999 SCT025 PROB40 TEMPO 2318/2322 SHRA FEW020TCU NSFA 230521Z 2306/2406 08010KT 9999 FEW022 SCT045 NSTU 230522Z 2306/2406 10010KT P6SM VCSH SCT020 BKN040 NTAA 230500Z 2306/2412 VRB05KT 9999 FEW023 NVSC 231000Z 2306/2406 16006KT 9999 FEW020 PROB30 INTER 2312/2318 9000 -SHRA BKN018 NVSG 231000Z 2306/2406 17005KT 9999 FEW020 PROB30 INTER 2312/2318 9000 -SHRA BKN018 NVSL 231000Z 2306/2406 15007KT 9999 FEW020 PROB30 INTER 2312/2318 9000 -SHRA BKN018 NVSP 231000Z 2306/2406 14005KT 9999 FEW020 PROB30 INTER 2312/2318 9000 -SHRA BKN018 NVSS 231000Z 2306/2406 14007KT 9999 FEW020 INTER 2312/2318 9000 -SHRA BKN018 NVVA 231000Z 2306/2406 13006KT 9999 FEW010 SCT018 INTER 2312/2318 8000 +RA FEW008 BKN016 NVVV 231000Z 2306/2406 VRB03KT 9999 FEW020 INTER 2312/2318 9000 -SHRA BKN018 NVVW 231000Z 2306/2406 VRB02KT 9999 BKN022 PROB30 INTER 2312/2318 9000 -SHRA BKN020 NWWD 230500Z 2306/2406 18015KT 9999 BKN045 TEMPO 2306/2308 SHRA FEW020TCU BECMG 2308/2310 09005KT BECMG 2400/2402 18010KT NWWE 230833Z 2308/2406 CNL NWWK 230500Z 2306/2406 14020KT 9999 FEW045 TEMPO 2306/2308 16018G28KT BECMG 2308/2310 15008KT TEMPO 2306/2307 4000 SHRA FEW020TCU BECMG 2323/2401 18018KT NWWR 230944Z 2309/2406 16010KT 9999 SCT025 SCT040 TEMPO 2309/2312 4000 SHRA BKN020 FEW023TCU NWWV 230834Z 2308/2406 CNL NWWW 230500Z 2306/2406 15016G28KT 9999 SCT035 BECMG 2310/2312 12006KT BECMG 2322/2401 17018G28KT NZAA 230532Z 2306/2406 21018G35KT 9999 -SHRA SCT030 BKN040 BECMG 2306/2308 21015G25KT BECMG 2323/2401 28020G30KT TEMPO 2401/2406 7000 SHRA BKN014 NZCH 230445Z 2306/2406 18010KT CAVOK BECMG 2306/2308 04012KT FM231300 VRB02KT 9999 BKN070 FM232000 20015G25KT 9999 -SHRA SCT030 BECMG 2322/2400 20015KT PROB40 TEMPO 2323/2406 20015G30KT 6000 SHRA FEW020TCU NZFX 230854Z 2309/2409 05014KT 9999 DRSN SCT040 BKN200 QNH2951INS GRID22014KT BECMG 2312/2314 14018G30KT 6000 BLSN SCT040 BKN150 QNH2940INS GRID31018G30KT TEMPO 2316/2322 07013KT GRID24013KT NZWN 230532Z 2306/2406 18015G25KT 9999 SCT030 BECMG 2309/2311 34015G25KT BECMG 2316/2318 34018G35KT TEMPO 2318/2323 6000 RA BKN014 FM240200 18020G35KT 9999 SCT030 BKN040 TEMPO 2402/2406 7000 SHRA SCT030TCU OAHR 230500Z 2306/2406 VRB02KT CAVOK BECMG 2306/2308 35007KT BECMG 2310/2312 03012KT BECMG 2315/2317 VRB03KT BECMG 2404/2406 35008KT OAIX 230702Z 2307/2413 34009KT 9999 FEW200 QNH2994INS TEMPO 2312/2317 34012G18KT BECMG 2317/2318 22006KT 9999 SKC QNH3008INS BECMG 2322/2323 VRB06KT 8000 HZ SKC QNH3009INS TEMPO 2401/2406 6000 HZ BECMG 2405/2406 VRB06KT 9999 NSW SKC QNH2999INS BECMG 2411/2412 34012KT 9999 FEW200 QNH2999INS TX22/2310Z TN06/2400Z OAJL 230800Z 2308/2414 VRB06KT 8000 HZ SKC QNH2982INS BECMG 2402/2403 VRB06KT 5000 HZ FEW130 QNH2998INS BECMG 2404/2405 VRB06KT 8000 HZ SCT120 QNH2989INS TX29/2310Z TN13/2400Z OAKB 230505Z 2306/2406 VRB02KT CAVOK BECMG 2309/2310 35012KT BECMG 2316/2317 VRB02KT TEMPO 2401/2405 5000 HZ OAKN 230800Z 2308/2413 22009KT 9999 SKC QNH3002INS BECMG 2312/2314 28012KT 9999 SKC QNH3000INS BECMG 2318/2319 VRB06KT 9999 SKC QNH3003INS TX26/2312Z TN11/2402Z OAMS 230505Z 2306/2406 36006KT 9999 NSW FEW100 SCT200 BECMG 2312/2314 18009KT 9999 NSW FEW200 BECMG 2403/2405 02010KT 9999 NSW FEW150 SCT200 OBBI 230500Z 2306/2412 VRB05KT 8000 NSC BECMG 2310/2312 10010KT BECMG 2316/2318 VRB05KT PROB30 TEMPO 2401/2405 4000 HZ OEDF 230300Z 2306/2412 11012KT 8000 NSC BECMG 2318/2320 VRB03KT OEJN 230500Z 2306/2412 24015KT 9999 FEW040 PROB40 TEMPO 2311/2316 VRB25KT 4000 BLDU FEW030CB SCT040 BECMG 2317/2319 08010KT 7000 SCT040 OEKK 230500Z 2306/2320 24018KT 7000 FEW040 PROB30 TEMPO 2307/2311 3500 BLDU BECMG 2314/2316 18008KT OEMA 230500Z 2306/2412 24012KT 9999 FEW045 PROB40 TEMPO 2310/2316 VRB25KT 4000 BLDU FEW045CB BECMG 2318/2320 VRB03KT 7000 SCT045 OERK 230500Z 2306/2412 19015KT 7000 NSC PROB20 TEMPO 2306/2312 4000 BLDU BECMG 2316/2318 19005KT 9999 FEW030 OETF 230500Z 2306/2324 25013KT 7000 FEW030 TEMPO 2309/2318 TS FEW025CB BKN030 BECMG 2319/2321 19010KT 9999 SCT030 OIAA 230530Z 2306/2412 05008KT 6000 FEW035 TEMPO 2310/2316 04012G22KT 2000 TSSHRA/SA FEW035CB SCT040 BKN100 OIAW 230530Z 2306/2412 04008KT 6000 FEW035 TEMPO 2310/2316 04014G24KT 2000 TSSHRA/SA FEW035CB SCT040 BKN100 OIBK 230530Z 2306/2412 12008KT 6000 NSC TEMPO 2309/2315 20016KT FEW025CB SCT030 SCT100 PROB40 2312/2315 4000 TSRA BECMG 2318/2320 4000 HZ FEW030 TEMPO 2400/2404 3000 BR SCT030 BECMG 2405/2407 7000 NSC TEMPO 2409/2412 20016KT FEW025TCU SCT030 SCT100 OICI 230530Z 2306/2412 12008KT 8000 FEW040 BECMG 2309/2315 28018KT SHRA FEW035CB SCT040 BKN090 PROB30 TS TEMPO 2322/2403 5000 RA FEW035CB SCT040 BKN080 OIFM 230530Z 2306/2412 28008KT 5000 HZ FEW040 BECMG 2308/2309 8000 FEW040 SCT100 TEMPO 2309/2315 30018KT 5000 TSRA FEW035CB SCT040 OVC090 BECMG 2321/2323 4000 HZ TEMMP 2400/2404 1500 BR / HZ BECMG 2408/2409 8000 OIIE 230530Z 2306/2412 30006KT 7000 FEW035 SCT100 TEMPO 2306/2311 30016KT 4000 SHRA FEW030CB SCT035 BKN090 TEMPO 2315/2320 30016KT 5000 SHRA FEW030CB SCT035 BKN090 OIII 230530Z 2306/2412 27006KT 5000 HZ SCT035 BKN100 TEMPO 2306/2310 3000 RA BR SCT030 FEW035CB OVC090 BECMG 2311/2312 7000 TEMPO 2316/2320 28016KT 5000 SHRA FEW030CB SCT035 BKN080 OIKB 230530Z 2306/2412 12008KT 5000 HZ FEW030 TEMPO 2309/2315 20016KT FEW025TCU SCT100 BECMG 2318/2320 4000 HZ/BR TEMPO 2400/2404 3000 BR SCT030 TEMPO 2409/2412 20014KT FEW025TCU SCT100 OIKK 230530Z 2306/2412 20008KT 7000 FEW040 TEMPO 2309/2315 32014KT FEW035TCU SCT100 TEMPO 2409/2412 32016KT FEW035CB SCT040 SCT100 OIMM 230530Z 2306/2412 10008KT 7000 FEW035 SCT100 TEMPO 2309/2315 16016KT FEW035CB SCT040 BKN090 TEMPO 2409/2412 16016KT FEW035CB SCT040 BKN090 OISL 230530Z 2306/2412 12006KT 8000 NSC TEMPO 2311/2315 28018KT FEW035CB SCT040 SCT100 PROB40 TS OISS 230530Z 2306/2412 28008KT 8000 FEW040 TEMPO 2308/2314 28018KT FEW035CB SCT040 OITR 230530Z 2306/2412 27004KT 9999 FEW040 SCT100 TEMPO 2309/2315 28014KT SHRA FEW035CB SCT040 BKN100 OITT 230530Z 2306/2412 07008KT 8000 FEW040 SCT100 TEMPO 2308/2314 28014KT SHRA FEW030CB SCT035 BKN080 OIZC 230530Z 2306/2412 10008KT 7000 NSC TEMPO 2309/2315 24018KT 4000 SA BECMG 2317/2319 4000 HZ/BR BECMG 2403/2405 06010KT 7000 NSC TEMPO 2409/2412 20018KT 4000 SA OIZH 230530Z 2306/2412 03008KT 7000 NSC TEMPO 2309/2314 05016KT FEW035TCU TEMPO 2409/2412 05014KT FEW035TCU OJAI 230458Z 2306/2412 09014KT 5000 HZ SCT100 BECMG 2312/2314 24010KT PROB40 TEMPO 2312/2324 24010G20KT 2000 TSRA DU FEW045CB SCT050TCU BKN070 PROB30 TEMPO 2313/2320 -SHGR PROB40 TEMPO 2400/2406 2000 BR OJAM 230458Z 2306/2412 13008KT 5000 HZ FEW040TCU SCT080 BECMG 2312/2314 25010KT PROB40 TEMPO 2312/2324 25010G20KT 2000 TSRA DU FEW045CB SCT050TCU BKN070 PROB30 TEMPO 2313/2320 -SHGR PROB40 TEMPO 2400/2406 3000 BR OJAQ 230458Z 2306/2412 36010KT 8000 SCT100 PROB40 TEMPO 2310/2320 36018KT 5000 TS SHRA DU FEW040CB BKN080 OKAS 230212Z 2302/2405 25009KT 9000 HZ FEW180 QNH2983INS BECMG 2305/2306 23010G15KT 9999 NSW FEW160 QNH2980INS BECMG 2313/2314 12009KT 9999 FEW220 QNH2981INS BECMG 2402/2403 21009KT 9999 SCT140 QNH2982INS TX38/2311Z TN23/2303Z OKBK 230445Z 2306/2412 30010KT 7000 FEW040 SCT100 TEMPO 2309/2315 VRB03KT OLBA 230400Z 2306/2412 25012KT 8000 DZ SCT030 SCT080 TEMPO 2308/2412 -RA BECMG 2318/2321 17005KT PROB30 TEMPO 2318/2412 21008G18KT 7000 -TSRA FEW020CB SCT025 BECMG 2406/2408 22014KT OMAA 230500Z 2306/2412 10005KT 8000 NSC BECMG 2308/2310 33012KT BECMG 2317/2319 06006KT BECMG 2400/2402 13005KT 3000 HZ PROB30 TEMPO 2402/2405 VRB02KT 0500 FG VV001 BECMG 2405/2407 35008KT 8000 NSW OMAD 230500Z 2306/2412 10005KT 8000 NSC BECMG 2308/2310 33012KT BECMG 2318/2320 06005KT TEMPO 2400/2405 VRB02KT 3000 HZ BECMG 2405/2407 35007KT OMAL 230500Z 2306/2412 17008KT 8000 NSC BECMG 2309/2311 32012KT BECMG 2318/2320 05006KT BECMG 2401/2403 12005KT BECMG 2407/2409 30010KT OMDB 230451Z 2306/2412 10005KT 7000 NSC BECMG 2308/2310 35013KT BECMG 2320/2322 08005KT PROB30 2322/2400 4000 HZ PROB30 2400/2405 1500 BR BECMG 2408/2410 35014KT OMDW 230451Z 2306/2412 11005KT 7000 NSC BECMG 2309/2311 33013KT BECMG 2318/2320 08005KT PROB40 2319/2405 3000 HZ PROB30 2322/2404 0100 FG VV/// BECMG 2409/2411 33013KT OMFJ 230500Z 2306/2412 09008KT 8000 NSC TEMPO 2309/2313 FEW035TCU BECMG 2314/2316 VRB04KT TEMPO 2400/2405 5000 HZ BECMG 2405/2407 08008KT OMRK 230451Z 2306/2412 20005KT 7000 NSC BECMG 2306/2308 35012KT TEMPO 2316/2318 VRB02KT PROB30 2318/2323 4000 HZ PROB30 2323/2405 1500 BR BECMG 2407/2409 35014KT OMSJ 230451Z 2306/2412 10005KT 7000 NSC BECMG 2308/2310 35011KT BECMG 2317/2319 12005KT PROB40 2319/2405 3000 HZ PROB30 2322/2405 0100 FG VV/// BECMG 2408/2410 35014KT OODQ 230500Z 2306/2406 08010KT 9000 NSC BECMG 2315/2317 VRB03KT OOMS 230500Z 2306/2412 03012KT 9000 NSC BECMG 2318/2320 VRB02KT BECMG 2406/2408 04012KT OOSA 230540Z 2306/2412 19010KT CAVOK BECMG 2314/2316 VRB03KT BECMG 2406/2408 19010KT OOSH 230500Z 2306/2412 04012KT 8000 NSC BECMG 2315/2317 VRB02KT BECMG 2406/2408 06012KT OPGD 230330Z 2306/2406 36008G18KT 4000 HZ NSC TEMPO 2308/2312 36012G22KT 2000 BLDU NSC TEMPO 2400/2404 VRB03KT 3000 FU SCT030 OPIS 230330Z 2306/2412 31005KT 5000 HZ FEW040 SCT100 TEMPO 2308/2311 30010G20KT TEMPO 2400/2403 14002KT 2000 BR OPKC 230330Z 2306/2412 25010KT 6000 NSC FM231800 27007KT 5000 FU NSC TEMPO 2400/2404 00000KT 3000 FU SCT030 FM240700 25010KT 6000 NSC OPLA 230353Z 2306/2412 14005KT 4000 FU NSC TX31/3310Z TX32/2410Z TN18/2400Z TEMPO 2306/2309 33008KT SCT040 SCT100 BECMG 3400/2403 11005KT 2000 FU FM240700 14005KT 6000 NSC OPNH 230330Z 2306/2412 18007KT 5000 HZ NSC BECMG 2316/2318 VRB03KT 3000 HZ NSC TEMPO 2400/2404 00000KT 2000 BR NSC FM240700 18007KT 5000 HZ NSC OPPS 230340Z 2306/2412 21010KT 4000 HZ FEW040 SCT100 TEMPO 2310/2313 VCTS FEW030TCU SCT040 BKN100 TEMPO 2318/2321 SCT040 BKN100 TEMPO 2403/2406 3000 TEMPO 2409/2412 21015G25KT VCTS FEW030TCU SCT040 BKN100 OPSK 230330Z 2306/2406 16007KT 4000 HZ NSC BECMG 2317/2319 VRB03KT 3000 FU NSC TEMPO 2400/2404 00000KT 2000 BR NSC ORAA 2305/2405 03010KT 7000 HZ SCT090 QNH2991INS BECMG 2316/2317 35010KT 7000 HZ SCT070 BKN090 QNH2983INS TEMPO 2318/2400 VRB12G20KT -VCTSRA SCT070CB TX29/2311Z TN17/2402Z ORBD 230240Z 2303/2409 32009KT 9999 SCT140 BKN220 QNH2988INS TEMPO 2304/2309 VRB12G25KT 5000 -SHRA BLDU VCTS SCT080CB BKN120 BECMG 2309/2311 34009KT 9000 HZ SCT140 SCT220 QNH2988INS BECMG 2320/2321 03009KT 9999 SCT140 BKN240 QNH2983INS TX33/2312Z TN15/2303Z ORBI 230400Z 2306/2406 32008KT 9999 SCT030 BKN080 TEMPO 2318/2406 -RA ORER 230400Z 2306/2406 28006KT 8000 SCT030 ORMM 230400Z 2306/2406 02010KT CAVOK TEMPO 2309/2317 05014G24KT 7000 FEW040 ORNI 230400Z 2306/2406 34006KT 8000 NSC BECMG 2312/2314 SCT030 SCT080 ORQW 2305/2405 02008KT 7000 HZ SCT150 QNH2989INS BECMG 2318/2319 36008KT 7000 HZ SCT100 QNH2991INS TX29/2311Z TN16/2402Z ORR3 2305/2405 35008KT 5000 HZ SCT090 BKN110 QNH2983INS TEMPO 2318/2323 VRB12G19KT -VCTSRA SCT080CB TX31/2311Z TN19/2402Z ORSH 2305/2405 35008KT 6000 HZ SCT090 QNH2986INS TEMPO 2400/2405 -VCTSRA SCT070CB TX29/2311Z TN17/2402Z ORSU 230500Z 2306/2406 06012KT 9999 FEW045 SCT100 BECMG 2309/2311 14008KT 9999 SCT045 SCT080 BECMG 2316/2318 28006KT CAVOK ORTL 2305/2405 04012KT 6000 HZ BKN110 QNH2979INS TEMPO 2320/2402 VRB13G20KT -VCTSRA SCT090CB BKN110 TX34/2311Z TN21/2402Z OSDI 230340Z 2306/2412 06010KT 9999 FEW030 SCT100 TEMPO 2306/2412 24012G25KT 5000 SHRA FEW026CB BKN030 OVC100 OSLK 222120Z 2306/2406 12010KT 9999 SCT030 TEMPO 2315/2406 22015KT 6000 TSRA FEW026 SCT030 BKN100 OTBD 230502Z 2306/2412 25004KT 6000 NSC BECMG 2307/2309 07009KT PROB30 TEMPO 2309/2312 5000 HZ BECMG 2320/2322 14007KT TEMPO 2320/2405 VRB02KT OTBH 230800Z 2308/2414 23009KT 9000 HZ FEW100 QNH2981INS BECMG 2313/2314 15009KT 9000 HZ SKC QNH2983INS BECMG 2317/2318 11006KT 9000 HZ SKC QNH2981INS BECMG 2402/2403 VRB06KT 3200 BR SKC QNH2988INS BECMG 2406/2407 26009KT 9000 HZ SKC QNH2990INS TX38/2312Z TN26/2400Z OTHH 230502Z 2306/2412 25004KT 6000 NSC BECMG 2307/2309 07009KT PROB30 TEMPO 2309/2312 5000 HZ BECMG 2320/2322 14007KT TEMPO 2320/2405 VRB02KT PAAQ 230530Z 2306/2406 35010KT P6SM SCT040 BKN070 WS020/10035KT TEMPO 2306/2309 04018G27KT FM230900 04018G27KT P6SM SCT060 OVC090 WS020/10035KT FM231200 04025G38KT P6SM VCSH SCT040 OVC070 WS020/12045KT FM232100 12025G38KT P6SM VCSH BKN040 PABE 230810Z 2308/2406 02022G30KT P6SM -SHRA SCT025 OVC040 FM231200 02030G38KT P6SM -SHRA BKN025 OVC035 FM231800 02030KT P6SM OVC015 FM240000 01027KT P6SM OVC050 PABI 230600Z 2306/2412 11012G18KT 9999 SCT060 WS015/18030KT QNH2960INS BECMG 2309/2310 10015G25KT 9999 BKN060 510003 QNH2957INS BECMG 2315/2316 10025G35KT 9999 BKN060 520003 QNH2941INS TXM02/2400Z TNM11/2316Z FOR MIL USE ONLY PABR 230520Z 2306/2406 20012KT 6SM BR VCSH OVC050 FM231500 20011KT 6SM -SN BR OVC015 FM231900 20011KT 6SM -SN BR OVC025 FM240000 22010KT P6SM BKN050 PABT 230520Z 2306/2406 35005KT P6SM OVC025 FM231400 36008G15KT P6SM BKN040 BKN100 FM232200 02011G18KT P6SM VCSH BKN100 FM240000 03008G15KT P6SM OVC050 PACD 230702Z 2307/2406 30022G30KT 6SM -RA SCT015 OVC035 FM230900 30030G40KT 4SM RA BKN012 OVC025 FM231400 28035G50KT 3SM -RA BR SCT005 OVC015 FM232300 29025G35KT 5SM -RA BR OVC015 PACV 230652Z 2307/2406 10011G22KT 6SM -RA BR OVC035 WS020/11045KT FM231000 10018G27KT P6SM -RA OVC035 WS020/10055KT FM231400 10025G42KT 5SM RA BR OVC025 FM232000 10015G25KT 3SM -RA BR BKN012 OVC025 FM240000 15012G20KT 2SM -RA BR BKN012 OVC025 PADL 230658Z 2307/2406 06027G36KT P6SM -RA BKN025 OVC035 FM230800 04030G44KT 5SM RA SCT007 OVC015 FM231500 04020G30KT P6SM -SHRA BKN030 OVC050 FM232100 03015KT 6SM -RA OVC022 FM240200 26013KT 5SM -RA BR OVC015 PADQ 231007Z 2310/2406 11030G40KT 3SM RA BR BKN009 OVC014 TEMPO 2310/2312 1 1/2SM +RA BKN005 OVC009 FM231200 15017G28KT P6SM -SHRA BKN025 OVC040 WS020/20050KT FM232100 19022G35KT P6SM -SHRA OVC035 WS010/20065KT PADU 230523Z 2306/2406 30022G30KT P6SM -RA SCT010 OVC025 FM231200 29020G30KT P6SM -RA OVC020 FM232100 28018KT P6SM BKN025 PAED 230816Z 2308/2409 VRB06KT 9999 SCT050 BKN130 WS020/14030KT QNH2950INS BECMG 2318/2320 12010G15KT 9999 VCSH BKN050 BKN100 610509 QNH2908INS TX06/2400Z TN00/2313Z PAEI 230400Z 2304/2410 VRB04KT 9999 SKC QNH2984INS BECMG 2316/2317 10008KT 9999 BKN085 WS020/12035KT 620852 QNH2938INS BECMG 2321/2322 13010G25KT 9999 BKN075 620753 QNH2914INS TEMPO 2322/2402 13020G32KT 520006 TX02/2400Z TNM08/2314Z PAEN 230530Z 2306/2406 04015KT P6SM -SHRA SCT025 OVC050 WS020/10025KT TEMPO 2306/2309 03015G25KT FM230900 03015G25KT P6SM -SHRA BKN045 WS020/10025KT FM231200 03020G32KT P6SM -RA SCT025 OVC040 WS020/09045KT FM231800 05015KT P6SM -SHRA OVC035 FM240000 12015G22KT P6SM -SHRA OVC035 PAFA 230520Z 2306/2412 02004KT P6SM SCT050 BKN100 FM232100 05008G15KT P6SM VCSH SCT025 BKN070 PAFB 230700Z 2307/2413 VRB06KT 9999 FEW110 QNH2940INS BECMG 2318/2319 07012KT 9999 VCSH BKN030 OVC080 610309 520305 QNH2920INS BECMG 2320/2321 07009KT 9999 NSW SCT040 QNH2958INS TX06/2400Z TNM05/2307Z PAGA 230520Z 2306/2406 VRB04KT P6SM VCSH BKN012 OVC025 FM230800 03006KT P6SM BKN015 FM231800 02013G20KT P6SM SCT050 OVC080 FM232200 03015G22KT P6SM OVC050 FM240300 01013G20KT P6SM OVC025 PAGK 230530Z 2306/2406 VRB06KT P6SM BKN100 FM231500 12010G18KT P6SM -SHRA BKN040 FM232300 15018G30KT P6SM VCSH BKN040 PAGS 230538Z 2306/2406 VRB04KT P6SM VCSH SCT003 OVC035 TEMPO 2306/2309 3SM BR BKN003 FM231000 12008KT 6SM -RA SCT025 OVC035 FM231800 12009G16KT 5SM -RA BR SCT015 OVC025 WS020/14035KT LTD TO CLD VIS AND WIND PAGY 230538Z 2306/2406 22003KT P6SM VCSH OVC015 FM230900 VRB04KT P6SM VCSH OVC050 FM231900 20013KT 6SM -RA OVC035 LTD TO CLD VIS AND WIND PAHN 230538Z 2306/2406 10005KT P6SM VCSH BKN009 OVC015 FM231200 08005KT P6SM -RA BKN009 OVC015 FM231900 09013KT 6SM -RA OVC025 LTD TO CLD VIS AND WIND PAHO 231011Z 2310/2406 07020G30KT 5SM RA OVC035 WS010/12065KT FM231500 12015G25KT P6SM -SHRA BKN025 FM232100 15018G28KT 5SM -SHRA OVC025 WS020/17045KT PAIL 230807Z 2308/2406 09030G45KT P6SM -RA OVC045 FM231200 08035G50KT P6SM RA OVC030 FM231600 10027G35KT P6SM -SHRA BKN035 OVC050 FM232200 11024G33KT 5SM -RA BR SCT015 OVC030 PAJN 230538Z 2306/2406 08010KT P6SM VCSH OVC035 FM231200 08012G20KT P6SM -RA BKN035 OVC050 FM231700 08012G20KT 5SM -RA BR BKN025 OVC035 PAKN 230703Z 2307/2406 08027G45KT P6SM OVC060 FM230800 08030G50KT P6SM -RA SCT025 OVC050 FM231500 09020G30KT P6SM -SHRA BKN025 OVC035 FM231800 10022KT 5SM -RA OVC020 FM240300 22018KT 4SM -RA BR OVC015 PAKT 230538Z 2306/2406 15005KT P6SM -SHRA BKN025 OVC035 FM230800 13010KT P6SM VCSH BKN010 FM231600 13012G20KT 6SM -RA BR BKN015 OVC025 WS020/16035KT FM232000 15019G28KT 4SM -RA BR BKN015 OVC025 WS020/16035KT LTD TO CLD VIS AND WIND 2306/2315 PAKW 230538Z 2306/2406 04005KT P6SM OVC035 FM231200 14006KT P6SM VCSH BKN025 OVC050 FM231600 14008KT 6SM -RA BR OVC025 WS020/15040KT LTD TO CLD VIS AND WIND PAMC 230520Z 2306/2406 VRB03KT P6SM SCT050 BKN150 FM231400 02008G15KT P6SM OVC100 FM232100 02010G16KT P6SM VCSH BKN040 OVC080 FM240000 02006KT P6SM BKN100 PANC 230942Z 2310/2412 29009KT P6SM SCT040 BKN070 WS015/11040KT FM231100 35011KT P6SM -SHRA SCT040 OVC060 WS015/11055KT FM231800 15018G34KT P6SM SCT050 BKN100 FM240400 15014G22KT P6SM VCSH BKN050 OVC080 PAOM 230520Z 2306/2406 03011KT P6SM VCSH OVC028 FM231200 01013KT P6SM SKC FM231800 36017G23KT P6SM SCT250 PAOR 230520Z 2306/2406 14005KT P6SM FEW100 FM231500 00000KT P6SM VCFG FEW005 OVC100 FM231800 00000KT P6SM VCSH OVC030 FM240000 00000KT P6SM BKN080 PAOT 230520Z 2306/2406 06007KT P6SM SCT040 FM231200 04008KT P6SM SCT250 PAPG 230538Z 2306/2406 VRB03KT P6SM VCSH SCT020 OVC030 FM231600 10010KT 6SM -RA BKN025 OVC050 WS020/14030KT LTD TO CLD VIS AND WIND 2306/2315 PAQT 230520Z 2306/2406 VRB05KT P6SM BKN060 FM231100 21005KT P6SM OVC025 FM231800 17005KT P6SM SKC FM240100 08005KT P6SM OVC015 PASC 230722Z 2307/2406 24006KT P6SM SCT001 OVC050 TEMPO 2307/2310 6SM BR BKN001 OVC050 FM231500 21005KT P6SM SCT001 BKN025 OVC050 FM240000 06009KT P6SM OVC015 PASD 230812Z 2308/2406 26020G30KT 6SM -RA SCT025 OVC035 TEMPO 2308/2310 4SM RA OVC025 FM231000 33030G40KT 3SM RA BR OVC015 FM231200 26040G55KT 4SM RA BR BKN015 OVC040 FM231800 26045G55KT 5SM -RA BR OVC015 FM240000 25030G40KT 3SM -SHRA BR FEW009 OVC015 LTD TO CLD VIS AND WIND PASI 230538Z 2306/2406 12005KT P6SM VCSH BKN050 FM231400 12012G20KT 6SM -RA BR OVC025 WS020/14030KT FM231900 13014G26KT 4SM -RA BR OVC020 WS020/14045KT PASN 230523Z 2306/2406 33010KT P6SM VCSH BKN025 FM231200 34016KT P6SM OVC025 FM231800 34018G30KT P6SM VCSH OVC025 PASY 230600Z 2306/2412 34012KT 9999 BKN055 QNH2998INS BECMG 2311/2312 28009KT 9999 BKN025 QNH2988INS TX05/2403Z TN03/2317Z PATA 230520Z 2306/2406 07004KT P6SM VCSH FEW022 OVC035 FM230900 06005KT P6SM VCSH SCT080 BKN120 FM231400 07010G18KT P6SM SCT080 BKN120 FM232200 09014G22KT P6SM VCSH BKN050 BKN100 FM240000 08011G17KT 1/2SM SN OVC025 FM240200 07012G20KT 3SM -SN BR OVC025 PATK 230530Z 2306/2406 02010KT P6SM VCSH BKN060 FM240000 03008KT P6SM -RA OVC035 PAUN 230520Z 2306/2406 07018KT P6SM BKN023 FM231000 06015G22KT P6SM SCT050 BKN120 FM232100 04020G29KT P6SM BKN040 OVC080 FM240000 03019G25KT P6SM SKC PAVD 230530Z 2306/2406 VRB04KT P6SM -RA OVC050 WS020/12020KT TEMPO 2309/2312 5SM RA BR OVC025 FM231200 VRB04KT 5SM -RA BR OVC025 WS020/12045KT FM231900 VRB03KT 2SM RA BR BKN012 OVC025 LTD TO CLD VIS AND WIND PAWG 230538Z 2306/2406 09010KT P6SM BKN060 FM231500 11012G17KT 5SM -RA BR SCT015 BKN025 OVC050 LTD TO CLD VIS AND WIND 2306/2315 PAYA 230538Z 2306/2406 08010KT P6SM VCSH OVC050 FM231200 08012G20KT 5SM -RA BR BKN025 OVC050 WS020/14040KT FM240200 21009KT 6SM -SHRA BR BKN025 OVC050 LTD TO CLD VIS AND WIND PGRO 230521Z 2306/2406 11010KT P6SM VCSH SCT020 SCT050 PGSN 230521Z 2306/2406 15010KT P6SM VCSH SCT017 SCT060 FM231700 08011KT P6SM VCSH SCT017 SCT050 PGUA 231000Z 2310/2416 08006KT 9999 FEW015 SCT080 QNH2982INS BECMG 2321/2322 07012G18KT 9999 SCT020 BKN150 QNH2980INS TX30/2323Z TN24/2314Z PGUM 230521Z 2306/2412 11006KT P6SM VCSH FEW018 SCT050 FM232200 06011KT P6SM VCSH SCT020 SCT050 PGWT 230521Z 2306/2406 13009KT P6SM VCSH FEW016 SCT050 PHHI 230700Z 2307/2413 07006KT 9999 FEW025 QNH2998INS BECMG 2321/2322 08011G17KT 9999 FEW035 QNH2994INS BECMG 2403/2404 07006KT 9999 SCT025 QNH2988INS TX30/2401Z TN21/2309Z PHJR 230522Z 2306/2406 06007KT P6SM FEW030 SCT045 FM232000 10009KT P6SM FEW035 SCT045 FM240500 08006KT P6SM FEW035 PHKO 230522Z 2306/2406 09005KT P6SM SCT045 FM232000 21010KT P6SM SCT045 BKN060 FM240500 09005KT P6SM SCT045 PHLI 230522Z 2306/2406 05012KT P6SM VCSH SCT025 BKN035 PHMK 230522Z 2306/2406 04010KT P6SM SCT030 FM232000 05012G18KT P6SM SCT035 SCT045 FM240500 04010KT P6SM SCT030 PHNG 2309/2409 08008KT 9999 FEW025 SCT045 QNH2991INS TEMPO 2309/2315 08012G18KT BKN025 BKN045 TEMPO 2318/2400 9000 -SHRA BKN030 T26/2313Z T29/2323Z PHNL 230849Z 2309/2412 06008KT P6SM FEW025 SCT035 FM232000 07011G17KT P6SM FEW035 SCT050 FM240600 06007KT P6SM FEW030 SCT045 PHNY 230522Z 2306/2406 06004KT P6SM SCT025 TEMPO 2306/2308 OVC025 FM232000 24006KT P6SM SCT025 BKN040 FM240500 05005KT P6SM SCT025 PHOG 230524Z 2305/2406 07012KT P6SM FEW030 SCT050 FM232000 05014G22KT P6SM FEW035 SCT050 FM240500 06010KT P6SM FEW030 SCT045 LTD TO VIS AND WIND 2309/2316 PHTO 230727Z 2307/2406 24006KT P6SM VCSH FEW015 BKN035 TEMPO 2307/2311 2SM SHRA BKN020 FM232000 08009KT P6SM VCSH SCT025 BKN040 FM240500 25005KT P6SM VCSH SCT025 BKN040 PKMJ 230521Z 2306/2406 15011KT P6SM VCSH SCT015 BKN060 OVC100 TEMPO 2306/2310 VRB11KT 3SM TSRA SCT012CB BKN020 OVC040 PKWA 230521Z 2306/2406 08006KT P6SM FEW020 FM231200 07011KT P6SM VCSH SCT018 BKN050 BKN130 PLCH 230510Z 2306/2406 10008KT 9999 SCT020 SCT100 PMDY 230522Z 2306/2406 03007KT P6SM SCT023 BKN070 FM232100 06014KT P6SM SCT045 PTKK 230521Z 2306/2406 07006KT P6SM VCSH FEW014 SCT050 SCT130 FM230900 12010KT P6SM VCSH SCT016 SCT050 BKN120 PTRO 230521Z 2306/2406 VRB05KT P6SM VCSH SCT015 SCT050 TEMPO 2306/2308 5SM -SHRA BKN014 BKN040 OVC100 PTYA 230521Z 2306/2406 VRB04KT P6SM VCSH FEW016 SCT050 PWAK 230600Z 2306/2412 05015KT 9999 FEW030 QNH2985INS TEMPO 2318/2322 06015G20KT 9000 -SHRA BKN025 TX31/2402Z TN27/2315Z FOR MIL USE ONLY RCFN 230500Z 2306/2406 06005KT 9999 FEW020 BKN050 BECMG 2308/2310 36005KT BECMG 2401/2403 06009KT RCKH 230500Z 2306/2412 28008KT 9999 FEW015 SCT080 BECMG 2307/2309 35005KT BECMG 2402/2404 28005KT TEMPO 2404/2407 24008KT RCMQ 230500Z 2306/2406 36010KT 9999 FEW012 SCT030 TX31/2406Z TN19/2321Z BECMG 2307/2309 FEW012 BKN050 BECMG 2310/2313 02004KT FEW012 SCT030 BECMG 2318/2421 FEW012 BKN060 BECMG 2323/2402 34010KT FEW012 RCNN 230500Z 2306/2406 27008KT 9999 FEW012 BKN050 TX29/2306Z TN19/2320Z BECMG 2310/2313 02004KT FEW012 SCT050 BECMG 2320/2323 7000 FEW012 BKN050 BECMG 2401/2404 33006KT 9999 FEW012 SCT050 RCSS 230500Z 2306/2406 09011KT 9999 FEW020 BKN040 BECMG 2309/2311 08005KT BECMG 2402/2404 09011KT RCTP 230500Z 2306/2412 04015KT 9999 FEW020 BECMG 2313/2315 06009KT BECMG 2320/2322 04016KT TEMPO 2320/2402 FEW015 BKN024 RJAA 230506Z 2306/2412 08008KT 9999 FEW030 BECMG 2311/2313 02006KT BECMG 2400/2403 04016KT RJAH 230507Z 2306/2412 08010KT 9999 FEW030 BECMG 2314/2316 02004KT BECMG 2321/2400 05014KT RJBB 230809Z 2308/2412 01015KT 9999 FEW030 BECMG 2312/2314 08008KT BECMG 2406/2409 08018KT TEMPO 2406/2412 RA RJCB 230506Z 2306/2412 33006KT 9999 FEW030 TEMPO 2315/2321 3000 BR BECMG 2406/2409 16004KT RJCC 230505Z 2306/2412 34012KT 9999 FEW020 TEMPO 2312/2321 3000 BR BECMG 2406/2409 16007KT RJCH 230512Z 2306/2412 25008KT 9999 FEW020 SCT040 BECMG 2314/2316 07010KT RJCK 230509Z 2306/2412 04005KT 9999 FEW006 SCT015 BECMG 2306/2308 20006KT BECMG 2310/2312 29008KT BECMG 2318/2321 02010KT RJCM 230514Z 2306/2412 03005KT 9999 FEW015 SCT030 TEMPO 2310/2318 3000 BR FEW003 BKN006 BECMG 2409/2412 15005KT RJEC 230508Z 2306/2412 31007KT 9999 FEW030 TEMPO 2315/2400 0700 FG VV001 BECMG 2409/2412 17005KT RJFF 230910Z 2309/2412 05004KT 8000 -SHRA FEW007 SCT010 BKN020 TEMPO 2309/2311 4000 -TSRA BR FEW005 SCT010 BKN015 FEW025CB BECMG 2311/2313 10005KT TEMPO 2311/2318 3000 SHRA BR TEMPO 2318/2403 2000 +SHRA BR FEW005 BKN008 BKN015 BECMG 2321/2400 02008KT RJFK 230938Z 2309/2412 03005KT 7000 -SHRA FEW004 SCT010 BKN020 TEMPO 2309/2312 3000 SHRA BR BECMG 2310/2312 10011KT TEMPO 2312/2321 3000 SHRA BR FEW002 BKN005 BKN010 BECMG 2400/2403 16011KT BECMG 2406/2409 34011KT RJFM 230733Z 2307/2412 33004KT 8000 -SHRA FEW005 SCT010 BKN025 BECMG 2308/2310 09015KT TEMPO 2309/2312 4000 -SHRA BR FEW005 BKN008 BKN015 TEMPO 2312/2321 3000 SHRA BR FEW005 BKN008 BKN015 TEMPO 2321/2400 2000 TSRA BR FEW005 BKN008 BKN015 FEW020CB BECMG 2403/2406 17011KT RJFO 230506Z 2306/2412 05007KT 9000 -SHRA FEW010 SCT020 BKN040 BECMG 2310/2312 16009KT TEMPO 2312/2321 4000 -SHRA BR TEMPO 2321/2403 3000 SHRA BR FEW004 BKN007 BKN015 TEMPO 2403/2406 2000 TSRA BR FEW004 BKN007 BKN015 FEW025CB BECMG 2406/2409 32008KT RJFR 230506Z 2306/2412 10008KT 9999 FEW015 SCT045 BECMG 2307/2309 05008KT BECMG 2314/2316 12010KT TEMPO 2315/2318 4000 -SHRA BR BECMG 2318/2321 02018KT TEMPO 2318/2403 3000 SHRA BR FEW003 BKN008 BKN010 RJFS 230913Z 2309/2412 30007KT 8000 -SHRA FEW010 SCT020 BKN030 TEMPO 2309/2318 3000 SHRA BR BECMG 2310/2312 03017KT TEMPO 2318/2400 1500 +SHRA BR FEW003 BKN008 BKN015 TEMPO 2400/2403 3000 SHRA BR BECMG 2406/2409 02006KT RJFT 230953Z 2309/2412 05009KT 7000 -SHRA FEW005 SCT010 BKN015 TEMPO 2309/2312 1500 SHRA BR FEW005 BKN008 BKN015 TEMPO 2312/2321 3000 SHRA BR FEW003 BKN005 BKN010 TEMPO 2321/2403 4000 -SHRA BR FEW005 BKN008 BKN015 RJFU 230633Z 2306/2412 02008KT 8000 -SHRA FEW010 SCT015 BKN020 TEMPO 2306/2315 3000 SHRA BR TEMPO 2315/2318 3000 SHRA BR FEW003 BKN008 BKN015 TEMPO 2318/2400 1500 +SHRA BR FEW003 BKN008 BKN015 TEMPO 2400/2403 3000 SHRA BR RJGG 230505Z 2306/2412 14008KT 9999 FEW020 TEMPO 2315/2318 4000 SHRA BR BECMG 2321/2400 10018KT RJNK 230506Z 2306/2412 04010KT 9999 FEW030 BECMG 2316/2318 10004KT RJNS 230505Z 2306/2412 15008KT 9999 FEW015 SCT030 BECMG 2321/2400 06010KT RJNT 230505Z 2306/2412 34008KT 9999 FEW020 BECMG 2309/2311 22005KT BECMG 2400/2403 32006KT BECMG 2406/2409 22005KT RJOA 230506Z 2306/2412 06005KT 9999 FEW020 BECMG 2318/2321 4000 -RA BR BCFG FEW000 BKN008 BKN015 TEMPO 2321/2403 3000 RA BR BCFG FEW000 SCT003 BKN005 BECMG 2400/2403 08016KT TEMPO 2406/2412 3000 RA BR BCFG FEW000 SCT003 BKN005 RJOB 230506Z 2306/2412 03005KT 9999 FEW020 BECMG 2321/2400 3000 RA BR BCFG FEW000 SCT003 BKN005 RJOC 230505Z 2306/2412 07013KT 9999 FEW020 SCT045 TEMPO 2400/2406 4000 RA BR FEW005 BKN008 BKN015 TEMPO 2406/2412 3000 RA BR FEW003 BKN005 BKN015 RJOH 230506Z 2306/2412 08010KT 9999 FEW030 SCT050 TEMPO 2400/2406 4000 RA BR FEW005 BKN008 BKN020 TEMPO 2406/2412 3000 RA BR FEW003 BKN005 BKN015 RJOI 2305/2405 04006KT 9999 FEW025 OVC180 QNH2996INS FM230600 16006KT 9999 FEW025 OVC180 QNH2997INS BECMG 2310/2312 34006KT 9999 -RA SCT020 BKN060 OVC100 621107 QNH3001INS TEMPO 2314/2320 8000 -RA BR BKN020 FM232000 03007KT 6000 -RA BR SCT013 OVC020 661206 QNH3000INS FM240100 05011KT 8000 -RA BR FEW008 OVC015 661306 QNH2989INS T23/2305Z T18/2320Z RJOK 230509Z 2306/2412 20005KT 9999 FEW030 SCT040 BECMG 2307/2309 35005KT BECMG 2321/2400 12012KT TEMPO 2403/2409 4000 SHRA BR BECMG 2406/2409 12022KT TEMPO 2409/2412 3000 SHRA BR FEW002 BKN008 BKN025 RJOM 230957Z 2309/2412 12006KT 9999 -RA FEW030 BKN050 BECMG 2321/2400 02010KT TEMPO 2400/2403 4000 RA BR TEMPO 2403/2409 3000 SHRA BR BECMG 2406/2409 06006KT RJOO 230507Z 2306/2412 32006KT 9999 FEW030 BECMG 2321/2400 07012KT TEMPO 2406/2412 07018G28KT RA RJOT 230510Z 2306/2412 15005KT 9999 FEW030 BECMG 2318/2321 4000 -RA BR FEW003 SCT005 BKN008 TEMPO 2321/2403 3000 RA BR FEW001 SCT003 BKN005 BECMG 2400/2403 07012KT TEMPO 2409/2412 3000 RA BR FEW001 SCT003 BKN005 RJSA 230505Z 2306/2412 01005KT 9999 FEW020 SCT030 BECMG 2309/2311 21004KT BECMG 2321/2400 04010KT RJSF 230505Z 2306/2412 36006KT 9999 FEW020 SCT040 BECMG 2309/2311 14004KT BECMG 2400/2403 36006KT RJSI 230505Z 2306/2412 36010KT 9999 FEW020 SCT040 BECMG 2400/2403 16005KT RJSK 230508Z 2306/2412 30008KT 9999 FEW030 BECMG 2310/2312 12004KT RJSN 230505Z 2306/2412 34004KT 9999 FEW030 BECMG 2306/2308 02006KT BECMG 2400/2403 12010KT RJSS 231001Z 2310/2412 24004KT 9999 FEW010 BKN020 BECMG 2321/2400 10010KT RJTT 230505Z 2306/2412 11014KT 9999 FEW020 BECMG 2314/2316 02012KT RJTY 230500Z 2305/2411 15006KT 9999 SKC QNH3000INS BECMG 2310/2311 VRB06KT 9999 BKN030 BKN200 QNH3015INS BECMG 2321/2322 03006KT 9999 BKN035 BKN200 QNH3023INS TEMPO 2409/2411 9000 -SHRA BKN030 TX24/2404Z TN11/2317Z RKJB 230500Z 2306/2412 03006KT 9999 SCT030 BKN120 TN14/2321Z TX21/2405Z BECMG 2312/2313 BKN030 OVC100 BECMG 2318/2319 11005KT BECMG 2402/2403 34007KT BECMG 2405/2406 SCT030 RKJJ 230500Z 2306/2412 06006KT CAVOK TN14/2321Z TX22/2406Z BECMG 2322/2323 9999 SCT030 BKN100 BECMG 2408/2409 SCT030 RKJK 230700Z 2307/2413 VRB06KT 9999 FEW035 BKN120 QNH3000INS BECMG 2315/2316 05009KT 9999 SCT025 BKN050 OVC065 620902 QNH2999INS TX24/2406Z TN12/2322Z RKNY 230500Z 2306/2412 08005KT 7000 SCT030 BKN150 TN13/2321Z TX19/2404Z BECMG 2323/2324 FEW010 BKN025 OVC100 BECMG 2403/2404 02010KT BECMG 2409/2410 -RA RKPC 230500Z 2306/2412 07015G25KT 9999 FEW010 BKN030 OVC100 TN19/2320Z TX21/2406Z BECMG 2319/2320 04015G25KT 6000 -RA BECMG 2405/2406 04010KT NSW BECMG 2411/2412 34007KT SCT030 BKN180 RKPK 230500Z 2306/2412 03008KT 9999 BKN030 BKN150 TN16/2320Z TX20/2406Z BECMG 2311/2312 9000 -RA BKN030 OVC120 BECMG 2317/2318 4800 -RA BR BKN020 OVC040 BECMG 2408/2409 9999 NSW BKN030 RKPS 230500Z 2306/2412 06006KT 9999 SCT030 BKN140 TX20/2307Z TN14/2321Z BECMG 2312/2313 8000 -RA SCT040 BKN150 BECMG 2318/2319 9999 NSW BKN030 RKPU 230600Z 2307/2413 06010KT 9999 BKN030 OVC120 TN15/2321Z TX19/2405Z BECMG 2309/2310 35007KT BECMG 2314/2315 4200 -RA SCT010 BKN025 OVC080 BECMG 2401/2402 03015G25KT BECMG 2406/2407 05010KT BECMG 2408/2409 35007KT RKSG 230300Z 2303/2409 09006KT 8000 HZ FEW030 BKN140 QNH3007INS BECMG 2310/2311 09006KT 8000 HZ SCT025 OVC120 QNH3008INS BECMG 2316/2317 05006KT 8000 HZ SCT025 OVC080 QNH3011INS BECMG 2401/2402 06012KT 8000 HZ SCT025 OVC080 QNH3004INS BECMG 2404/2405 06012G18KT 8000 HZ BKN025 OVC045 QNH3005INS TX20/2306Z TN13/2321Z RKSI 230500Z 2306/2412 07006KT CAVOK TN14/2321Z TX22/2405Z BECMG 2318/2319 01010KT 6000 SCT030 BKN100 RKSM 230500Z 2306/2412 09006KT 9999 BKN150 TN14/2321Z TX22/2406Z RKSO 230900Z 2309/2415 VRB06KT 9999 FEW030 BKN150 QNH3006INS BECMG 2402/2404 06009KT 9999 SCT030 BKN100 QNH3005INS TX23/2407Z TN11/2318Z RKSS 230500Z 2306/2412 09006KT 9999 FEW030 BKN150 TN11/2322Z TX24/2406Z BECMG 2315/2316 SCT030 BKN100 BECMG 2403/2404 03010KT FEW030 RKTH 230500Z 2306/2412 03013KT 8000 SCT010 BKN020 TN17/2321Z TX19/2406Z BECMG 2311/2312 03010KT BECMG 2314/2315 4800 -RA BR BKN010 OVC030 BECMG 2402/2403 03015KT BECMG 2406/2407 03010KT RKTN 230500Z 2306/2412 12006KT 9999 SCT030 BKN120 TX21/2306Z TN14/2321Z TEMPO 2309/2315 BKN030 BKN100 BECMG 2318/2319 09006KT 9000 -RA BKN030 OVC080 RKTU 230500Z 2306/2412 09006KT CAVOK TN11/2321Z TX19/2406Z BECMG 2406/2407 06006KT 9999 BKN030 BKN100 ROAH 230506Z 2306/2412 31012KT 9999 SCT020 RODN 230800Z 2308/2414 26012KT 9999 SCT020 QNH2980INS BECMG 2406/2407 30015KT 9999 FEW020 QNH2986INS TX28/2405Z TN19/2316Z ROIG 230509Z 2306/2412 36006KT 9999 FEW030 ROTM 2309/2409 29012KT 9999 FEW025 SCT050 QNH2986INS FM232100 31012G18KT 9999 VCSH FEW020 SCT035 BKN120 QNH2988INS T22/2319Z T28/2405Z RPLB 230500Z 2306/2406 05007KT 9999 FEW020 SCT300 TX33/2306Z TN24/2321Z TEMPO 2306/2312 34010KT 7000 -TSRA FEW018CB SCT020 BKN080 RPLC 230500Z 2306/2412 09006KT 9999 FEW020 BKN300 TX33/2306Z TN25/2322Z TEMPO 2306/2312 14008KT 6000 -TSRA FEW015CB SCT020 BKN100 RPLI 230500Z 2306/2406 10006KT 9999 FEW018 TEMPO 2306/2312 32008KT SCT018TCU RPLL 230500Z 2306/2412 12005KT 9999 FEW025 SCT300 TX34/2306Z TN26/2321Z TEMPO 2306/2312 13010KT FEW025 SCT100 TEMPO 2318/2324 VRB02KT RPMD 230500Z 2306/2406 18006KT 9999 FEW016 SCT290 TEMPO 2306/2312 17010KT FEW015CB SCT016 BKN290 RPMR 230500Z 2306/2406 16006KT 9999 FEW018 TEMPO 2306/2312 16010KT -TSRA SCT018CB BKN080 RPMZ 230500Z 2306/2406 07004KT 9999 FEW017 SCT090 BKN300 TEMPO 2306/2312 22007KT VCTS SCT016CB SCT090 BKN300 RPVD 230500Z 2306/2406 04006KT 9999 FEW015 SCT220 TEMPO 2306/2312 07010KT VCSH FEW014CB SCT015 BKN220 RPVK 222300Z 2300/2324 04006KT 9999 FEW016 SCT240 TEMPO 2300/2306 21008KT -SHRA FEW015CB SCT016 BKN070 RPVM 230500Z 2306/2412 07005KT 9999 FEW020 BKN300 TEMPO 2306/2312 FEW018CB FEW020 TEMPO 2312/2318 FEW018CB SCT090 BKN250 RPVP 230500Z 2306/2406 09006KT 9999 FEW019 SCT250 TEMPO 2306/2312 12010KT VCSH FEW017CB BKN080 SAAR 230500Z 2306/2406 VRB03KT 8000 MIFG NSC TX26/2318Z TN13/2309Z BECMG 2306/2308 5000 BR PROB40 TEMPO 2307/2309 0800 FG SCT010 BECMG 2312/2314 24010KT CAVOK BECMG 2321/2324 VRB03KT SABE 230500Z 2306/2406 29010KT CAVOK TX23/2318Z TN12/2309Z BECMG 2310/2312 24015KT BECMG 2313/2315 26020KT BECMG 2321/2323 22010KT BECMG 2402/2404 VRB02KT SACO 230500Z 2306/2406 VRB02KT 9999 BKN020 TX25/2318Z TN10/2310Z BECMG 2307/2309 2000 BR PROB40 TEMPO 2309/2312 0800 FG BKN007 BECMG 2312/2314 07010KT 9999 SCT040TCU SADF 230500Z 2306/2406 30005KT CAVOK TX24/2318Z TN08/2309Z BECMG 2310/2312 25010KT TEMPO 2315/2319 26015G25KT BECMG 2322/2401 VRB05KT SAEZ 230500Z 2306/2406 26006KT CAVOK TX21/2318Z TN09/2309Z BECMG 2313/2315 26015KT BECMG 2315/2318 SCT040 BECMG 2321/2323 VRB03KT CAVOK SAME 230500Z 2306/2406 16005KT CAVOK TX26/2320Z TN11/2310Z SANT 230500Z 2306/2406 VRB02KT 7000 NSC TX31/2318Z TN15/2310Z PROB30 TEMPO 2309/2311 5000 BR FU BKN030 BECMG 2312/2315 14005KT SARE 230500Z 2306/2406 14005KT CAVOK TX28/2318Z TN13/2310Z BECMG 2316/2318 9999 SCT030 SARF 230500Z 2306/2406 14005KT CAVOK TX27/2318Z TN14/2310Z BECMG 2316/2318 9999 SCT030 SARI 230500Z 2306/2406 VRB03KT CAVOK TX28/2318Z TN14/2310Z BECMG 2316/2318 9999 SCT030 SARP 230500Z 2306/2406 14005KT CAVOK TX27/2318Z TN15/2310Z BECMG 2316/2318 9999 SCT030 SASA 230500Z 2306/2406 27002KT CAVOK TX27/2318Z TN10/2310Z PROB40 TEMPO 2308/2311 5000 BR BKN010 BECMG 2312/2315 05010KT 9999 FEW040TCU SASJ 230500Z 2306/2406 VRB02KT CAVOK TX29/2318Z TN12/2310Z PROB30 TEMPO 2309/2311 5000 BR BKN020 BECMG 2312/2315 05010KT 9999 FEW040TCU SAVC 230500Z 2306/2406 VRB03KT CAVOK TX18/2318Z TN04/2309Z PROB30 TEMPO 2306/2312 1000 BCFG BECMG 2313/2315 05015KT BECMG 2402/2404 VRB07KT BKN010 SAWE 230500Z 2306/2406 29010KT CAVOK TX12/2318Z TN04/2310Z PROB30 2308/2310 02005KT 3000 BR BECMG 2313/2315 34015KT 9999 SCT030 BECMG 2316/2319 36020G35KT BECMG 2403/2405 34015KT OVC005 SAWG 230500Z 2306/2406 00000KT CAVOK TX17/2319Z TN03/2311Z PROB30 2308/2310 3000 BR BECMG 2313/2315 34015KT 9999 SCT030 BECMG 2316/2318 04020G35KT BECMG 2403/2405 36015KT SAWH 230500Z 2306/2406 32015KT 9999 SCT030 TX14/2319Z TN09/2310Z BECMG 2309/2311 36023KT BKN040 SAZM 230500Z 2306/2406 27010KT 9999 SCT020 BKN045 TX13/2318Z TN07/2310Z BECMG 2308/2312 25020KT 6000 -RA BKN015 BKN025 TEMPO 2314/2317 4000 RA BECMG 2322/2401 25015KT 9999 BKN010 BKN025 SAZN 230500Z 2306/2406 11005KT CAVOK TX25/2319Z TN06/2310Z BECMG 2312/2314 08005KT SCT045 SAZS 230500Z 2306/2406 18005KT CAVOK TX19/2318Z TN01/2310Z BECMG 2308/2310 14005KT BECMG 2315/2317 29015KT SBAF 230300Z 2306/2318 14007KT 9999 SCT020 TN20/2308Z TX28/2318Z PROB40 2306/2311 5000 BR BKN015 BECMG 2312/2314 SCT035 RMK PER SBAN 230400Z 2306/2318 14008KT 9999 FEW030 TN20/2308Z TX29/2317Z BECMG 2308/2310 10009KT BECMG 2314/2316 22010KT 9999 SCT040 FEW045TCU RMK PAZ SBAR 230400Z 2306/2406 06005KT 9999 SCT018 TN22/2308Z TX29/2316Z BECMG 2313/2315 09012KT BECMG 2322/2324 11007KT RMK PFM SBAT 230200Z 2306/2318 00000KT 9999 FEW020TN23/2306Z TX32/2318Z BECMG 2311/2313 32005KT BECMG 2315/2317 BKN030 FEW035TCU RMK PHI SBBE 230200Z 2306/2406 07005KT 8000 FEW012TN22/2309Z TX31/2317Z PROB30 2306/2311 3000 BR BKN005 BECMG 2312/2314 34010KT BECMG 2315/2317 BKN030 FEW033TCU BECMG 2320/2322 06005KT BECMG 2322/2324 CAVOK RMK PHI SBBI 230300Z 2306/2318 09006KT 9999 BKN006 TN14/2308Z TX24/2318Z PROB40 2306/2310 2000 BR BKN002 BECMG 2312/2314 SCT030 RMK PER SBBR 230400Z 2306/2406 10005KT 9999 SCT015 TN20/2309Z TX29/2317Z BECMG 2313/2315 07011KT 9999 SCT040 BECMG BECMG 2315/2317 SCT040 FEW045TCU PROB30 2321/ 2323 23010KT 8000 TSRA SCT040 FEW045CB BECMG 2400/2402 09005KT 9999 NSW SCT030 BECMG 2404/2406 08005KT CAVOK RMK PAZ SBBU 230300Z 2306/2318 11007KT CAVOK TN18/2309Z TX30/2318Z PROB40 2308/2310 4000 BR BKN006 RMK PER SBBV 230200Z 2306/2406 32005KT 9999 SCT040 FEW045TCUTN25/2310Z TX33/2318Z BECMG 2310/2312 07007KT SCT012 BECMG 2313/2315 BKN025 FEW030TCU BECMG 2319/2321 15005KT BECMG 2322/2324 FEW035 BECMG 2402/2404 32005KT RMK PHI SBBW 230400Z 2306/2318 03008KT CAVOK TN23/2309Z TX33/2316Z BECMG 2311/2313 08009KT 9999 SCT020 RMK PAZ SBCB 230430Z 2306/2406 19010KT 8000 SCT012 BKN025 TN20/2309Z TX26/2317Z TEMPO 2306/2311 5000 RA BR SCT007 OVC017 BECMG 2311/2312 05010KT 9999 BKN017 BECMG 2314/2316 12015KT BKN030 BECMG 2320/2322 08010KT SCT030 RMK PGB SBCF 230400Z 2306/2406 11006KT 9999 SCT030 TN19/2308Z TX29/2318Z BECMG 2312/2314 07008KT 9999 SCT040 BECMG 2321/2323 9999 FEW030 RMK PAZ SBCG 230300Z 2306/2406 10008KT CAVOK TN19/2308Z TX31/2318Z PROB30 2308/2311 5000 BR BKN006 TEMPO 2314/2320 9999 FEW040 RMK PER SBCJ 230200Z 2306/2318 03005KT 7000 BKN005TN22/2311Z TX30/2318Z PROB30 2310/2312 4000 BR BECMG 2316/2318 SCT025 FEW027TCU RMK PHI SBCO 230300Z 2306/2318 11006KT 9999 SCT025 TN13/2308Z TX26/2318Z PROB40 2306/2311 3000 BR BKN008 RMK PER SBCP 230430Z 2306/2318 00000KT 9999 BKN020TN20/2309Z TX25/2317Z PROB40 2308/2312 5000 RA SCT012 OVC023 BECMG 2312/2313 24010KT BECMG 2314/2316 18012KT 8000 SCT013 BKN030 RMK PGB SBCR 230300Z 2306/2406 22006KT CAVOK TN20/2308Z TX35/2317Z PROB30 2308/2311 6000 BKN006 TEMPO 2314/2320 9999 FEW020 RMK PER SBCT 230300Z 2306/2406 11006KT 8000 BKN006 TN13/2308Z TX24/2318Z PROB40 2306/2311 2000 BR BKN002 BECMG 2312/2314 9999 NSW SCT030 BECMG 2321/2323 BKN005 RMK PER SBCY 230430Z 2306/2406 01007KT 9999 FEW023TN24/2309Z TX32/2318Z BECMG 2312/2315 14010KT BKN025 PROB30 2317/2322 FEW020 FEW035TCU BECMG 2322/2323 04005KT BECMG 2402/2404 20007KT SCT035 RMK PGB SBDN 230300Z 2306/2318 13006KT CAVOK TN18/2309Z TX29/2318Z PROB30 2308/2310 5000 BR BKN005 RMK PER SBEG 230200Z 2306/2406 30005KT 9999 FEW010TN23/2309Z TX31/2317Z BECMG 2308/2310 06005KT BECMG 2314/2316 18010KT SCT020 FEW025TCU TEMPO 2320/2324 35010KT 4000 TSRA BKN017 FEW025CB BECMG 2401/2403 30005KT FEW012 RMK PHI SBFI 230300Z 2306/2406 18005KT CAVOK TN14/2308Z TX30/2318Z PROB30 2309/2311 2000 BR NSC RMK PER SBFL 230300Z 2306/2406 17011KT 9999 SCT030 TN17/2306Z TX25/2317Z TEMPO 2306/2310 BKN020 BECMG 2312/2314 01008KT SCT040 RMK PER SBFN 230400Z 2306/2318 13013KT 9999 SCT017 TN26/2308Z TX30/2315Z RMK PFM SBFZ 230400Z 2306/2406 10010KT 9999 SCT020 TN25/2309Z TX31/2316Z BECMG 2311/2313 10018KT 8000 BKN017 BECMG 2315/2317 SCT020 BECMG 2322/2323 09010KT RMK PFM SBGL 230430Z 2306/2412 12005KT 8000 SCT015 BKN025TX27/2317Z TN20/2409Z TEMPO 2306/2311 31005KT 5000 DZ BR SCT010 OVC020 BECMG 2312/2313 33007KT 9999 BKN030 BECMG 2316/2318 13010KT SCT040 BECMG 2401/2403 09005KT FEW025 BECMG 2406/2408 32005KT PROB30 2408/2412 28005KT 7000 SCT015 RMK PGB SBGO 230400Z 2306/2406 13005KT 9999 SCT025 TN21/2308Z TX31/2318Z BECMG 2314/2316 09010KT SCT045 BECMG 2400/2402 23005KT 9999 FEW020 RMK PAZ SBGR 230200Z 2306/2412 10004KT 9999 BKN011TX26/2317Z TN15/2409Z PROB30 2308/2311 3000 BR BKN006 BECMG 2311/2313 12007KT BKN015 BECMG 2313/2315 15007KT BKN033 BECMG 2316/2318 CAVOK BECMG 2319/2321 BKN013 BECMG 2322/2324 10007KT PROB30 2403/2409 10003KT FEW013 BECMG 2409/2411 CAVOK RMK PGE SBGW 230300Z 2306/2318 10007KT 8000 SCT020 TN16/2309Z TX29/2318Z PROB40 2306/2311 3000 BR BKN005 BECMG 2312/2314 18006KT 9999 NSW SCT035 RMK PER SBIH 230200Z 2306/2318 00000KT 9999 SCT006TN24/2310Z TX31/2318Z BECMG 2308/2310 4000 BR BECMG 2311/2313 9999 NSW SCT017 BECMG 2314/2316 23005KT SCT020 FEW023TCU RMK PHI SBIL 230400Z 2306/2318 07005KT 7000 BKN015 TN23/2309Z TX27/2316Z PROB40 TEMPO 2308/2310 4500 RA BKN010 FEW025TCU BECMG 2314/2315 08011KT RMK PFM SBIZ 230200Z 2306/2318 00000KT 9999 FEW020TN24/2309Z TX36/2317Z BECMG 2308/2310 06005KT BECMG 2316/2318 SCT025 FEW030TCU RMK PHI SBJP 230400Z 2306/2406 12007KT 8000 SCT015 TN23/2308Z TX29/2315Z BECMG 2313/2315 12014KT BECMG 2323/2401 13007KT RMK PFM SBJV 230300Z 2306/2318 29005KT 9999 SCT015 BKN025 TN18/2308Z TX24/2318Z PROB40 2306/2311 3000 BR BKN006 BECMG 2312/2314 05007KT SCT035 RMK PER SBKG 230400Z 2306/2318 10008KT 9999 SCT010 TN21/2308Z TX29/2316Z PROB30 2306/2309 BKN007 BECMG 2311/2313 10013KT SCT015 RMK PFM SBKP 230200Z 2306/2406 12010KT CAVOK TN17/2308Z TX28/2318Z PROB40 2309/2311 6000 NSC BECMG 2311/2313 SCT016 BECMG 2313/2315 12005KT SCT028 BECMG 2315/2317 16005KT 9999 SCT040 BECMG 2319/2321 14015KT CAVOK BECMG 2323/2401 13010KT PROB30 2403/2406 FEW025 RMK PGE SBLO 230300Z 2306/2318 00000KT CAVOK TN18/2309Z TX29/2318Z PROB40 2308/2310 4000 BR BKN006 BECMG 2312/2314 01007KT RMK PER SBME 230430Z 2306/2318 03005KT 9999 BKN030TN19/2309Z TX25/2318Z PROB40 TEMPO 2306/2311 24007KT 6000 RA SCT010 OVC017 BECMG 2312/2313 07010KT BKN017 BECMG 2314/2316 13010KT BKN025 RMK PGB SBMN 230400Z 2306/2318 07003KT 9999 SCT015 TN25/2308Z TX30/2317Z PROB30 2306/2307 TS SCT020 FEW025CB BECMG 2315/2317 09007KT 8000 SCT020 FEW025TCU RMK PFM SBMO 230400Z 2306/2406 08005KT 9999 SCT015 TN20/2308Z TX29/2315Z BECMG 2311/2313 08012KT BECMG 2322/2324 08007KT RMK PFM SBMQ 230200Z 2306/2406 01005KT 9999 FEW015TN25/2309Z TX35/2317Z BECMG 2312/2314 08010KT BECMG 2317/2319 SCT030 FEW035TCU BECMG 2321/2323 FEW017 BECMG 2401/2403 01005KT RMK PHI SBNF 230300Z 2306/2406 25007KT 9999 BKN020 TN16/2306Z TX24/2317Z PROB40 2306/2311 3000 BR BKN008 BECMG 2312/2314 05008KT SCT030 RMK PER SBNT 230400Z 2306/2318 15008KT 9999 SCT018 TN24/2307Z TX30/2314Z BECMG 2313/2314 12015KT RMK PFM SBPJ 230400Z 2306/2406 02005KT 9999 SCT030 TN23/2307Z TX30/2317Z BECMG 2314/2316 26006KT SCT025 FEW030TCU PROB30 TEMPO 2317/2319 32010KT 8000 TSRA SCT030 FEW035CB BECMG 2401/2403 13005KT FEW025 RMK PAZ SBPL 230400Z 2306/2406 13010KT CAVOK TN23/2308Z TX33/2317Z BECMG 2310/23012 9999 SCT020 BECMG 2321/2323 CAVOK RMK PFM SBPS 230400Z 2306/2406 03008KT 8000 BKN015 TN20/2308Z TX27/2316Z PROB40 TEMPO 2308/2311 4500 BR BKN012 BECMG 2315/2317 07015KT 9999 SCT018 SCT030 BECMG 2322/2324 03008KT RMK PFM SBPV 230430Z 2306/2406 22005KT 9999 SCT030 TN24/2309Z TX33/2317Z BECMG 2308/2310 14005KT FEW020 BECMG 2316/2318 32005KT SCT030 FEW040TCU PROB40 2319/2401 7000 TSRA BKN020 FEW035CB BECMG 2402/2404 30005KT RMK PGB SBRB 230430Z 2306/2318 13005KT CAVOK TN22/2306Z TX33/2318Z BECMG 2307/2309 30005KT 8000 FEW015 BECMG 2312/2314 08005KT BECMG 2315/2317 32005KT SCT035 FEW040TCU RMK PGB SBRF 230400Z 2306/2406 12010KT 8000 SCT018 TN25/2308Z TX28/2315Z BECMG 2313/2315 12015KT BECMG 2323/2324 12010KT RMK PFM SBRJ 230430Z 2306/2318 18005KT 8000 SCT015 BKN030TN22/2309Z TX28/2317Z TEMPO 2306/2311 33005KT 5000 DZ BR SCT010 OVC020 BECMG 2312/2313 36007KT 9999 BKN030 BECMG 2316/2318 16010KT SCT040 RMK PGB SBRP 230200Z 2306/2318 13004KT CAVOK TN19/2309Z TX31/2317Z BECMG 2309/2311 09007KT BECMG 2311/2313 FEW030 BECMG 2315/2317 15004KT SCT040 RMK PGE SBSC 230300Z 2306/2318 15007KT 9999 SCT015 TN20/2308Z TX28/2318Z PROB40 2306/2311 4000 BR BKN012 BECMG 2312/2314 SCT035 RMK PER SBSJ 230430Z 2306/2406 17010KT 8000 SCT015 BKN030TN17/2309Z TX25/2317Z PROB30 2309/2312 4000 BR BKN010 BECMG 2313/2315 16010KT BKN020 PROB40 2317/2320 7000 SHRA BKN017 FEW027TCU BECMG 2321/2323 09005KT SCT030 BECMG 2401/2404 18007KT RMK PGB SBSL 230200Z 2306/2406 05005KT 9999 FEW015TN25/2309Z TX32/2317Z BECMG 2311/2313 02015KT BECMG 2322/2324 05005KT RMK PHI SBSM 230300Z 2306/2318 11005KT CAVOK TN13/2308Z TX25/2318Z PROB40 2306/2311 3000 BR BKN008 RMK PER SBSN 230200Z 2306/2406 16005KT 9999 FEW017TN24/2310Z TX31/2317Z PROB30 TEMPO 2310/2315 4000 TSRA BKN015 FEW020CB BECMG 2315/2317 33005KT BECMG 2318/2320 FEW017 FEW025TCU BECMG 2321/2323 18005KT RMK PHI SBSP 230200Z 2306/2318 14006KT 8000 BKN011TN17/2308Z TX25/2317Z PROB30 2306/2309 6000 BKN007 BECMG 2310/2312 9999 BKN015 BECMG 2313/2315 SCT025 BECMG 2316/2318 16010KT CAVOK RMK PGE SBSV 230400Z 2306/2406 08011KT 8000 SCT015 SCT025 TN24/2309Z TX28/2316Z PROB40 TEMPO 2306/2308 4000 RA BKN010 FEW025TCU RMK PFM SBTE 230400Z 2306/2318 35004KT CAVOK TN25/2308Z TX37/2317Z BECMG 2312/2313 03008KT 9999 SCT030 RMK PFM SBTT 230430Z 2306/2406 30005KT 9999 SCT015TN24/2310Z TX30/2317Z BECMG 2311/2313 15007KT BKN020 BECMG 2315/2317 23005KT SCT025 PROB30 2318/2323 07010KT SCT020 FEW025TCU BECMG 2323/2401 04007KT RMK PGB SBUG 230300Z 2306/2318 15007KT CAVOK TN14/2308Z TX26/2318Z RMK PER SBUL 230200Z 2306/2318 15004KT CAVOK TN18/2309Z TX30/2317Z BECMG 2307/2309 11004KT BECMG 2311/2313 35004KT BECMG 2315/2317 25006KT 9999 SCT033 RMK PGE SBUR 230200Z 2306/2318 11005KT CAVOK TN19/2308Z TX29/2317Z PROB30 2307/2311 4000 BR BKN004 BECMG 2311/2312 08005KT PROB30 2313/2315 00000KT SCT049 BECMG 2315/2317 19005KT 9999 FEW049 RMK PGE SBVH 230430Z 2306/2318 30010KT 9999 SCT035TN20/2310Z TX30/2317Z BECMG 2309/2311 27007KT BECMG 2314/2316 SCT025 FEW035TCU PROB40 2316/2318 23015KT 7000 TSRA BKN020 FEW030CB RMK PGB SBVT 230400Z 2306/2406 01005KT 9999 SCT020 TN20/2307Z TX28/2316Z BECMG 2313/2314 06014KT BECMG 2323/2324 01007KT RMK PFM SBYS 230400Z 2306/2318 20005KT CAVOK TN16/2309Z TX28/2317Z BECMG 2314/2316 01005KT 9999 SCT035 RMK PAZ SCAR 230456Z 2306/2406 18004KT 9999 OVC025 TN17/2306Z TX20/2319Z BECMG 2315/2317 21012KT CAVOK BECMG 2322/2324 17004KT BECMG 2401/2403 OVC030 SCAT 230431Z 2306/2406 35004KT 9999 OVC015 TN13/2308Z TX19/2319Z BECMG 2313/2315 29010KT BKN020 BECMG 2316/2318 CAVOK BECMG 2402/2404 19004KT OVC015 BECMG 2405/2406 11004KT SCBA 230405Z 2306/2406 31007KT CAVOK TNM01/2311Z TX20/2319Z BECMG 2308/2310 VRB02KT BECMG 2313/2315 30007KT TEMPO 2317/2322 30012KT BECMG 2322/2324 30007KT SCCF 230458Z 2306/2406 10012KT CAVOK TN04/2310Z TX23/2318Z BECMG 2314/2315 29004KT BECMG 2316/2318 27020KT BECMG 2400/2401 27010KT BECMG 2402/2404 10010KT SCCI 230433Z 2306/2406 01010KT 9999 FEW040 TN05/2309Z TX16/2318Z TEMPO 2306/2309 29015KT BECMG 2314/2316 34010KT BECMG 2318/2320 VRB05KT BECMG 2400/2402 27010KT SCDA 230453Z 2306/2406 16004KT 9999 FEW030 TN15/2307Z TX19/2319Z BECMG 2309/2311 19008KT BKN025 BECMG 2315/2317 24012KT FEW030 BECMG 2320/2322 23008KT BKN030 SCEL 230400Z 2306/2406 16004KT CAVOK TX29/2319Z TN09/2311Z TEMPO 2306/2312 VRB02KT 7000 SCT180 BKN200 BECMG 2315/2317 18005KT BECMG 2318/2320 20012KT BECMG 2402/2404 17005KT SCFA 230507Z 2306/2406 33004KT 9999 OVC020 TN14/2306Z TX17/ 2316Z BECMG 2308/2310 36004KT OVC027 BECMG 2310/2312 06004KT BKN030 BECMG 2314/2316 20012KT FEW025 BECMG 2400/2402 BKN018 SCIE 230400Z 2306/2406 23006KT CAVOK TX19/2318Z TN07/2311Z TEMPO 2306/2312 15004KT BECMG 2315/2317 22012KT BECMG 2402/2404 23004KT SCIP 230412Z 2306/2406 13010KT 9999 SCT020 BKN050 TN14/2310Z TX21/2320Z TEMPO 2308/2312 7000 -SHRA SCT015 BKN040 BECMG 2314/2316 10004KT FEW020 SCT040 SCQP 230406Z 2306/2406 VRB03KT CAVOK TN01/2309Z TX21/2319Z BECMG 2308/2310 2000 BR SCT005 TEMPO 2311/2313 0500 FG OVC002 BECMG 2313/2315 CAVOK BECMG 2317/2319 22006KT BECMG 2323/2401 VRB03KT SCSE 230400Z 2306/2406 31004KT 9999 OVC013 TX17/2319Z TN12/2311Z TEMPO 2308/2314 12004KT 3000 BR OVC008 BECMG 2315/2317 29010KT SCT015 BECMG 2317/2319 CAVOK BECMG 2401/2403 30004KT BKN010 SCTE 230404Z 2306/2406 VRB03KT CAVOK TN01/2310Z TX17/2319Z BECMG 2307/2309 2000 BR NSC TEMPO 2310/2312 0500 FG BKN005 BECMG 2312/2314 9999 NSW SCT020 BECMG 2315/2317 16006KT CAVOK BECMG 2322/2324 VRB03KT SCVM 230400Z 2306/2406 15004KT CAVOK TX19/2319Z TN08/2311Z TEMPO 2308/2312 30004KT SCT008 BKN012 BECMG 2315/2317 29008KT BECMG 2401/2403 30004KT SEGU 230410Z 2306/2406 21010KT 9999 FEW010 BKN020 OVC100 BECMG 2312/2313 BKN023 BKN100 FM231600 14005KT 9999 SCT026 SCT100 FM240000 21012KT 9999 FEW026 SCT100 TX30/2319Z TN22/2310Z SELT 230410Z 2306/2406 VRB03KT 9999 SCT010 BKN030 BKN100 BECMG 2312/2314 SCT030 BKN100 BECMG 2315/2317 16010KT BKN030 BKN100 TEMPO 2319/2321 TSRA FEW026CB BKN030 BKN100 BECMG 2323/2324 18005KT TX18/2319Z TN06/2311Z SEMT 230410Z 2306/2406 21005KT 9999 OVC020 BECMG 2314/2315 BKN020 BECMG 2317/2319 24010KT TX26/2320Z TN22/2311Z SEQM 230410Z 2306/2406 VRB03KT 6000 RA SCT005 BKN016 OVC080 BECMG 2308/2310 3000 BCFG BKN003 OVC016 BECMG 2311/2313 SCT026 BKN090 BECMG 2317/2319 36012KT FM240000 03004KT 9999 RA BKN023 OVC080 TX19/2319Z TN12/2311Z SKBG 230430Z 2306/2406 VRB02KT 9999 SCT013 SCT080 TEMPO 2310/2314 5000 BCFG DZ SCT010 TEMPO 2311/2313 0800 PRFG VV/// BECMG 2314/2316 32008KT TEMPO 2321/2323 5000 RADZ SCT010CB BKN070 TEMPO 2323/2404 3000 BCFG DZ SCT010 BKN070 TX27/2319Z TN18/2311Z SKBO 230430Z 2306/2406 VRB03KT 9999 SCT017 SCT080 TEMPO 2309/2313 8000 VCFG DZ SCT013 BECMG 2313/2315 32008KT TEMPO 2318/2324 4000 TSRA SCT010CB TX20/2318Z TN08/2311Z SKBQ 230430Z 2306/2406 VRB02KT 9999 SCT012 TEMPO 2310/2313 5000 BR BKN008 BECMG 2314/2316 18010KT TEMPO 2316/2320 5000 TSRA SCT015CB SCT070 TX31/2317Z TN24/2310Z SKCC 230430Z 2306/2406 VRB02KT 5000 DZ SCT015 BKN080 TEMPO 2310/2315 3000 BCFG SCT010 BECMG 2314/2316 36010KT SCT023 SCT080 TEMPO 2320/2401 5000 TSRA SCT017CB TX32/2318Z TN22/2311Z SKCG 230430Z 2306/2406 VRB03KT 9999 FEW015 SCT120 TEMPO 2308/2313 8000 DZRA SCT015 BECMG 2312/2314 22008KT TEMPO 2320/2323 DZRA SCT012CB SCT070 BECMG 2401/2403 VRB03KT FEW015 TX32/2319Z TN24/2311Z SKCL 230430Z 2306/2406 VRB03KT 9999 SCT020 SCT120 TEMPO 2310/2313 5000 BCFG DZ SCT010 BECMG 2313/2315 32008KT SCT030 BKN120 TEMPO 2320/2323 6000 RADZ SCT018CB TX30/2319Z TN19/2311Z SKLT 230430Z 2306/2406 00000KT 9999 SCT015 BKN090 TEMPO 2306/2312 5000 DZRA BR BKN010CB BECMG 2314/2313 18005KT TEMPO 2320/2324 5000 TSRA SCT015CB TX33/2318Z TN22/2311Z SKPE 230430Z 2306/2406 VRB03KT 5000 BR DZ SCT015 BKN070 TEMPO 2306/2313 1500 BCFG SCT012 BECMG 2313/2315 27008KT 9999 NSW SCT018 SCT080 TEMPO 2320/2401 5000 TSRA SCT012CB BKN070 TEMPO 2402/2405 3000 BCFG DZ SCT015 BKN070 TX27/2319Z TN18/2311Z SKRG 230430Z 2306/2406 VRB02KT 9999 SCT010 SCT080 TEMPO 2307/2310 5000 DZ BR BKN008 TEMPO 2311/2313 3000 BR BKN006 BECMG 2314/2316 11008KT SCT017TCU TEMPO 2318/2322 5000 DZRA BKN015CB TX22/2318Z TN13/2311Z SKSP 230430Z 2306/2406 VRB02KT 9999 FEW017 BKN090 BECMG 2313/2315 05008KT FEW018 TEMPO 2319/2321 5000 TSRA SCT014CB BKN100 TX31/2319Z TN25/2311Z SLAL 230400Z 2306/2406 00000KT 9999 NSC TX22/2319Z TN08/2311Z BECMG 2314/2316 01015KT SCT017 BECMG 2402/2404 00000KT SCT010 SLCB 230400Z 2306/2406 00000KT 9999 NSC TX31/2319Z TN13/2311Z BECMG 2314/2316 24010KT FEW030 BECMG 2402/2404 00000KT NSC SLCO 230400Z 2306/2406 00000KT 9999 FEW020 BKN080 TX33/2320Z TN21 /2310Z BECMG 2314/2317 SCT017 TEMPO 2318/2321 6000 SHRA FEW023CB SLET 231000Z 2306/2406 21005KT 9999 NSC TX31/2319 TN20/2410Z BECMG 2318/2320 VRB04KT FEW020 SCT080 BECMG 2406/2408 34005KT NSC SLLP 230400Z 2306/2406 07005KT 3000E VCFG FEW003 TX18/2320Z TN02/2310Z BECMG 2311/2314 23011KT 9999 NSW FEW015 TEMPO 2318/2321 FEW020CB SLPS 230400Z 2306/2406 00000KT 9999 NSC TX33/2320 TN18/2310Z SLTJ 230400Z 2306/2406 00000KT 9999 SCT036 TX27/2319Z TN10/2311Z BECMG 2314/2316 14010KT FEW036 BECMG 2402/2404 00000KT SCT030 SLTR 230400Z 2306/2406 00000KT 9999 FEW017 TX32/2320Z TN22/2310Z EECMG 2314/2317 20006KT FEW020 PROB40 TEMPO 2318/2321 8000 SHRA FEW025CB SLVR 230400Z 2306/2406 21005KT 9999 NSC TX31/2319 TN20/2310Z BECMG 2312/2314 VRB02KT FEW020 SCT080 BECMG 2323/2401 16005KT NSC SMJP 230400Z 2306/2406 07003KT CAVOK TX33/2318Z TN23/2309Z PROB30 TEMPO 2308/2310 00000KT 3000 BR SCT002 BECMG 2311/2313 11008KT SCT020 FM232200 08005KT CAVOK SMZO 230400Z 2306/2406 07005KT CAVOK TX33/2318Z TN24/2309Z BECMG 2311/2313 12008KT SCT020 FM232200 07006KT CAVOK SOCA 230405Z 2304/2324 CNL SPCL 230500Z 2306/2406 12005KT 9999 BKN015 TX33/2320Z TN23/2311Z TEMPO 2308/2312 7000 DZRA BKN010 BKN080 BECMG 2313/2316 02006KT BKN020 TEMPO 2321/2402 09012KT 4000 SHRA BKN015 FEW025TCU BKN080 SPHI 230500Z 2306/2406 18010KT CAVOK TX25/2319Z TN16/2311Z TEMPO 2310/2313 BKN013 BECMG 2314/2318 19016KT CAVOK FM240000 18012KT 9999 SCT015 SPJC 230710Z 2307/2406 16004KT 8000 BKN010 TX20/2319Z TN16/2311Z TEMPO 2307/2312 OVC008 BECMG 2315/2319 18010KT BKN022 FM232300 18008KT 99999 OVC014 SPQT 230500Z 2306/2406 02006KT 9999 SCT010 BKN100 TX33/2320Z TN23/2311Z TEMPO 2306/2308 5000 -TSRA BKN010 FEW025CB BKN080 TEMPO 2308/2312 7000 DZRA BKN006 BKN080 BECMG 2314/2317 03005KT BKN020 TEMPO 2320/2401 04015KT 4000 SHRA BKN015 FEW025TCU BKN100 SPQU 230500Z 2306/2406 03006KT CAVOK TX21/2319Z TN08/2311Z BECMG 2314/2316 25010KT SPRU 230500Z 2306/2406 14006KT 8000 NSC TX19/2319Z TN16/2311Z BECMG 2308/2310 BKN012 FEW120 TEMPO 2310/2312 5000 BR OVC008 FM231400 17010KT 9000 FEW050 SCT130 BECMG 2323/2301 15006KT 8000 OVC015 SPSO 230500Z 2306/2406 15006KT 4000 BR NSC TX22/2319Z TN13/2311Z TEMPO 2310/2312 2500 BKN008 BECMG 2313/2317 29007KT 8000 NSW SCT017 FM231900 24012KT CAVOK SPTN 230500Z 2306/2406 21006KT 9999 OVC019 TX22/2319Z TN13/2311Z FM231500 23005KT CAVOK BECMG 2318/2320 23010KT SPZO 230500Z 2306/2406 00000KT 9999 SCT045 BKN080 TX20/2319Z TN06/2311Z TEMPO 2310/2312 6000 RA FEW020 SCT036 BKN060 BECMG 2317/2319 36012KT BECMG 2323/2324 00000KT SUAA 230530Z 2306/2406 34010KT CAVOK TX19/2318Z TN09/2310Z BECMG 2315/2317 26015KT SUCA 230530Z 2306/2406 34010KT CAVOK TX19/2318Z TN10/2310Z BECMG 2312/2314 26018KT SUDU 230530Z 2306/2406 32005KT CAVOK TX21/2318Z TN08/2310Z TEMPO 2306/2311 3000 BR BKN010 PROB30 TEMPO 2306/2310 0800 FG BKN005 BECMG 2312/2314 26015KT TEMPO 2315/2320 8000 RA BKN040 SULS 230530Z 2306/2406 32010KT CAVOK TX17/2318Z TN09/2310Z BECMG 2310/2312 26015KT TEMPO 2311/2317 8000 RA BKN040 SUMU 230530Z 2306/2406 33010KT CAVOK TX18/2318Z TN10/2310Z BECMG 2315/2318 26015KT SURV 230530Z 2306/2406 16005KT CAVOK TX22/2318Z TN11/2310Z TEMPO 2306/2311 2000 BR NSC PROB40 TEMPO 2306/2310 0800 FG BKN005 TEMPO 2317/2321 8000 RA BKN040 SUSO 230530Z 2306/2406 17005KT CAVOK TX24/2318Z TN11/2310Z TEMPO 2306/2311 2000 BR BKN010 TEMPO 2306/2310 0800 FG BKN006 TEMPO 2318/2321 8000 RA BKN040 SVBC 230400Z 2306/2406 07006KT 9999 FEW010 TX31/19Z TN24/08Z BECMG 2306/2310 04006KT SCT010 SVJC 230400Z 2306/2406 05011KT 9999 FEW013 TX31/19Z TN23/09Z TEMPO 2306/2310 08015KT 9000 DZ BKN013 SVMC 230400Z 2306/2406 26006KT 9999 SCT013 TX31/19Z TN24/08Z TEMPO 2306/2310 14007KT 9000 DZ BKN013 SVMG 230400Z 2306/2406 09010KT 9999 FEW010 TX32/18Z TN24/08Z BECMG 2306/2310 11013KT SCT010 SCT0980 SVMI 230400Z 2306/2406 21006KT 9999 FEW016 TX28/18Z TN24/08Z TEMPO 2306/2310 08006KT 9999 BKN016 SVSA 230400Z 2306/2406 11006KT 9999 SCT020 TX31/19Z TN19/08Z TEMPO 2306/2310 14005KT 8000 DZ BKN020 SYCJ 230500Z 2306/2406 06004KT 9999 FEW013 BECMG 2311/2313 07012KT 9999 BKN018 SCT037 TEMPO 2317/2320 5000 TS SHRA FEW012CB BKN035 SYEC 230500Z 2306/2406 06006KT 9999 SCT014 BECMG 2310/2312 06012KT 9999 BKN018 SCT037 TEMPO 2312/2316 5000 SHRA FEW013CB BKN035 TAPA 230500Z 2306/2406 08009KT 9999 SCT019 PROB40 TEMPO 2312/2321 SHRA PROB30 TEMPO 2318/2321 TSRA FEW012CB TBPB 230500Z 2306/2406 10012KT 9999 SCT020 TGPY 230400Z 2306/2406 07008KT 9999 SCT018 TEMPO 2306/2310 00000KT TIST 230536Z 2306/2406 10005KT P6SM FEW030 FM231400 11010KT P6SM VCSH FEW025 SCT040 FM232100 07008KT P6SM VCSH SCT028 SCT040 TISX 230536Z 2306/2406 04004KT P6SM VCSH SCT030 SCT040 BKN045 FM231400 11010KT P6SM VCSH SCT023 SCT070 FM240000 04005KT P6SM VCSH SCT030 TJBQ 230536Z 2306/2406 11005KT P6SM FEW028 FM231400 08008KT P6SM FEW025 FM231700 06010KT P6SM VCTS SCT030CB SCT050 FM232300 11006KT P6SM FEW030 SCT050 TJMZ 230536Z 2306/2406 06005KT P6SM FEW030 FM231400 07006KT P6SM SCT025 SCT050 FM231700 07010KT P6SM VCTS SCT030CB SCT050 FM232200 07005KT P6SM FEW030 SCT050 NOT SKED TJPS 230536Z 2306/2406 VRB03KT P6SM FEW030 FM231400 12010KT P6SM SCT025 FM231700 14013KT P6SM VCTS SCT030CB SCT050 FM232200 09007KT P6SM FEW030 SCT050 FM240100 00000KT P6SM FEW030 TJSJ 230536Z 2306/2406 14004KT P6SM -SHRA VCSH FEW010 SCT019 SCT028 TEMPO 2306/2308 SHRA BKN028 FM231400 06010KT P6SM SCT025 SCT040 FM231700 06013KT P6SM VCTS SCT030CB SCT050 FM232200 09007KT P6SM FEW030 SCT050 FM240200 13003KT P6SM VCSH SCT028 TKPK 230536Z 2306/2406 07009KT P6SM VCSH SCT018 TKPN 230200Z 2300/2324 CNL TLPC 230530Z 2306/2406 10007KT 9999 SCT022 TEMPO 2306/2318 5000 SHRA PROB30 TEMPO 2318/2324 3000 TSRA FEW015CB BKN018 TLPL 230530Z 2306/2406 09012KT 9999 SCT022 TEMPO 2306/2318 5000 SHRA PROB30 TEMPO 2318/2324 3000 TSRA FEW015CB BKN018 TNCA 230600Z 2306/2406 09010KT 9999 SCT018 TEMPO 2306/2406 BKN014 PROB40 TEMPO 2306/2318 5000 SHRA FEW012CB TNCB 230435Z 2306/2412 08005KT 9999 FEW020 PROB30 TEMPO 2306/2318 6000 SHRA SCT018CB BKN020 PROB30 TEMPO 2406/2412 6000 SHRA SCT018CB BKN020 TNCC 230515Z 2306/2406 10008KT 9999 SCT018 TEMPO 2306/2406 BKN014 PROB40 TEMPO 2306/2318 5000 SHRA FEW012CB TNCM 230536Z 2306/2406 05006KT P6SM VCSH SCT019 FM231400 11008KT P6SM VCSH SCT020 FM232200 06007KT P6SM VCSH FEW018 TQPF 230200Z 2300/2324 CNL TRPG 230200Z 2300/2324 CNL TTCP 230400Z 2306/2406 09005KT 9999 FEW016 BECMG 2312/2314 09010KT FEW020 PROB40 TEMPO 2316/2322 5000 SHRA FEW010CB SCT016 TTPP 230400Z 2306/2406 00000KT 9999 FEW016 BECMG 2312/2314 09008KT FEW020 TEMPO 2316/2322 5000 SHRA FEW010CB SCT016 BECMG 2400/2402 00000KT FEW016 TUPJ 230200Z 2300/2324 CNL TXKF 230543Z 2306/2406 27010KT 9999 SCT013 BKN080 PROB30 TEMPO 2306/2312 4000 SHRA FEW008 BKN013 BECMG 2400/2403 32005KT FEW018 SCT300 UAAA 230500Z 2306/2406 06003G08MPS 9999 SCT050CB BKN100 TX14/2308Z TNM00/2401Z TEMPO 2306/2312 5000 FU BECMG 2312/2313 14003MPS 3100 BR FU TEMPO 2312/2324 1200 TEMPO 2400/2403 1600 UACC 230500Z 2306/2406 22008MPS 9999 SCT030CB BKN050 TX06/2309Z TNM01/2323Z TEMPO 2308/2318 23007G12MPS -SHRA BKN020CB TEMPO 2400/2406 23007G12MPS UAII 230534Z 2306/2406 30003G08MPS 7000 SCT050 BKN100 TX20/2310Z TN06/2401Z TEMPO 2306/2315 33005G10MPS TEMPO 2315/2402 12004MPS 3100 FU BR UAKK 230500Z 2306/2406 20005MPS 9999 SCT030 BKN100 TX08/2309Z TNM04/2401Z TEMPO 2306/2312 23008MPS BECMG 2402/2404 23006MPS UATE 230503Z 2306/2406 VRB02MPS 9999 SCT033 TX20/2309Z TN05/2402Z UATG 230500Z 2306/2406 VRB03MPS 9999 SCT033CB TX16/2311Z TN03/2403Z BECMG 2308/2309 21007MPS UATT 230500Z 2306/2406 24003MPS 9999 BKN033 TX10/2311Z TN03/2402Z TEMPO 2306/2315 -RA BKN011 TEMPO 2318/2406 3100 BR BKN011 UBBB 230506Z 2306/2406 33010KT CAVOK TX20/2310Z TN11/2302Z TEMPO 2306/2316 36010KT SCT020 TEMPO 2316/2320 SCT012 TEMPO 2320/2403 VRB04KT 3000 BR FEW004 UBBG 230500Z 2306/2406 VRB04KT 9999 SCT100 TX21/2312Z TN10/2403Z BECMG 2310/2312 08008KT UBBL 230512Z 2306/2406 VRB04KT 9000 BKN030 OVC070 TX19/2310Z TN13/2402Z TEMPO 2308/2318 08006KT TEMPO 2320/2406 4000 -RA BR SCT010 OVC017 UBBN 230509Z 2306/2406 VRB04KT 9999 FEW050 BKN100 TX18/2312Z TN07/2403Z TEMPO 2306/2312 24010KT SCT040CB BKN080 TEMPO 2320/2404 03010KT UBBQ 230509Z 2306/2406 VRB04KT 9999 SCT030 SCT100 TX21/2311Z TN08/2301Z TEMPO 2306/2310 25006KT BECMG 2310/2312 17006KT SCT020 TEMPO 2318/2404 VRB04KT 4000 BR SCT010 UCFM 230444Z 2306/2406 32003G08MPS 9999 SCT050 TEMPO 2306/2312 05003G08MPS BECMG 2312/2314 14003G08MPS 4000 BR TEMPO 2312/2318 1500 BR FU TEMPO 2318/2402 1500 BR FU UCFO 230441Z 2306/2406 27003G08MPS 9999 FEW050 TEMPO 2306/2312 32005MPS SCT030CB BECMG 2312/2314 17005MPS TEMPO 2312/2318 2000 BR FU UDSG 230506Z 2306/2406 24008KT 9999 FEW040 TEMPO 2306/2309 5000 BR TEMPO 2311/2318 VRB18KT UDYZ 230505Z 2306/2406 16006KT 9999 FEW040 TEMPO 2402/2406 2300 BR UEEE 230800Z 2309/2415 31003G08MPS 9999 BKN015CB OVC070 TEMPO 2309/2312 2100 -SHSN BR SCT007 BKN015CB OVC070 TEMPO 2312/2403 VRB01MPS 0300 SHSN FZFG VV002 UERP 230800Z 2309/2409 VRB01MPS 9999 BKN020 BKN100 TEMPO 2309/2315 3000 -SN BR BKN010 BKN100 UERR 230800Z 2309/2409 19004MPS 9999 SCT023CB BKN100= UHMM 230756Z 2309/2415 09003MPS 9999 SCT040 SCT070 TEMPO 2400/2409 35003G08MPS UGKO 230500Z 2306/2406 08006KT CAVOK TX22/2311Z TN10/2403Z TEMPO 2310/2315 26010KT SCT040 UGSB 230500Z 2306/2406 23007KT 9999 SCT017 BKN035 TX22/2311Z TN17/2403Z TEMPO 2311/2318 SHRA BKN017CB BECMG 2318/2320 13010KT TEMPO 2318/2406 5000 SHRA SCT010 BKN017CB UGTB 230500Z 2306/2406 VRB02KT CAVOK TX21/2311Z TN10/2402Z TEMPO 2316/2404 BKN055 UHBB 230745Z 2309/2409 15003MPS 9999 SCT020CB BECMG 2312/2314 3100 -SHRASN SCT011 BKN020CB TEMPO 2314/2402 1100 SHRASN BKN004 BKN015CB FM240300 21003MPS 9999 BKN020CB UHHH 230746Z 2309/2415 03003MPS CAVOK TEMPO 2309/2324 08003MPS UHMA 230753Z 2309/2409 34006MPS 6000 SCT007 BKN030 TEMPO 2309/2321 32003G08MPS 0800 -SHSN FZFG SCT004 BKN023CB TEMPO 2321/2409 32008G13MPS SCT004 SCT030 UHMM 230756Z 2309/2415 09003MPS 9999 SCT040 SCT070 TEMPO 2400/2409 35003G08MPS UHPP 230730Z 2309/2415 32003G12MPS 9999 SCT030CB FM231800 36003G12MPS 9999 OVC020CB TEMPO 2318/2409 12003G12MPS 2000 SHRA BR BKN005 OVC015CB UHSS 230740Z 2309/2415 33003MPS 9999 NSC UHWW 230800Z 2309/2409 33003MPS 9999 NSC BECMG 2312/2314 05003MPS 5000 BR FM240000 22003MPS 9999 BKN025 UIAA 230800Z 2309/2409 25003G08MPS 9999 NSC UIBB 230800Z 2309/2409 20003G08MPS 9999 BKN016CB UIII 230800Z 2309/2409 16003MPS CAVOK UIUU 230800Z 2309/2409 27003MPS 9999 SCT040 UKBB 230951Z 2309/2406 22003MPS 1200 BR BKN004 TEMPO 2309/2311 0600 FG VV002 BECMG 2311/2313 2000 BR BKN005 BECMG 2315/2317 27003MPS 0300 FG VV001 UKDD 230505Z 2306/2406 VRB01MPS 0200 -DZ FG VV001 BECMG 2308/2310 3100 BR SCT007 TEMPO 2314/2317 0200 FG VV001 BECMG 2317/2318 0200 FG VV001 UKDR 230503Z 2306/2406 VRB01MPS 0200 FG VV001 TEMPO 2311/2315 2000 BR OVC005 UKHH 231052Z 2310/2406 25004MPS 2100 BR BKN003 TEMPO 2316/2324 0600 FG VV002 BECMG 2400/2402 0600 -DZ FG OVC002 UKKK 230501Z 2306/2406 26003MPS 0300 FG VV001 TEMPO 2306/2308 1500 -DZ BR BKN005 BECMG 2308/2310 4000 BR SCT010 TEMPO 2310/2317 1500 BR SCT004 BECMG 2317/2319 VRB01MPS 0300 FG VV001 UKKM 230506Z 2306/2406 VRB01MPS 0200 FG VV002 TEMPO 2306/2309 1500 BR OVC004 BECMG 2309/2310 24003MPS 5000 BR SCT010 TEMPO 2310/2317 2100 BR SCT007 BECMG 2317/2319 VRB01MPS 0200 FG VV001 UKLL 230711Z 2307/2406 VRB01MPS 2100 BR SCT003 BKN007 TEMPO 2307/2309 0300 FG VV002 BECMG 2309/2311 6000 NSW SCT020 BECMG 2315/2316 2100 BR SCT003 BKN007 TEMPO 2316/2406 0400 FG VV001 UKOO 230701Z 2307/2406 10003MPS 2100 BR OVC003 TEMPO 2307/2310 0300 -DZ FG VV002 PROB40 TEMPO 2310/2315 0400 FG VV002 TEMPO 2315/2406 0300 FG VV002 ULAA 230800Z 2309/2409 27006MPS 6000 BKN012 TEMPO 2309/2315 31006G16MPS 2100 -SHRA BKN011CB TEMPO 2315/2401 24003G10MPS 3100 -SHSNRA BR BKN011CB TEMPO 2401/2406 24003MPS TEMPO 2406/2409 24003G10MPS 4000 -SHSN BKN011CB ULLI 230756Z 2309/2409 27007G12MPS 9999 BKN015 BKN020 BECMG 2316/2318 24006MPS BKN011 BKN016 TEMPO 2318/2409 3100 -SHRA BR BKN010 BKN016CB ULMM 230800Z 2309/2409 36003MPS 9999 SCT015 TEMPO 2309/2315 VRB01MPS 4000 -SHSN BKN015CB FM231500 16003MPS 3100 -SHSN BR BKN011CB TEMPO 2315/2401 12002MPS 1000 SHSN BR BKN003 BKN011CB TEMPO 2401/2409 VRB01MPS 0300 FZFG VV002 UMGG 230900Z 2309/2406 VRB02MPS 0500 FG VV002 TEMPO 2309/2315 20004MPS 2000 BR BKN005 UMKK 230758Z 2309/2409 25003G08MPS 9999 SCT011 BKN020 TEMPO 2309/2315 27005G10MPS 3100 -SHRA BR SCT006 BKN012CB BECMG 2315/2317 19003MPS 5000 BR BECMG 2322/2324 11003MPS TEMPO 2400/2406 2000 BR MIFG FEW005 FM240600 13004G09MPS 9999 OVC010 UMMS 230511Z 2306/2406 VRB02MPS 0500 FG VV002 TEMPO 2306/2308 0200 VV001 BECMG 2308/2309 27005G10MPS 6000 NSW SCT030 TEMPO 2316/2317 1200 BR SCT003 TEMPO 2317/2406 0200 FG VV001 UNAA 230750Z 2309/2409 19003G10MPS 9999 SCT025CB TEMPO 2309/2312 4000 -SHSN FM231200 17003MPS 9999 SCT040 TEMPO 2312/2404 3200 FU BR UNBB 230800Z 2309/2409 21008G15MPS 9999 BKN020CB TEMPO 2312/2409 3100 -SHRASN BKN005 BKN011CB UNEE 230800Z 2309/2409 17007G15MPS 9999 SCT020CB TEMPO 2309/2409 3100 -SHSNRA BKN011CB UNKL 230758Z 2309/2409 22005G13MPS 9999 SCT040 BECMG 2318/2320 SCT017CB TEMPO 2321/2409 24010G16MPS 3100 -SHSN BKN013CB UNNT 230800Z 2309/2409 20007G14MPS 9999 BKN040CB TEMPO 2309/2406 3100 -SHSNRA BKN005 BKN011CB UNOO 230745Z 2309/2409 23004G10MPS 6000 BKN007 BKN030CB TEMPO 2312/2403 1400 -SHRASN BR VV004 BECMG 2403/2404 26005G12MPS TEMPO 2404/2409 3100 -SHRA BR UOOO 230852Z 2309/2409 16013G20MPS 1200 SHSN BLSN BKN007 BKN011CB TEMPO 2309/2406 0400 SHSN BLSN VV003 BECMG 2406/2408 15008G15MPS 2100 -SHSN DRSN URFF 230752Z 2309/2409 05005G10MPS 9999 SCT040 TX22/2314Z TN09/2403Z BECMG 2318/2320 14003MPS URKA 230755Z 2309/2409 07003G08MPS 9999 SCT030 TEMPO 2309/2315 05006G12MPS TEMPO 2315/2406 3100 BR SCT011 SCT030 URKK 230757Z 2309/2409 05003MPS 9999 SCT040 TEMPO 2318/2406 3100 BR SCT011 URMM 230800Z 2309/2409 10003G08MPS 9999 NSC TX17/2312Z TN03/2403Z TEMPO 2318/2407 VRB01MPS 3100 BR BKN011 URRP 230756Z 2309/2409 15003G08MPS 9999 SCT015 TEMPO 2309/2318 20003G08MPS FM231800 25003G08MPS 3100 BR SCT011 PROB40 TEMPO 2321/2407 0400 FG SCT001 URSS 230756Z 2309/2409 28004G09MPS 9999 FEW030 SCT100 BECMG 2316/2318 05005MPS SCT015 TEMPO 2318/2405 VRB01MPS OVC011 FM240800 28004G09MPS 9999 FEW040 USCC 230800Z 2309/2409 25004G11MPS 9999 SCT040 TEMPO 2309/2324 25007G16MPS 3100 FU BKN015 FM240000 27005G11MPS 9999 OVC011 BKN020CB TEMPO 2400/2409 3100 -SHRA BR USHH 230758Z 2309/2409 22004G10MPS 9999 BKN017 TEMPO 2309/2315 26003MPS -SHSN BKN016CB FM231500 21007G14MPS 6000 -SHSN BKN011CB TEMPO 2315/2406 1200 SHSN BKN003 OVC011CB BECMG 2406/2408 27006G14MPS USNN 230800Z 2309/2409 25006G12MPS 9999 BKN011 TEMPO 2309/2315 3100 -SHSNRA BKN007 BKN017CB BECMG 2318/2320 20007G14MPS USPP 230759Z 2309/2409 21006G13MPS 6000 -RA OVC011 TEMPO 2309/2315 18007G19MPS 3100 -RA BECMG 2315/2316 25005G15MPS BECMG 2320/2321 28003G13MPS BECMG 2403/2405 BKN016 USRR 230800Z 2308/2409 27006G13MPS 9999 -SHSN SCT015 BKN020CB TEMPO 2308/2321 1200 SHSN BKN006 BKN017CB BECMG 2315/2317 21005MPS USSS 230753Z 2309/2409 23005G12MPS 9999 BKN016 SCT020CB BECMG 2312/2314 20003G10MPS BECMG 2318/2320 6000 -SHRA FM240300 26003G10MPS 9999 BKN016CB TEMPO 2403/2409 28006G15MPS -SHRA USTR 230748Z 2309/2409 25006G13MPS 9999 BKN015CB FM231500 24006G14MPS 4000 -SHSNRA BKN011 BKN020CB TEMPO 2315/2402 2100 -SHSNRA BKN007 BKN015CB BECMG 2321/2323 30006G13MPS BECMG 2402/2403 9999 NSW SCT015CB UTAA 230450Z 2306/2406 32014KT 6000 SCT050CB SCT050 TEMPO 2308/2316 02016KT PROB30 TEMPO 2312/2318 -RA UTAK 230430Z 2306/2406 VRB04KT 6000 SCT023 SCT100 TEMPO 2306/2312 15012KT BKN100 BECMG 2312/2313 34016KT SCT033CB OVC100 UTAM 230430Z 2306/2406 03014KT 5000 SCT030 BKN100 TEMPO 2306/2312 VRB04KT BECMG 2312/2315 VRB04KT TEMPO 2318/2406 SCT030CB BKN030 UTAT 230438Z 2306/2406 35016KT CAVOK TEMPO 2306/2313 05016KT UTAV 230430Z 2306/2406 03014KT CAVOK TEMPO 2306/2312 09012G22KT 3000 DRDU SCT050 SCT100 UTDD 230900Z 2310/2322 VRB02MPS 6000 FEW060 SCT130 TEMPO 2310/2316 28005MPS UTFN 230500Z 2306/2406 14010KT 9999 NSC TEMPO 2306/2312 09014KT 7000 FEW050CB UTNN 230500Z 2306/2406 VRB04KT CAVOK TEMPO 2306/2312 32008G18KT UTNU 230502Z 2306/2406 03008G18KT 7000 NSC TEMPO 2306/2312 VRB04KT UTSA 230501Z 2306/2406 VRB03KT 7000 NSC TEMPO 2306/2313 04012KT SCT033 UTSB 230500Z 2306/2406 VRB03KT 7000 NSC TEMPO 2306/2313 36012KT SCT033 UTSS 230500Z 2306/2406 13010G20KT 9999 NSC TEMPO 2306/2313 32012G22KT UTST 230500Z 2306/2406 VRB06KT 6000 NSC TEMPO 2306/2317 24008G18KT UTTT 230500Z 2306/2406 24012KT 7000 NSC UUBW 230752Z 2309/2409 28008G13MPS 9999 BKN020 TX14/2312Z TN08/2403Z BECMG 2315/2317 25003MPS TEMPO 2321/2409 BKN011 UUDD 230759Z 2309/2415 28007G12MPS 9999 BKN015 TX13/2309Z TN07/2403Z FM232100 26003MPS 4000 BR FEW003 SCT011 PROB40 TEMPO 2321/2406 0300 FG SCT002 BECMG 2406/2408 9999 NSW BKN020 TEMPO 2408/2415 26008MPS -SHRA BKN011 SCT015CB UUDL 230800Z 2309/2409 26006G11MPS 9999 BKN030 UUEE 230758Z 2309/2409 26007G12MPS 9999 BKN011 TX13/2312Z TN07/2402Z BECMG 2315/2319 26002MPS TEMPO 2322/2407 BKN004 UUWW 230750Z 2309/2409 26005MPS 9999 BKN015 TX13/2312Z TN08/2403Z TEMPO 2309/2315 26008G14MPS PROB40 TEMPO 2323/2406 0300 FG SCT002 UUYY 230800Z 2309/2409 20005G10MPS 4000 -SHRA BKN006 BKN014CB TEMPO 2309/2312 22007G14MPS 1500 SHRA BKN003 BKN012CB BECMG 2312/2313 27006G13MPS BKN011 BKN015CB TEMPO 2313/2318 3100 -SHRA FEW007 BKN012CB BECMG 2318/2320 30003MPS TEMPO 2320/2406 3100 -SHRA BR FEW005 BKN012CB UWGG 230756Z 2309/2409 24005G10MPS 9999 BKN016 TX14/2312Z TN07/2403Z TEMPO 2309/2315 26007G13MPS BKN012CB BECMG 2315/2317 27003MPS UWKD 230800Z 2309/2409 21006G12MPS 9999 BKN010 TX10/2310Z TN06/2403Z TEMPO 2309/2315 23008G15MPS 5000 -SHRA BKN007 BKN013CB BECMG 2315/2316 27005G10MPS TEMPO 2318/2406 2000 BR BKN005 BECMG 2406/2408 29003MPS UWKE 231005Z 2310/2409 24006G13MPS 9999 BKN020 TEMPO 2310/2315 20010G16MPS 3100 -SHRA BKN011 SCT015CB BECMG 2315/2317 27008G14MPS TEMPO 2315/2406 2100 -SHRA BR BKN007 BKN011CB UWLW 230745Z 2309/2409 24006G11MPS 8000 BKN020 TEMPO 2309/2315 28007G14MPS -SHRA BKN015CB BECMG 2315/2316 28005G11MPS TEMPO 2318/2406 5000 BR UWOO 230749Z 2309/2409 27003G08MPS 9999 BKN012 SCT020CB TX12/2311Z TN06/2402Z TEMPO 2309/2314 24005MPS 3100 BR FEW007 FM231400 23005G12MPS 3100 BR BKN011 SCT015CB TEMPO 2314/2409 25003G09MPS 0300 -SHRA FG VV003 UWUU 230752Z 2309/2409 23006G12MPS 9999 BKN020 TEMPO 2309/2318 19008G14MPS 3100 -SHRA BKN011CB TEMPO 2318/2324 19006G11MPS 3100 -SHRA BKN011CB FM240000 26007G13MPS 9999 BKN015CB TEMPO 2400/2409 3100 -SHRA BKN007CB UWWW 230750Z 2309/2409 22006G12MPS 9999 BKN015 TX13/2311Z TN10/2402Z TEMPO 2309/2316 24008G15MPS 3100 -SHRA BKN011CB BECMG 2316/2317 26005G10MPS TEMPO 2317/2409 28006G12MPS 3100 -SHRA BR BKN007 BKN011CB VABB 230500Z 2306/2412 14007KT 4000 HZ SCT018 FEW025TCU BKN100 TEMPO 2306/2315 2000 -SHRA SCT012 FEW030CB BKN080 BECMG 2308/2310 25008KT BECMG 2315/2317 13006KT 3000 HZ TEMPO 2318/2324 1500 SHRA SCT012 FEW030CB OVC080 BECMG 2401/2403 VRB03KT BECMG 2406/2408 24006KT 4000 HZ VABJ 230330Z 2306/2318 05005KT 6000 SCT250 BECMG 2315/2317 VRB03KT VAJM 230330Z 2306/2318 05010KT 6000 FEW090 BKN200 TEMPO 2308/2312 FEW025 TCU FEW090 BKN250 VANP 222300Z 2300/2406 03005KT 1500 BR HZ SCT020 BKN100 BECMG 2306/2308 05008KT 3000 -RA HZ FEW018 SCT025 SCT100 BCEMG 2312/2314 03006KT 2500 SCT018 FEW030TCU BKN090 TEMPO 2309/2313 25010G20KT 1500 -TSRA FEW010 SCT015 FEW030CB BKN080 BECMG 2400/2402 1500 BR HZ SCT018 BKN090 VAPO 230330Z 2306/2318 10010KT 4000 -RABR SCT008 SCT015 BKN090 TEMPO 2310/2314 3000 TSRA SCT010 FEW030TCU/CB BKN090 VCBI 230500Z 2306/2412 VRB05KT 9999 SCT018 TX30/2308Z TN24/2400Z PROB40 TEMPO 2309/2316 6000 -TSRA/SHRA FEW012 BKN016 FEW020CB VDPP 230500Z 2306/2324 19008KT 9999 SCT017 SCT040 TEMPO 2306/2311 5000 RA SCT015 FEW017CB BKN040 VDSR 230500Z 2306/2324 16006KT 9999 SCT017 SCT040 TEMPO 2307/2312 SCT015 FEW017CB VDSV 230500Z 2306/2324 21007KT 9999 SCT017 SCT040 TEMPO 2307/2312 SCT015 FEW017CB VEAB 230330Z 2306/2318 29005KT 6000 FEW025 SCT090 VEBD 230330Z 2306/2318 VRB02KT 5000 SCT025 BKN090 TEMPO 2309/2312 FEW030TCU VEBN 230500Z 2306/2412 VRB02KT 2500 BR SCT020 BKN100 BECMG 2307/2309 24004KT 3000 HZ TEMPO 2309/2312 FEW030CB BECMG 2400/2402 1500 BR MIFG BECMG 2407/2409 11004KT 5000 HZ TEMPO 2408/2412 1500 -TSRA RA SCT018 SCT025 FEW030CB OVC080 VECX 230330Z 2306/2318 VRB02KT 3000 HZ FEW025 BKN100 BECMG 2307/2308 29005KT 4500 HZ BECMG 2311/2313 VRB02KT 2500 HZ BECMG 2314/2318 00000KT 4000 BR SCT100 VEGK 230330Z 2306/2318 30005KT 6000 FEW030 BKN100 VEJT 230330Z 2306/2318 06005KT 5000 BR SCT015 SCT090 BECMG 2308/2310 6000 SCT015 SCT090 BECMG 2314/2316 3000 BR SCT030 VERP 230500Z 2306/2412 07004KT 4000 HZ FEW020 SCT100 TEMPO 2310/2314 34010KT 3000 -TSRA SCT020 FEW030CB BKN090 BECMG 2400/2402 VRB03KT 1500 BR HZ SCT020 BKN090 BECMG 2405/2407 02004KT 3000 HZ FEW015 SCT020 BKN090 TEMPO 2410/2412 36010KT 3000 \u2013TSRA SCT020 FEW030CB BKN090 VETZ 230330Z 2306/2318 07005KT 4000 BR FEW030 SCT10 BECMG FM 2312/2314 23005KT HZ SCT030 BKN100 BECMG FM 2315/2317 VRB02KT 3000 BR VGEG 230500Z 2306/2412 28003KT 5000 HZ FEW020 BECMG 2318/2320 02003KT 4000 HZ FEW018 BECMG 2322/2324 00000KT 3500 HZ FEW018 BECMG 2407/2409 32004KT 5000 HZ FEW020 VGHS 230500Z 2306/2412 28008KT 3500 HZ FEW015 SCT100 TEMPO 2306/2312 30025KT 2000 RA/TSRA BKN008 FEW025CB OVC090 BECMG 2320/2322 33006KT 3000 HZ SCT012 BKN100 TEMPO 2323/2412 27025KT 2000 RA/TSRA BKN008 FEW025CB OVC090 VHHH 230500Z 2306/2412 10010KT 9999 FEW030 TX29/2306Z TX29/2406Z TN24/2322Z TEMPO 2306/2309 27010KT TEMPO 2318/2403 04010KT VIAG 230330Z 2306/2318 29005KT 6000 NSC BECMG 2312/2313 VRB02KT 5000 HZ VIAR 230500Z 2306/2412 23005KT 2000 HZ FEW100 BECMG 2308/2309 23007KT 4000 HZ FEW035 BECMG 2309/2313 FEW040CB BECMG 2313/2315 VRB02KT 3000 HZ BECMG 2318/2320 00000KT 2500 BR BECMG 2323/2324 VRB02KT 1000 BR FEW100 BECMG 2405/2407 VRB02KT 3000 HZ BECMG 2408/2409 20006KT 4000 HZ SCT035 BECMG 2409/2412 FEW040CB VIAX 230330Z 2306/2318 32010KT 6000 NSC BECMG 2312/2314 VRB02KT 5000 HZ FEW030 SCT250 BECMG 2316/2318 3000 BR VICG 230330Z 2306/2318 32005KT 6000 FEW030 TEMPO 2312/2314 5000 HZ FEW250 BECMG 2316/2317 VRB02KT 5000 BR FEW250 VIDP 230500Z 2306/2412 25006KT 1800 HZ NSC BECMG 2308/2309 25008KT 3000 HZ SCT035 BECMG 2309/2313 FEW040CB BECMG 2313/2315 VRB02KT 2500 HZ BECMG 2318/2320 00000KT 2000 BR BECMG 2400/2402 VRB02KT 1000 BR FEW040 BECMG 2405/2407 15006KT 2000 HZ BECMG 2408/2409 15008KT 3000 HZ SCT035 BECMG 2409/2412 FEW040CB VIGR 230330Z 2306/2318 30007KT 6000 FEW100 SCT250 BECMG 2316/2318 VRB02KT 5000 HZ FEW100 SCT250 VIJO 230330Z 2306/2318 05010KT 6000 SCT250 VIJP 230500Z 2306/2412 07005KT 4000 HZ FEW035 SCT100 BECMG 2312/2313 VRB02KT 2500 HZ SCT100 BECMG 2400/2402 00000KT 2000 FU FEW035 BECMG 2404/2406 05005KT 4000 HZ FEW035 SCT100 VIJR 230330Z 2306/2318 20005KT 6000 NSC 2315/2318 34005KT 6000 NSC VIJU 230330Z 2306/2318 32005KT 6000 FEW025 SCT090 TEMPO 2311/2315 VRB02KT 4000 BR/HZ FEW025 FEW030TCU SCT090 VILH 230330Z 2306/2318 26005KT 6000 FEW060 SCT100 BKN150 TEMPO 2309/2312 27010G20KT SCT060 BKN120 VILK 230500Z 2306/2412 VRB02KT 2500 BR SCT020 SCT100 BKN200 BECMG 2307/2309 3000 BR HZ SCT020 BKN100 BECMG 2400/2402 00000KT 1500 BR MIFG BECMG 2408/2410 32004KT 5000 HZ SCT020 BKN100 VISR 230330Z 2306/2318 15008KT 6000 SCT025 SCT090 TEMPO 2310/2314 23010KT 4000 -TSRAFU SCT025 FEW030CB BKN090 VLLB 230500Z 2306/2406 36004KT 9999 SCT018 FEW060= VLLN 230500Z 2306/2406 27004KT 8000 SCT020 FEW100 VLPS 230500Z 2306/2406 18004KT 9999 SCT023 FEW050 SCT200 VLSK 230500Z 2306/2406 14004KT 8000 SCT020 FEW100 VLVT 230500Z 2306/2406 34004KT 8000 FEW020 FEW050 VMMC 230502Z 2306/2412 10008KT 9999 FEW015 SCT030 BECMG 2316/2318 04010KT BECMG 2406/2409 10010KT VOBL 230500Z 2306/2412 29010KT 6000 SCT012 SCT080 TEMPO 2312/2315 4000 TSRA RA SCT008 SCT018 FEW025CB BKN080 BECMG 2323/2324 3000 BR SCT008 SCT012 BECMG 2404/2405 6000 SCT012 SCT080 VOCB 230500Z 2306/2412 20010KT 6000 SCT012 BKN080 TEMPO 2309/2315 3000 TSRA/RA SCT012 FEW020CB OVC080 BECMG 2315/2316 3000 BR BECMG 2403/2404 5000 HZ VOCI 230500Z 2306/2412 30010KT 5000 HZ SCT012 FEW025CB BKN080 TEMPO 2312/2316 VRB03KT 3000 TSRA RA BECMG 2316/2317 4000 DZ HZ SCT015 BKN080 TEMPO 2322/2403 2000 RA BR FEW008 SCT012 BKN080 BECMG 2403/2404 12010KT 5000 HZ SCT015 BKN090 BECMG 2406/2407 30010KT 6000 SCT015 FEW025CB BKN080 VOCL 230500Z 2306/2412 36010KT 6000 SCT012 FEW025TCU BKN080 TEMPO 2312/2316 26010KT 3000 TSRA RA SCT012 FEW025CB BKN080 BECMG 2316/2317 4000 DZ HZ FEW004 SCT012 BKN080 TEMPO 2322/2403 2500 RA BR SCT004 SCT012 FEW025CB BKN080 BECMG 2403/2404 5000 HZ SCT012 SCT080 BECMG 2406/2407 36010KT 6000 SCT012 FEW025CB BKN080 VOHS 230500Z 2306/2315 08008KT 5000 BR SCT010 SCT015 BKN100 TEMPO 2308/2315 3000 RA BKN010 FEW030TCU OVC080 BECMG 2314/2315 VRB04KT 4000 BR SCT015 BKN100 VOHY 230500Z 2306/2315 08008KT 5000 BR SCT010 SCT015 BKN100 TEMPO 2308/2315 3000 RA BKN010 FEW030TCU OVC080 BECMG 2314/2315 VRB04KT 4000 BR SCT015 BKN100 VOKN 230500Z 2306/2412 27010KT 6000 SCT012 FEW025CB BKN080 TEMPO 2312/2316 VRB03KT 3000 TSRA RA BECMG 2316/2317 3000 -RA HZ FEW004 SCT012 BKN080 TEMPO 2322/2403 1500 SHRA RA SCT004 SCT012 FEW025CB BKN080 BECMG 2403/2404 09005KT 4000 HZ FEW008 SCT012 FEW025TCU BECMG 2406/2407 36010KT 6000 SCT012 FEW025CB BKN080 VOMD 230500Z 2306/2412 27010KT 6000 SCT018 BKN100 TEMPO 2309/2315 3000 TSRA/RA SCT016 FEW025TCU/CB OVC080 BECMG 2315/2316 00000KT 4000 BR BECMG 2403/2404 27010KT 6000 VOML 230500Z 2306/2412 14010KT 6000 SCT012 SCT080 TEMPO 2309/2312 4000 RA DZ SCT008 SCT012 FEW025CB BKN080 BECMG 2314/2315 11005KT TEMPO 2400/2403 3000 RA BR SCT006 FEW025CB SCT080 BECMG 2406/2407 27010KT SCT012 TEMPO 2409/2412 4000 RA DZ SCT008 SCT012 FEW025CB VOMM 230500Z 2306/2412 29010KT 5000 BR SCT020 BKN100 TEMPO 2309/2315 4000 -TSRA/RA SCT018 FEW025TCU/CB OVC080 BECMG 2315/2316 23010KT 4000 BR TEMPO 2318/2324 4000 -TSRA/RA SCT018 FEW025CB OVC080 BECMG 2400/2401 3000 -RA/DZ BECMG 2406/2407 29010KT 5000 BR VOTR 230500Z 2306/2412 27015KT 6000 FEW018 SCT100 TEMPO 2309/2315 4000 -TSRA/RA SCT016 FEW025TCU/CB OVC080 BECMG 2315/2316 20010KT 4000 BR BECMG 2403/2404 27010KT 6000 VOTV 230500Z 2306/2412 34010KT 6000 SCT015 FEW025CB BKN080 TEMPO 2310/2315 34010KT 3000 TSRA RA BECMG 2315/2316 VRB03KT 4000 RA HZ SCT015 BKN080 BECMG 2319/2320 3000 RA BR SCT012 FEW025CB BKN080 TEMPO 2322/2403 2000 +RA BR SCT008 SCT012 FEW025CB OVC080 BECMG 2403/2404 04010G20KT 4000 HZ SCT015 SCT080 BECMG 2406/2407 34010G20KT 6000 SCT015 FEW025CB BKN080 VOVZ 230500Z 2306/2412 04003KT 3000 RA FEW006 SCT010 OVC070 BECMG 2308/2312 12010KT 2000 TSRA FEW006 SCT010 FEW025CB OVC070 TEMPO 2312/2314 10010G20KT BECMG 2400/2402 2000 RA VRMG 230500Z 2306/2412 16013KT 9999 SCT018TCU TEMPO 2306/2312 6000 -TSRA FEW017CB VRMH 230500Z 2306/2412 12009KT 9999 SCT017TCU TEMPO 2306/2312 3000 TSRA SCT016 FEW017CB VRMM 230500Z 2306/2412 14010KT 9999 FEW018 TEMPO 2308/2312 FEW018CB VTBD 230500Z 2306/2412 18005KT 9000 FEW020 BECMG 2322/2324 00000KT 4000 BR BECMG 2401/2403 19005KT 8000 NSW VTBO 230500Z 2306/2406 12005KT 8000 FEW020 BECMG 2314/2316 00000KT 3000 BR BECMG 2400/2402 20005KT 7000 NSW VTBS 230500Z 2306/2412 19005KT 9000 FEW020 BECMG 2322/2324 00000KT 4000 BR BECMG 2401/2403 20005KT 8000 NSW VTBU 230500Z 2306/2406 17010KT 9999 FEW020 TEMPO 2307/2312 VRB14KT 5000 SHRA FEW018CB SCT035 BECMG 2312/2314 35003KT 8000 BECMG 2402/2404 18006KT 9999 VTCC 230500Z 2306/2412 26005KT 9999 FEW035 VTCH 230500Z 2306/2406 24005KT 9999 SCT025 BECMG 2321/2323 0800 FG BECMG 2401/2403 9999 NSW VTCL 230500Z 2306/2406 14005KT 9999 FEW035 BECMG 2321/2323 4000 BR BECMG 2401/2403 9999 NSW VTCN 230500Z 2306/2406 20005KT 9999 FEW025 BECMG 2321/2323 3000 BR BECMG 2401/2403 9999 NSW VTCP 230500Z 2306/2406 22005KT 9999 FEW025 BECMG 2321/2323 4000 BR BECMG 2401/2403 9999 NSW VTCT 230500Z 2306/2412 26005KT 9999 FEW030 BECMG 2321/2323 0800 FG BECMG 2401/2403 9999 NSW VTPB 230500Z 2306/2406 09005KT 9999 FEW030 VTPH 230500Z 2306/2406 14005KT 8000 FEW030 VTPM 230500Z 2306/2406 23005KT 9999 FEW025 VTPO 230500Z 2306/2406 22005KT 9999 FEW025 BECMG 2321/2323 4000 BR BECMG 2401/2403 9999 NSW VTPP 230500Z 2306/2406 08005KT 9999 FEW025 VTPT 230500Z 2306/2406 20005KT 9999 FEW025 VTSB 230500Z 2306/2406 05008KT 9999 SCT020 TEMPO 2306/2312 VRB10G20KT 3000 TSRA FEW016CB SCT018 BKN100 VTSC 230500Z 2306/2406 07008KT 9999 SCT020 TEMPO 2306/2312 VRB10G20KT 3000 TSRA FEW016CB SCT018 BKN100 TEMPO 2312/2318 5000 RA SCT015 BKN100 TEMPO 2321/2403 5000 RA SCT015 BKN100 VTSE 230500Z 2306/2406 13006KT 9999 SCT020 VTSF 230500Z 2306/2406 09006KT 9999 SCT020 TEMPO 2306/2312 VRB10G20KT 3000 TSRA FEW016CB SCT018 BKN100 VTSG 230500Z 2306/2406 24006KT 9999 SCT020 TEMPO 2306/2312 VRB15G25KT 5000 TSRA FEW018CB SCT020 BKN100 BECMG 2312/2314 00000KT BECMG 2322/2324 3000 BR BECMG 2400/2402 9999 NSW VTSH 230500Z 2306/2406 09006KT 9999 SCT020 TEMPO 2306/2312 VRB10G20KT 3000 TSRA FEW016CB SCT018 BKN100 TEMPO 2312/2318 5000 RA SCT015 BKN100 VTSK 230500Z 2306/2406 09006KT 9999 SCT020 TEMPO 2306/2312 VRB10G20KT 3000 TSRA FEW016CB SCT018 BKN100 TEMPO 2312/2318 5000 RA SCT015 BKN100 VTSM 230500Z 2306/2406 33006KT 9999 FEW020 TEMPO 2306/2312 VRB10G20KT 3000 TSRA FEW016CB SCT018 BKN100 VTSP 230500Z 2306/2412 28008KT 9999 SCT020 TEMPO 2306/2312 VRB15G25KT 5000 TSRA FEW018CB SCT020 BKN100 BECMG 2312/2314 00000KT BECMG 2400/2402 08006KT VTSR 230500Z 2306/2406 32006KT 9999 SCT030 TEMPO 2306/2312 VRB15G25KT 5000 TSRA FEW018CB SCT020 BKN100 BECMG 2312/2314 00000KT VTSS 230500Z 2306/2406 20008KT 9999 SCT020 TEMPO 2306/2312 VRB10G20KT 3000 TSRA FEW016CB SCT018 BKN100 VTST 230500Z 2306/2406 26006KT 9999 SCT020 TEMPO 2306/2312 VRB15G25KT 5000 TSRA FEW018CB SCT020 BKN100 BECMG 2312/2314 00000KT BECMG 2322/2324 0800 FG BECMG 2400/2402 9999 NSW VTUD 230500Z 2306/2406 24004KT 9999 FEW025 VTUI 230500Z 2306/2406 14004KT 9999 FEW025 VTUJ 230500Z 2306/2406 21004KT 9999 FEW030 BECMG 2321/2323 5000 BR BECMG 2401/2403 9999 NSW VTUK 230500Z 2306/2406 23004KT 9999 FEW025 VTUL 230500Z 2306/2406 26004KT 9999 FEW025 VTUO 230500Z 2306/2406 22004KT 9999 FEW030 BECMG 2321/2323 4000 BR BECMG 2401/2403 9999 NSW VTUQ 230500Z 2306/2406 20004KT 9999 FEW030 BECMG 2321/2323 5000 BR BECMG 2401/2403 9999 NSW VTUU 230500Z 2306/2406 22005KT 9999 FEW030 BECMG 2321/2323 5000 BR BECMG 2401/2403 9999 NSW VTUV 230500Z 2306/2406 22005KT 9999 FEW030 BECMG 2321/2323 5000 BR BECMG 2401/2403 9999 NSW VTUW 230500Z 2306/2406 16004KT 9999 FEW025 VVCI 230500Z 2306/2406 16008KT 9000 SCT023 BKN040 BECMG 2312/2314 02010KT TEMPO 2312/2318 02010G25KT 3000 +TSRA SCT012 FEW025CB BKN040 TEMPO 2318/2324 4000 RA SCT012 BKN040 VVCR 230500Z 2306/2406 08010KT 9999 SCT015 BECMG 2314/2315 35004KT BECMG 2401/2402 08010KT VVCT 230930Z 2310/2406 VRB03KT 9999 SCT015 SCT040 TEMPO 2310/2314 5000 TSRA BKN015 FEW017CB VVDN 230500Z 2306/2406 09010KT 8000 FEW015 BECMG 2312/2313 23005KT BECMG 2321/2322 4000 BR BECMG 2400/2401 8000 NSW VVNB 230500Z 2306/2406 14006KT 9000 SCT020 BKN050 BECMG 2312/2314 05010KT TEMPO 2312/2318 05010G25KT 3000 +TSRA SCT010 FEW027CB BKN050 TEMPO 2318/2324 4000 RA SCT010 BKN050 VVPB 230500Z 2306/2406 07010KT 9999 FEW017 BECMG 2312/2313 24006KT BECMG 2319/2320 3500 BR BECMG 2400/2401 7000 NSW VVPQ 230500Z 2306/2406 VRB05KT 9999 SCT015 VVTS 230704Z 2307/2412 12010KT 9999 SCT015 SCT040 TEMPO 2307/2312 12015G25KT 3000 TSRA BKN013 SCT015CB VYMD 230500Z 2306/2406 15005KT 7000 SCT020 FEW025CB TEMPO 2306/ 2312 12007KT 7000 BKN020 FEW025CB VYNT 230500Z 2306/2406 14007KT 7000 SCT017 FEW120 TEMPO 2306/2312 17008KT 6000 SCT016 FEW020TCU SCT110 VYYY 230500Z 2306/2406 25006KT 8000 FEW020 TEMPO 2306/2312 27006KT 8000 SCT016 FEW020CB WAAA 230500Z 2306/2412 08014KT 9999 FEW020 BECMG 2315/2317 20005KT 8000 WABB 230500Z 2306/2412 11007KT 9999 SCT018 TEMPO 2306/2309 5000 RA FEW017CB BECMG 2310/2312 00000KT WADD 230500Z 2306/2406 15010KT 9999 SCT016 BECMG 2316/2318 VRB05KT WADL 230500Z 2306/2406 12013KT 8000 SCT016 WALL 230500Z 2306/2412 21007KT 9999 FEW020 TEMPO 2306/2309 FEW020CB BECMG 2310/2312 9000 WALS 230500Z 2306/2318 03005KT 5000 -TSRA FEW014CB BKN014 BECMG 2307/2309 9000 NSW SCT015 BECMG 2310/2312 8000 WAMM 230700Z 2307/2412 13005KT 9999 SCT022 PROB40 TEMPO 2307/2310 5000 RA FEW016CB PROB40 TEMPO 2318/2322 5000 RA FEW016CB WAOO 230500Z 2306/2406 11007KT 9000 FEW020= WAQA 230500Z 2306/2318 00000KT 8000 SCT013 BECMG 2311/2313 6000 WAQD 230500Z 2306/2318 07004KT 8000 SCT015 WAQJ 230500Z 2306/2318 00000KT 8000 BKN015 BECMG 2312/2314 4000 BR WAQQ 230500Z 2306/2318 01003KT 8000 SCT014 WAQT 230500Z 2306/2318 04003KT 9999 SCT015 BECMG 2310/2312 8000 WARR 230500Z 2306/2406 10012KT 9999 FEW020 BECMG 2316/2318 26005KT 4000 HZ BECMG 2400/2402 11015KT 9999 NSW WATT 230500Z 2306/2406 31011KT 9999 FEW020 BECMG 2307/2309 12008KT BECMG 2401/2403 34013KT WBGB 230500Z 2306/2406 05006KT 9999 SCT016 TEMPO 2323/2403 3000 TSRA SCT014 FEW015CB WBGG 230500Z 2306/2406 27006KT 9999 SCT020 TEMPO 2306/2309 3000 TSRA FEW015CB SCT016 WBGR 230500Z 2306/2406 09006KT 9999 SCT016 TEMPO 2323/2403 3000 TSRA SCT014 FEW015CB WBGS 230500Z 2306/2406 VRB03KT 9999 SCT018 TEMPO 2309/2313 3000 TSRA FEW015CB SCT016 WBKK 230826Z 2308/2406 30007KT 9999 FEW014 FEW017CB TEMPO 2308/2312 35012KT 8000 RA FEW013 FEW016CB SCT040 BECMG 2310/2312 11006KT WBKL 230826Z 2308/2406 25005KT 9999 FEW012 FEW015CB TEMPO 2310/2314 VRB03G15KT 3000 TSRA FEW010 FEW014CB SCT040 WBKS 230826Z 2308/2406 06010KT 9999 FEW016 FEW017CB WBKW 230826Z 2308/2406 15008KT 9999 FEW016 FEW017CB WBSB 230450Z 2306/2412 26010KT 9999 SCT015 FEW016CB TEMPO 2308/2311 7000 SHRA TSRA TEMPO 2315/2317 5000 TSRA WIDD 230500Z 2306/2406 16005KT 9000 SCT014= WIEE 230500Z 2306/2406 19007KT 9000 SCT020 TEMPO 2320/2323 05003KT 4000 BR WIHH 230500Z 2306/2406 03013KT 8000 FEW022 TEMPO 2307/2309 03015G28KT BECMG 2319/2321 15005KT 6000 WIII 230500Z 2306/2412 03010KT 7000 SCT020 WIMM 230500Z 2306/2406 07006KT 9999 SCT018 BECMG 2310/2312 22004KT 5000 HZ TEMPO 2319/2323 14005KT 3000 -TSRA FEW016CB SCT017 BECMG 2401/2402 VRB05KT 9000 WIPB 230500Z 2306/2318 15005KT 6000 FEW010= WIPP 230500Z 2306/2406 14010KT 3000 FU SCT010 BECMG 2308/2310 1500 BECMG 2317/2319 0500 BECMG 2401/2403 5000 WIPY 230500Z 2306/2318 15009KT 6000 SCT010= WITT 230500Z 2306/2406 21008KT 9000 SCT017 TEMPO 2306/2310 VRB07KT 3000 TSRA FEW016CB BKN017 BECMG 2313/2315 7000 BKN017 WMAP 230500Z 2306/2406 VRB03KT 9999 FEW018 TEMPO 2307/2311 18008G20KT 3000 TSRA FEW008 FEW016CB SCT018 WMBT 230500Z 2306/2406 VRB03KT 9999 FEW024 WMKA 230500Z 2306/2406 22008KT 9999 FEW020 TEMPO 2306/2310 5000 TSRA FEW010 FEW017CB TEMPO 2310/2315 08005G20KT 2000 +TSRA FEW008 FEW016CB BECMG 2312/2314 VRB03KT FEW012 WMKB 230500Z 2306/2406 08005KT 9999 FEW020 TEMPO 2307/2312 27010KT 5000 -TSRA FEW017CB BECMG 2312/2314 06005KT 7000 FEW024 WMKC 230500Z 2306/2406 VRB03KT 9999 FEW020 TEMPO 2310/2314 8000 -TSRA FEW014 FEW016CB WMKD 230500Z 2306/2406 VRB03KT 9999 FEW023 TEMPO 2308/2312 VRB07KT 7000 -TSRA FEW017CB WMKE 230500Z 2306/2406 VRB04KT 9999 FEW014 WMKI 230500Z 2306/2406 VRB03KT 9999 FEW020 TEMPO 2308/2313 29010KT 5000 TSRA FEW010 FEW017CB WMKJ 230500Z 2306/2406 15006KT 9999 FEW018 TEMPO 2307/2311 16008G20KT 3000 TSRA FEW008 FEW016CB SCT018 PROB30 TEMPO 2319/2400 VRB01KT 3000 BR FEW006 WMKK 230500Z 2306/2412 18006KT 9999 FEW017CB SCT018 PROB30 TEMPO 2308/2312 16010KT 4000 TSRA FEW010 FEW017CB SCT018 PROB30 TEMPO 2319/2400 6000 FEW008 WMKL 230500Z 2306/2406 VRB03KT 9999 FEW020 TEMPO 2306/2310 4000 +TSRA FEW010 FEW017CB TEMPO 2310/2314 6000 -TSRA FEW008 FEW016CB WMKM 230500Z 2306/2406 18006KT 9999 FEW020 PROB30 TEMPO 2308/2312 17010KT 4000 TSRA FEW010 FEW017CB SCT020 WMKN 230500Z 2306/2406 VRB03KT 9999 FEW018 WMKP 230500Z 2306/2406 23010KT 9999 FEW020 TEMPO 2307/2312 4000 +TSRA FEW010 FEW017CB BECMG 2310/2312 VRB03KT 8000 FEW025 WMPA 230500Z 2306/2406 VRB03KT 9999 FEW022 TEMPO 2308/2313 6000 TS FEW017CB WMSA 230500Z 2306/2406 16006KT 9999 FEW018 TEMPO 2308/2312 18010KT 3000 TSRA FEW008 FEW016CB SCT018 PROB30 TEMPO 2319/2400 6000 FEW010 WPDL 230628Z 2308/2320 04012KT CAVOK FM231200 16005KT CAVOK WSAP 230800Z 2308/2412 14007KT 9999 FEW015 SCT020 WSSL 230800Z 2308/2412 14007KT 9999 FEW015 SCT020 WSSS 230800Z 2308/2412 14007KT 9999 FEW015 SCT020 YAMB 230409Z 2306/2324 06013KT 9999 FEW045 FM231100 07006KT CAVOK FM231700 21003KT 9999 MIFG NSC FM232100 VRB05KT CAVOK YBAS 230506Z 2306/2406 14007KT CAVOK FM231400 01008KT CAVOK FM232300 34018G28KT CAVOK FM240400 34008KT CAVOK YBBN 230514Z 2306/2412 05013KT 9999 FEW040 FM230900 03008KT 9999 FEW035 FM231400 23006KT 9999 FEW030 FM232300 03012KT CAVOK YBCG 230514Z 2306/2406 05012KT 9999 FEW040 FM230900 23006KT 9999 FEW030 FM232200 36010KT CAVOK FM240200 02014KT 9999 FEW040 YBCS 230511Z 2306/2406 13016KT 9999 SCT035 FM230800 17010KT 9999 FEW020 SCT030 FM232300 13014KT 9999 SCT030 YBHM 230450Z 2306/2318 12022KT 9999 SCT028 YBMA 230448Z 2306/2318 05005KT CAVOK YBRK 230521Z 2306/2406 07012KT CAVOK FM231000 12008KT 9999 SCT030 FM231600 20005KT 9999 SCT025 BKN040 FM232300 09012KT 9999 SCT045 YBRM 230400Z 2304/2406 30017KT 9999 FEW035 FM231200 29010KT 9999 FEW015 FM231800 28005KT 9999 BKN008 FM240000 31012KT 9999 SCT015 PROB30 2315/2324 0300 FG YBTL 230508Z 2306/2406 08019KT 9999 FEW030 SCT070 FM230900 10014KT 9999 FEW025 SCT035 FM231600 16010KT 9999 SCT022 SCT035 FM232300 11014KT 9999 FEW025 BKN045 FM240200 07019KT 9999 FEW030 SCT050 YCFS 230514Z 2306/2406 04015G25KT CAVOK FM230800 03012KT CAVOK FM231000 34008KT 8000 FU NSC FM240100 04015G25KT CAVOK INTER 2310/2401 4000 FU NSC YCIN 230957Z 2309/2320 33014KT 9999 BLDU NSC FM231200 30010KT CAVOK FM231600 30010KT 9999 SCT015 PROB30 2309/2312 6000 BLDU YFRT 230130Z 2301/2314 01009KT CAVOK FM230300 27010KT CAVOK PROB30 INTER 2303/2312 VRB25G45KT 4000 TSRA FEW080 FEW120CB YGEL 230502Z 2306/2324 22014KT CAVOK FM231400 18011KT 9999 -SHRA BKN025 YGLA 230521Z 2306/2318 08014KT 9999 SCT045 FM231000 10010KT 9999 SCT050 FM231400 13006KT 9999 SCT020 YHID 230517Z 2306/2406 12020G30KT 9999 SCT025 SCT035 FM231200 12017KT 9999 SCT020 SCT030 FM232300 12020G30KT 9999 SCT020 SCT030 YLHI 230520Z 2306/2406 19008KT 9999 BKN035 FM231000 32005KT 9999 BKN035 FM232300 27005KT 9999 BKN035 YMAV 230453Z 2306/2406 13008KT CAVOK FM231100 VRB05KT CAVOK FM231800 04010KT CAVOK FM240000 35016G26KT CAVOK YMHB 231013Z 2310/2412 18008KT 9999 SCT015 BKN020 FM231200 03005KT 9999 SCT010 BKN015 FM231700 36005KT 9999 SCT005 FM232100 35010KT CAVOK FM240300 14008KT CAVOK FM240900 35012KT CAVOK TEMPO 2311/2315 SCT005 BKN010 PROB30 2317/2320 0500 FG YMLT 230535Z 2306/2406 34014KT CAVOK FM231200 34005KT 9999 SCT010 FM232300 34014KT CAVOK PROB30 2314/2322 0500 FG YMML 230453Z 2306/2412 19010KT CAVOK FM231200 36008KT CAVOK BECMG 2322/2323 36018G32KT CAVOK FM240500 02012KT CAVOK YPAD 230504Z 2306/2412 21008KT CAVOK FM231000 11006KT CAVOK FM231400 05006KT CAVOK FM232100 02010KT CAVOK FM240100 33018G28KT CAVOK FM241000 24020G30KT 9999 SCT015 BKN025 YPCC 230435Z 2306/2406 13019KT 9999 SCT025 YPDN 230513Z 2306/2412 01014KT CAVOK FM230900 34007KT 9999 FU SCT020 FM240200 02014KT CAVOK FM240900 34007KT 9999 FU SCT020 YPEA 230811Z 2309/2324 24016KT 9999 -SHRA BKN030 FM231000 23014KT 9999 -SHRA FEW010 BKN025 FM231400 20010KT 9999 -SHRA FEW025 BKN035 INTER 2309/2313 4000 RA BKN010 YPGV 230055Z 2302/2314 09016KT 9999 SCT025 FM230800 10005KT 9999 SCT020 YPJT 230502Z 2306/2324 25014KT 9999 -SHRA BKN030 FM230900 21012KT 9999 -SHRA BKN030 FM231300 21011KT 9999 NSW SCT025 INTER 2306/2311 4000 SHRA BKN010 YPKG 230503Z 2306/2406 25012KT CAVOK FM231800 20010KT 9999 FEW045 FM240000 22012KT CAVOK YPKU 230623Z 2307/2320 35010KT CAVOK PROB30 INTER 2307/2309 VRB20G40KT 4000 TSRA SCT080CB YPLM 230830Z 2308/2406 21017KT CAVOK FM240000 17017KT CAVOK PROB30 2310/2314 4000 DU YPPD 230706Z 2307/2406 31014KT CAVOK FM231600 24007KT CAVOK FM232100 18012KT CAVOK FM240000 13014KT CAVOK YPPH 230502Z 2306/2412 27014KT 9999 -SHRA BKN030 FM231300 22012KT 9999 NSW BKN030 FM232100 18009KT 9999 SCT035 FM240300 23014KT CAVOK INTER 2306/2312 4000 SHRA BKN010 BKN025 YPTN 230505Z 2305/2406 11010KT CAVOK FM231500 03003KT 9999 FU NSC FM232000 VRB03KT 6000 FU FEW020 FM240100 07008KT CAVOK YPWR 230456Z 2306/2324 02012KT CAVOK FM230900 06007KT CAVOK FM232100 02015G25KT CAVOK YPXM 230442Z 2306/2406 13012KT 9999 BKN008 YSCB 230640Z 2306/2406 29015KT CAVOK BECMG 2309/2311 13006KT CAVOK BECMG 2321/2323 30010KT CAVOK YSDU 230956Z 2309/2324 VRB03KT CAVOK FM232000 36008KT CAVOK FM232200 34014KT CAVOK PROB30 2309/2324 5000 FU YSNF 230521Z 2306/2406 17014KT 9999 BKN025 FM231200 16010KT 9999 BKN035 YSRI 230457Z 2306/2406 08012KT CAVOK FM231000 VRB05KT CAVOK FM240200 31010KT CAVOK PROB30 2318/2320 4000 BR FEW001 YSSY 230459Z 2306/2412 04017KT CAVOK FM231200 34007KT CAVOK FM231600 20008KT 9999 SCT010 FM232200 14008KT 9999 FEW020 FM240000 08010KT CAVOK FM240400 04015KT CAVOK YSTW 230954Z 2309/2324 27005KT CAVOK FM231100 06005KT CAVOK FM232200 30012KT CAVOK PROB40 2309/2324 5000 FU NSC YTNK 230657Z 2308/2320 03010KT CAVOK PROB30 INTER 2309/2311 VRB20G40KT 5000 TSRA SCT080CB YTRE 230656Z 2308/2320 04012KT CAVOK FM231000 01005KT CAVOK PROB30 2314/2320 0500 FG BKN001 YWGT 230116Z 2302/2314 VRB05KT CAVOK FM230800 16005KT CAVOK YWLM 230456Z 2306/2406 06014KT CAVOK FM231000 03007KT CAVOK FM231500 34005KT CAVOK FM232000 29012KT CAVOK FM240300 13013KT CAVOK ZBAA 230320Z 2306/2406 18004MPS 6000 NSC TX20/2307Z TN08/2321Z ZBHH 230303Z 2306/2406 23004MPS 6000 FEW040 TX14/2307Z TN01/2322Z BECMG 2312/2313 3000 -RA BR TEMPO 2314/2318 2000 RA TEMPO 2400/2402 1400 BR ZBSJ 230101Z 2306/2406 16004MPS 3500 HZ NSC TX20/2307Z TN09/2321Z ZBTJ 230300Z 2306/2406 19003MPS 3000 HZ NSC TX24/2307Z TN12/2321Z BECMG 2313/2314 2000 BR BECMG 2320/2321 1400 BR BECMG 2401/2402 2000 HZ ZBYN 230303Z 2306/2406 21004MPS 3000 HZ NSC TX18/2307Z TN07/2322Z BECMG 2315/2316 32005MPS TEMPO 2316/2320 2500 -SHRA BR ZGGG 230301Z 2306/2406 10003MPS 8000 SCT040 TX30/2307Z TN23/2322Z TEMPO 2308/2312 4000 -SHRA FEW030CB BKN033 ZGHA 230221Z 2306/2406 33004MPS 6000 NSC TX23/2307Z TN15/2322Z BECMG 2321/2322 2500 BR BECMG 2400/2401 4000 ZGKL 230305Z 2306/2406 05003MPS 4000 BR SCT030 OVC050 TX19/2307Z TN16/2322Z BECMG 2312/2313 2500 BECMG 2400/2401 3500 ZGNN 230305Z 2306/2406 01003MPS 6000 FEW010 BKN033 TX26/2306Z TN19/2322Z TEMPO 2306/2310 FEW010 FEW026CB BKN030 ZGOW 230302Z 2306/2406 10003MPS 6000 FEW030 TX29/2306Z TN18/2322Z TEMPO 2306/2310 18005MPS ZGSZ 230302Z 2306/2406 22004MPS 6000 FEW030 TX29/2307Z TN23/2322Z BECMG 2311/2312 11004MPS ZHCC 230316Z 2306/2406 18003MPS 3000 HZ NSC TX23/2307Z TN13/2322Z ZHHH 230220Z 2306/2406 03004MPS 6000 NSC TX23/2307Z TN14/2322Z ZJHK 230300Z 2306/2406 12004MPS 5000 BR SCT020 TX31/2306Z TN21/2321Z ZJSY 230301Z 2306/2406 14004MPS 9999 FEW020 TX32/2306Z TN23/2321Z ZKPY 230400Z 2306/2406 18004MPS 6000 NSC TX21/2306Z TN10/2322Z TEMPO 2318/2324 1500 BR ZKWS 230400Z 2306/2406 09004MPS 2000 BR NSC TX20/2306Z TN12/2322Z ZLLL 230305Z 2306/2406 04007G12MPS 6000 BKN040 TX09/2307Z TNM03/23Z BECMG 2310/2311 33003MPS 2500 -SN TEMPO 2314/2318 0700 SN ZLXY 230303Z 2306/2406 06003MPS 2400 BR NSC TX20/2308Z TN09/2323Z BECMG 2313/2314 1400 BR BECMG 2317/2318 33005G10MPS 3000 -RA TEMPO 2314/2318 0700 FG ZMUB 230442Z 2306/2412 33006MPS 9999 SCT033 TXM01/2306Z TNM15/2323Z BECMG 2309/2311 VRB02MPS ZPPP 230106Z 2306/2406 22004MPS 9999 SCT026 TX23/2308Z TN12/2323Z ZSAM 230311Z 2306/2406 10005G10MPS 8000 SCT040 TX28/2306Z TN19/2321Z BECMG 2311/2312 04004MPS ZSFZ 230311Z 2306/2406 04004MPS 3500 BR BKN020 TX27/2307Z TN18/2321Z ZSHC 230303Z 2306/2406 36003MPS 3000 HZ BKN030 TX24/2306Z TN14/2321Z ZSNB 230128Z 2306/2406 35004MPS 4000 BR SCT040 TX23/2306Z TN15/2321Z ZSNJ 230306Z 2306/2406 03003MPS 3500 HZ NSC TX23/2306Z TN12/2321Z TEMPO 2320/2324 1200 BR ZSOF 230301Z 2306/2406 06003MPS 5000 HZ NSC TX25/2307Z TN13/2322Z ZSPD 230326Z 2306/2406 02004MPS 6000 BKN016 TX24/2306Z TN17/2321Z ZSQD 230303Z 2306/2406 18004MPS 6000 NSC TX23/2307Z TN11/2321Z ZSSS 230314Z 2306/2406 01004MPS 5000 BR BKN040 TX24/2306Z TN18/2321Z ZUCK 230310Z 2306/2406 15003MPS 5000 BR SCT030 TX22/2308Z TN17/2322Z ZUGY 230301Z 2306/2406 02004MPS 6000 BKN015 OVC033 TX20/2307Z TN12/2323Z ZUUU 230247Z 2306/2406 02003MPS 5000 BR SCT050 TX22/2307Z TN17/2321Z TEMPO 2322/2404 -SHRA ZWSH 230304Z 2306/2406 12004MPS 6000 SCT040 TX17/2309Z TN08/2400Z ZWWW 230302Z 2306/2406 03004MPS CAVOK TX08/2309Z TN00/2323Z BECMG 2313/2314 18004MPS BECMG 2403/2404 03004MPS ZYCC 230101Z 2306/2406 17004MPS 6000 FEW026 TX20/2306Z TN07/2321Z ZYHB 230301Z 2306/2406 14004MPS 6000 FEW033 TX19/2306Z TN03/2322Z ZYTL 230306Z 2306/2406 11004MPS 3000 BR NSC TX20/2306Z TN10/2320Z TEMPO 2306/2312 2500 BR BECMG 2312/2313 2000 BR TEMPO 2318/2324 0500 FG ZYTX 230113Z 2306/2406 16003MPS 3000 BR NSC TX21/2306Z TN07/2321Z

Airline NOTAMS

OopsThere are no NOTAMs. You can resume flight ops normally